112 SAUS80 KWBC 131100 METAR K3A6 131050Z AUTO 14003KT 20/10 A2993 RMK AO1 SLP127 T02050100=  266 SAXX60 KWBC 131100 METAR KRSP 131054Z AUTO 18009G16KT 10SM FEW070 SCT100 12/11 A3008 RMK AO2 RAE36 SLP189 P0000 T01220111 $=  411 SAEG31 HECA 131100 HECA 131100Z 01010KT CAVOK 31/20 Q1015 NOSIG=  839 SAMX54 MMMD 131100 METAR MMVA 131042Z 00000KT 3SM -DZ SCT010 OVC100 24/23 A2988 RMK 62341 8/72/ RTS= TX OPMET V1  524 SAPM31 MPTO 131100 METAR MPTO 131100Z 00000KT 9999 FEW020 SCT100 24/22 Q1011= NNNN CHECK TEXT NEW ENDING ADDED FTNSYSTM  256 SADR31 MDSD 131100Z METAR MDST 131100Z 00000KT 9999 FEW014CB SCT016 21/21 Q1013 CB/NW= MDSD 131100Z 00000KT 9999 FEW018 SCT300 24/24 Q1013==  361 SAPM31 MPTO 131100 METAR MPTO 131100Z 00000KT 9999 FEW020 SCT100 24/22 Q1011=  443 SAUS70 KWBC 131100 METAR KTNB 131046Z AUTO 12003KT 3SM RA OVC009 15/14 A3008 RMK AO2 P0020= KIPJ 131045Z AUTO 00000KT 1 3/4SM SCT008 OVC048 17/17 A3005 RMK AO1 P0008= K11R 131047Z AUTO 00000KT 10SM CLR 22/21 A2997 RMK AO2= KLOT 131045Z AUTO 01004KT 5SM +TSRA BKN005 OVC010 16/15 A2983 RMK AO2 LTG DSNT E THRU SW P0003=  337 SAZS31 NSTU 131100 METAR NSTU 131050Z 09015KT 10SM SCT021 28/24 A2998 RMK SLP156 T02760237 403040259=  653 SAMX53 MMMZ 131100 METAR MMDO 131047Z 00000KT 12SM BKN030 OVC200 17/16 A3020 RMK 8/507 BINOVC RTS= TX OPMET V1  700 SAUS80 KWBC 131100 METAR KCUL 131045Z AUTO 00000KT 10SM OVC044 15/12 A2992 RMK AO2 LTG DSNT N= KCQT 131047Z AUTO 00000KT 6SM HZ CLR 19/15 A2988 RMK AO2 SLP114 T01890150 TSNO= KCIR 131045Z AUTO 25003KT 10SM CLR 14/13 A2995 RMK AO2=  117 SAMX54 MMMD 131100 METAR MMTG 131049Z 00000KT 7SM FEW008 OVC080 22/21 A2997 RMK 61568 8/67/ MSGTX MMMD= TX OPMET V1  177 SAUS70 KWBC 131100 METAR K1H2 131045Z AUTO 27008KT 10SM SCT014 BKN021 OVC027 15/13 A2988 RMK AO2 TSNO= KAAA 131045Z AUTO 30003KT 3SM -DZ OVC004 16/15 A2989 RMK AO2 P0001 LTG DSNT NE= KAJG 131045Z AUTO 28006KT 10SM SCT023 SCT028 OVC042 15/13 A2990 RMK AO2 LTG DSNT N= KC09 131045Z AUTO 35003KT 3SM +TSRA OVC004 15/14 A2983 RMK AO2 LTG DSNT ALQS P0007= KDKB 131045Z AUTO 34009KT 2 1/2SM VCTS BR OVC003 13/12 A2986 RMK AO2 LTG DSNT E THRU S= KDKR 131045Z AUTO 36005KT 10SM CLR 20/16 A3000 RMK AO2= KECU 131045Z AUTO 34003KT 5SM BR OVC001 21/21 A3013 RMK AO2= KENL 131045Z AUTO 28005KT 10SM SCT017 OVC024 16/11 A2992 RMK AO2 LTG DSNT N= KFEP 131046Z AUTO 35007KT 7SM OVC004 17/15 A2990 RMK AO2 LTG DSNT E AND SE= KGBG 131046Z AUTO 32006KT 5SM BR OVC006 13/13 A2991 RMK AO2 LTG DSNT E= KMEZ 131046Z AUTO 00000KT 5SM BKN021 14/13 A3004 RMK AO2= K3LF 131045Z AUTO 28007KT 7SM OVC012 15/13 A2993 RMK AO2 LTG DSNT NE= KAQO 131045Z AUTO 00000KT 10SM FEW080 19/19 A3007 RMK AO2= KARM 131045Z AUTO 26003KT 10SM SCT100 22/22 A2995 RMK AO2= KASW 131045Z AUTO 23005KT 1SM BR OVC002 16/16 A2981 RMK AO2= KETB 131045Z AUTO 35007KT 10SM OVC007 14/13 A2988 RMK AO2= KFOA 131045Z AUTO 27006KT 10SM BKN021 OVC045 16/14 A2991 RMK AO2 LTG DSNT N= KLHZ 131046Z AUTO 00000KT 10SM BKN090 OVC110 16/14 A3007 RMK AO2= KOLY 131045Z AUTO 27006KT 10SM BKN016 BKN023 OVC043 16 A2989 RMK AO2 P0003= KPNT 131045Z AUTO 30006KT 7SM TSRA BKN006 OVC012 16/15 A2985 RMK AO2 P0018 LTG DSNT NW THRU NE= KRPJ 131045Z AUTO 35008KT 7SM VCTS OVC004 14/13 A2989 RMK AO2 LTG DSNT E AND SE= KRSV 131047Z AUTO 27005KT 10SM SCT013 BKN020 OVC042 16/14 A2989 RMK AO2 LTG DSNT N= KRYY 131045Z 00000KT 2SM -RA BR OVC004 19/18 A2995= KTPF 131046Z AUTO RMK AO2 PWINO= KVYS 131047Z AUTO 34011KT 7SM -VCTSRA OVC006 15/14 A2987 RMK AO2 LTG DSNT NE THRU SE=  318 SAXX70 KAWN 131100 METAR KQAE 131055Z 33010G17KT 9999 SKC 39/10 A2980 RMK SLP087 WND DATA ESTMD ALSTG/SLP ESTMD=  209 SAUS80 KWBC 131100 METAR KSFY 131045Z AUTO 34006KT 10SM OVC009 15/13 A2991 RMK AO2 LTG DSNT E= KMKN 131045Z AUTO 32004KT 10SM 17/14 A3008 RMK AO2= KJDN 131048Z AUTO 27003KT 06/M02 A2985 RMK AO2 SLP102 T00561022 PWINO TSNO= KPSN 131045Z AUTO 34005KT 10SM CLR 18/15 A3002 RMK AO2= KSEP 131045Z AUTO 00000KT 10SM CLR 17/15 A3007 RMK AO1= KSOA 131045Z AUTO 00000KT 10SM SCT032 BKN041 18/17 A3007 RMK AO2= KSAD 131050Z AUTO 12007KT 10SM CLR 18/15 A3007 RMK AO2 SLP142 T01780150 TSNO= KMYL 131050Z AUTO 36005KT 10SM CLR 03/M01 A3009 RMK AO2 SLP155 T00331006 TSNO=  243 SAXX60 KWBC 131100 METAR TJNR 131048Z AUTO 23003KT 6SM BR FEW022 25/23 A2992 RMK AO2 SLP132 T02500233 TSNO=  244 SAUS70 KWBC 131100 METAR KBBD 131045Z AUTO 00000KT 10SM FEW065 SCT075 19/14 A3008 RMK= KBKS 131045Z AUTO 34004KT 7SM BKN004 BKN010 OVC013 22/22 A2993 RMK AO1 P0003= KBPG 131045Z AUTO 00000KT 10SM CLR 17/15 A3015 RMK AO1= KBWD 131047Z AUTO 00000KT 10SM CLR 18/14 A3007 RMK AO1 T01770144= KBYY 131045Z AUTO 30003KT 10SM CLR 22/22 A2993 RMK AO2= KDUX 131047Z AUTO 20003KT 5SM BR SCT065 13/12 A3016 RMK AO2= KE38 131045Z AUTO 27003KT 10SM CLR 13/13 A3018 RMK AO2= KHSB 131045Z AUTO 00000KT 10SM CLR 13/12 A2993 RMK AO2= KIGQ 131045Z AUTO 26007KT 10SM TS BKN007 OVC013 16/15 A2981 RMK AO2 LTG DSNT ALQDS= KIJX 131045Z AUTO 30007KT 7SM OVC007 14/13 A2993 RMK AO2 LTG DSNT NE= KIKK 131045Z AUTO 28005G08KT 10SM -VCTSDZ OVC090 17/16 A2982 RMK AO2 LTG DSNT W THRU NE= KRZN 131045Z AUTO 00000KT 1/2SM FG OVC001 02/01 A3001 RMK AO2= KSAR 131045Z AUTO 26006KT 10SM OVC022 16/13 A2995 RMK AO2= KXBP 131047Z AUTO 00000KT 10SM CLR 14/13 A3008 RMK AO2= KF05 131045Z AUTO 00000KT 10SM CLR 16/14 A3010 RMK AO2= KFWS 131045Z AUTO 00000KT 10SM CLR 16/14 A3007 RMK AO2= KJOT 131045Z AUTO 35005KT 5SM TSRA SCT005 BKN009 OVC014 15/14 A2983 RMK AO2 P0001 LTG DSNT ALQS= KJSO 131047Z AUTO 01006KT 10SM CLR 18/16 A3001 RMK AO2= KM30 131045Z AUTO 00000KT 10SM BKN038 15/13 A2994 RMK AO2= KMQB 131045Z AUTO 32009KT 5SM BR OVC007 15/14 A2993 RMK AO2 LTG DSNT NE= KTIP 131045Z AUTO 25005KT 2 1/2SM -VCTSDZ OVC004 15/12 A2986 RMK AO2 LTG DSNT N AND NE= KVVG 131045Z AUTO 00000KT 10SM 23/23 A2996 RMK AO2= KGNC 131045Z AUTO 00000KT 7SM CLR 16/16 A3018 RMK AO2= KGOP 131045Z AUTO 03004KT 10SM CLR 19/16 A3006 RMK AO2 TSNO= KGPM 131045Z AUTO 36004KT 10SM CLR 17/13 A3005 RMK AO1= KGVT 131045Z AUTO 00000KT 7SM CLR 15/13 A3004 RMK AO2= KGYB 131045Z AUTO 36004KT 10SM BKN060 21/21 A3001 RMK AO2= KHHF 131047Z AUTO 00000KT 10SM CLR 12/10 A3010 RMK AO2= KJAS 131045Z AUTO 36005KT 10SM CLR 21/18 A2996 RMK AO2 P0001= KJDD 131045Z AUTO 00000KT 9SM CLR 16/14 A3005 RMK AO2= KJXI 131045Z AUTO 34004KT 10SM CLR 16/14 A3002 RMK AO2= KLBR 131045Z AUTO 33003KT 7SM CLR 14/13 A3003 RMK AO1= KLUD 131045Z AUTO 36003KT 10SM CLR 15/13 A3007 RMK AO2= KMWA 131045Z AUTO 00000KT 10SM SCT040 15/13 A2995 RMK AO2= KORG 131045Z AUTO 26003KT 5SM BR CLR 22/21 A2993 RMK AO2= KRBO 131045Z AUTO 34006KT 7SM SCT085 SCT120 23/23 A2994 RMK AO2 P0001= KRPH 131047Z AUTO 00000KT 10SM CLR 13/12 A3007 RMK AO2= KALN 131048Z AUTO 29008KT 10SM BKN018 OVC044 16/14 A2994 RMK AO2= KOSA 131045Z AUTO 34004KT 7SM CLR 15/14 A3003 RMK AO1= KPCM 131045Z AUTO 00000KT 10SM SCT090 22/21 A2997 RMK AO2= KPKV 131045Z AUTO 31003KT 10SM SCT090 23/23 A2994 RMK AO2= KPPA 131046Z AUTO 20009KT 10SM CLR 15/12 A3016 RMK AO2= KPVW 131045Z AUTO 21003KT 7SM CLR 13/12 A3016 RMK AO2= KRAS 131045Z AUTO 34008KT 10SM FEW100 25/25 A2995 RMK AO2= KRWV 131045Z AUTO 36005KT 10SM CLR 22/18 A3001 RMK AO2= KSNK 131045Z AUTO 10005KT 10SM BKN110 16/15 A3014 RMK AO2= KT65 131045Z AUTO 31003KT 10SM -RA 25/25 A2993 RMK AO2= KT82 131047Z AUTO 00000KT 10SM CLR 22/19 A3006 RMK AO1=  449 SAVN22 SVMI 131100 METAR SVMI 131100Z 00000KT 9999 FEW016 27/25 Q1012 NOSIG =  933 SAPH31 RPLC 131100 METAR RPLC 131100Z 22003KT 9999 FEW042 BKN270 27/23 Q1011 A2987 RMK NOSIG=  935 SAKA31 PTKK 131100 METAR PTKK 131050Z 21006KT 15SM FEW012 SCT120 OVC280 27/24 A2981 RMK SLP098 T02690238  658 SAUS70 KWBC 131100 METAR KLBE 131047Z 21006KT 4SM -RA BR BKN021 OVC030 16/14 A2998 RMK 70042= KMTN 131045Z 15009KT 10SM OVC018 18/15 A3009 RA E35= KPIT 131051Z 17007KT 5SM BR SCT007 OVC012 16/15 A2992 RMK AO2 RAE49 SLP137 P0000 T01560150= KCLE 131051Z 19009KT 8SM BKN011 OVC018 18/16 A2986 RMK AO2 SLP108 T01780161= KJCT 131051Z AUTO 00000KT 10SM BKN044 20/17 A3007 RMK AO2 SLP146 T02000172 TSNO $= KRDU 131051Z 00000KT 10SM FEW040 OVC090 17/13 A3007 RMK AO2 SLP180 T01670133= KACT 131051Z 36007KT 10SM CLR 18/14 A3004 RMK AO2 SLP163 T01830139 $= KAHN 131051Z AUTO 12005KT 4SM -RA BR OVC005 18/17 A2997 RMK AO2 CIG 003V008 SLP143 P0002 T01780172 TSNO= KASH 131051Z 00000KT 10SM CLR 07/06 A3013 RMK AO2 T00660055 SLP205 $= KAVX 131051Z AUTO 35007KT 10SM CLR 20/07 A2993 RMK AO2 SLP106 T02000067 TSNO= KBAZ 131051Z AUTO 03006KT 10SM CLR 21/19 A2998 RMK AO2 SLP147 T02110194= KBGD 131051Z AUTO 22004KT 10SM CLR 16/13 A3015 RMK AO2 SLP177 T01610128 TSNO= KCMH 131051Z 17007KT 5SM BR OVC007 18/16 A2985 RMK AO2 SLP104 RAE01DZB01E26 P0000 T01780161= KCSG 131051Z AUTO 16008KT 9SM OVC012 23/20 A2989 RMK AO2 RAB07E45 SLP116 P0000 T02280200= KDAW 131051Z AUTO 32003KT 10SM CLR 08/06 A3010 RMK AO2 SLP191 T00780061 $= KERI 131051Z 18013KT 10SM -RA FEW022 SCT050 OVC060 18/16 A2984 RMK AO2 RAB46 SLP104 P0000 T01830156= KEWR 131051Z 00000KT 10SM FEW060 BKN220 13/08 A3012 RMK AO2 SLP199 T01330078= KHDO 131051Z AUTO A3002 RMK AO2 SLPNO PWINO FZRANO $= KILG 131051Z 29003KT 10SM FEW031 13/12 A3012 RMK AO2 SLP199 T01330122= KJFK 131051Z 05003KT 10SM FEW028 OVC250 14/09 A3013 RMK AO2 SLP203 T01390094 $= KLGA 131051Z 18003KT 10SM FEW095 OVC220 16/09 A3012 RMK AO2 SLP199 T01610089= KLGU 131051Z AUTO 00000KT 10SM CLR 09/04 A3009 RMK AO2 SLP146 T00890044= KMDW 131051Z 34011KT 7SM RA BKN007 OVC012 18/16 A2981 RMK AO2 TSE18RAE06B37 SLP087 OCNL LTG DSNT N AND SE-SW TS MOV SW P0000 T01780161= KMPV 131051Z AUTO 00000KT 10SM CLR 06/04 A3014 RMK AO2 SLP211 T00610044= KMYR 131049Z 03006KT 7SM SCT025 BKN150 20/16 A3001= KORD 131051Z 33011KT 9SM OVC007 16/15 A2983 RMK AO2 RAB06E29 CIG 006V009 SLP098 P0000 T01610150= KOXR 131051Z AUTO 00000KT 4SM BR OVC003 15/14 A2988 RMK AO2 SLP116 T01500144= KPHX 131051Z 11003KT 10SM BKN150 BKN200 27/15 A2989 RMK AO2 SLP101 T02720150= KPWM 131051Z 00000KT 10SM CLR 09/08 A3012 RMK AO2 SLP198 T00890078= KSJT 131051Z AUTO 02004KT 10SM FEW110 18/15 A3009 RMK AO2 SLP169 T01830150= KSLK 131051Z AUTO 00000KT 8SM -RA BKN070 OVC080 08/07 A3006 RMK AO2 SLP183 P0002 T00780067 $= KSMO 131051Z AUTO 09003KT 6SM BR CLR 17/14 A2989 RMK AO2 SLP119 T01670144= KSTL 131051Z 29009KT 10SM OVC018 16/12 A2995 RMK AO2 SLP138 T01560122= TJBQ 131050Z 00000KT 10SM SKC 25/21 A2990= KVNY 131051Z 05004KT 10SM SCT150 19/14 A2989 RMK AO2 SLP111 FU SCT150 T01940144=  680 SAUS80 KWBC 131100 CCA METAR KPVD 131051Z 27004KT 10SM FEW035 SCT060 BKN130 BKN200 BKN250 11/08 A3014 RMK AO2 SLP205 T01110078=  681 SAPQ50 KWBC 131100 METAR PTKK 131050Z 21006KT 15SM FEW012 SCT120 OVC280 27/24 A2981 RMK SLP098 T02690238=  686 SAUS80 KWBC 131100 METAR KSAN 131051Z 00000KT 8SM OVC008 19/17 A2989 RMK AO2 SLP121 T01940167 $= KLAX 131050Z 17003KT 4SM BR BKN005 18/17 A2988 RMK AO2 SLP116 T01830167= KP58 131051Z AUTO 02003KT 16/16 A2979 RMK AO2 SLP085 T01610156 PWINO TSNO= KGDP 131051Z AUTO 05017KT 9SM SCT010 15/13 A3025 RMK AO2 SLP181 T01500133 TSNO= KBVE 131051Z AUTO 32004KT 10SM CLR 26/23 A2990 RMK AO2 SLP125 T02560233 TSNO= KORF 131051Z 00000KT 10SM FEW042 17/15 A3008 RMK AO2 SLP186 T01670150= KATT 131051Z AUTO 02008KT 10SM CLR 22/16 A3001 RMK AO2 SLP150 T02170156= KCON 131051Z AUTO 00000KT 10SM CLR 06/05 A3012 RMK AO2 SLP203 T00560050= KALB 131051Z 18004KT 10SM -RA FEW044 BKN100 12/08 A3011 RMK AO2 RAB28 SLP197 P0000 T01220078= KNYC 131051Z AUTO 10SM FEW031 15/10 A3015 RMK AO2 SLP199 T01500100 TSNO $= KROW 131051Z AUTO 18005KT 10SM FEW041 16/14 A3016 RMK AO2 SLP161 T01560139 TSNO= KSNT 131051Z AUTO 14003KT 02/M03 A3023 RMK AO2 SLP155 T00171033 PWINO FZRANO TSNO= KP59 131051Z AUTO 24004KT 07/06 A2996 RMK AO2 SLP148 T00670061 PWINO TSNO= KBDL 131051Z 00000KT 10SM FEW130 BKN150 BKN200 09/08 A3013 RMK AO2 SLP204 T00890078= KYNG 131051Z 17010KT 2 1/2SM BR OVC006 17/16 A2989 RMK AO2 SFC VIS 4 SLP117 T01670156= KEKN 131051Z AUTO 00000KT 5SM BR OVC055 14/13 A3001 RMK AO2 RAE31 SLP159 P0001 T01390133 TSNO= KSMX 131051Z AUTO 28004KT 1/4SM FG VV001 14/12 A2991 RMK AO2 SLP129 T01390122 TSNO= KCAK 131051Z 19013KT 3SM BR OVC005 17/16 A2987 RMK AO2 CIG 003V009 SLP111 T01670156= KABE 131051Z 35003KT 10SM BKN043 12/09 A3011 RMK AO2 SLP196 T01220094= KBKW 131051Z AUTO 16006KT 8SM FEW012 OVC025 14/13 A3001 RMK AO2 RAE41 SLP148 P0000 T01440128= KVCT 131051Z AUTO 30004KT 10SM OVC095 23/22 A2996 RMK AO2 SLP143 T02330222= KHSE 131051Z AUTO 06006KT 10SM CLR 19/16 A3005 RMK AO2 SLP177 T01890161= KTEB 131051Z 00000KT 10SM CLR 13/09 A3012 RMK AO2 SLP198 T01330094= KMLF 131052Z AUTO 18004KT 10SM CLR 12/M02 A3012 RMK AO2 SLP137 T01171017 TSNO= KN60 131052Z AUTO 11004KT 11/08 A2990 RMK AO1 SLP118 T01110083=  692 SAXX60 KWBC 131100 METAR KNKX 131056Z 00000KT 5SM BR SCT005 17/16 A2989 RMK SLP114 T01670156=  839 SABA31 MYNN 131100 METAR MYNN 131100Z 05005KT 9999 FEW018 27/21 Q1013=  841 SABA31 MYGF 131100 METAR MYGF 131100Z 00000KT 9SM FEW022 SCT050 24/20 A2994=3D  845 SAMH31 PKWA 131100 METAR PKWA 131052Z 13002KT 10SM FEW020 SCT120 BKN300 28/26 A2988 RMK SLP117 T02800259=  965 SAUS70 KWBC 131100 RRE METAR KDRO 131053Z AUTO 12003KT 10SM CLR 09/05 A3029 RMK AO2 SLP183 T00940050= KDTN 131053Z 34005KT 10SM CLR 18/14 A2998 RMK AO2 SLP150 T01830144= KDTO 131053Z AUTO 31004KT 10SM CLR 14/13 A3006 RMK AO2 SLP172 T01440133= KDUA 131052Z AUTO 34004KT 10SM CLR 15/13 A3005 RMK AO2= KDUC 131051Z AUTO 04003KT 10SM CLR 15/13 A3009 RMK AO2= KDVT 131053Z AUTO 00000KT 10SM BKN110 26/14 A2991 RMK AO2 SLP103 T02610144= KDWH 131053Z 33004KT 8SM CLR 22/21 A2994 RMK AO2 SLP135 T02220206=  966 SAUS70 KWBC 131100 RRD METAR KAGC 131053Z AUTO 17007KT 4SM -RA BR BKN003 OVC010 16/15 A2994 RMK AO2 CIG 002V008 SLP140 P0001 T01560150 TSNO= KAGS 131053Z 14003KT 10SM BKN038 OVC060 19/17 A2996 RMK AO2 RAE05 SLP144 P0000 T01940172= KAIA 131053Z AUTO 00000KT 10SM CLR 07/06 A3006 RMK AO2 SLP154 T00720056= KAKO 131053Z AUTO 25008KT 10SM CLR 11/08 A3013 RMK AO2 SLP163 T01060078= KALI 131053Z AUTO 32003KT 10SM SCT095 BKN120 23/21 A2994 RMK AO2 SLP135 T02330211 $= KALW 131053Z AUTO 18009KT 10SM CLR 18/09 A2998 RMK AO2 SLP145 T01830089= KAMA 131053Z 19007KT 10SM FEW120 13/13 A3016 RMK AO2 SLP178 T01280128= KAMG 131053Z AUTO 13004KT 7SM BKN060 22/21 A2995 RMK AO2 SLP139 T02220206= KAMW 131053Z AUTO 00000KT 4SM BR CLR 08/07 A3003 RMK AO2 SLP168 T00780067= KANB 131053Z AUTO 11003KT 10SM OVC006 20/20 A2990 RMK AO2 SLP120 T02000200 $= KANW 131050Z AUTO 00000KT 2 1/2SM BR CLR 11/11 A3002 RMK AO2= KAOH 131053Z AUTO 17007KT 4SM BR OVC008 18/17 A2982 RMK AO2 RAE0957 CIG 005V011 SLP094 T01780172 PNO $= KAOO 131053Z AUTO A3002 RMK AO2 SLPNO PWINO FZRANO $= KAPA 131053Z 11003KT 10SM CLR 09/05 A3017 RMK AO2 SLP169 T00890050= KAPF 131053Z 04004KT 10SM CLR 24/23 A2994 RMK AO2 SLP136 T02390233= KARA 131053Z AUTO 30003KT 10SM CLR 24/23 A2990 RMK AO2 RAE52 SLP124 P0000 T02440228= KASE 131053Z AUTO 22006KT 10SM CLR 04/M01 A3034 RMK AO2 SLP171 T00441011= KASX 131053Z AUTO 21004KT 1/2SM FG VV001 04/04 A3001 RMK AO2 SLP166 T00390039= KATY 131053Z AUTO 00000KT 10SM CLR 10/08 A3001 RMK AO2 SLP160 T01000078= KAUG 131053Z AUTO 33003KT 10SM CLR 07/06 A3011 RMK AO2 SLP196 T00720056= KAUS 131053Z 01008KT 10SM CLR 22/17 A2999 RMK AO2 SLP146 T02170167= KCRS 131053Z AUTO 36006KT 8SM CLR 17/14 A3002 RMK AO2 SLP161 T01720139= KCSM 131053Z AUTO 23004KT 10SM CLR 13/11 A3013 RMK AO2 SLP188 T01330111= KCSV 131053Z AUTO 20007KT 10SM OVC007 18/16 A2996 RMK AO2 RAB14E22B38E48 CIG 005V010 SLP130 P0000 T01780161= KCUB 131053Z AUTO 10003KT 10SM -RA OVC060 19/16 A3001 RMK AO2 RAB46 SLP159 P0000 T01940161= KCXO 131053Z AUTO 01005KT 10SM CLR 22/20 A2995 RMK AO2 SLP138 T02220200= KCYS 131053Z AUTO 27008KT 10SM CLR 09/02 A3017 RMK AO2 SLP148 T00890022= KDCU 131053Z AUTO 25003KT 3SM -RA BR BKN012 BKN020 OVC032 21/20 A2992 RMK AO2 RAB31 SLP127 P0008 T02110200= KDEN 131053Z 22010KT 10SM CLR 13/06 A3015 RMK AO2 SLP143 T01330056= KDEQ 131053Z AUTO 00000KT 3/4SM BR VV001 12/11 A3001 RMK AO2 SLP157 T01170111= KDET 131053Z 00000KT 10SM BKN011 OVC019 19/18 A2980 RMK AO2 RAE05 SLP088 P0000 T01890178 $= KDEW 131053Z AUTO 15006KT 10SM CLR 13/04 A2989 RMK AO2 SLP109 T01330039 $= KDFI 131053Z AUTO 22004KT 4SM BR SCT005 BKN008 OVC060 18/18 A2980 RMK AO2 SLP090 T01830178= KDGW 131053Z AUTO 15003KT 10SM CLR 07/03 A3008 RMK AO2 SLP139 T00720028= KDHN 131053Z 14007KT 6SM BR OVC006 23/22 A2992 RMK AO2 CIG 004V008 SLP127 T02280217= KDHT 131053Z AUTO 00000KT 5SM BR FEW050 SCT065 13/12 A3018 RMK AO2 SLP177 T01280117 $= KDKK 131053Z AUTO 18015G24KT 10SM SCT055 BKN100 OVC120 17/14 A2985 RMK AO2 PK WND 16026/1025 SLP105 T01720139= KDLN 131053Z AUTO VRB03KT 10SM CLR 08/M01 A3006 RMK AO2 SLP130 T00831011= KDLS 131053Z AUTO 33015G22KT 10SM CLR 17/11 A2999 RMK AO2 SLP154 T01670111= KDMO 131053Z AUTO 29004KT 4SM BR CLR 12/11 A3003 RMK AO2 SLP167 T01170106= KDNL 131053Z AUTO 15004KT 6SM -RA BR OVC015 19/18 A2998 RMK AO2 RAE05B43 SLP146 P0000 T01940178=  967 SAUS70 KWBC 131100 METAR KCVG 131052Z 23005KT 3/4SM -DZ BR OVC004 18/17 A2985 RMK AO2 SFC VIS 1 1/2 SLP100 RAE01DZB38 CIG 002V008 P0000 T01830172= KAFN 131052Z AUTO 00000KT 10SM CLR 08/07 A3013 RMK AO2 SLP210 T00780072 $= KAQW 131052Z AUTO 09005KT 10SM OVC095 10/08 A3012 RMK AO2 SLP202 T01000083= KARR 131052Z AUTO 34011KT 9SM OVC006 15/14 A2985 RMK AO2 LTG DSNT SE SLP106 T01500139= KATL 131052Z 13006KT 5SM -RA BR OVC005 20/18 A2993 RMK AO2 CIG 003V008 SLP128 P0017 T02000183= KBIS 131052Z AUTO 06006KT 10SM CLR 10/07 A2991 RMK AO2 SLP123 T01000072= KBLF 131052Z AUTO 17006KT 5SM RA BKN009 BKN020 OVC032 15/12 A3004 RMK AO2 SLP150 P0004 T01500122= KBML 131052Z AUTO 00000KT 1/4SM FG OVC002 02/02 A3015 RMK AO2 SLP217 T00170017= KCFV 131052Z AUTO 00000KT 4SM BR CLR 09/08 A3007 RMK AO2 SLP181 T00940078= KCIU 131055Z AUTO 01007KT 5SM OVC010 12/10 A2991 RMK AO1= KCKV 131052Z AUTO 31005KT 9SM OVC027 17/15 A2993 RMK AO2 SLP131 T01720150= KCLT 131052Z 14003KT 10SM OVC060 18/15 A3005 RMK AO2 RAB15E36 SLP168 P0001 T01780150= KCOD 131055Z AUTO 18008KT 10SM CLR 14/M04 A3004 RMK AO1= KCQX 131052Z AUTO 26003KT 10SM CLR 11/08 A3014 RMK AO2 SLP209 T01060078= KDCA 131052Z 21007KT 10SM FEW020 BKN046 OVC100 17/13 A3010 RMK AO2 RAE49 SLP192 P0000 T01670133= KDDC 131052Z AUTO 19007KT 9SM CLR 12/10 A3011 RMK AO2 SLP177 T01220100= KDPA 131052Z 34012KT 8SM OVC006 16/15 A2984 RMK AO2 CIG 005V011 SLP103 T01610150= KDVN 131052Z AUTO 33010KT 7SM OVC007 14/13 A2993 RMK AO2 SLP134 T01390128 PNO= KEGE 131055Z AUTO 00000KT 10SM CLR 06/M01 A3031 RMK AO1= KEHR 131055Z AUTO 27003KT 10SM OVC036 16/13 A2992 RMK AO1= KESC 131055Z AUTO 34005KT 10SM FEW023 BKN036 13/11 A2992 RMK AO1= KEST 131052Z AUTO 24003KT 1 1/2SM BR FEW001 06/04 A3004 RMK AO2 SLP173 T00560044= KFIT 131052Z AUTO 00000KT 10SM CLR 09/07 A3013 RMK AO2 SLP204 T00890067= KFNL 131055Z AUTO 00000KT 10SM CLR 11/06 A3014 RMK AO1= KGDV 131055Z AUTO 21004KT 10SM CLR 13/05 A2989 RMK AO1= KGLS 131052Z 28008KT 10SM BKN060 OVC110 26/22 A2993 RMK AO2 SLP133 T02610222= KGUC 131055Z 36003KT 10SM CLR 03/01 A3041 RMK AO1= KGXY 131055Z AUTO 31003KT 7SM CLR 07/04 A3014 RMK AO1= KHDN 131055Z 10009KT 10SM CLR 07/01 A3026 RMK AO1= KHIE 131052Z AUTO 00000KT 10SM CLR 02/02 A3013 RMK AO2 SLP210 T00220017= KHNB 131055Z AUTO 27006KT 10SM OVC038 16/14 A2991 RMK AO1= KHRL 131052Z 32004KT 8SM FEW028 BKN070 OVC110 24/23 A2991 RMK AO2 SLP129 T02440233= KHUT 131052Z AUTO 00000KT 4SM BR CLR 08/08 A3010 RMK AO2 SLP179 T00830078= KUGN 131052Z 32008KT 300V360 3SM BR OVC005 16/15 A2984 RMK AO2 SLP098 P0001 T01560150= KIAD 131052Z 19005KT 6SM HZ OVC040 15/12 A3009 RMK AO2 SLP187 T01500122 $= KIEN 131052Z AUTO 00000KT 10SM CLR 06/04 A3003 RMK AO2 SLP151 T00560039 TSNO= KIJD 131052Z AUTO 00000KT 10SM OVC001 06/05 A3015 RMK AO2 SLP211 T00610050= KIOW 131052Z AUTO 31007KT 10SM FEW090 13/12 A2997 RMK AO2 SLP150 T01280117= KISN 131052Z 00000KT 10SM CLR 11/06 A2986 RMK AO2 SLP107 T01060061= KIWD 131055Z AUTO 00000KT 1/4SM OVC001 07/05 A2999 RMK AO1= KLWC 131052Z AUTO 32006KT 1/4SM FG VV001 09/09 A3007 RMK AO2 SLP179 T00890089= KMBL 131055Z AUTO 02004KT 10SM OVC006 15/14 A2985 RMK AO1= KMDH 131052Z 29003KT 10SM CLR 14/12 A2995 RMK AO2 SLP141 T01440117= KMEB 131052Z AUTO 00000KT 10SM BKN100 17/15 A3004 RMK AO2 SLP171 T01670150= KMKE 131052Z 34010G17KT 2SM BR BKN004 OVC006 15/14 A2985 RMK AO2 SFC VIS 3 SLP109 T01500139=  968 SAPQ50 KWBC 131100 METAR PTKR 131054Z 32003KT 15SM SCT300 28/23 A2987 RMK SLP114 T02780230= PGUM 131054Z 03003KT 10SM FEW042 SCT070 28/23 A2984 RMK AO2 RAB20E30 SLP095 P0000 T02780233=  970 SAUS80 KWBC 131100 METAR KEHA 131048Z AUTO 20006KT 14/11 RMK AO1 PK WND 10 000 T01390106= KBLU 131052Z AUTO 36003KT 10SM CLR 22/M01 A3017 RMK AO2 SLP096 T02221006 TSNO= KABI 131052Z 00000KT 10SM CLR 18/13 A3011 RMK AO2 SLP173 T01780128= KREO 131052Z AUTO 14008KT 12/M05 A3007 RMK AO2 SLP141 T01221050 PWINO TSNO= KCZZ 131052Z AUTO 05004KT 16/06 A2994 RMK AO1 SLP105 T01560056= KSDB 131052Z AUTO 00000KT 10SM CLR 22/02 A3008 RMK AO2 SLP123 T02220017 TSNO= KMFD 131052Z 19008KT 2 1/2SM BR OVC004 17/16 A2986 RMK AO2 RAE0956B27E37 SLP106 P0000 T01720161= KSPS 131052Z 35003KT 10SM CLR 14/12 A3008 RMK AO2 SLP175 T01440122 $= KVTN 131052Z AUTO 27003KT 1/4SM FG BKN002 OVC007 07/07 A3002 RMK AO2 SLP158 T00670067= KALS 131052Z AUTO 00000KT 10SM CLR 05/02 A3034 RMK AO2 SLP197 T00500022= KELP 131051Z 00000KT 10SM SCT060 SCT250 20/14 A3013 RMK AO2 SLP138 T02000139= K9V9 131052Z AUTO 12005KT 11/09 A3000 RMK AO1 SLP152 T01110094= KTOL 131052Z 22005KT 6SM BR OVC004 19/18 A2980 RMK AO2 CIG 004V007 SLP088 T01890178= KP69 131052Z AUTO 00000KT 10/06 A3001 RMK AO2 SLP146 T01000061 PWINO TSNO= KCID 131052Z 32009KT 9SM OVC030 13/12 A2996 RMK AO2 SLP145 T01280122= KCNU 131052Z AUTO 31003KT 9SM CLR 10/09 A3006 RMK AO2 SLP176 T01000094= KMHK 131052Z AUTO 00000KT 3SM BR FEW001 08/08 A3007 RMK AO2 SLP182 T00830078= KRQE 131053Z AUTO 00000KT 10SM FEW120 09/06 A3029 RMK AO2 SLP149 T00940061 TSNO $= KP68 131053Z AUTO 17004KT 09/M06 A3017 RMK AO2 SLP136 T00941061 PWINO TSNO= KSAV 131053Z 22006KT 8SM FEW008 SCT030 OVC060 22/21 A2997 RMK AO2 SLP148 T02220206= KMWT 131053Z AUTO 00000KT 6SM BR FEW029 14/13 A3001 RMK AO2 SLP157 T01390128 TSNO $= KUIL 131053Z AUTO 00000KT 1SM BR CLR 09/08 A3015 RMK AO2 SLP208 T00890078 TSNO= KMSN 131053Z 34010KT 6SM BR OVC004 13/12 A2991 RMK AO2 SLP130 T01280122= KOQT 131053Z AUTO 00000KT 4SM -RA BR SCT004 BKN017 OVC021 18/17 A2996 RMK AO2 SLP137 P0006 T01830172 TSNO= KFAR 131053Z 19008KT 10SM CLR 13/11 A2993 RMK AO2 SLP135 T01330111= KSTC 131053Z AUTO 00000KT 8SM CLR 05/04 A3001 RMK AO2 SLP173 T00500044= KCAO 131053Z AUTO 24007KT 10SM CLR 12/11 A3018 RMK AO2 SLP173 T01220106 TSNO= KBNO 131053Z AUTO 28006KT 10SM CLR 12/00 A3010 RMK AO2 SLP153 T01220000 TSNO= KCUT 131053Z AUTO 31004KT 10SM CLR 07/03 A3012 RMK AO2 SLP149 T00720028 TSNO= KSAT 131053Z 31003KT 10SM SCT048 SCT250 21/20 A3001 RMK AO2 SLP144 T02110200= KTCS 131053Z AUTO 00000KT 10SM BKN075 17/11 A3018 RMK AO2 SLP146 T01720111 TSNO= KRMG 131053Z AUTO 00000KT 2SM -RA BR OVC005 19/18 A2992 RMK AO2 RAE0954B13 CIG 002V007 SLP125 P0002 T01890178 TSNO= K40J 131053Z AUTO 13011KT 22/21 A2990 RMK AO2 SLP126 P0031 T02220211 PWINO TSNO= KCTY 131053Z AUTO 15007KT 23/21 A2993 RMK AO2 SLP135 P0020 T02280211 PWINO TSNO= KNUI 131053Z AUTO 00000KT 10SM SCT025 16/13 A3008 RMK AO2 SLP187 T01610133 $= KMGM 131053Z 00000KT 4SM -RA BR FEW011 BKN026 OVC037 23/22 A2988 RMK AO2 RAB49 SLP116 P0000 T02280217= KTRI 131053Z 00000KT 3SM -RA BR FEW022 OVC055 16/16 A2999 RMK AO2 RAE05B25 SLP143 P0003 T01610156= KMCN 131053Z AUTO 11004KT 6SM BR OVC036 21/19 A2993 RMK AO2 SLP132 T02060189 TSNO= KTUP 131053Z 35006KT 10SM BKN008 OVC019 20/18 A2992 RMK AO2 SLP129 T02000178= K6R6 131053Z AUTO 01005KT 20/18 A3006 RMK AO2 SLP146 T02000178 PWINO TSNO= KDAB 131053Z 00000KT 10SM FEW035 22/19 A2998 RMK AO2 SLP151 T02170194= KDRA 131053Z VRB05KT 10SM CLR 20/02 A2998 RMK AO2 SLP100 T02000017=  973 SAUS70 KWBC 131100 RRB METAR KCGI 131053Z AUTO 00000KT 9SM OVC036 14/13 A2996 RMK AO2 SLP143 T01390128= KCHO 131053Z 18003KT 7SM BKN028 OVC035 14/12 A3007 RMK AO2 SLP181 T01440122= KCKB 131053Z AUTO 00000KT 8SM OVC030 16/14 A2996 RMK AO2 RAE04 SLP134 P0000 T01610144 TSNO= KCLM 131053Z AUTO 26010KT 10SM CLR 11/09 A3010 RMK AO2 SLP193 T01060089= KCMI 131053Z 26007KT 2SM BR OVC004 13/13 A2988 RMK AO2 SFC VIS 2 1/2 CIG 002V007 SLP115 T01330133= KCMX 131053Z AUTO 30006KT 2 1/2SM BR FEW001 07/07 A2997 RMK AO2 SLP152 T00720072= KCNM 131053Z AUTO 18007KT 10SM CLR 17/16 A3015 RMK AO2 SLP160 T01720156= KCNO 131053Z AUTO 00000KT 5SM HZ CLR 16/13 A2989 RMK AO2 SLP116 T01610133= KCOT 131053Z AUTO 00000KT 1/2SM FG OVC001 22/22 A2998 RMK AO2 SLP146 T02170217 $= KCPR 131053Z 00000KT 10SM CLR 08/M01 A3008 RMK AO2 SLP131 T00831006= KCPS 131053Z AUTO 29007KT 10SM OVC019 16/12 A2996 RMK AO2 SLP143 T01560122 TSNO= KCRE 131053Z 04005KT 10SM CLR 18/16 A3002 RMK AO2 SLP165 T01830156= KCRG 131053Z 00000KT 10SM OVC090 24/20 A2996 RMK AO2 SLP143 T02440200= KAWM 131053Z AUTO 34005KT 10SM FEW048 16/13 A2997 RMK AO2 SLP145 T01610128= KAXN 131053Z AUTO 17003KT 10SM BKN065 BKN080 12/09 A3000 RMK AO2 SLP161 T01170094= KAZO 131053Z 33005KT 3/4SM BCFG BKN002 OVC007 17/16 A2980 RMK AO2 SLP090 T01720161= KBAF 131053Z 00000KT 10SM FEW120 08/07 A3014 RMK AO2 SLP207 T00780067= KBBW 131053Z AUTO 00000KT 1SM BR CLR 10/09 A3004 RMK AO2 SLP159 T01000094= KBCE 131053Z AUTO 28008KT 10SM CLR 05/M01 A3032 RMK AO2 SLP162 T00501011= KBDE 131053Z AUTO 00000KT 10SM CLR 09/08 A2994 RMK AO2 SLP142 T00940083= KBEH 131053Z AUTO 06004KT 1/2SM FG BKN001 OVC017 17/17 A2978 RMK AO2 LTG DSNT SW SLP081 T01720167= KBFD 131053Z AUTO 15007KT 9SM OVC005 13/12 A2996 RMK AO2 RAE31 SLP143 P0000 T01280117 $= KBFI 131053Z 00000KT 10SM OVC047 14/12 A3011 RMK AO2 SLP194 T01440117= KBFM 131053Z 33004KT 10SM OVC013 24/22 A2989 RMK AO2 SLP120 T02390222= KBGM 131053Z 15008KT 9SM -RA OVC060 10/09 A3004 RMK AO2 SLP173 P0002 T01000089= KBGR 131053Z 00000KT 10SM SCT200 BKN250 06/04 A3009 RMK AO2 SLP190 T00610044= KBHK 131053Z AUTO 11007KT 10SM CLR 12/06 A2993 RMK AO2 SLP116 T01170056= KBHM 131053Z 00000KT 2 1/2SM BR BKN006 OVC009 21/19 A2992 RMK AO2 SLP125 T02110194= KBIV 131053Z AUTO 01003KT 5SM -RA BR SCT008 OVC012 18/17 A2981 RMK AO2 SLP092 P0007 T01780167= KBJJ 131053Z AUTO 19007KT 4SM -RA BR BKN005 OVC009 17/16 A2987 RMK AO2 RAB12E24B41 SLP112 P0002 T01670161= KBKE 131053Z AUTO 00000KT 10SM CLR 05/03 A3005 RMK AO2 SLP157 T00500028= KBKL 131053Z 18011KT 6SM HZ BKN014 BKN021 OVC048 19/16 A2983 RMK AO2 SLP098 T01890161= KBKV 131053Z AUTO 12004KT 10SM -RA OVC070 23/21 A2996 RMK AO2 RAB0956 SLP142 P0000 T02330206= KBLH 131053Z AUTO 05004KT 10SM CLR 27/16 A2984 RMK AO2 SLP096 T02670156= KBLI 131053Z AUTO 00000KT 10SM BKN055 BKN070 12/11 A3008 RMK AO2 SLP193 T01170106= KBMG 131053Z 28005KT 8SM SCT009 BKN012 OVC021 16/13 A2988 RMK AO2 SLP111 T01560133= KBMQ 131053Z AUTO 01008KT 10SM CLR 20/14 A3005 RMK AO2 SLP161 T02000139= KBOI 131053Z 14005KT 9SM CLR 15/03 A2998 RMK AO2 SLP126 T01500028= KBOK 131056Z AUTO 00000KT 7SM CLR 11/11 A2998 RMK AO2 T01110111 SLP151= KBPI 131053Z AUTO 00000KT 10SM CLR 02/M05 A3024 RMK AO2 SLP163 T00221050 FZRANO= KBPK 131053Z AUTO 31003KT 7SM CLR 12/11 A3002 RMK AO2 SLP161 T01220111 PNO $= KBPT 131053Z 30007KT 8SM CLR 22/21 A2993 RMK AO2 SLP136 T02220206=  975 SAUS80 KWBC 131100 CCA METAR KPVD 131051Z 27004KT 10SM FEW035 SCT060 BKN130 BKN200 BKN250 11/08 A3014 RMK AO2 SLP205 T01110078= KCRP 131051Z 34009KT 10SM FEW008 SCT021 OVC090 24/24 A2993 RMK AO2 SLP135 T02430239 $= KMLF 131052Z AUTO 18004KT 10SM CLR 12/M02 A3012 RMK AO2 SLP137 T01171017 TSNO= KBDL 131051Z 00000KT 10SM FEW130 BKN150 BKN200 09/08 A3013 RMK AO2 SLP204 T00890078=  977 SAUS70 KWBC 131100 RRA METAR KMLI 131052Z 33008KT 10SM OVC008 14/13 A2992 RMK AO2 SLP131 T01440128= KMNM 131055Z AUTO 36007KT 10SM OVC026 13/12 A2992 RMK AO1= KMTW 131055Z AUTO 35011G16KT 5SM OVC005 14/13 A2991 RMK AO1= KMVN 131055Z AUTO 27004KT 10SM SCT018 SCT023 OVC041 16/11 A2995 RMK AO1= KMWH 131052Z AUTO 00000KT 10SM CLR 13/07 A2992 RMK AO2 SLP125 T01280067= KOKB 131052Z AUTO 00000KT 5SM BR OVC004 18/17 A2988 RMK AO2 SLP116 T01780167 TSNO= KOKC 131052Z 33003KT 10SM CLR 15/11 A3009 RMK AO2 SLP179 T01500111= KOMA 131052Z 14003KT 7SM BCFG FEW001 10/09 A3007 RMK AO2 SLP180 T01000094= KORE 131052Z AUTO 00000KT 10SM OVC005 07/07 A3013 RMK AO2 SLP207 T00720067= KPPF 131052Z AUTO 00000KT 5SM BR SCT001 BKN029 08/07 A3008 RMK AO2 SLP182 T00830072= KPWK 131052Z 34009KT 5SM BR OVC006 16/15 A2985 RMK AO2 LTG DSNT SE AND S RAB0953E47 CIG 004V010 SLP105 P0000 T01560150 $= KPYM 131052Z AUTO 00000KT 10SM CLR 07/06 A3014 RMK AO2 SLP206 T00670056= KRAP 131052Z AUTO 00000KT 10SM CLR 11/06 A2999 RMK AO2 SLP138 T01110061 TSNO= KSDY 131055Z AUTO 00000KT 10SM CLR 12/08 A2987 RMK AO1= KSGF 131052Z 00000KT 4SM BR CLR 10/09 A3004 RMK AO2 SLP169 T01000089= KSPI 131052Z AUTO 29007KT 7SM OVC006 14/13 A2991 RMK AO2 CIG 004V010 SLP129 T01440128= KSQI 131055Z 35008KT 5SM OVC006 14/12 A2990 RMK AO1= KSUE 131055Z AUTO 35009KT 7SM OVC008 14/13 A2987 RMK AO1= KSUX 131052Z 00000KT 6SM BR CLR 07/07 A3007 RMK AO2 SLP183 T00720067= KTAN 131052Z AUTO 00000KT 10SM CLR 06/05 A3012 RMK AO2 SLP198 T00610050= KTRM 131052Z AUTO 00000KT 10SM CLR 26/16 A2978 RMK AO2 SLP088 T02560156= KTPA 131053Z 12004KT 8SM SCT055 BKN100 OVC250 26/21 A2995 RMK AO2 SLP141 T02560206= KSIY 131053Z AUTO 03003KT 10SM CLR 12/04 A3007 RMK AO2 SLP169 T01170039 TSNO= KBNA 131053Z 33005KT 8SM OVC007 19/17 A2992 RMK AO2 CIG 005V012 SLP126 T01940167= PATA 131052Z AUTO 00000KT 10SM OVC031 08/06 A3040 RMK AO2 SLP297 T00780056 TSNO= KMSY 131053Z 26003KT 6SM BR OVC150 24/22 A2988 RMK AO2 SLP122 T02390222= KMCO 131053Z 17003KT 10SM SCT250 22/21 A2997 RMK AO2 SLP145 T02220206= KDFW 131053Z 02005KT 10SM FEW300 17/13 A3005 RMK AO2 SLP168 T01720128= KTUL 131053Z 33003KT 10SM CLR 11/09 A3007 RMK AO2 SLP177 T01060094= KASD 131053Z AUTO 00000KT 7SM CLR 22/21 A2988 RMK AO2 SLP119 T02220211 TSNO= KBTL 131053Z 00000KT 10SM BKN010 OVC044 17/16 A2980 RMK AO2 CIG 007V014 SLP088 T01670156 $= KBTM 131053Z AUTO 00000KT 8SM CLR 06/M03 A3008 RMK AO2 SLP136 T00611028= KBUR 131053Z 09004KT 7SM CLR 19/14 A2989 RMK AO2 SLP109 T01890144= KBVO 131053Z 00000KT 1/2SM OVC090 07/06 A3009 RMK AO2 SLP182 T00670061= KBVY 131053Z 22003KT 10SM CLR 08/06 A3012 RMK AO2 SLP194 T00780061= KBWG 131053Z AUTO 30004KT 7SM OVC020 18/16 A2992 RMK AO2 SLP127 T01780156 $= KBYG 131053Z AUTO 25003KT 10SM CLR 17/M07 A3002 RMK AO2 SLP103 T01721067= KBYI 131053Z AUTO 10003KT 10SM CLR 09/04 A3004 RMK AO2 SLP136 T00940044= KCAG 131053Z AUTO 00000KT 10SM CLR 04/02 A3025 RMK AO2 SLP190 T00440017= KCCR 131053Z AUTO 34004KT 10SM CLR 15/12 A2987 RMK AO2 SLP100 T01500122= KCDC 131053Z AUTO 22004KT 10SM CLR 12/M01 A3015 RMK AO2 SLP136 T01171006= KCDS 131053Z AUTO 00000KT 10SM CLR 16/13 A3013 RMK AO2 SLP182 T01610128= KCDW 131053Z 00000KT 10SM CLR 11/10 A3013 RMK AO2 SLP207 T01060100= KCEW 131053Z AUTO 00000KT 10SM OVC001 23/22 A2988 RMK AO2 SLP116 T02330222 $= KCEZ 131053Z AUTO 07005KT 10SM CLR 07/03 A3022 RMK AO2 SLP171 T00670033=  978 SAXX60 KWBC 131100 METAR KNBG 131052Z 00000KT 5SM BR BKN200 24/22 A2989 RMK AO2 SLP121 T02390222 $= KNHK 131052Z 17003KT 10SM FEW120 17/13 A3009 RMK AO2 SLP188 T01670128 $= KNGU 131053Z 00000KT 10SM FEW030 SCT080 BKN150 17/14 A3009 RMK AO2 SLP189 T01670139= KDTS 131053Z AUTO 05003KT 10SM A2986 RMK AO2 SLP112 FZRANO $=  979 SAUS70 KWBC 131100 RRC METAR KBRD 131053Z AUTO 18003KT 9SM CLR 07/06 A2999 RMK AO2 SLP160 P0001 T00720056= KBRL 131053Z AUTO 34009KT 10SM OVC012 15/13 A2994 RMK AO2 SLP139 T01500128= KEET 131053Z AUTO 00000KT 5SM BR BKN002 OVC006 21/20 A2990 RMK AO2 SLP120 T02110200= KELD 131053Z AUTO 35006KT 9SM CLR 18/16 A2997 RMK AO2 SLP143 T01780161= KELM 131053Z 13003KT 7SM -RA OVC022 13/11 A3000 RMK AO2 SLP158 P0001 T01280106= KELN 131053Z AUTO 31012KT 10SM CLR 17/10 A2999 RMK AO2 SLP141 T01670100 TSNO= KENW 131053Z AUTO 33008KT 4SM BR OVC003 15/14 A2986 RMK AO2 SLP111 T01500144= KEPH 131053Z AUTO 00000KT 10SM CLR 17/03 A2991 RMK AO2 SLP121 T01670033= KEQY 131053Z AUTO 00000KT 10SM OVC070 18/14 A3003 RMK AO2 SLP173 T01780139 TSNO= KESF 131053Z AUTO 35006KT 10SM SCT010 23/20 A2992 RMK AO2 SLP130 T02280200= KEVW 131053Z AUTO 17006KT 10SM CLR 11/00 A3025 RMK AO2 SLP151 T01060000= KEWB 131053Z AUTO 00000KT 10SM CLR 08/06 A3013 RMK AO2 SLP202 T00780061 $= KEYE 131053Z AUTO VRB04KT 5SM BR BKN006 OVC010 15/13 A2986 RMK AO2 RAB41E45 SLP107 P0001 T01500133= KFAY 131053Z AUTO 00000KT 10SM BKN110 17/14 A3004 RMK AO2 SLP166 T01670144 TSNO= KFCM 131053Z AUTO 00000KT 1 1/2SM BR CLR 09/08 A3001 RMK AO2 SLP163 T00890078= KFDR 131053Z AUTO 03005KT 10SM CLR 15/12 A3007 RMK AO2 SLP171 T01500117= KFDY 131053Z AUTO 20005KT 5SM BR BKN007 BKN100 18/17 A2980 RMK AO2 CIG 007V021 SLP083 T01830167= KFFC 131053Z AUTO 13004KT 3SM RA BR OVC005 20/19 A2993 RMK AO2 CIG 003V010 SLP130 P0021 T02000189= KFFT 131053Z AUTO 24005KT 4SM BR BKN005 OVC011 18/18 A2986 RMK AO2 CIG 003V009 SLP108 T01830178= KFHR 131053Z AUTO 00000KT 2 1/2SM BR CLR 09/08 A3010 RMK AO2 VIS 1V5 SLP191 T00890083= KFLD 131053Z AUTO 34007KT 10SM OVC004 14/12 A2991 RMK AO2 CIG 004V009 SLP130 T01390122= KFLL 131053Z 08007KT 10SM FEW035 27/19 A2993 RMK AO2 SLP135 T02720189= KFLO 131053Z 09005KT 10SM SCT070 BKN100 18/15 A3002 RMK AO2 SLP161 T01830150= KFMY 131053Z 10004KT 10SM FEW047 24/22 A2994 RMK AO2 SLP141 T02390217= KFOE 131053Z 00000KT 9SM CLR 09/08 A3007 RMK AO2 SLP179 P0001 T00940083= KFOK 131053Z AUTO 00000KT 10SM CLR 07/04 A3015 RMK AO2 SLP209 T00670044 TSNO= KFPR 131053Z AUTO 00000KT 10SM CLR 22/20 A2995 RMK AO2 SLP142 T02170200= KFRG 131053Z AUTO 01004KT 10SM CLR 12/09 A3013 RMK AO2 SLP203 T01170089= KFSM 131053Z 00000KT 10SM CLR 13/12 A3005 RMK AO2 SLP171 T01330122= KFST 131053Z AUTO 16004KT 10SM FEW080 18/15 A3012 RMK AO2 SLP157 T01780150= KFTW 131053Z 02003KT 8SM CLR 17/13 A3006 RMK AO2 SLP170 T01670133= K1F0 131045Z AUTO 00000KT 10SM CLR 14/13 A3007 RMK AO2= K3T5 131052Z AUTO 00000KT 10SM CLR 22/21 A2996 RMK AO2= K5SM 131051Z AUTO 00000KT 5SM HZ CLR 12/M07 A3053 RMK AO2= K7BM 131050Z AUTO 00000KT 10SM CLR 11/00 A3045 RMK AO2= KABR 131053Z AUTO 17004KT 10SM CLR 09/08 A2997 RMK AO2 SLP148 T00890078= KABY 131053Z 15007KT 5SM HZ OVC050 24/21 A2993 RMK AO2 SLP133 T02390206= KACK 131053Z 31006KT 10SM CLR 12/07 A3014 RMK AO2 SLP207 T01220072= KACV 131053Z AUTO 00000KT 1/4SM R32/2000V2400FT FG VV001 11/10 A2996 RMK AO2 SLP150 T01060100 TSNO= KADG 131053Z AUTO 00000KT 1/4SM FG FEW001 BKN008 OVC036 18/17 A2981 RMK AO2 SLP094 T01780172= KAEG 131050Z AUTO 00000KT 10SM CLR 12/09 A3023 RMK A01 P000= KAEX 131053Z 34005KT 8SM FEW009 22/20 A2990 RMK AO2 SLP127 T02220200= KAFW 131053Z 33005KT 8SM CLR 16/13 A3006 RMK AO2 SLP167 T01610133=  980 SAUS80 KWBC 131100 RRA METAR KLXV 131053Z AUTO 00000KT 10SM CLR 00/M02 A3046 RMK AO2 SLP177 T00001022 FZRANO TSNO= KLND 131053Z AUTO 00000KT 10SM CLR 13/M06 A3009 RMK AO2 SLP123 T01281061= KHSV 131053Z 00000KT 6SM BR BKN010 OVC015 21/19 A2993 RMK AO2 SLP129 T02060194= KTLH 131053Z 11007KT 7SM BKN007 OVC012 23/23 A2990 RMK AO2 CIG 005V010 SLP124 T02330228= KJAN 131054Z 33004KT 7SM OVC005 23/22 A2990 RMK AO2 SLP120 T02280222= KSDM 131053Z AUTO 00000KT M1/4SM FG VV001 17/17 A2989 RMK AO2 SLP116 T01720172 TSNO= KFNT 131053Z 05003KT 1/4SM -RA FG OVC001 17/16 A2980 RMK AO2 SFC VIS 1/2 RAB44 SLP089 P0000 T01670161= KHTL 131053Z AUTO 36005KT 2SM BR OVC001 14/14 A2985 RMK AO2 SLP107 T01440139= KBTR 131053Z 00000KT 10SM BKN200 24/22 A2988 RMK AO2 SLP119 T02390222= KTYS 131053Z 06003KT 3SM BR FEW004 BKN009 OVC043 18/17 A2995 RMK AO2 RAE31 CIG 006V013 SLP133 P0000 T01830172= KHTS 131051Z AUTO 17008KT 5SM -RA BR SCT027 OVC035 17/16 A2990 RMK AO2 RAB23 SLP118 P0000 T01720161 TSNO= KCQC 131053Z AUTO 29006KT 10SM CLR 11/09 A3031 RMK AO2 SLP181 T01110094 TSNO= KCDR 131053Z AUTO 28003KT 10SM CLR 07/06 A3003 RMK AO2 SLP159 T00670061= KCLL 131053Z AUTO 02008KT 10SM CLR 22/16 A2998 RMK AO2 SLP146 T02220156= KCNY 131053Z AUTO 00000KT 10SM CLR 16/05 A3009 RMK AO2 SLP133 T01560050= KCRQ 131053Z AUTO 11003KT 5SM BR OVC004 18/17 A2988 RMK AO2 SLP115 T01830167= KEMP 131053Z AUTO 29004KT 1 1/4SM BR CLR 08/08 A3008 RMK AO2 SLP186 T00830078= KFNB 131053Z AUTO 00000KT 8SM CLR 09/09 A3005 RMK AO2 SLP173 P0001 T00940089= KDAL 131053Z 01004KT 10SM CLR 18/13 A3006 RMK AO2 SLP171 T01830128= KDMN 131053Z AUTO 36007KT 10SM TS FEW042 BKN050 OVC085 16/14 A3016 RMK AO2 LTG DSNT NE TSE06B22RAE50 SLP146 P0002 T01610144= KDRT 131053Z AUTO 04004KT 10SM CLR 22/20 A3000 RMK AO2 SLP144 T02170200= KCHA 131053Z 00000KT 4SM -RA BR BKN009 OVC014 19/18 A2994 RMK AO2 RAE0957B24 SLP134 P0001 T01940178= KACY 131054Z 00000KT 10SM CLR 11/09 A3013 RMK AO2 SLP203 T01110089=  102 SAHO31 MHTG 131100Z METAR METAR MHTG 131100Z 13003KT 8000 SCT024 SCT090 18/17 Q1018 VIS 8KM ENE BR D/C UNL FEW250 HZ NOSIG= METAR MHLM 131100Z 31003KT 9999 SCT020 BKN080 24/24 Q1013 BR HZ NOSIG=  105 SAMX43 MMMZ 131100 METAR MMDO 131047Z 00000KT 12SM BKN030 OVC200 17/16 A3020 RMK 8/507 BINOVC RTS= METAR MMHO 131045Z 00000KT 10SM SCT080 BKN200 27/23 A2985 RMK 8/038 CB 1 QUAD= METAR MMML 131042Z 10006KT 10SM SCT050 26/M A2978 METAR MMMZ 131041Z 31004KT 10SM FEW040 BKN220 24/21 A2979 RMK 8/403 HZY OCNL LTGIC S= METAR MMTJ 131049Z 00000KT 1/16SM FG VV002 17/17 A2992 RMK 8////=  307 SAXX70 KAWN 131100 RRA METAR KQCO 131055Z 24009G15KT 8000 DU SKC 38/04 A2979 RMK SLP073= METAR KQTU 131055Z 34008G14 9999 SKC 37/06 A2979 RMK SLP074=  308 SAKA31 PTTP 131100 METAR PTTP 131054Z 21003KT 15SM BKN017TCU OVC120 26/24 A2987 RMK SHRAE22 TCU VC ALQDS SLP115 T02590238=  436 SACA31 MHTG 131100Z METAR METAR MHTG 131100Z 13003KT 8000 SCT024 SCT090 18/17 Q1018 VIS 8KM ENE BR D/C UNL FEW250 HZ NOSIG= METAR MHLM 131100Z 31003KT 9999 SCT020 BKN080 24/24 Q1013 BR HZ NOSIG=  437 SAMX55 MMMY 131100 METAR MMRX 131052Z 27005KT 5SM BKN030 OVC100 24/24 A2996 RMK 8/52/ RA BR RTS= TX OPMET V1  418 SABR31 TBPB 131100 METAR TBPB 131100Z 18006KT 9999 SCT008CB OVC280 26/24 Q1013 RMK CB+VCSH-E,S,SW,NW=  461 SAMH31 PKMR 131100 METAR PKMR 131055Z 08003KT 15SM FEW015 SCT300 28/23 A2988 RMK SLP122 T02770234=  499 SAUS80 KWBC 131100 METAR KRNM 131053Z AUTO 25003KT 10SM CLR 15/06 A2991 RMK AO2 SLP111 T01500061 TSNO= KAPN 131054Z AUTO 01006KT 5SM BR OVC008 16/15 A2985 RMK AO2 CIG 003V011 SLP107 T01560150= K1V4 131054Z AUTO 07/05 A3012 RMK AO2 SLP200 T00670050 PWINO TSNO= KP92 131053Z AUTO VRB04KT 28/24 RMK AO2 SLPNO T02780244 PWINO TSNO $= KFWA 131054Z 26010KT 1 1/4SM -RA BR OVC004 17/16 A2982 RMK AO2 DZE03RAB03 SLP096 P0003 T01670156= KRFD 131054Z 36012KT 2 1/2SM BR OVC005 14/13 A2991 RMK AO2 SFC VIS 6 RAE21 CIG 005V009 SLP130 P0001 T01440128= KLEX 131054Z 23007KT 3SM BR OVC004 18/17 A2988 RMK AO2 RAE34 CIG 002V007 SLP113 P0002 T01830172= KCAR 131054Z AUTO 00000KT 10SM CLR 04/02 A3005 RMK AO2 SLP183 T00390022= K12N 131054Z AUTO 00000KT 11/09 A3012 RMK AO2 SLP199 T01060089 PWINO TSNO= KCRW 131054Z 00000KT 6SM BR OVC030 17/16 A2993 RMK AO2 RAB23E32 SLP130 VLY FG P0000 T01720156= KBTV 131054Z 10003KT 10SM CLR 09/08 A3007 RMK AO2 SLP185 T00940078= KSYR 131054Z 09008KT 7SM RA SCT022 OVC032 12/12 A3000 RMK AO2 SLP154 P0009 T01170117= KBFF 131054Z AUTO 00000KT 10SM CLR 07/06 A3007 RMK AO2 SLP153 T00670056 $= KPIA 131054Z VRB06KT 10SM -RA OVC008 14/13 A2990 RMK AO2 RAB12 CIG 005V010 SLP123 P0001 T01440133= KROC 131054Z 17009KT 7SM -RA BKN035 BKN055 OVC100 16/14 A2990 RMK AO2 SLP125 P0007 T01560144= KMQE 131054Z AUTO 25011KT 11/06 A3012 RMK AO1 SLP210 T01060061= KSBN 131054Z 20003KT 1SM BR OVC001 17/17 A2980 RMK AO2 SLP087 T01720167= KHLC 131053Z AUTO 25004KT 10SM CLR 14/11 A3007 RMK AO2 SLP169 T01390106= KHSI 131053Z AUTO 00000KT 10SM CLR 13/11 A3005 RMK AO2 SLP168 T01330111= KJBR 131053Z AUTO VRB04KT 10SM CLR 14/11 A2999 RMK AO2 SLP153 T01390111= KJLN 131053Z 00000KT 7SM CLR 09/08 A3006 RMK AO2 SLP175 T00940083= KLBB 131053Z 16005KT 10SM FEW120 17/15 A3016 RMK AO2 SLP173 T01670150= KLIT 131053Z 33004KT 7SM CLR 16/12 A3002 RMK AO2 SLP164 T01610122= KRIW 131053Z AUTO 00000KT 10SM CLR 13/M06 A3009 RMK AO2 SLP123 T01331056= KGCC 131053Z AUTO 16011KT 10SM CLR 12/M01 A3000 RMK AO2 SLP115 T01221006= KMLU 131053Z 02007KT 10SM CLR 21/18 A2995 RMK AO2 SLP140 T02060178= KODX 131053Z AUTO 00000KT 3/4SM BR FEW002 SCT009 11/09 A3004 RMK AO2 SLP167 T01060094= KLWD 131053Z AUTO 29005KT 9SM CLR 09/08 A3002 RMK AO2 SLP167 T00890078= KCOS 131054Z 01006KT 8SM CLR 08/07 A3023 RMK AO2 SLP179 T00830067= KELY 131053Z AUTO 17009KT 10SM CLR 07/M04 A3021 RMK AO2 SLP140 T00671039= KCOU 131054Z AUTO 28007KT 8SM CLR 12/11 A3001 RMK AO2 SLP159 T01170106 TSNO= KBUF 131054Z 19010KT 10SM FEW015 OVC025 17/14 A2986 RMK AO2 RAE53 SLP111 P0002 T01670144= KRIC 131054Z 00000KT 10SM OVC150 16/13 A3009 RMK AO2 SLP193 T01610128= KAKQ 131054Z AUTO 10SM CLR 13/12 A3009 RMK AO2 SLP189 T01330122 TSNO= KROA 131054Z 14007KT 7SM -RA OVC019 16/14 A3007 RMK AO2 SLP178 P0001 T01560139= KBDR 131054Z 00000KT 10SM CLR 12/08 A3014 RMK AO2 SLP204 T01170083= KSEA 131053Z 22008KT 10SM FEW003 OVC005 13/12 A3012 RMK AO2 SLP204 T01280117= PHNL 131053Z 06008KT 10SM FEW029 26/19 A3003 RMK AO2 SLP170 T02560194= PHTO 131053Z 22006KT 10SM FEW035 21/16 A3004 RMK AO2 SLP172 T02060161= PHKO 131053Z AUTO 25012KT 10SM FEW030 27/21 A2999 RMK AO2 SLP157 T02670211 TSNO= PHLI 131053Z 25004KT 10SM CLR 22/20 A3005 RMK AO2 SLP172 T02170200= PASN 131053Z 17015KT 10SM OVC012 07/06 A3028 RMK AO2 SLP253 T00720056= PATK 131053Z AUTO 00000KT 10SM CLR 05/04 A3045 RMK AO2 SLP314 T00500039 TSNO=  500 SAUS70 KWBC 131100 RRD METAR KMCW 131053Z AUTO 29003KT 3SM BR CLR 06/06 A3004 RMK AO2 SLP170 T00610056= KMEI 131053Z AUTO 00000KT 1SM BR OVC001 21/21 A2990 RMK AO2 SLP122 T02110211= KMEM 131053Z 35009KT 10SM BKN048 18/12 A2998 RMK AO2 SLP147 T01780122= KMFE 131053Z 30004KT 9SM -RA FEW004 SCT049 OVC060 24/23 A2993 RMK AO2 SLP133 P0003 T02440233= KMFR 131053Z AUTO 30003KT 10SM CLR 15/08 A3007 RMK AO2 SLP170 T01500078= KMGW 131053Z 20003KT 10SM FEW036 BKN055 OVC120 17/14 A2997 RMK AO2 RAE20 SLP142 P0001 T01670144= KMGY 131053Z AUTO 20005KT 2SM BR OVC004 18/17 A2984 RMK AO2 CIG 003V006 SLP099 T01780172= KMHT 131053Z AUTO 34003KT 10SM CLR 08/06 A3011 RMK AO2 SLP209 T00830061 TSNO= KMIA 131053Z 04003KT 10SM FEW034 OVC100 27/22 A2994 RMK AO2 SLP137 T02670217= KMIC 131053Z AUTO 00000KT 1 3/4SM BR CLR 05/05 A3001 RMK AO2 VIS 3/4V5 SLP163 T00500050= KMIE 131053Z 27008KT 8SM BKN009 OVC013 16/14 A2984 RMK AO2 CIG 006V011 SLP098 T01560144= KOJC 131053Z AUTO 30005KT 7SM CLR 13/11 A3006 RMK AO2 SLP173 T01280111= KOLF 131053Z AUTO 00000KT 10SM CLR 08/05 A2983 RMK AO2 SLP096 T00830050= KOMK 131053Z AUTO 00000KT 8SM CLR 12/02 A2990 RMK AO2 SLP118 T01220017= KONL 131051Z AUTO 17005KT 10SM CLR 11/10 A3003 RMK AO2= KONO 131053Z AUTO 25010KT 10SM CLR 16/06 A2997 RMK AO2 SLP133 T01610056= KONT 131053Z 00000KT 10SM CLR 19/12 A2989 RMK AO2 SLP105 T01940122 $= KOPF 131053Z AUTO 03005KT 10SM OVC095 25/22 A2994 RMK AO2 SLP139 T02500217= KORL 131053Z 00000KT 10SM CLR 23/20 A2997 RMK AO2 SLP153 T02330200= KOSH 131053Z 36010KT 10SM OVC005 13/12 A2992 RMK AO2 SLP128 T01330117= KOSU 131053Z 18007KT 2 1/2SM BR OVC005 18/17 A2985 RMK AO2 RAE0956 SLP105 P0000 T01780167= KOTM 131053Z AUTO 30007KT 7SM FEW032 12/11 A2999 RMK AO2 SLP154 T01170106= KOVE 131053Z AUTO 04003KT 10SM CLR 23/13 A2985 RMK AO2 SLP109 T02330128= KOVS 131053Z AUTO 35005KT 10SM OVC010 13/12 A2996 RMK AO2 SLP146 T01330117= KOWD 131053Z 00000KT 10SM CLR 05/04 A3013 RMK AO2 SLP202 T00500039= KOXB 131053Z AUTO 00000KT 10SM CLR 12/11 A3011 RMK AO2 SLP195 T01170111= KPAE 131053Z AUTO 36005KT 7SM SCT003 OVC042 11/10 A3010 RMK AO2 SLP222 T01110100 TSNO= KPAH 131053Z AUTO 28004KT 8SM SCT036 15/14 A2994 RMK AO2 SLP136 T01500139= KPBF 131053Z AUTO 36007KT 10SM FEW055 17/14 A3000 RMK AO2 SLP156 T01720139= KPBI 131053Z 12006KT 10SM SCT041 26/19 A2995 RMK AO2 SLP141 T02610194= KPDK 131053Z 00000KT 3SM -RA BR OVC004 19/18 A2994 RMK AO2 SLP129 P0007 T01890178= KPDT 131053Z AUTO 18005KT 10SM CLR 19/06 A2999 RMK AO2 SLP138 T01890061= KPEO 131053Z AUTO 18007KT 7SM -RA SCT070 OVC100 13/11 A2996 RMK AO2 SLP145 T01330111 PNO= KPFN 131053Z 11004KT 10SM -RA FEW010 BKN095 23/22 A2986 RMK AO2 RAB48 SLP112 T02280217 PNO $= KPGD 131053Z AUTO 00000KT 9SM FEW060 23/22 A2997 RMK AO2 SLP147 T02330217= KPHD 131053Z AUTO 18006KT 6SM BR BKN008 OVC013 17/16 A2990 RMK AO2 RAB00E36 CIG 004V011 SLP121 P0001 T01720161= KPIE 131053Z AUTO 13007KT 10SM CLR 25/21 A2994 RMK AO2 RAB00E16 SLP140 P0000 T02500211 TSNO= KPIH 131053Z AUTO 10005KT 10SM CLR 07/01 A3007 RMK AO2 SLP144 T00720006= KPIL 131053Z AUTO 31004KT 10SM BKN080 OVC100 26/24 A2992 RMK AO2 SLP131 T02560239= KPIR 131053Z AUTO 13004KT 10SM CLR 12/10 A2996 RMK AO2 SLP139 T01170100= KPKB 131053Z 18007KT 3SM -RA BR BKN008 BKN040 OVC047 17/16 A2994 RMK AO2 RAB13 SLP135 P0005 T01670156= KPKD 131053Z AUTO 13006KT 10SM CLR 10/07 A2998 RMK AO2 SLP153 T01000072=  502 SAUS70 KWBC 131100 RRG METAR KTCC 131053Z AUTO 23006KT 10SM CLR 16/14 A3017 RMK AO2 SLP167 T01560139= KTCL 131053Z AUTO 00000KT 5SM BR OVC003 22/21 A2989 RMK AO2 SLP120 T02170211= KTDZ 131053Z AUTO 20007KT 7SM BKN008 OVC014 18/17 A2981 RMK AO2 SLP092 T01780172= KTHV 131053Z AUTO 00000KT 10SM OVC041 14/12 A3008 RMK AO2 RAE37 SLP187 P0001 T01440122= KTIF 131051Z AUTO 00000KT 10SM CLR 11/09 A3004 RMK AO2= KTIW 131053Z AUTO 20006KT 10SM OVC006 12/11 A3012 RMK AO2 SLP197 T01220106= KTKI 131053Z 34003KT 10SM CLR 15/13 A3005 RMK AO2 SLP175 T01500128= KTOI 131053Z AUTO 00000KT 8SM -RA SCT007 BKN015 BKN021 23/22 A2989 RMK AO2 RAB0954 SLP116 P0020 T02280217= KTOP 131053Z AUTO 00000KT 8SM CLR 11/09 A3007 RMK AO2 SLP179 T01060094= KTOR 131053Z AUTO 00000KT 10SM CLR 09/06 A3006 RMK AO2 SLP143 T00940056= KTRL 131053Z AUTO 01006KT 10SM CLR 17/13 A3004 RMK AO2 SLP167 T01670128= KTTD 131053Z AUTO 00000KT 10SM CLR 12/09 A3015 RMK AO2 SLP210 T01220094 TSNO= KTTN 131053Z 00000KT 10SM CLR 12/09 A3011 RMK AO2 SLP191 T01170094= KTVL 131053Z AUTO 21003KT 10SM CLR 06/01 A3024 RMK AO2 SLP184 T00610011= KTVR 131053Z AUTO 02010KT 6SM BR BKN010 22/20 A2991 RMK AO2 SLP135 T02170200= KTWF 131053Z AUTO VRB03KT 10SM CLR 17/M05 A3005 RMK AO2 SLP116 T01671050= KTXK 131053Z 35005KT 10SM BKN022 17/14 A3001 RMK AO2 SLP157 T01670144= KTYR 131053Z AUTO 34004KT 6SM HZ CLR 16/13 A3002 RMK AO2 SLP160 T01610133 $= KUAO 131053Z AUTO 33004KT 10SM CLR 12/08 A3017 RMK AO2 SLP213 T01170083= KUNO 131053Z AUTO 28005KT 9SM CLR 11/10 A3001 RMK AO2 SLP158 T01110100= KUTS 131053Z AUTO 36003KT 10SM CLR 20/18 A2999 RMK AO2 SLP150 T02000183= KVCB 131053Z AUTO 00000KT 10SM CLR 17/09 A2982 RMK AO2 SLP096 T01720094= KVEL 131053Z AUTO 28005KT 10SM CLR 09/03 A3016 RMK AO2 SLP159 T00940033= KVGT 131053Z AUTO 35007KT 10SM CLR 24/08 A2991 RMK AO2 SLP091 T02390078= KVIH 131053Z AUTO 28006KT 10SM CLR 12/11 A2999 RMK AO2 SLP151 T01170106= KVLD 131053Z 16005KT 10SM -RA BKN065 BKN080 OVC090 22/21 A2993 RMK AO2 RAB34 SLP142 P0000 T02220206= KVPC 131053Z AUTO VRB03KT 3SM RA BR FEW003 BKN024 OVC034 19/18 A2994 RMK AO2 SLP128 P0031 T01890183= KVPZ 131053Z AUTO 10SM VCTS -RA OVC004 15/14 A2983 RMK AO2 LTG DSNT W-NE TSE02B33E47B48RAB38 CIG 002V007 SLP097 P0000 T01500144 $= KVRB 131053Z 00000KT 10SM BKN034 OVC048 23/21 A2995 RMK AO2 SLP140 T02330206= KVUO 131053Z AUTO 00000KT 10SM CLR 13/09 A3016 RMK AO2 SLP212 T01280089= KWRL 131053Z AUTO 00000KT 10SM CLR 06/01 A2999 RMK AO2 SLP128 T00610006= KLLJ 131055Z AUTO 00000KT 4SM HZ FEW090 09/00 A3010 RMK AO2 SLP136 T00940000 TSNO= KSLC 131056Z 13007KT 10SM CLR 17/05 A3006 RMK AO2 SLP126 T01720050= KTQE 131054Z AUTO 00000KT 7SM CLR 06/06 A3005 RMK AO2 SLP171 T00610056= KTRK 131050Z AUTO 00000KT 10SM CLR 07/02 A3024 RMK AO1= KTVF 131055Z AUTO 17006KT 10SM CLR 11/09 A2994 RMK AO1= KUDG 131055Z AUTO 07004KT 10SM CLR 17/16 A3005 RMK AO1= KUIN 131054Z AUTO 31007KT 10SM OVC013 14/13 A2996 RMK AO2 SLP142 T01440128= KUZA 131054Z AUTO 00000KT 9SM OVC055 18/15 A3004 RMK AO2 SLP165 T01780150 TSNO= KVAY 131054Z AUTO 00000KT 10SM CLR 11/09 A3012 RMK AO2 SLP198 T01060094= KVBT 131055Z AUTO 00000KT 1/2SM VV005 09/08 A3005 RMK AO1= KVIS 131055Z AUTO 12005KT 10SM CLR 19/15 A2985 RMK AO1= KVSF 131054Z AUTO 00000KT 10SM -RA SCT110 07/06 A3014 RMK AO2 RAB46 SLP209 P0000 T00670056= KWLD 131054Z AUTO 00000KT 10SM CLR 09/08 A3010 RMK AO2 SLP189 T00940083=  503 SAUS70 KWBC 131100 RRI METAR KPTN 131055Z AUTO 00000KT 9SM CLR 24/22 A2991 RMK AO1 LTG DSNT SW= KPTV 131055Z AUTO 11004KT 10SM CLR 21/12 A2986 RMK AO1= KPTW 131054Z AUTO 00000KT 10SM BKN044 BKN060 13/10 A3012 RMK AO2 SLP198 T01280100= KPVU 131055Z 15005KT 10SM CLR 14/04 A3010 RMK AO1= KPWT 131055Z AUTO 21006KT 3/4SM OVC001 12/M18 A3011 RMK AO1= KRBL 131054Z AUTO 31004KT 10SM CLR 19/13 A2986 RMK AO2 SLP108 T01940133= KRDG 131054Z AUTO 14003KT 10SM SCT043 OVC050 14/10 A3009 RMK AO2 RAB30E41 SLP193 P0000 T01390100= KRKD 131055Z AUTO 28003KT 10SM CLR 06/05 A3009 RMK AO1= KRKS 131054Z AUTO 00000KT 10SM CLR 11/M05 A3022 RMK AO2 SLP155 T01111050= KRST 131054Z 33006KT 1/2SM FG VV001 07/07 A3002 RMK AO2 SLP169 T00720067= KRUT 131055Z AUTO 14006KT 10SM OVC100 09/07 A3012 RMK AO1= KRZZ 131054Z AUTO 00000KT 10SM OVC110 15/13 A3008 RMK AO2 RAE13 SLP186 P0000 T01500133= KSBY 131054Z 00000KT 10SM CLR 09/09 A3011 RMK AO2 SLP199 T00940089= KSET 131054Z AUTO 30005KT 10SM OVC019 16/13 A2994 RMK AO2 SLP136 T01560128= KSFM 131055Z 00000KT 10SM 05/03 A3013 RMK AO1= KSFZ 131055Z AUTO 00000KT 10SM CLR 08/06 A3012 RMK AO1= KSGT 131055Z AUTO 34006KT 10SM BKN043 17/14 A2998 RMK AO1= KSGU 131055Z AUTO 02005KT 10SM CLR 22/04 A2998 RMK AO1= KSJN 131054Z AUTO 00000KT 10SM CLR 16/10 A3020 RMK AO2 SLP136 T01610100= KSKX 131055Z AUTO 00000KT 10SM CLR 08/03 A3034 RMK AO1= KSLG 131055Z AUTO 01003KT 1/2SM VV005 10/06 A3007 RMK AO1= KSMN 131055Z AUTO 00000KT 10SM CLR 07/M01 A3003 RMK AO1= KSOP 131055Z 00000KT 10SM CLR 17/13 A3005 RMK AO1= KAAO 131054Z AUTO 24004KT 8SM CLR 12/11 A3008 RMK AO2 SLP182 T01170106= KAFJ 131055Z AUTO 16006KT 7SM OVC013 16/06 A2996 RMK AO1 P0001= KAIZ 131055Z AUTO 28004KT 10SM CLR 12/12 A3003 RMK AO1= KAKH 131054Z AUTO 00000KT 8SM OVC055 18/16 A3003 RMK AO2 RAE23 SLP165 P0000 T01830161 TSNO= KAKR 131054Z AUTO 20008KT 6SM BR OVC007 17/16 A2987 RMK AO2 CIG 006V011 SLP109 T01720156= KALO 131054Z 30005KT 7SM OVC035 11/09 A2999 RMK AO2 SLP157 T01060094= KAPC 131054Z AUTO 00000KT 10SM CLR 12/09 A2988 RMK AO2 SLP110 T01170094= KARG 131055Z AUTO 31003KT 10SM CLR 13/11 A3000 RMK AO1= KAUN 131055Z AUTO 09010KT 3SM CLR 23/11 A2991 RMK A01 P000= KAUO 131055Z AUTO 17005KT 1 3/4SM OVC002 22/20 A2988 RMK AO1 P0009= KAUW 131054Z AUTO 32005KT 10SM BKN060 11/09 A2995 RMK AO2 SLP149 T01110094= KAVL 131054Z 15006KT 6SM -RA BR FEW007 BKN014 OVC029 16/14 A3005 RMK AO2 RAE22B48 SLP157 P0001 T01560144= KAWO 131055Z AUTO 00000KT 5SM CLR 09/08 A3010 RMK AO1= KBFL 131054Z 10003KT 10SM CLR 24/10 A2986 RMK AO2 SLP104 T02440100= KBHB 131055Z AUTO 00000KT 10SM CLR 06/02 A3011 RMK AO1= KBID 131055Z 26005KT 10SM CLR 12/10 A3014 RMK AO1= KBIE 131050Z AUTO 00000KT 10SM CLR 09/08 A3005 RMK AO2= KBJI 131055Z AUTO 15004KT 10SM CLR 12/08 A2998 RMK AO1= KBKX 131055Z AUTO 13003KT 10SM CLR 08/08 A3006 RMK AO1= KBLM 131055Z AUTO 00000KT 10SM FEW030 12/06 A3014 RMK AO1= KBOS 131054Z 24004KT 10SM FEW250 12/07 A3013 RMK AO2 SLP202 T01220072= KBTP 131055Z AUTO 18006KT 2 1/2SM OVC005 16/14 A2995 RMK AO1= KBUY 131054Z AUTO 00000KT 10SM OVC080 16/14 A3006 RMK AO2 SLP176 T01610139= KBVN 131050Z AUTO 00000KT 10SM CLR 09/08 A3005 RMK AO2= KBVS 131050Z AUTO 00000KT 5SM FEW033 09/ A3010 RMK A01 P000= KBVX 131055Z AUTO 00000KT 10SM CLR 13/09 A3001 RMK AO1= KBWI 131054Z 00000KT 10SM FEW032 OVC050 16/13 A3009 RMK AO2 RAE14 SLP187 P0000 T01560133 $= KCEU 131054Z AUTO 01004KT 1 3/4SM RA BR BKN003 BKN029 OVC035 17/16 A3002 RMK AO2 SLP160 P0024 T01670156=  504 SAUS70 KWBC 131100 RRB METAR KRSL 131053Z AUTO 22007KT 10SM CLR 12/11 A3007 RMK AO2 SLP175 T01220106 $= KRSW 131053Z 08004KT 10SM OVC047 24/22 A2995 RMK AO2 SLP138 T02390217= KRUE 131053Z AUTO 00000KT 6SM BR CLR 12/11 A3004 RMK AO2 SLP167 T01170111= KRVS 131053Z AUTO 00000KT 7SM CLR 11/10 A3008 RMK AO2 SLP192 T01110100= KRWF 131053Z AUTO 18003KT 9SM CLR 07/06 A3001 RMK AO2 SLP165 T00670056= KRWI 131053Z AUTO 00000KT 10SM OVC110 14/14 A3006 RMK AO2 SLP180 T01440139= KRWL 131053Z AUTO 00000KT 10SM CLR 04/M04 A3022 RMK AO2 SLP162 T00391044= KFTY 131053Z 00000KT 6SM -RA BR FEW006 BKN012 OVC039 20/18 A2993 RMK AO2 SLP127 P0014 T02000183= KFUL 131053Z 13003KT 8SM CLR 18/16 A2987 RMK AO2 SLP114 T01830156= KFVE 131053Z AUTO 33005KT 10SM CLR 05/03 A3006 RMK AO2 SLP180 T00500028= KFWN 131053Z AUTO 00000KT 10SM SCT100 09/08 A3013 RMK AO2 SLP201 T00940083 $= KFXE 131053Z 08006KT 10SM FEW030 25/19 A2993 RMK AO2 SLP138 T02500189= KFYV 131053Z 00000KT 2SM BR FEW001 09/09 A3006 RMK AO2 SLP175 T00940089= KGAG 131053Z AUTO 22003KT 10SM CLR 12/11 A3012 RMK AO2 SLP183 T01170106= KGEZ 131053Z AUTO 27009KT 4SM BR OVC005 15/14 A2984 RMK AO2 RAB17E42 CIG 003V009 SLP102 P0000 T01500144= KGFK 131053Z 15005KT 10SM CLR 11/09 A2990 RMK AO2 SLP126 T01060089= KGFL 131053Z AUTO 00000KT 10SM BKN085 OVC110 09/09 A3011 RMK AO2 RAB10E28 SLP198 P0000 T00940089= KGGG 131053Z AUTO 35005KT 10SM CLR 16/13 A3000 RMK AO2 SLP154 T01610133= KGGW 131053Z AUTO 12007KT 10SM CLR 12/03 A2982 RMK AO2 SLP090 T01170033= KGIF 131053Z AUTO 12003KT 10SM CLR 23/21 A2997 RMK AO2 SLP148 T02330211= KGJT 131053Z AUTO 10009KT 10SM CLR 14/01 A3014 RMK AO2 SLP143 T01440011= KGKJ 131053Z AUTO 20008G15KT 9SM OVC005 16/15 A2990 RMK AO2 RAE0956 CIG 003V009 SLP121 P0000 T01610150= KGKY 131053Z AUTO 35005KT 10SM CLR 17/13 A3005 RMK AO2 SLP169 T01670133= KGLD 131053Z AUTO 25006KT 10SM CLR 11/07 A3011 RMK AO2 SLP166 T01060072= KGLH 131053Z AUTO 02009KT 10SM CLR 19/17 A2994 RMK AO2 SLP142 T01890167= KGLR 131053Z AUTO 02005KT 1/2SM FG VV001 14/13 A2987 RMK AO2 SLP116 P0001 T01390133= KGMU 131053Z 01007KT 4SM -RA BR BKN017 OVC040 17/16 A3003 RMK AO2 SLP162 P0011 T01720156= KGNV 131053Z 13004KT 10SM CLR 23/20 A2995 RMK AO2 SLP140 T02280200= KGOK 131053Z AUTO 00000KT 5SM BR CLR 11/09 A3009 RMK AO2 SLP187 T01060094= KGPT 131053Z 33005KT 6SM BR FEW004 22/22 A2988 RMK AO2 SLP116 T02220217= KGRB 131053Z 36008KT 9SM OVC006 13/12 A2992 RMK AO2 SLP134 T01330117= KGRI 131053Z AUTO 00000KT 9SM CLR 12/10 A3005 RMK AO2 SLP169 T01170100= KGSH 131053Z AUTO 22005KT 1SM BR OVC001 17/17 A2981 RMK AO2 SLP089 T01720172= KGSP 131053Z 03005KT 2 1/2SM +RA BR SCT017 OVC043 17/16 A3001 RMK AO2 SLP154 P0009 T01720161= KGTF 131053Z 24007KT 10SM CLR 11/00 A2988 RMK AO2 SLP094 T01110000= KGTR 131050Z 34005KT 1SM BR OVC001 22/21 A2991= KGUP 131053Z AUTO 13003KT 10SM OVC120 11/06 A3027 RMK AO2 SLP105 T01060056= KMIW 131053Z AUTO 29003KT 3SM BR CLR 07/07 A3001 RMK AO2 SLP163 T00720067= KMKL 131053Z AUTO 33007KT 10SM CLR 16/14 A2996 RMK AO2 SLP142 T01610144= KMKO 131053Z AUTO 00000KT 6SM BR CLR 12/11 A3009 RMK AO2 SLP186 T01220111= KMLB 131053Z 11008KT 10SM FEW028 26/20 A2995 RMK AO2 SLP142 T02610200= KMLC 131053Z AUTO 00000KT 4SM BR CLR 11/09 A3007 RMK AO2 SLP176 T01060094= KMLP 131053Z AUTO 21008KT 10SM CLR 11/01 A3006 RMK AO2 SLP083 T01110011 TSNO=  505 SAUS70 KWBC 131100 METAR KIND 131054Z 28007KT 5SM -DZ BR SCT008 BKN013 OVC023 14/14 A2986 RMK AO2 DZE09B47 SLP107 P0000 T01440139= KDTW 131054Z 07003KT 3SM BR OVC008 18/17 A2980 RMK AO2 SFC VIS 6 RAE02 CIG 005V011 SLP089 P0000 T01830172 $= KGUY 131053Z AUTO 00000KT 5SM BR CLR 13/12 A3012 RMK AO2 SLP167 T01330117= KGVL 131053Z AUTO 07009KT 2 1/2SM +RA BR BKN070 17/15 A2999 RMK AO2 SLP145 P0018 T01670150= KGWO 131053Z AUTO 36012G17KT 8SM BKN014 OVC020 21/18 A2992 RMK AO2 RAE06 SLP131 P0000 T02110178= KGZH 131053Z AUTO 00000KT 10SM OVC011 23/22 A2989 RMK AO2 CIG 008V012 SLP118 T02280217= KHAO 131053Z AUTO 22005KT 4SM BR OVC007 18/18 A2984 RMK AO2 SLP103 T01830178= KHBG 131053Z AUTO 00000KT 6SM BR BKN004 23/21 A2990 RMK AO2 SLP120 P0001 T02330211= KHBR 131053Z AUTO RMK AO2 SLPNO PWINO FZRANO TSNO $= KHEI 131053Z AUTO 00000KT 10SM CLR 07/02 A2995 RMK AO2 SLP131 T00720022= KHFD 131053Z 00000KT 10SM CLR 11/08 A3014 RMK AO2 SLP205 T01060083= KHGR 131053Z 17009KT 10SM OVC034 14/12 A3005 RMK AO2 RAB37E43 SLP185 P0000 T01440122= KHHR 131053Z AUTO 28004KT 4SM BR OVC003 18/16 A2988 RMK AO2 SLP117 T01830161= KHIB 131053Z AUTO 00000KT 1/2SM FG VV001 00/M01 A3000 RMK AO2 SLPNO T00001011 FZRANO $= KHIO 131053Z AUTO 30009KT 10SM CLR 13/08 A3015 RMK AO2 SLP208 T01280078= KHJH 131051Z AUTO 00000KT 7SM CLR 09/09 A3005 RMK AO2= KHJO 131053Z AUTO 00000KT 10SM CLR 18/14 A2985 RMK AO2 SLP109 T01830139= KHKA 131053Z AUTO 32005KT 6SM BR CLR 13/12 A2998 RMK AO2 SLP150 T01280122= KHKS 131053Z AUTO 33005KT 3SM BR OVC003 23/22 A2991 RMK AO2 RAE05 SLP119 P0000 T02280222= KHKY 131053Z 00000KT 4SM -RA BR BKN007 BKN014 OVC030 16/15 A3005 RMK AO2 SLP158 P0018 T01610150= KHLG 131053Z 18008KT 4SM -RA BR OVC008 16/15 A2993 RMK AO2 CIG 005V011 SLP132 P0001 T01610150= KHLN 131053Z AUTO 00000KT 9SM CLR 12/02 A2995 RMK AO2 SLP125 T01220017= KHOT 131053Z AUTO 00000KT 10SM 16/13 A3003 RMK AO2 SLP162 T01610133 $= KHOU 131053Z 25004KT 10SM FEW075 BKN120 BKN250 24/22 A2993 RMK AO2 SLP139 T02390217= KHQM 131053Z AUTO 27011G16KT 10SM CLR 13/09 A3015 RMK AO2 SLP212 T01280094 $= KHQZ 131048Z AUTO 02005KT 10SM CLR 17/11 A3004 RMK AO2= KHRI 131053Z AUTO 25010KT 10SM CLR 18/10 A2996 RMK AO2 SLP139 T01830100 TSNO= KHRO 131053Z AUTO 29003KT 4SM BR CLR 11/11 A3005 RMK AO2 SLP169 T01110106= KHUF 131053Z 26005KT 10SM BKN016 OVC041 15/13 A2988 RMK AO2 SLP116 T01500128= KHVN 131053Z 00000KT 10SM CLR 10/08 A3014 RMK AO2 SLP204 T01000083= KHWO 131053Z 04004KT 10SM CLR 24/21 A2995 RMK AO2 SLP142 T02440211= KHZY 131053Z AUTO 19008KT 10SM OVC011 18/16 A2987 RMK AO2 RAE15 CIG 009V013 SLP112 P0000 T01780161= KIAG 131053Z AUTO 19011KT 8SM -RA OVC022 16/14 A2985 RMK AO2 RAB13 SLP108 P0000 T01610144= KIAH 131053Z 31004KT 10SM FEW130 SCT250 24/21 A2994 RMK AO2 SLP137 T02390211= KIDA 131053Z AUTO 21008KT 10SM CLR 10/01 A3007 RMK AO2 SLP144 T01000011= KILM 131053Z 04006KT 10SM FEW120 17/15 A3003 RMK AO2 SLP169 T01720150= KIML 131053Z AUTO 00000KT 10SM CLR 09/08 A3007 RMK AO2 SLP164 T00890078= KINK 131053Z AUTO 01003KT 10SM BKN080 19/16 A3012 RMK AO2 SLP157 T01940156= KIPL 131053Z AUTO 06006KT 10SM CLR 28/17 A2979 RMK AO2 SLP087 T02830167= KITR 131053Z AUTO 25007KT 1SM BR CLR 09/07 A3013 RMK AO2 SLP164 T00890072 $= KIWI 131053Z AUTO 00000KT 10SM CLR 05/04 A3011 RMK AO2 SLP198 T00500039= KIXD 131053Z 31005KT 5SM BR CLR 11/11 A3007 RMK AO2 SLP177 T01110106=  506 SAUS70 KWBC 131100 RRE METAR TISX 131053Z 01004KT 10SM FEW023 26/23 A2993 RMK AO2 SLP133 T02560233= TIST 131053Z 07004KT 10SM CLR 28/23 A2992 RMK AO2 SLP131 T02780233= KRXE 131053Z AUTO 02006KT 10SM CLR 07/01 A3008 RMK AO2 SLP149 T00670011= KSAC 131053Z AUTO 17003KT 10SM CLR 18/11 A2983 RMK AO2 SLP100 T01780111= KSAF 131053Z AUTO 34003KT 10SM CLR 12/10 A3027 RMK AO2 SLP163 T01170100= KSBA 131053Z AUTO 05003KT 4SM BR OVC003 15/14 A2986 RMK AO2 SLP110 P0001 T01500144 TSNO= KSBM 131053Z AUTO 35009KT 2 1/2SM -RA BR OVC004 14/13 A2988 RMK AO2 RAB0959 CIG 003V009 SLP120 P0001 T01390133= KSDL 131053Z 00000KT 10SM FEW085 OVC100 27/14 A2993 RMK AO2 RAB37E46 SLP106 P0000 T02720144= KSEG 131053Z AUTO 18005KT 6SM -RA BR OVC049 13/12 A3006 RMK AO2 SLP178 P0003 T01330117= KSFB 131053Z 00000KT 10SM CLR 22/19 A2996 RMK AO2 SLP145 T02170194= KSFD 131053Z AUTO 17006KT 10SM CLR 13/11 A3000 RMK AO2 SLP147 T01330106 TSNO= KSFF 131053Z 22006KT 10SM CLR 17/03 A2991 RMK AO2 SLP113 T01670033= KSGH 131055Z VRB03KT 3/4SM BR OVC005 18/18 A2985 RMK SLP105 ESTMD SLP= KSGR 131053Z 31004KT 10SM CLR 23/22 A2993 RMK AO2 SLP144 T02280217= KSHN 131053Z AUTO 24009KT 10SM OVC006 11/09 A3010 RMK AO2 SLP193 T01110094 TSNO= KSHR 131053Z AUTO 00000KT 10SM CLR 08/01 A2994 RMK AO2 SLP110 T00830006= KSJC 131053Z 31004KT 10SM CLR 16/13 A2989 RMK AO2 SLP122 T01610133= KSLN 131053Z AUTO 00000KT 10SM CLR 12/10 A3008 RMK AO2 SLP180 T01170100= KSMF 131053Z 00000KT 10SM CLR 18/11 A2982 RMK AO2 SLP098 T01830111= KSMQ 131053Z AUTO 00000KT 10SM CLR 10/08 A3011 RMK AO2 SLP195 T01000083= KSNA 131053Z 00000KT 7SM SCT010 18/16 A2987 RMK AO2 SLP115 T01830156= KSNS 131053Z AUTO 00000KT 1SM BR OVC002 12/12 A2990 RMK AO2 SLP135 T01220117= KSNY 131053Z AUTO 27007KT 4SM BR CLR 07/06 A3010 RMK AO2 SLP162 T00720056= KSPB 131053Z AUTO 00000KT 10SM CLR 11/08 A3015 RMK AO2 SLP209 T01060083= KSPG 131053Z 13010KT 10SM CLR 26/21 A2993 RMK AO2 SLP135 T02610211= KSPW 131053Z AUTO 00000KT 9SM FEW001 05/04 A3004 RMK AO2 SLP174 T00500044= KSRQ 131053Z 10006KT 10SM CLR 24/21 A2993 RMK AO2 SLP134 T02390211= KSSF 131053Z AUTO 00000KT 10SM BKN019 22/21 A2998 RMK AO2 SLP142 T02220211= KSSI 131053Z AUTO 15007KT 10SM SCT065 26/19 A2995 RMK AO2 SLP142 T02610194= KSTJ 131053Z AUTO 00000KT 1/2SM FG VV001 08/08 A3006 RMK AO2 SLP175 T00830078= KSTP 131053Z 31003KT 1/4SM FG BKN005 08/07 A3003 RMK AO2 SLP167 T00780072= KSTS 131053Z 00000KT 10SM CLR 11/09 A2989 RMK AO2 SLP113 T01060094 $= KSWO 131053Z AUTO 00000KT 9SM CLR 08/07 A3009 RMK AO2 SLP183 T00830072= PHJR 131053Z 00000KT 10SM CLR 22/18 A3005 RMK AO2 SLP180 T02170183 $= PASI 131053Z 00000KT 10SM FEW007 08/07 A3032 RMK AO2 SLP267 T00830072= PASO 131053Z AUTO 00000KT 10SM CLR 05/04 A3043 RMK AO2 SLP303 T00500044 TSNO= PATO 131053Z AUTO 00000KT 10SM CLR 01/00 A3044 RMK AO2 SLP309 T00110000 TSNO= PAWD 131053Z AUTO 01013KT 10SM CLR 10/07 A3040 RMK AO2 SLP294 T01000067 TSNO= PAWI 131053Z AUTO 17013KT 10SM BKN019 OVC025 08/07 A2997 RMK AO2 SLP148 T00780072 TSNO= PHJR 131053Z 00000KT 10SM CLR 22/18 A3005 RMK AO2 SLP180 T02170183 $= K4O4 131050Z AUTO 35003KT 7SM CLR 13/12 A3003 RMK AO2= KADH 131051Z AUTO 29004KT 7SM CLR 13/11 A3007 RMK AO2= KADM 131050Z AUTO 00000KT 5SM BR CLR 13/11 A3006 RMK AO2= KAFK 131050Z AUTO 27006KT 10SM CLR 11/10 A3005 RMK AO2= KALM 131051Z AUTO 35004KT 10SM CLR 17/14 A3015 RMK AO1=  507 SAUS70 KWBC 131100 RRH METAR KWVL 131055Z AUTO 00000KT 9SM CLR 05/04 A3006 RMK AO1= KWWD 131055Z AUTO 00000KT 10SM CLR 12/07 A3011 RMK AO1= KYKN 131055Z AUTO 18005KT 10SM CLR 09/08 A3006 RMK AO1= KDSV 131054Z AUTO 08006KT 8SM -RA OVC075 15/12 A2993 RMK AO2 SLP144 P0002 T01500122= KDYL 131054Z AUTO 00000KT 10SM CLR 12/09 A3011 RMK AO2 SLP196 T01170094= KDYR 131055Z AUTO 32004KT 10SM CLR 15/12 A2998 RMK AO1= KEEN 131055Z AUTO 00000KT 10SM CLR 07/06 A3013 RMK AO1= KENV 131055Z AUTO 02005KT 10SM 15/07 A3004 RMK AO1= KEUG 131054Z 31010KT 10SM CLR 12/09 A3013 RMK AO2 SLP201 T01170089= KEUL 131055Z AUTO 08004KT 10SM CLR 12/06 A2999 RMK AO1= KEVV 131054Z 26003KT 10SM OVC038 16/13 A2992 RMK AO2 SLP129 T01610133= KEWK 131055Z AUTO 24006KT 10SM CLR 12/10 A3011 RMK AO1= KEWN 131054Z 00000KT 10SM CLR 17/15 A3006 RMK AO2 SLP180 T01720150= KFAM 131055Z AUTO 00000KT 10SM BKN016 14/11 A2997 RMK AO1= KFET 131050Z AUTO 00000KT 7SM CLR 10/08 A3005 RMK AO2= KFIG 131054Z AUTO 00000KT 3/4SM RA BR OVC007 13/12 A3000 RMK AO2 CIG 005V010 SLP159 P0004 T01330122= KFKL 131055Z AUTO 17009G16KT 5SM FEW003 SCT035 BKN046 15/14 A2994 RMK AO1 P0002= KFLP 131055Z AUTO 00000KT 10SM CLR 13/11 A3003 RMK AO1= KFOD 131055Z AUTO 00000KT 4SM CLR 07/06 A3001 RMK AO1= KFRM 131055Z 26004KT 10SM CLR 08/07 A3004 RMK AO1= KFZY 131054Z AUTO 12008KT 5SM RA BR FEW008 BKN022 OVC028 12/11 A2996 RMK AO2 SLP147 P0019 T01170106= KGAD 131055Z AUTO 05003KT 5SM OVC004 20/19 A2991 RMK AO1= KGBD 131055Z 23004KT 10SM CLR 11/09 A3009 RMK AO1= KGCK 131054Z AUTO 17006KT 7SM FEW095 13/11 A3010 RMK AO2 SLP170 T01330111= KGCN 131054Z AUTO 09004KT 10SM OVC100 11/07 A3027 RMK AO2 SLP159 T01110067 TSNO= KGED 131054Z AUTO 00000KT 10SM CLR 11/10 A3011 RMK AO2 SLP194 T01110100= KGYH 131047Z 02007KT 3SM RABR BKN018 OVC041 17/16 A3002= KHDE 131050Z AUTO 19003KT 10SM CLR 11/10 A3005 RMK AO2= KHEF 131055Z AUTO 15003KT 10SM BKN039 15/12 A3009 RMK AO1= KHEZ 131055Z AUTO 00000KT 5SM CLR 22/20 A2990 RMK AO1= KHWD 131054Z AUTO 30004KT 10SM CLR 15/12 A2989 RMK AO2 SLP131 T01500122= KHYS 131055Z AUTO 23004KT 10SM CLR 12/10 A3007 RMK AO1= KIBM 131050Z AUTO 26005KT 10SM CLR 08/06 A3011 RMK AO2= KILN 131054Z AUTO 21006KT 2 1/2SM BR OVC004 18/17 A2985 RMK AO2 SLP104 T01780167= KIMT 131054Z AUTO 33006KT 10SM BKN022 OVC045 12/11 A2995 RMK AO2 SLP145 T01170106= KINT 131054Z 14003KT 6SM -RA BR FEW035 OVC060 16/14 A3007 RMK AO2 RAE10B50 SLP181 P0000 T01610139= KIPT 131054Z 10008KT 060V140 7SM -RA BKN013 OVC041 13/11 A3004 RMK AO2 SLP172 P0002 T01330111= PHMK 131054Z AUTO 03003KT 10SM CLR 22/17 A3005 RMK AO2 SLP175 T02220167 TSNO= KOLS 131054Z AUTO 02004KT 10SM SCT100 16/14 A3006 RMK AO2 SLP131 T01560144= KOLU 131055Z AUTO 00000KT 4SM CLR 08/07 A3008 RMK AO1= KONP 131050Z AUTO 35005KT 10SM CLR 11/08 A3019 RMK AO2= KOTG 131055Z AUTO 24004KT 9SM CLR 07/06 A3003 RMK AO1= KOTH 131055Z 35008KT 6SM CLR 11/09 A3016 RMK AO1 BR SLP213= KOXC 131055Z 00000KT 10SM CLR 08/07 A3015 RMK AO1= KPHF 131054Z 00000KT 10SM CLR 14/13 A3008 RMK AO2 SLP184 T01390128= KPHL 131054Z 00000KT 10SM SCT160 OVC250 14/11 A3012 RMK AO2 SLP198 T01390106= KPIB 131055Z AUTO 00000KT 3/4SM OVC001 22/22 A2991 RMK AO1= KPLN 131054Z AUTO 03009KT 3SM BR OVC003 14/13 A2989 RMK AO2 RAB04E14 SLP121 P0001 T01390133= KPNE 131054Z AUTO 00000KT 10SM CLR 13/11 A3012 RMK AO2 SLP200 T01330106 TSNO= KPQI 131055Z AUTO 00000KT 10SM CLR 01/M01 A3003 RMK AO1= KPSF 131054Z AUTO 00000KT 10SM FEW120 08/07 A3011 RMK AO2 SLP188 T00830072=  508 SAUS70 KWBC 131100 RRC METAR KMLS 131053Z AUTO 17007KT 10SM CLR 14/04 A2987 RMK AO2 SLP097 T01440039= KMMK 131053Z AUTO 00000KT 10SM CLR 08/07 A3014 RMK AO2 SLP207 T00830072= KMMV 131053Z AUTO 34003KT 10SM CLR 10/08 A3016 RMK AO2 SLP211 T01000083= KMNN 131053Z AUTO 19007KT 2 1/2SM BR OVC005 18/17 A2984 RMK AO2 CIG 002V008 SLP102 T01780167 $= KMOD 131053Z AUTO 10003KT 6SM HZ CLR 18/14 A2983 RMK AO2 SLP100 T01830139= KMPO 131053Z AUTO 20007KT 170V240 10SM BKN025 BKN085 11/07 A3010 RMK AO2 SLP194 T01060067= KMRB 131053Z 16004KT 7SM -RA OVC032 14/13 A3005 RMK AO2 RAB03E16B32 SLP175 P0002 T01390128= KMSL 131053Z AUTO 00000KT 3SM BR OVC011 21/20 A2992 RMK AO2 CIG 007V013 SLP126 T02110200= KMSO 131053Z AUTO 00000KT 7SM CLR 11/01 A2999 RMK AO2 SLP136 T01060006 TSNO= KMSP 131053Z 00000KT 8SM R30L/1600VP6000FT BCFG FEW001 09/08 A3002 RMK AO2 SLP166 BCFG E-SW T00940078= KMSS 131053Z AUTO 10003KT 10SM BKN100 11/08 A3003 RMK AO2 SLP172 T01060083= KMTH 131053Z AUTO 08005KT 10SM SCT055 OVC075 27/23 A2993 RMK AO2 SLP134 T02670228= KMTJ 131053Z AUTO 16006KT 10SM CLR 11/04 A3023 RMK AO2 SLP164 T01110039= KMTO 131053Z AUTO 29009KT 10SM OVC012 14/12 A2988 RMK AO2 SLP116 T01440122= KMVY 131053Z 00000KT 10SM CLR 05/03 A3014 RMK AO2 SLP206 T00500033= KMWL 131053Z AUTO 00000KT 10SM CLR 15/13 A3007 RMK AO2 SLP171 T01500133= KMYF 131053Z AUTO 04003KT 6SM BR CLR 18/17 A2989 RMK AO2 SLP117 T01830167 TSNO= KMYV 131053Z AUTO 32003KT 10SM CLR 18/13 A2983 RMK AO2 SLP105 T01830128= KOAK 131053Z 31006KT 9SM CLR 14/12 A2991 RMK AO2 SLP126 T01390122= KODO 131053Z AUTO 07005KT 10SM BKN065 18/16 A3015 RMK AO2 SLP167 T01780156 $= KOGA 131050Z AUTO 25003KT 10SM CLR 08/07 A3006 RMK AO2= KOGB 131053Z AUTO 07004KT 10SM FEW060 OVC100 20/17 A2999 RMK AO2 SLP153 T02000172= KOGD 131053Z AUTO 17008KT 10SM CLR 16/03 A3007 RMK AO2 SLP127 T01610028= KLOU 131053Z AUTO 29008KT 7SM BKN015 OVC021 17/16 A2988 RMK AO2 SLP114 T01720156= KLOZ 131053Z AUTO 16003KT 5SM BR FEW021 OVC039 18/17 A2992 RMK AO2 RAE38 SLP123 P0002 T01780167 $= KLPR 131053Z AUTO 20009KT 8SM BKN016 OVC021 19/17 A2984 RMK AO2 SLP101 T01890167= KLSE 131053Z 35003KT 10SM OVC026 12/11 A2998 RMK AO2 SLP151 T01170106= KLUK 131053Z 19005KT 4SM BR OVC008 19/18 A2985 RMK AO2 CIG 007V012 SLP105 T01890178= KLVJ 131053Z AUTO 28003KT 7SM FEW070 SCT080 24/22 A2994 RMK AO2 SLP139 T02390222= KLVK 131053Z AUTO 08003KT 10SM CLR 18/08 A2988 RMK AO2 SLP112 T01780083 TSNO= KLVM 131053Z AUTO 31006KT 10SM CLR 06/M03 A3001 RMK AO2 SLP126 T00561033= KLVS 131053Z AUTO 20005KT 1 1/4SM BR CLR 10/09 A3029 RMK AO2 SLP170 P0001 T01000089= KLWV 131053Z AUTO 26005KT 9SM FEW014 BKN026 OVC040 16/13 A2989 RMK AO2 SLP120 T01610133= KLXT 131053Z AUTO 28003KT 8SM CLR 11/11 A3005 RMK AO2 RAE01 SLP174 P0000 T01110106= KMAE 131053Z AUTO 00000KT 10SM CLR 20/12 A2985 RMK AO2 SLP104 T02000122= KMAF 131053Z AUTO 00000KT 10SM CLR 16/14 A3014 RMK AO2 SLP167 T01610144= KMAI 131053Z AUTO 11003KT 8SM BKN007 OVC021 23/22 A2988 RMK AO2 CIG 004V010 SLP116 T02280217= KMBS 131053Z 03004KT 1/2SM FG OVC001 16/16 A2981 RMK AO2 SLP094 T01610161= KMCB 131053Z AUTO 27003KT 1 1/4SM BR OVC001 22/21 A2990 RMK AO2 SLP119 T02170211= KMCE 131053Z AUTO 00000KT 9SM CLR 18/13 A2984 RMK AO2 SLP103 T01780128= KMCI 131053Z 29006KT 7SM CLR 12/10 A3005 RMK AO2 SLP165 T01170100 $= KMCK 131053Z AUTO 25006KT 10SM CLR 13/11 A3006 RMK AO2 SLP164 T01330106=  509 SAUS70 KWBC 131100 RRA METAR KJEF 131053Z AUTO 29004KT 10SM CLR 12/12 A3001 RMK AO2 SLP150 T01220117= KJER 131053Z AUTO 13003KT 10SM CLR 13/M01 A3004 RMK AO2 SLP137 T01331006 TSNO= KLAA 131053Z AUTO 00000KT 10SM CLR 10/09 A3013 RMK AO2 SLP170 T01000089 $= KLAR 131053Z AUTO 17008KT 10SM CLR 03/M01 A3025 RMK AO2 SLP160 T00331006 $= KLAW 131053Z AUTO 33003KT 10SM CLR 14/12 A3010 RMK AO2 SLP185 T01390117 TSNO= KLBF 131053Z AUTO 00000KT 10SM CLR 09/08 A3006 RMK AO2 SLP163 T00940083= KLCG 131051Z AUTO 19003KT 7SM CLR 06/06 A3005 RMK AO2= KLBX 131053Z AUTO 00000KT 7SM OVC120 A2993 RMK AO2 SLP136 FZRANO $= KLCH 131053Z AUTO 33005KT 10SM CLR 24/21 A2991 RMK AO2 SLP136 T02390206= KLEB 131053Z 00000KT 4SM BR OVC001 07/06 A3012 RMK AO2 SLP201 T00670061= KLFK 131053Z AUTO 35005KT 10SM CLR 21/16 A2996 RMK AO2 SLP142 T02060156 $= KLFT 131053Z 31008KT 7SM FEW040 26/23 A2990 RMK AO2 SLP124 T02560228= KLGB 131053Z AUTO 00000KT 8SM CLR 17/16 A2987 RMK AO2 SLP114 T01670156 TSNO= KLHQ 131053Z AUTO 17005KT 5SM -RA BR OVC008 18/16 A2988 RMK AO2 RAE0955B11E23B40 SLP113 P0000 T01830161= KLHX 131053Z AUTO 24005KT 10SM CLR 12/10 A3014 RMK AO2 SLP162 T01170100 $= KLLQ 131053Z AUTO VRB06KT 10SM BKN039 19/14 A2999 RMK AO2 SLP151 T01890144= KLMT 131053Z AUTO 33003KT 10SM CLR 09/07 A3013 RMK AO2 SLP162 T00940067= KLNS 131053Z 12003KT 10SM -RA SCT041 OVC055 14/12 A3009 RMK AO2 RAB22 SLP190 P0000 T01390117= KLOL 131053Z AUTO 03011KT 10SM CLR 13/M01 A3004 RMK AO2 SLP131 T01331011 TSNO $= KPLB 131053Z AUTO 00000KT 10SM CLR 09/07 A3006 RMK AO2 SLP181 T00890072= KPMD 131053Z 22008KT 10SM CLR 22/04 A2995 RMK AO2 SLP108 T02170039= KPMP 131053Z AUTO 10006KT 10SM FEW036 26/19 A2994 RMK AO2 SLP139 T02610194 PNO= KPNC 131053Z AUTO 00000KT 8SM CLR 09/09 A3009 RMK AO2 SLP185 P0001 T00940089 $= KPNS 131053Z 31004KT 4SM BR BKN002 23/23 A2987 RMK AO2 SLP114 T02330228= KPOU 131053Z AUTO 00000KT 10SM CLR 10/08 A3012 RMK AO2 SLP195 T01000083= KPRC 131053Z AUTO 20003KT 10SM -RA SCT050 BKN080 OVC095 16/13 A3017 RMK AO2 SLP152 P0002 T01560133= KPSC 131053Z AUTO 01005KT 10SM CLR 11/09 A2996 RMK AO2 SLP141 T01110089 TSNO= KPSP 131053Z AUTO 36005KT 10SM CLR 29/10 A2982 RMK AO2 SLP094 T02940100 TSNO= KPSX 131053Z AUTO 29004KT 10SM BKN110 24/23 A2994 RMK AO2 SLP137 T02390228= KPTK 131053Z 01007KT 4SM TSRA BR SCT002 OVC030CB 17/16 A2978 RMK AO2 SLP082 OCNL LTGCGIC OHD N SW W TS OHD N SW W MOV NE P0019 T01720161= KPUB 131053Z AUTO 00000KT 5SM BR CLR 09/08 A3016 RMK AO2 SLP171 T00940078= KPUC 131053Z AUTO 03005KT 10SM CLR 13/M02 A3018 RMK AO2 SLP144 T01331017= KPUW 131053Z AUTO 23007KT 10SM CLR 15/07 A2998 RMK AO2 SLP137 T01500067= KPWA 131053Z AUTO 00000KT 10SM CLR 12/11 A3011 RMK AO2 SLP187 T01220106= KRAC 131053Z AUTO 35011KT 3SM BR OVC006 15/14 A2987 RMK AO2 RAE10 SLP112 P0001 T01500144= KRAL 131053Z AUTO 00000KT 10SM CLR 17/12 A2989 RMK AO2 SLP104 T01720117 TSNO= KRBD 131053Z 01007KT 10SM CLR 18/12 A3005 RMK AO2 SLP168 T01780122= KRBG 131053Z AUTO 00000KT 10SM CLR 17/11 A3009 RMK AO2 SLP186 T01720111= KRHI 131053Z AUTO 03004KT 1 1/4SM BR OVC001 09/09 A2999 RMK AO2 SLP161 T00940089= KRIL 131053Z AUTO 00000KT 10SM CLR 08/02 A3021 RMK AO2 SLP174 T00780022= KRKP 131053Z AUTO 33007KT 10SM OVC100 25/23 A2993 RMK AO2 SLP138 T02500228 $= KRNT 131053Z AUTO 18006KT 10SM BKN034 OVC048 14/12 A3011 RMK AO2 SLP201 T01440117=  510 SAPQ50 KWBC 131100 METAR PGUM 131054Z COR 03003KT 10SM FEW025 FEW042 SCT070 28/23 A2984 RMK AO2 RAB20E30 SLP095 P0000 T02780233= PTTP 131054Z 21003KT 15SM BKN017TCU OVC120 26/24 A2987 RMK SHRAE22 TCU VC ALQDS SLP115 T02590238= PGUM 131054Z COR 03003KT 10SM FEW025 SCT042 SCT070 28/23 A2984 RMK AO2 RAB20E30 SLP095 P0000 T02780233= PGSN 131054Z 32004KT 10SM FEW027 SCT035 27/23 A2982 RMK AO2 SLP094 T02720233= PKMR 131055Z 08003KT 15SM FEW015 SCT300 28/23 A2988 RMK SLP122 T02770234=  511 SAUS70 KWBC 131100 RRJ METAR KCGZ 131055Z AUTO 03004KT 10SM FEW100 23/14 A2993 RMK AO1= KCOE 131055Z AUTO 16009KT 10SM CLR 14/06 A2993 RMK AO1= KCVN 131055Z AUTO 22004KT 5SM CLR 13/13 A3020 RMK AO1= KCVO 131055Z AUTO 31008KT 10SM CLR 13/09 A3014 RMK AO1= KCWI 131055Z AUTO 34006KT 10SM OVC006 14/12 A2994 RMK AO1= KDAG 131054Z AUTO 23003KT 10SM CLR 24/04 A2991 RMK AO2 SLP098 T02440044= KDDH 131054Z AUTO 12003KT 10SM -RA OVC095 11/08 A3011 RMK AO2 RAB51 SLP196 P0000 T01110078 $= KDEC 131054Z 29009KT 4SM BR OVC005 16/13 A2990 RMK AO2 RAE05 SLP122 P0000 T01560133= PAHN 131054Z AUTO 00000KT 10SM FEW025 07/07 A3033 RMK AO2 SLP273 T00720067 TSNO= PAKN 131054Z 00000KT 1/4SM FG BKN001 03/03 A3041 RMK AO2 SLP297 T00330028 $= KISW 131054Z AUTO 34004KT 10SM SCT039 OVC060 12/10 A2997 RMK AO2 SLP150 T01170100 TSNO= KIYK 131052Z 00000KT 20SM SKC 21/ A2989= KIZG 131054Z AUTO 00000KT 1/2SM FG VV001 04/03 A3012 RMK AO2 VIS M1/4V4 SLP203 T00390033= KJKL 131053Z AUTO VRB03KT 6SM BR SCT038 SCT048 OVC065 17/16 A2992 RMK AO2 SLP122 T01670156= KJST 131054Z AUTO 16009KT 8SM -RA OVC016 13/12 A3000 RMK AO2 SLP157 P0002 T01280117= KJYR 131050Z AUTO 00000KT 10SM CLR 08/08 A3006 RMK AO2= KKLS 131055Z AUTO 01003KT 10SM OVC019 12/09 A3014 RMK AO1= KLAF 131054Z 26009KT 8SM OVC008 15/13 A2985 RMK AO2 SLP104 T01500133= KLAM 131050Z AUTO 00000KT 10SM CLR 14/13 A3033 RMK AO2= KLBL 131055Z 23003KT 10SM CLR 13/11 A3013 RMK AO1= KLBT 131054Z AUTO 08004KT 10SM CLR 17/14 A3004 RMK AO2 SLP171 T01720144 TSNO= KLCI 131055Z AUTO 00000KT 10SM CLR 09/06 A3014 RMK AO1= KLEW 131055Z AUTO 01003KT 10SM CLR 05/04 A3013 RMK AO1= KLGD 131055Z AUTO 00000KT 10SM CLR 09/03 A3004 RMK AO1= KLKV 131055Z AUTO 33006KT 10SM CLR 12/01 A3017 RMK AO1= KLNK 131054Z 00000KT 10SM CLR 08/08 A3006 RMK AO2 SLP177 T00830078= KLPC 131055Z AUTO 00000KT 1SM OVC001 12/ A2991 RMK AO1= KLWM 131054Z AUTO 20003KT 10SM CLR 09/07 A3013 RMK AO2 SLP204 T00890072 TSNO= KLWT 131054Z AUTO 14005KT 10SM CLR 11/M01 A2992 RMK AO2 SLP098 T01111011= KLXN 131051Z AUTO 00000KT 5SM BR CLR 10/09 A3005 RMK AO2 TSNO= KMFI 131054Z AUTO 35005KT 10SM CLR 08/07 A2997 RMK AO2 SLP153 T00830072= KMGJ 131054Z AUTO 00000KT 10SM CLR 09/08 A3011 RMK AO2 SLP198 T00940083= KMIV 131054Z AUTO 00000KT 10SM CLR 11/10 A3010 RMK AO2 SLP193 T01110100= KMKC 131054Z 00000KT 7SM CLR 12/11 A3005 RMK AO2 SLP172 T01220106= KMKT 131055Z AUTO 26004KT 4SM CLR 09/09 A3002 RMK AO1= KMLE 131050Z AUTO 00000KT 2 1/2SM CLR 10/09 A3005 RMK AO2= KMML 131055Z AUTO 00000KT 10SM SCT048 11/07 A3002 RMK AO1= KMOT 131054Z AUTO 07003KT 10SM CLR 11/07 A2988 RMK AO2 SLP115 T01060067= KMRF 131055Z AUTO 01006KT 10SM CLR 13/12 A3022 RMK AO1= KMRY 131054Z AUTO 14004KT 1/4SM FG VV001 12/11 A2990 RMK AO2 SLP137 T01220111= KMSV 131055Z 00000KT 10SM FEW040 13/06 A3011 RMK AO1= KMVL 131054Z AUTO 00000KT 8SM OVC003 06/06 A3012 RMK AO2 SLP203 T00610056= KOAJ 131055Z 00000KT 10SM CLR 14/13 A3005 RMK AO1= KOCF 131055Z AUTO 00000KT 10SM CLR 23/20 A2996 RMK AO1= KOFP 131054Z AUTO 00000KT 10SM BKN120 14/13 A3010 RMK AO2 RAB0957E17 SLP193 P0000 T01440133= KOKK 131055Z AUTO 26008KT 9SM BKN005 OVC017 16/14 A2984 RMK AO1= KOKM 131052Z AUTO 36003KT 7SM CLR 12/10 A3006 RMK AO1= KOLM 131054Z AUTO 20005KT 10SM OVC011 12/10 A3013 RMK AO2 SLP201 T01170100= KLAS 131056Z 29006KT 10SM CLR 25/04 A2990 RMK AO2 SLP097 T02500044= KSDF 131056Z 29009KT 7SM OVC013 17/15 A2989 RMK AO2 SLP117 T01720150= KBAF 131053Z 00000KT 10SM FEW120 08/07 A3014 RMK AO2 SLP207 T00780067=  512 SAUS70 KWBC 131100 RRK METAR KBUR 131053Z 09004KT 7SM CLR 19/14 A2989 RMK AO2 SLP109 T01890144= K04V 131053Z AUTO RMK AO2 PWINO TSNO= K0CO 131053Z AUTO 10SM 03/M07 A3063 RMK AO2= KATW 131045Z 36014KT 7SM OVC003 12/11 A2992= KCMA 131055Z AUTO 00000KT 2 1/2SM BR OVC006 15/14 A2988 RMK AO2 SLP127 T01500144= KCWA 131045Z 34007KT 10SM OVC060 11/10 A2996= KHXD 131050Z 00000KT 6SM -RA SCT008 OVC040 23/22 A2997= KMQY 131056Z AUTO 32007KT 9SM -RA SCT006 BKN010 OVC018 19/18 A2992 RMK AO2 T01940183 RAB07 P0009 SLP124= KORS 131050Z AUTO 00000KT 10SM OVC040 12/12 A3007 RMK AO2= KOUN 131055Z AUTO 00000KT 10SM CLR 11/09 A3009 RMK AO2 TSNO= KPNA 131049Z AUTO 30006KT 7SM CLR 02/M02 A3025 RMK AO2= KPQL 131053Z 00000KT 5SM BR FEW002 22/21 A2988= KPTT 131050Z AUTO 21004KT 10SM CLR 11/08 A3010 RMK AO2= KPVJ 131050Z AUTO 00000KT 10SM CLR 12/11 A3009 RMK AO2= KRKR 131052Z AUTO 00000KT 3/4SM BR BKN001 11/11 A3005 RMK AO2= KSAW 131050Z 32004KT 7SM SCT005 OVC019 12/12 A2996= KSRE 131052Z AUTO 01004KT 10SM CLR 12/12 A3010 RMK AO2= KSRR 131050Z AUTO 00000KT 10SM SCT001 OVC008 11/10 A3031 RMK AO2 TSNO= KSUN 131050Z AUTO 31008KT 10SM CLR 12/01 A3013 RMK AO2= KSVC 131052Z AUTO 03008KT 10SM SCT075 OVC090 15/14 A3022 RMK AO1= KSZT 131047Z AUTO 00000KT 10SM CLR 08/02 A2989 RMK AO1= KTEX 131050Z AUTO 13005KT 10SM CLR 09/01 A3044 RMK AO2= KTQH 131053Z AUTO 00000KT 1 3/4SM BR VV007 10/10 A3007 RMK AO2= KUES 131045Z 35004KT 7SM OVC005 14/13 A2989= KWDG 131051Z AUTO 00000KT 7SM CLR 10/09 A3010 RMK AO2=  513 SAUS80 KWBC 131100 RRB METAR KDSM 131054Z 31004KT 9SM CLR 10/09 A3003 RMK AO2 SLP168 T01000089= KGPI 131055Z AUTO 00000KT 10SM CLR 04/02 A2992 RMK AO2 SLP122 T00440017= KMBG 131055Z AUTO 15007KT 10SM CLR 13/12 A2993 RMK AO2 SLP128 T01280117 TSNO= KHON 131055Z AUTO 16006KT 10SM CLR 11/09 A2999 RMK AO2 SLP152 T01110094 TSNO= KGRR 131056Z 00000KT 10SM OVC004 17/17 A2980 RMK AO2 TSE16 SLP090 T01720172= KDBQ 131055Z AUTO 36007KT 10SM OVC008 13/12 A2994 RMK AO2 CIG 006V010 SLP140 T01330117 TSNO= KAAT 131055Z AUTO 00000KT 10SM CLR 07/M01 A3014 RMK AO2 SLP164 T00721006 TSNO= KABQ 131056Z 02003KT 10SM FEW065 BKN200 18/11 A3023 RMK AO2 SLP155 T01780111= KCHS 131056Z 06007KT 10SM BKN100 22/19 A2998 RMK AO2 SLP150 T02170189= KSAN 131051Z 00000KT 8SM OVC008 19/17 A2989 RMK AO2 SLP121 T01940167 $= K3MW 131056Z AUTO 10SM CLR 12/M07 A3050 RMK AO2= K4BM 131052Z AUTO 26007KT 10SM CLR 08/01 A3055 RMK AO1= KBDL 131051Z 00000KT 10SM FEW130 BKN150 BKN200 09/08 A3013 RMK AO2 SLP204 T00890078= KBVE 131051Z AUTO 32004KT 10SM CLR 26/23 A2990 RMK AO2 SLP125 T02560233 TSNO= KMYL 131050Z AUTO 36005KT 10SM CLR 03/M01 A3009 RMK AO2 SLP155 T00331006 TSNO= KSOW 131050Z AUTO 16003KT 10SM CLR 13/10 A3024 RMK AO2= KAAF 131056Z AUTO 16005KT 10SM -RA FEW031 BKN040 BKN060 26/23 A2987 RMK AO2 RAB15 SLP114 P0000 T02610233 TSNO= KDMH 131054Z AUTO 17/13 A3009 RMK AO2 SLP189 T01720128 PWINO TSNO=  514 SAXX60 KWBC 131100 METAR KGTB 131055Z 15012KT 4SM -SHRA BR SCT020 OVC030 11/10 A2998 RMK SLP152= KNXX 131055Z 00000KT 7SM FEW100 OVC150 12/09 A3012 RMK SLP206 T01220094= KOZR 131055Z 11003KT 5SM BR SCT007 BKN016 OVC060 23/22 A2988 RMK SLP116= KGTB 131055Z 15012KT 4SM -SHRA BR SCT020 OVC030 11/10 A2998 RMK SLP152= KHIF 131055Z 11013KT 7SM SKC 16/03 A3009 RMK SLP091= KNMM 131055Z 33004KT 3/4SM BR OVC001 22/21 A2989 RMK SLP130 FIRST T02170206= KNUW 131055Z 20005KT 7SM FEW035 SCT040 BKN150 11/10 A3010 RMK SLP197 T01110100= KNXX 131055Z 00000KT 7SM FEW100 OVC150 12/09 A3012 RMK SLP206 T01220094= KOZR 131055Z 11003KT 5SM BR SCT007 BKN016 OVC060 23/22 A2988 RMK SLP116= KRND 131055Z 34003KT 7SM FEW055 SCT250 21/20 A3000 RMK SLP152= PABA SA 1055 AWOS CLR BLO 120 10 35/34/1311/020= TJNR 131048Z AUTO 23003KT 6SM BR FEW022 25/23 A2992 RMK AO2 SLP132 T02500233 TSNO= PABI 131053Z AUTO 23008KT 10SM FEW055 SCT070 09/04 A3043 RMK AO2 SLP312 T00890039 TSNO= KECG 131054Z 00000KT 10SM CLR 15/14 A3007 RMK AO2 SLP182 T01500139= KDNK 131053Z AUTO 36006KT 10SM SCT120 22/19 A2993 RMK AO2 SLP131 T02170189= KDTS 131053Z AUTO 05003KT 10SM A2986 RMK AO2 SLP112 FZRANO $= KGRF 131055Z 20007KT 7SM OVC008 12/10 A3012 RMK SLP202= KNYG 131055Z 22005KT 7SM FEW035 OVC048 16/12 A3010 RMK SLP192 P0000 T01560122= KSVN 131055Z 25004KT 6SM -RA BR SCT011 BKN030 OVC060 22/22 A2997 RMK SLP149 WR//= KTIK 131055Z 35002KT 7SM SKC 13/11 A3008 RMK SLP182=  515 SAUS80 KWBC 131100 CCA METAR KMLF 131052Z AUTO 18004KT 10SM CLR 12/M02 A3012 RMK AO2 SLP137 T01171017 TSNO= KNAK 131054Z AUTO 20003KT 10SM FEW025 SCT065 17/13 A3008 RMK AO2 RAB21E41 SLP188 P0000 T01720133 TSNO= KABE 131051Z 35003KT 10SM BKN043 12/09 A3011 RMK AO2 SLP196 T01220094= KBUF 131054Z 19010KT 10SM FEW015 OVC025 17/14 A2986 RMK AO2 RAE53 SLP111 P0002 T01670144= KNAK 131054Z AUTO 20003KT 10SM FEW025 SCT065 17/13 A3008 RMK AO2 RAB21E41 SLP188 P0000 T01720133 TSNO= KWAL 131054Z AUTO 32004KT 10SM FEW080 12/11 A3011 RMK AO2 SLP192 T01220111 TSNO=  516 SAUS80 KWBC 131100 RRA METAR PAYA 131053Z 04003KT 2 1/2SM R11/5000VP6000FT BR BKN001 BKN009 03/02 A3035 RMK AO2 SLP278 T00280022= PAOT 131053Z 17014KT 10SM OVC090 11/08 A3021 RMK AO2 SLP229 T01060083= PABE 131053Z 20006KT 10SM MIFG FEW013 06/04 A3044 RMK AO2 SLP309 T00560044= PABT 131053Z 22007KT 10SM FEW045 SCT060 09/06 A3030 RMK AO2 SLP272 T00890061= PACD 131053Z 14005KT 10SM FEW080 08/06 A3029 RMK AO2 SLP256 T00830056= PADQ 131053Z 28005KT 10SM CLR 05/04 A3045 RMK AO2 SLP310 T00500044= PAFA 131053Z 21004KT 10SM BKN046 09/06 A3041 RMK AO2 SLP303 T00890061= PAHO 131053Z AUTO 05004KT 10SM CLR 06/05 A3044 RMK AO2 SLP308 T00610050 TSNO= PAJN 131053Z 00000KT 10SM BKN009 OVC014 08/07 A3032 RMK AO2 SLP268 T00780072= PAMC 131053Z 00000KT 10SM CLR 03/02 A3046 RMK AO2 SLP318 T00280017= PANC 131053Z 13003KT 10SM CLR 08/06 A3043 RMK AO2 SLP305 T00780061= PANN 131053Z AUTO 21003KT 10SM BKN039 OVC048 08/06 A3041 RMK AO2 SLP303 T00830056 TSNO= PANT 131053Z 00000KT 6SM BR SCT043 09/08 A3026 RMK AO2 SLP247 T00890078= PAOM 131053Z 19016KT 10SM SCT009 OVC050 09/07 A3027 RMK AO2 RAE31 SLP251 P0000 T00890072= PAOR 131053Z 00000KT 10SM CLR 03/02 A3038 RMK AO2 SLP302 T00280017= PAQT 131053Z AUTO 21009KT 10SM BKN050 OVC070 11/06 A3016 RMK AO2 SLP215 T01060061 TSNO= KWAL 131054Z AUTO 32004KT 10SM FEW080 12/11 A3011 RMK AO2 SLP192 T01220111 TSNO= KLYH 131054Z 00000KT 8SM -RA FEW008 SCT023 OVC036 14/13 A3008 RMK AO2 SLP182 P0002 T01390128= KAVP 131054Z VRB03KT 10SM -RA OVC031 13/09 A3007 RMK AO2 SLP177 P0000 T01280094= KINL 131055Z AUTO 00000KT 10SM FEW060 03/03 A2996 RMK AO2 SLP151 T00330028= KAST 131055Z AUTO 00000KT 9SM SCT022 10/09 A3018 RMK AO2 SLP219 T01000089= KGSO 131054Z 17005KT 9SM OVC070 16/14 A3008 RMK AO2 RAE16 SLP179 P0000 T01610144= KHVR 131055Z AUTO 25004KT 10SM CLR 07/01 A2982 RMK AO2 SLP090 T00670006 $= KFMN 131053Z AUTO 09007KT 10SM CLR 13/05 A3019 RMK AO2 SLP171 T01330050 TSNO= KMOB 131056Z 00000KT 8SM BKN009 22/21 A2989 RMK AO2 SLP120 T02220211= KPDX 131055Z 33004KT 10SM FEW017 13/09 A3017 RMK AO2 SLP213 T01280089= KSHV 131056Z 35007KT 10SM CLR 20/15 A2998 RMK AO2 SLP147 T02000150= KMKG 131055Z 02007KT 6SM BR OVC004 17/16 A2982 RMK AO2 SLP095 T01670156= KGEG 131056Z 18009KT 10SM FEW200 14/04 A2991 RMK AO2 SLP114 T01390039= KANJ 131055Z AUTO 02004KT 10SM OVC014 13/11 A2990 RMK AO2 SLP123 T01330106= KPHP 131055Z AUTO 27004KT 10SM CLR 09/07 A2998 RMK AO2 SLP139 T00940072 TSNO= KDLH 131055Z 29004KT 6SM BR FEW001 06/05 A2999 RMK AO2 SLP165 T00560050= KSCK 131055Z AUTO 06005KT 8SM CLR 19/11 A2982 RMK AO2 SLP098 T01890106 TSNO= KPOF 131055Z AUTO 27005KT 10SM CLR 13/11 A2997 RMK AO2 SLP146 T01330111 TSNO= KJAX 131056Z 17005KT 10SM FEW035 OVC090 24/20 A2995 RMK AO2 SLP142 T02440200= KTUS 131055Z 13006KT 10SM CLR 21/14 A3000 RMK AO2 SLP121 T02110144= KLIC 131055Z AUTO 36005KT 9SM CLR 05/03 A3018 RMK AO2 SLP171 T00500033 TSNO= KLAN 131055Z 02003KT 1 1/2SM RA BR OVC002 17/17 A2981 RMK AO2 SFC VIS 3 RAB24 SLP092 P0003 T01720167 $= KDVL 131055Z AUTO 00000KT 10SM CLR 10/08 A2991 RMK AO1= KEAR 131055Z AUTO 21004KT 10SM CLR 12/09 A3005 RMK AO1= KGPZ 131055Z AUTO 00000KT 10SM CLR 04/02 A3000 RMK AO1= PHOG 131054Z AUTO 05003KT 10SM CLR 22/17 A3003 RMK AO2 SLP173 T02170172 TSNO $= KORH 131054Z 25005KT 10SM CLR 10/07 A3013 RMK AO2 SLP205 T01000067= KSUS 131054Z 25005KT 10SM OVC020 15/12 A2995 RMK AO2 SLP137 T01500122=  518 SAUS70 KWBC 131100 RRF METAR KAQR 131056Z AUTO 36003KT 5SM BR CLR 11/11 A3006 RMK AO2= KARB 131053Z AUTO 00000KT 2 1/2SM BR OVC001 18/17 A2980 RMK AO2 SLP088 T01780172= KATS 131050Z AUTO 00000KT 10SM CLR 19/16 A3017 RMK AO2= KAUH 131050Z AUTO 00000KT 10SM CLR 11/10 A3005 RMK AO2= KAVK 131052Z AUTO 00000KT 10SM CLR 12/10 A3010 RMK AO2= KAXS 131050Z AUTO 01006KT 10SM CLR 13/11 A3011 RMK AO2= KBRO 131053Z AUTO 00000KT 10SM FEW015 SCT120 25/24 A2992 RMK AO2 SLP129 T02500239 TSNO= KCHK 131051Z AUTO 00000KT 5SM BR CLR 12/11 A3009 RMK AO2= KCLK 131050Z AUTO 00000KT 10SM CLR 10/10 A3011 RMK AO2= KCUH 131050Z AUTO 00000KT 7SM BKN110 08/08 A3008 RMK AO2= KEYW 131053Z 06005KT 10SM CLR 27/23 A2992 RMK AO2 SLP130 T02720228 $= KGCM 131055Z AUTO 00000KT 1/2SM FG VV005 09/09 A3009 RMK AO2= KGMJ 131052Z AUTO 00000KT 1SM BR VV007 09/08 A3008 RMK AO2= KJSV 131054Z AUTO 00000KT 1SM BR VV007 10/09 A3006 RMK AO2= KJWG 131053Z AUTO 00000KT 10SM CLR 12/12 A3013 RMK AO2= KLEE 131053Z AUTO 14005KT 10SM SCT095 24/21 A2997 RMK AO2 SLP146 T02440211= KLRU 131051Z AUTO 10003KT 10SM CLR 19/17 A3018 RMK AO2= KNQA 131050Z AUTO 33004KT 9SM CLR 16/14 A2998 RMK= KRQO 131050Z AUTO 00000KT 7SM CLR 12/11 A3009 RMK AO2= KWST 131053Z AUTO 00000KT 10SM CLR 07/06 A3015 RMK AO2 SLP207 T00720061= KWVI 131053Z AUTO 00000KT 1/4SM FG VV001 13/12 A2990 RMK AO2 SLP123 T01280122= KWWR 131050Z AUTO 23007KT 10SM 14/12 A3010 RMK AO2= KXNA 131053Z 00000KT 5SM BR CLR 10/10 A3006 RMK AO2 SLP175 T01000100= KYIP 131053Z 01004KT 2 1/2SM BR BKN021 BKN026 OVC095 18/17 A2981 RMK AO2 SLP088 T01780172= KZZV 131053Z AUTO 18009KT 4SM BR BKN007 OVC014 17/16 A2989 RMK AO2 RAE41 SLP115 P0006 T01720161= KAPG 131048Z 00000KT 7SM SCT070 OVC150 16/15 A3010= KSGH 131055Z VRB03KT 3/4SM BR OVC005 18/18 A2985 RMK SLP105 ESTMD SLP= PAGA SA 1055 AWOS 28 SCT 10 43/42/0000/039= TJBQ 131050Z 00000KT 10SM SKC 25/21 A2990= TJMZ 131052Z 131050KT 08004KT 10SM SKC 22/21 A2991= PADE 131053Z AUTO 16015G20KT 10SM OVC070 11/06 A3022 RMK AO2 SLP233 T01060061 TSNO= PAVL 131053Z AUTO 18026G30KT 8SM OVC055 10/07 A3010 RMK AO2 PK WND 18030/1053 RAE09 SLP194 P0000 T01000072 TSNO= PAAQ 131053Z AUTO 35005KT 10SM BKN090 07/06 A3046 RMK AO2 SLP310 T00720056 TSNO= PABR 131053Z 20011KT 10SM BKN029 OVC055 09/08 A3003 RMK AO2 SLP170 T00910078 PNO $= PACV 131053Z 10003KT 10SM CLR 03/02 A3036 RMK AO2 SLP282 T00280022= PAEG 131053Z AUTO 00000KT 10SM BKN060 00/M01 A3033 RMK AO2 SLP276 T00001006 TSNO= PAEN 131053Z AUTO 05004KT 1/2SM FG BKN001 OVC009 03/02 A3044 RMK AO2 SLP309 T00280017 TSNO= PAFM 131051Z 15004KT 10SM BKN012 OVC018 08/06 A3035 RMK VIA PHONE= PAGK 131053Z AUTO 32004KT 10SM CLR 02/M01 A3039 RMK AO2 SLP303 T00171006 TSNO= PAGY 131053Z AUTO 12003KT 10SM OVC095 08/07 A3033 RMK AO2 SLP271 T00830072 TSNO= PAIL 131053Z AUTO 35005KT 10SM FEW070 07/06 A3045 RMK AO2 SLP312 T00670056 TSNO= PAKT 131053Z AUTO 30003KT 7SM BKN003 BKN014 OVC028 09/08 A3026 RMK AO2 SLP247 T00890083 TSNO= PAKV 131053Z AUTO 00000KT 10SM OVC030 11/07 A3042 RMK AO2 SLP302 T01110067 TSNO= PAKW 131053Z AUTO 00000KT 1/4SM FG BKN001 OVC010 10/09 A3027 RMK AO2 SLP250 T01000094 TSNO= PALH 131053Z 00000KT 10SM CLR 07/06 A3044 RMK AO2 SLP309 T00720056= PAMR 131053Z 10003KT 10SM CLR 07/06 A3043 RMK AO2 SLP306 T00720056= PAPB 131053Z AUTO 17006KT 10SM OVC011 07/05 A3029 RMK AO2 SLP247 T00720050 TSNO $= PASC 131053Z 25006KT 10SM SCT090 BKN110 OVC220 07/06 A3016 RMK AO2 SLP213 T00720056 $=  647 SAKA31 PTYA 131100 METAR PTYA 131052Z VRB03KT 12SM SCT016CB SCT140 OVC300 27/25 A2984 RMK CB VC ALQDS SLP107 T02650251  770 SAAT31 TKPK 131100 METAR TKPK 131100Z VRB01KT 9999 BKN020 27/25 Q1013=3D  307 SAXX70 KAWN 131100 RRB METAR KQTO 131055Z 28008KT 9999 SKC 39/08 A2978 RMK SLP084 Q1008MB PA+296 DA+3202= METAR KQTU 131055Z COR 34008G14KT 9999 SKC 37/06 A2979 RMK SLP074 COR 1057=  664 SAUS70 KWBC 131100 METAR KDAY 131056Z 19004KT 2SM -RA BR OVC003 18/17 A2985 RMK AO2 RAE02B42 SLP102 P0000 T01780172= KICT 131056Z 25004KT 10SM CLR 11/09 A3009 RMK AO2 SLP182 T01060094 $= PAAK 131056Z AUTO 14004KT 10SM OVC024 09/06 A3018 RMK AO1= PABL 131056Z AUTO 14005KT 10SM OVC060 10/07 A3029 RMK AO1= PABV 131056Z AUTO 00000KT 10SM CLR 07/04 A3044 RMK AO1= PADL 131056Z 00000KT 9SM CLR 04/03 A3044 RMK AO1= PADU 131056Z AUTO 31006KT 1 1/2SM OVC001 07/06 A3025 RMK AO1= PAFE 131056Z AUTO 00000KT 5SM OVC001 08/07 A3030 RMK AO1= PAGL 131056Z AUTO 10SM OVC019 10/08 A3035 RMK AO1= PAGM 131056Z AUTO 20027G35KT 1 3/4SM CLR 07/06 A3008 RMK AO1= PAGS 131056Z AUTO 00000KT 3SM SCT002 03/01 A3035 RMK AO1= PAHL 131056Z AUTO 21005KT 10SM OVC036 09/05 A3032 RMK AO1= PAHP 131056Z AUTO 16017G22KT 10SM OVC016 09/06 A3033 RMK AO1 TSNO= PAHY 131056Z AUTO 36003KT 10SM OVC003 10/09 A3027 RMK AO1= PAII 131056Z AUTO 06004KT 1/4SM OVC001 05/04 A3040 RMK AO1= PAIN 131056Z AUTO 00000KT 10SM FEW041 02/00 A3045 RMK AO1= PAJC 131056Z AUTO 08006KT 10SM SCT020 10/07 A3039 RMK AO1= PAKK 131056Z AUTO 23007KT 10SM FEW017 OVC024 10/07 A3032 RMK AO1= PAKP 131056Z AUTO 19010KT 10SM OVC050 08/04 A3021 RMK AO1= PAMD 131056Z AUTO 28008KT 5SM CLR 10/08 A3039 RMK AO1= PAMH 131056Z AUTO 00000KT 10SM FEW043 08/05 A3045 RMK AO1= PAMM 131056Z AUTO 00000KT 10SM FEW025 SCT060 10/06 A3026 RMK AO1= PAMY 131056Z AUTO 20015G19KT 10SM OVC008 07/04 A3036 RMK AO1= PANI 131056Z AUTO 10003KT 10SM FEW060 03/02 A3042 RMK AO1= PANV 131056Z 24003KT 10SM OVC022 08/06 A3042 RMK AO1= PAPG 131056Z 07003KT 1/4SM OVC001 08/07 A3030 RMK AO1= PAPH 131056Z AUTO 06006KT 10SM CLR 05/03 A3040 RMK AO1= PARC 131056Z AUTO 00000KT 10SM CLR 02/M02 A3021 RMK AO1= PASA 131056Z AUTO 20029G34KT 8SM BKN006 BKN019 08/06 A3011 RMK AO1= PASH 131056Z AUTO 19022G27KT CLR 09/06 A3014 RMK AO1= PASK 131056Z AUTO 20004KT 10SM OVC045 A3029 RMK AO1= PASM 131056Z AUTO 21013G18KT 10SM OVC012 07/04 A3040 RMK AO1= PASX 131056Z AUTO 10003KT 10SM CLR 01/01 A3043 RMK AO1= PATG 131056Z AUTO 36007KT M1/4SM OVC001 06/05 A3042 RMK AO1= PAUN 131056Z AUTO 12005KT 10SM OVC034 09/06 A3040 RMK AO1= PAVD 131056Z 00000KT 10SM CLR 05/04 A3041 RMK AO1= PAWG 131056Z AUTO 30005KT 10SM SCT008 BKN016 BKN038 09/06 A3027 RMK AO1= PAWN 131056Z AUTO 16013KT 10SM OVC040 10/08 A3013 RMK AO1= PAWR 131054Z 22014G19KT 7SM SKC 16/09 A3042 RMK SLP301 NOSPECI= PAZK 131056Z AUTO 27007KT 6SM CLR 04/03 A3043 RMK AO1= PFYU 131056Z 23008KT 10SM BKN085 11/06 A3026 RMK AO1= KBMI 131056Z AUTO 31011KT 10SM -RA OVC005 14/14 A2988 RMK AO2 T01440144 CIG 003V010 RAB0958 P0000 SLP116= KCKN 131055Z AUTO 16006KT 10SM CLR 14/11 A2991 RMK AO2= KCPW 131056Z AUTO 24009KT 10SM CLR 08/01 A3058 RMK AO2= KCVX 131054Z AUTO 02003KT 3SM BR BKN004 OVC010 13/13 A2989 RMK AO2= KEAT 131055Z AUTO 31010KT 10SM CLR 18/06 A2994 RMK AO2 SLP129 T01830056= KFKS 131054Z AUTO 01004KT 5SM DZ BKN004 OVC013 15/14 A2985 RMK AO2= KFPK 131054Z AUTO 00000KT 7SM -DZ OVC039 16/16 A2981 RMK AO2 P0004= KGOV 131054Z AUTO 34003KT 5SM BR OVC004 14/14 A2986 RMK AO2= KHYX 131056Z AUTO 02004KT 1/2SM -DZ OVC001 17/16 A2980 RMK AO2= KLDM 131055Z AUTO 36005KT 5SM BR OVC003 16/14 A2984 RMK AO2= KLWA 131055Z AUTO 00000KT 10SM OVC016 16/15 A2979 RMK AO2= KMOP 131055Z AUTO 01005KT 1 3/4SM BR OVC002 16/15 A2981 RMK AO2= KMYP 131052Z AUTO 22014KT 10SM CLR 04/M02 A3069 RMK AO2= KOEB 131055Z AUTO 00000KT 1 1/2SM -RA OVC006 17/17 A2979 RMK AO2= KOWB 131056Z 31005KT 7SM BKN038 16/14 A2992 RMK AO2 T01550138 SLP130=  666 SAXX60 KWBC 131100 RRA METAR PACZ 131055Z AUTO 19015KT 10SM OVC010 07/07 RMK AO1 T00720067= PABA 131055Z AUTO 13011KT 10SM CLR 02/01 A3020 RMK AO1 T00170012= PATC 131055Z AUTO 19026KT 4SM OVC003 07/07 A3011 RMK AO1 T00720073= PATL 131055Z AUTO 22003KT 10SM CLR 09/06 A3045 RMK AO1 T00890056= PAEH 131055Z AUTO 00000KT 10SM CLR 07/06 A3041 RMK AO1 T00670062=  668 SAUS70 KWBC 131100 RRC METAR KSJX 131055Z AUTO 02005KT 10SM OVC013 14/12 A2989 RMK AO2= KSLH 131056Z AUTO 36007KT 4SM -RA OVC003 14/13 A2987 RMK AO2= KTTS 131055Z 09003KT 10SM FEW034 FEW100 FEW250 22/21 A2995 RMK SLP142 1CU /0/ 1AC 1CI /1/= KUCA 131056Z 11012KT 6SM +RA BR SCT033 OVC043 11/10 A3005 RMK AO2 SLP177 T01060100 $= KUNU 131056Z AUTO 34007KT 7SM OVC004 13/11 A2986 RMK AO2 LTG DSNT SE AND S= KVLL 131056Z AUTO 00000KT 5SM -RA SCT003 SCT023 BKN110 19/17 A2981 RMK AO2= PAGN 131056Z AUTO 00000KT 9SM OVC005 08/08 A3032 RMK AO2 TSNO T00830077 CIG 004V008 SLP268= PATQ 131056Z AUTO 19014KT 10SM FEW026 SCT043 OVC055 09/08 A3005 RMK AO2 TSNO T00880077 SLP182= KTTS 131055Z 09003KT 10SM FEW034 FEW100 FEW250 22/21 A2995 RMK SLP142 1CU /0/ 1AC 1CI /1/= TJMZ 131056Z 131050KT 08004KT 10SM SKC 22/21 A2991= KAJO 131056Z AUTO 00000KT 10SM CLR 18/14 A2989 RMK AO2 T01770138 SLP231 $= KANE 131055Z AUTO 00000KT 10SM CLR 07/07 A3001 RMK AO2= KAQP 131055Z AUTO 00000KT 10SM BKN065 09/09 A2999 RMK AO2= KAUM 131055Z AUTO 31004KT 3SM BR CLR 09/08 A3001 RMK AO2= KBBB 131055Z AUTO 19004KT 7SM SCT060 SCT090 11/08 A2999 RMK AO2= KBFW 131055Z AUTO 00000KT 10SM CLR 01/01 A2997 RMK AO2= KBVI 131050Z 18010KT 1 1/2SM -RA BR BKN007 OVC018 16/16 A2994= KCAD 131056Z AUTO 36003KT 1/2SM FG OVC002 15/14 A2985 RMK AO2= KCBG 131055Z AUTO 00000KT 3/4SM BR OVC001 04/03 A3003 RMK AO2= KEFD 131050Z 00000KT 10SM BKN100 25/24 A2994= KEKQ 131056Z AUTO 20005KT 10SM OVC025 19/17 A2992 RMK AO2 T01880172 RAB08E29 P0002 SLP130= KFBL 131057Z AUTO 00000KT 3/4SM BR BKN001 BKN010 04/04 A3003 RMK AO2= KJKJ 131056Z AUTO 19006KT 10SM CLR 14/12 A2993 RMK AO2= KLAL 131050Z 00000KT 12SM FEW050 SCT100 BKN250 23/20 A2995= KLCK 131057Z AUTO 18007KT 4SM BR BKN012 OVC022 19/18 A2985 RMK AO2= KLRD 131056Z 03006KT 10SM OVC037 24/23 A2998 RMK AO2 T02380233 SLP143= KMDZ 131055Z AUTO 00000KT 10SM CLR 10/10 A2998 RMK AO2= KMMU 131045Z 00000KT 20SM FEW100 OVC250 09/09 A3012= KMWC 131055Z AUTO 35008KT 3SM BR OVC005 14/13 A2988 RMK AO2= KPEX 131055Z AUTO 00000KT 10SM CLR 06/05 A3001 RMK AO2= KRMY 131057Z AUTO 31004KT 7SM OVC004 16/15 A2980 RMK AO2= KRQB 131056Z AUTO 36004KT 7SM OVC004 15/15 A2983 RMK AO2= KSIY 131053Z AUTO 03003KT 10SM CLR 12/04 A3007 RMK AO2 SLP169 T01170039 TSNO= KSWF 131045Z 00000KT 20SM BKN150 10/09 A3013= KTEW 131056Z AUTO 00000KT 10SM OVC004 16/16 A2979 RMK AO2= KTOB 131057Z AUTO 30004KT 4SM BR SCT075 08/08 A3001 RMK AO2= KTPA 131053Z 12004KT 8SM SCT055 BKN100 OVC250 26/21 A2995 RMK AO2 SLP141 T02560206= KTTF 131057Z AUTO 00000KT 3SM BR OVC005 19/19 A2979 RMK AO2= KWDR 131057Z AUTO 09003KT 3SM OVC003 18/18 A2999 RMK AO1= PACM 131056Z AUTO 20014KT 10SM OVC018 09/ A3032 RMK AO2 TSNO T0088 SLP271 $= PAGA 131055Z AUTO 00000KT 10SM SCT028 06/06 A3039 RMK AO1 T00610056=  669 SAPQ50 KWBC 131100 METAR PTYA 131052Z VRB03KT 12SM SCT016CB SCT140 OVC300 27/25 A2984 RMK CB VC ALQDS SLP107 T02650251=  670 SAUS70 KWBC 131100 RRA METAR KPHN 131055Z AUTO 00000KT 1SM BR OVC001 17/17 A2980 RMK AO2= KSNL 131056Z AUTO 00000KT 10SM CLR 13/11 A3009 RMK AO2= KVQQ 131055Z 16003KT 7SM OVC075 24/21 A2997= KVTP 131056Z AUTO 10SM CLR 08/02 A3047 RMK AO2= PAAK 131056Z AUTO 14004KT 10SM OVC024 09/06 A3018 RMK AO1= TJPS 131055Z 00000KT 10SM FEW025 SCT080 24/22 A2992= KTOI 131053Z AUTO 00000KT 8SM -RA SCT007 BKN015 BKN021 23/22 A2989 RMK AO2 RAB0954 SLP116 P0020 T02280217= PASC 131053Z 25006KT 10SM SCT090 BKN110 OVC220 07/06 A3016 RMK AO2 SLP213 T00720056 $= PHJR 131053Z 00000KT 10SM CLR 22/18 A3005 RMK AO2 SLP180 T02170183 $= TIST 131053Z 07004KT 10SM CLR 28/23 A2992 RMK AO2 SLP131 T02780233= TISX 131053Z 01004KT 10SM FEW023 26/23 A2993 RMK AO2 SLP133 T02560233= K1A6 131056Z AUTO 00000KT 5SM -RA OVC015 22/19 A2998 RMK AO2= KACB 131056Z AUTO 02003KT 2 1/2SM BR OVC004 15/14 A2986 RMK AO2= KACQ 131055Z AUTO 00000KT 1/2SM FG VV005 04/03 A3004 RMK AO2= KAIG 131055Z AUTO 36007KT 10SM OVC006 11/10 A2995 RMK AO2= KAND 131056Z AUTO 36005KT 1 1/4SM +RA BR SCT006 BKN012 OVC023 17/16 A3000 RMK AO2 SLP153 P0059 T01670156= KARV 131054Z AUTO 00000KT 1/4SM FG OVC001 07/06 A2999 RMK AO2= KASD 131053Z AUTO 00000KT 7SM CLR 22/21 A2988 RMK AO2 SLP119 T02220211 TSNO= KATW 131055Z AUTO 36008KT 7SM OVC004 13/11 A2992 RMK AO2= KBAX 131056Z AUTO 00000KT M1/4SM FG OVC001 17/17 A2980 RMK AO2= KCDD 131056Z AUTO 00000KT 10SM CLR 03/03 A2999 RMK AO2= KCEC 131056Z AUTO 00000KT 1/4SM FG VV001 11/11 A2998 RMK AO2 SLP152 P0001 T01060106= KCMY 131055Z AUTO 00000KT 7SM BKN027 OVC032 12/11 A2998 RMK AO2= KDAN 131056Z AUTO 00000KT 9SM BKN060 OVC070 16/14 A3008 RMK AO2 RAB44E54 SLP177 P0000 T01560144= KDIK 131056Z AUTO 10SM CLR 11/04 A2991 RMK AO2 SLP114 T01110044 $= KDRM 131054Z AUTO 05004KT 5SM BR OVC003 13/13 A2988 RMK AO2= KDUG 131056Z AUTO 12004KT 10SM BKN050 OVC075 16/14 A3011 RMK AO2 SLP137 T01610144= KDUJ 131056Z AUTO 15006KT 5SM BR BKN003 OVC034 13/13 A2996 RMK AO2 RAB19E34 SLP145 P0002 T01330128= KEAU 131056Z AUTO 00000KT 1/4SM FG BKN001 OVC008 06/04 A2999 RMK AO2 SLP157 T00560044= KEED 131056Z AUTO 13005KT 10SM CLR 27/12 A2988 RMK AO2 SLP084 T02720122 TSNO= KEFT 131056Z AUTO 36006KT 7SM OVC003 13/13 A2991 RMK AO2= KGLW 131054Z AUTO 32004KT 7SM SCT006 BKN013 OVC040 17/09 A2996 RMK AO1= KGRD 131056Z AUTO 10005KT 4SM RA BR FEW019 OVC027 18/17 A2999 RMK AO2 SLP151 P0007 T01780167= KIGX 131056Z AUTO 00000KT 10SM OVC085 16/13 A3008 RMK AO2 SLP181 T01610128 TSNO= KJMS 131056Z AUTO 00000KT 10SM CLR 12/08 A2992 RMK AO2 SLP128 T01170083= KM19 131056Z AUTO 32006KT 10SM CLR 13/12 A3001 RMK AO2 T01330116 SLP161= KMCO 131053Z 17003KT 10SM SCT250 22/21 A2997 RMK AO2 SLP145 T02220206= KMRH 131056Z AUTO 07004KT 10SM CLR 18/16 A3005 RMK AO2 SLP175 T01780156= KMRJ 131055Z AUTO 35006KT 7SM OVC005 12/12 A2993 RMK AO2= KRDM 131056Z AUTO 16004KT 10SM CLR 07/03 A3010 RMK AO2 SLP171 T00720028= KSBP 131056Z AUTO 00000KT 1/2SM FG OVC001 13/12 A2991 RMK AO2 SLP127 T01280122 TSNO= KSLE 131056Z AUTO 32004KT 10SM CLR 11/09 A3013 RMK AO2 SLP203 T01110089= KSRC 131053Z AUTO 34003KT 10SM CLR 15/12 A3000 RMK AO2 SLP161 T01500122 $= KTPH 131056Z AUTO 34007KT 10SM CLR 13/M06 A3014 RMK AO2 SLP134 T01331056= KUKI 131056Z AUTO 00000KT 10SM CLR 14/07 A2991 RMK AO2 SLP119 T01440067= KWJF 131056Z 00000KT 10SM CLR 18/04 A2994 RMK AO2 SLP116 T01780039= PAFS 131056Z AUTO 00000KT 10SM CLR 03/03 A3045 RMK AO2 TSNO T00330027 SLP322 $=  697 SAUS80 KWBC 131100 CCA METAR KGNT 131053Z AUTO 00000KT 09/06 A3029 RMK AO2 SLP179 T00940061 PWINO TSNO= KBJN 131056Z AUTO 29005KT 10SM FEW027 13/M02 A3017 RMK AO2 SLP031 T01331022 $= KGNT 131053Z AUTO 00000KT 09/06 A3029 RMK AO2 SLP179 T00940061 PWINO TSNO= KBJN 131056Z AUTO 29005KT 10SM FEW027 13/M02 A3017 RMK AO2 SLP031 T01331022 $=  698 SAUS80 KWBC 131100 METAR KGNA 131056Z AUTO VRB04KT 09/06 A2997 RMK AO2 SLP150 T00940056 PWINO TSNO= KP60 131056Z AUTO 27004KT 02/M02 A3029 RMK AO2 SLP187 T00171022 PWINO FZRANO TSNO= KBIL 131056Z 22009KT 10SM CLR 13/M03 A2992 RMK AO2 SLP102 HZ SE-SW T01331033 $= KP28 131056Z AUTO 00000KT 09/08 A3010 RMK AO2 SLP185 T00940078 PWINO TSNO= KMEH 131056Z AUTO 00000KT 10SM CLR 03/M02 A3008 RMK AO2 SLP171 T00281017 TSNO= KPGA 131056Z AUTO 16006KT 10SM CLR 18/02 A3007 RMK AO2 SLP120 T01830022 TSNO= KYKM 131056Z AUTO 33010KT 10SM CLR 18/08 A2996 RMK AO2 SLP139 T01830078 TSNO= KCDJ 131056Z AUTO 00000KT 08/07 A3004 RMK AO2 SLP173 T00830072 PWINO TSNO= KSXT 131056Z AUTO 36015G19KT 10SM CLR 13/08 A3013 RMK AO2 SLP157 T01280083 TSNO= KWMC 131056Z AUTO 15004KT 10SM CLR 07/M06 A3008 RMK AO2 SLP146 T00671056= KSMP 131056Z AUTO VRB06KT 1/4SM FG SCT002 BKN025 OVC030 10/08 A3010 RMK AO2 SLP173 T01000083 TSNO= KP53 131056Z AUTO 15003KT 12/11 A2993 RMK AO2 SLP138 T01170111 PWINO TSNO= KBIH 131056Z AUTO 35005KT 10SM CLR 13/02 A3007 RMK AO2 SLP131 T01330017 TSNO= KFSD 131056Z 00000KT 10SM CLR 08/07 A3003 RMK AO2 SLP169 T00780067= KSPD 131056Z AUTO 00000KT 12/10 A3012 RMK AO2 SLP150 T01220100 PWINO TSNO= KLWS 131056Z AUTO 14007KT 10SM FU HZ CLR 14/02 A2993 RMK AO2 SLP126 T01390017 TSNO= K2WX 131056Z AUTO 15007KT 11/03 A2991 RMK AO1 SLP112 T01110028= KGNR 131056Z AUTO 31003KT 09/06 A3008 RMK AO1 SLP191 T00890056= PADK 131056Z AUTO 20005KT 10SM OVC013 08/06 A3018 RMK AO1= KCNK 131055Z AUTO 23006KT 10SM CLR 12/11 A3007 RMK AO2 SLP175 T01220111= KIRK 131055Z AUTO 30005KT 7SM CLR 11/10 A3000 RMK AO2 SLP160 T01110100= KFAT 131056Z 00000KT 8SM CLR 22/14 A2986 RMK AO2 SLP105 T02220139= KMHS 131056Z AUTO 04003KT 10SM CLR 13/05 A3008 RMK AO2 SLP171 T01280050 TSNO= TJSJ 131056Z 21003KT 10SM FEW025 26/23 A2992 RMK AO2 SLP130 T02610228= KCAE 131056Z 10006KT 8SM -RA BKN060 BKN070 OVC085 18/17 A3000 RMK AO2 RAB35 SLP155 P0000 T01830167= KFLG 131056Z AUTO 21004KT 10SM FEW065 11/11 A3028 RMK AO2 RAB12E24 SLP165 P0000 T01110106 TSNO= KINW 131056Z AUTO 00000KT 10SM SCT090 BKN110 18/11 A3016 RMK AO2 SLP143 T01830111 TSNO= KABI 131052Z 00000KT 10SM CLR 18/13 A3011 RMK AO2 SLP173 T01780128= KCLI 131055Z 35003KT 10SM SCT012 OVC065 A2993 RMK AO2= KLND 131053Z AUTO 00000KT 10SM CLR 13/M06 A3009 RMK AO2 SLP123 T01281061= KOFK 131056Z AUTO 19017G22KT 090V210 5SM BR CLR 08/07 A3005 RMK AO2 SLP172 T00830072 $= KD07 131056Z AUTO 19011KT 13/07 A2996 RMK AO2 SLP137 T01280072 PWINO TSNO $= K8D3 131056Z AUTO 24014KT 17/11 A2993 RMK AO2 SLP124 T01720106 PWINO TSNO= KRNO 131056Z 00000KT 10SM CLR 15/03 A3011 RMK AO2 SLP142 T01500033= KMWS 131029Z 24005KT 21/01= PHNY 131056Z AUTO 00000KT 8SM BKN029 A3009 RMK AO2 TSNO BKN V SCT SLPNO $= KBZN 131056Z 13006KT 10SM CLR 08/M01 A3002 RMK AO2 SLP131 T00831011= KISM 131047Z 00000KT 10SM SKC 23/21 A2999 RMK FIRST= KMWT 131053Z AUTO 00000KT 6SM BR FEW029 14/13 A3001 RMK AO2 SLP157 T01390128 TSNO $= KVTN 131052Z AUTO 27003KT 1/4SM FG BKN002 OVC007 07/07 A3002 RMK AO2 SLP158 T00670067= KMTP 131054Z AUTO 00000KT 10/08 A3015 RMK AO2 SLP209 T01000083 PWINO TSNO=  699 SAXX60 KWBC 131100 CCA METAR KVBG 131056Z AUTO 03006KT 1/4SM FG VV001 12/12 A2991 RMK AO2 SLP120 P0001 T01220122 TSNO VISNO RWY12 $= K9L2 131056Z AUTO 36003KT 10SM CLR 17/03 A2992 RMK AO2 SLP109 T01720033 $= K9L2 131056Z AUTO 36003KT 10SM CLR 17/03 A2992 RMK AO2 SLP109 T01720033 $=  700 SPUS70 KWBC 131100 SPECI KFCM 131056Z AUTO 25003KT 3SM BR CLR 09/08 A3001 RMK AO2= KDCU 131057Z AUTO 00000KT 3SM -RA BR BKN009 BKN015 OVC021 21/20 A2992 RMK AO2 P0000= KPPF 131057Z AUTO 00000KT 1 3/4SM BR BKN001 BKN027 08/07 A3008 RMK AO2=  705 SPUS80 KWBC 131100 SPECI KHTL 131057Z AUTO 01007KT 1 1/2SM BR OVC001 14/14 A2985 RMK AO2= KEMP 131057Z AUTO 29004KT 2SM BR CLR 09/08 A3008 RMK AO2=  707 SAMA20 FIMP 131100 METAR FIMP 131100Z 14013KT 9999 BKN016 24/18 Q1023=  709 SAUS70 KWBC 131100 RRB METAR PAGN 131056Z AUTO 00000KT 9SM OVC005 08/08 A3032 RMK AO2 TSNO T00830077 CIG 004V008 SLP268= PAHC 131056Z AUTO 00000KT 1/4SM FG SCT003 SCT011 BKN016 02/01 A3043 RMK AO2 PWINO TSNO T00160011 SLP309 $= PAIG 131056Z AUTO 19003KT 10SM CLR 06/04 A3044 RMK AO2 TSNO T00610044 SLP313 $= PALP 131048Z 23010KT 10SM OVC065 10/06 A3013= PAMK 131056Z AUTO 00000KT 10SM OVC026 09/06 A3037 RMK AO2 TSNO T00880061 SLP287 $= PAPM 131056Z AUTO 07006KT 10SM CLR 07/06 A3043 RMK AO2 TSNO T00660055 SLP304 $= PARS 131056Z AUTO 00000KT 10SM CLR 07/07 A3043 RMK AO2 TSNO T00720066 SLP309 $= PATQ 131056Z AUTO 19014KT 10SM FEW026 SCT043 OVC055 09/08 A3005 RMK AO2 TSNO T00880077 SLP182= PPIZ 131056Z AUTO 22020KT 10SM OVC030 08/06 A2997 RMK AO2 TSNO T00830061 PK WND 22028/1017 SLP154= KADC 131055Z AUTO 00000KT 10SM CLR 06/06 A2998 RMK AO2= KAEL 131055Z AUTO 30003KT 2SM BR CLR 03/02 A3002 RMK AO2= KAIT 131055Z AUTO 00000KT M1/4SM FG BKN001 01/00 A3000 RMK AO2= KAMN 131056Z AUTO 36004KT 1 3/4SM BR OVC002 16/16 A2980 RMK AO2= KAPG 131048Z 00000KT 7SM SCT070 OVC150 16/15 A3010= KART 131056Z AUTO VRB04KT 8SM -RA OVC026 13/11 A2997 RMK AO2 SLP145 P0005 T01280111 TSNO= KBED 131056Z AUTO 00000KT 10SM CLR 06/06 A3011 RMK AO2 SLP211 T00610056= KBUU 131054Z AUTO 33008KT 4SM BR OVC004 14/13 A2987 RMK AO2= KBWP 131056Z AUTO 15005KT 10SM 12/12 A2995 RMK AO1= KCNB 131055Z AUTO 24009KT 10SM SCT070 SCT080 14/09 A3000 RMK AO2= KCTB 131056Z AUTO 18004KT 10SM CLR 11/01 A2990 RMK AO2 SLP098 T01060006= KCXY 131056Z 09006KT 10SM -RA OVC038 14/12 A3008 RMK AO2 SLP185 P0001 T01440122= KDLL 131055Z AUTO 34004KT 10SM OVC008 13/12 A2994 RMK AO2= KEGV 131055Z AUTO 00000KT 1/2SM FG OVC002 10/10 A2996 RMK AO2= KEKO 131056Z AUTO 07005KT 10SM CLR 09/M02 A3012 RMK AO2 SLP149 T00941022= KELZ 131056Z AUTO 17010G16KT 140V210 10SM OVC007 12/12 A2998 RMK AO2 RAE52 SLP153 P0001 T01220122= KGON 131056Z 00000KT 10SM CLR 09/08 A3013 RMK AO2 SLP204 T00890078= KHAI 131055Z AUTO 34003KT 1/2SM FG BKN001 OVC023 16/16 A2979 RMK AO2= KHCD 131056Z AUTO 00000KT 1 1/4SM BR VV007 05/04 A3001 RMK AO2= KHPN 131056Z 00000KT 10SM BKN100 11/09 A3012 RMK AO2 SLP199 T01110094= KHWV 131056Z AUTO 00000KT 7SM FEW095 08/07 A3014 RMK AO2 SLP205 T00830072= KHYA 131056Z 00000KT 10SM CLR 07/05 A3013 RMK AO2 SLP204 T00670050= KHZX 131056Z AUTO 00000KT 3SM BKN001 02/02 A3001 RMK AO2= KIRS 131056Z AUTO 00000KT 3SM BR BKN003 OVC009 17/17 A2980 RMK AO2= KISP 131056Z 00000KT 10SM FEW033 11/09 A3012 RMK AO2 SLP200 T01110094= KISQ 131056Z AUTO 34006KT 10SM BKN045 12/11 A2991 RMK AO2= KITH 131056Z 15007KT 5SM -RA BR BKN020 OVC032 11/10 A3001 RMK AO2 T01110100 P0000 SLP163= KIWA 131056Z AUTO 06005KT 10SM CLR 25/16 A2993 RMK AO2= KJHW 131055Z 19008KT 3SM BR OVC003 14/12 A2991= KJXN 131056Z 07003KT 3SM BR SCT025 OVC047 17/16 A2980 RMK AO2 SLP086 T01720161 PNO $= KLNR 131056Z AUTO 34005KT 10SM SCT010 BKN031 OVC050 13/12 A2993 RMK AO2 SLP132 T01330117= KLUM 131056Z AUTO 00000KT M1/4SM FG OVC001 07/07 A3000 RMK AO2= KMDT 131056Z 12006KT 10SM -RA OVC045 14/13 A3007 RMK AO2 SLP183 P0002 T01390128= KMIA 131053Z COR 04003KT 10SM SCT034 BKN100 27/22 A2994 RMK AO2 SLP137 T02670217= KPWC 131056Z AUTO 00000KT 10SM SCT044 BKN050 04/04 A2999 RMK AO2= KRNP 131055Z AUTO 00000KT 3SM BR OVC003 17/17 A2979 RMK AO2= KROG 131054Z 00000KT 2SM BR SKC 11/08 A3006= KRYV 131056Z AUTO 35007KT 7SM OVC003 13/12 A2990 RMK AO2= KSAW 131057Z AUTO 33003KT 10SM SCT005 OVC019 12/12 A2996 RMK AO2=  719 SAXX60 KWBC 131100 METAR KVBG 131056Z AUTO 03006KT 1/4SM FG VV001 12/12 A2991 RMK AO2 SLP120 P0001 T01220122 TSNO VISNO RWY12 $= KNPA 131056Z 32004KT 9SM FEW020 BKN070 23/23 A2986 RMK AO2 SLP113 T2 SET T02330228= KNFL 131056Z AUTO 16007KT 10SM CLR 15/M03 A3004 RMK AO2 SLP140 T01501033 TSNO $= KNUQ 131056Z AUTO 28003KT 10SM CLR 16/13 A2990 RMK AO2 SLP128 T01610133 TSNO= KRYT 131053Z AUTO 00000KT 10SM FEW020 OVC033 14/13 A3006 RMK AO2 RAB20E29 SLP177 P0000 T01440133 $= K9L2 131056Z AUTO 36003KT 10SM CLR 17/03 A2992 RMK AO2 SLP109 T01720033 $= KNLC 131056Z AUTO 23006KT 10SM CLR 18/10 A2985 RMK AO2 SLP108 T01830100 TSNO= KBKB 131054Z AUTO VRB05KT 10SM SCT120 22/19 A2990 RMK AO2 SLP151 T02220194 $= KBKF 131055Z 18003KT 10SM SKC 12/05 A3016 RMK SLP161= KEDW 131055Z 20004KT 30SM SKC 20/05 A2992 RMK SLP082= KGRK 131055Z 36006KT 7SM SKC 18/15 A3003 RMK SLP159= KHOP 131055Z 31004KT 4SM BR OVC026 17/16 A2993 RMK SLP133 WR//= KLSF 131055Z 16007KT 6SM -DZ BR OVC011 23/21 A2989 RMK SLP121= KMTC 131055Z 32003KT 2 3/4SM -TSRA BR BKN003 BKN006CB OVC010 18/18 A2979 RMK OCNL LTGICCG NE TS 8NE MOV NE CB 20NW MOV NE SLP090 WR//= KPSM 131055Z 00000KT 20SM BKN100 BKN250 08/06 A3012 RMK SLP200= KRDR 131055Z 19005KT 10SM MIFG CLR 09/08 A2990 RMK AO2A SLP135 T00860081 $= KVPS 131055Z 35001KT 4SM BR FEW006 SCT015 BKN030 BKN080 23/23 A2987 RMK TWR VIS 1/4 VIS SW-NW 1/4 SLP115 WR//= PABI 131053Z AUTO 23008KT 10SM FEW055 SCT070 09/04 A3043 RMK AO2 SLP312 T00890039 TSNO= PMDY 131046Z AUTO 00000KT 10SM FEW039 24/18 A2994 RMK AO2= KNMM 131055Z 33004KT 3/4SM BR OVC001 22/21 A2989 RMK SLP130 FIRST T02170206= KNYL 131056Z 05006KT 7SM FEW120 FEW200 28/13 A2981 RMK SLP089 T02830133= KVAD 131055Z 15004KT 6SM BR OVC040 23/21 A2993 RMK SLP135= PGUA 131055Z 02005KT 7SM FEW027 BKN250 27/24 A2983 RMK AO2A SLPNO RED= KPOE 131055Z 35007KT 9SM SCT110 22/20 A2993 RMK AO2 SLP134 T02220200= KBAD 131055Z 29007KT 7SM SKC 18/15 A2998 RMK SLP152= KCBM 131055Z 31005KT 3SM BR SCT002 BKN012 21/21 A2991 RMK SLP127= KEND 131055Z 25002KT 7SM SKC 12/12 A3010 RMK SLP187= KMIB 131055Z AUTO CLR RMK AO2 SLPNO RVRNO PWINO PNO FZRANO TSNO $= KNKT 131055Z 00000KT 7SM MIFG BKN100 17/16 A3006 RMK SLP177 T01670161= KQHN 131055Z 27008G12KT 9999 SKC 33/M05 A2985 RMK SLP055 WND DATA ESTMD ALSTG/SLP ESTMD QNH1010.8= KRCA 131055Z AUTO 23006KT 10SM CLR 13/06 A2998 RMK AO2 SLP134 T01300062 $= KRIV 131055Z 31002KT 15SM FEW130 18/11 A2994 RMK SLP109 ALSTG/SLP ESTMD= PGUA 131055Z 02005KT 7SM FEW027 BKN250 27/24 A2983 RMK AO2A SLPNO RED= KCVS 131055Z 15001KT 7SM FEW030 SCT050 14/14 A3019 RMK SLP182= KFFO 131055Z 19002KT 3SM -DZ BR OVC007 18/17 A2984 RMK SLP102= KHMN 131055Z 04005KT 10SM BKN100 BKN250 17/13 A3015 RMK SLP162 FIRST= KNBG 131052Z 00000KT 5SM BR BKN200 24/22 A2989 RMK AO2 SLP121 T02390222 $= KNGU 131053Z 00000KT 10SM FEW030 SCT080 BKN150 17/14 A3009 RMK AO2 SLP189 T01670139= KNHK 131052Z 17003KT 10SM FEW120 17/13 A3009 RMK AO2 SLP188 T01670128 $= KNIP 131055Z 17008KT 7SM BKN090 26/19 A2996 RMK SLP139 T02610194 RH/66 PA/0 DA/1300 OAT/79= KNYL 131056Z 05006KT 7SM FEW120 FEW200 28/13 A2981 RMK SLP089 T02830133= KPOB 131055Z VRB02KT 7SM BKN100 17/14 A3004 RMK SLP174= KSKA 131055Z 20010KT 7SM FEW200 11/04 A2991 RMK SLP122= KVAD 131055Z 15004KT 6SM BR OVC040 23/21 A2993 RMK SLP135= KWRI 131055Z 00000KT 7SM FEW150 BKN200 10/09 A3010 RMK AO2A SLP195= PAED 131055Z 04004KT 10SM SKC 08/07 A3044 RMK SLP309=  737 SAAS33 KWBC 131100 METAR VDPP 131100Z 34003KT 9000 SCT015 FEW017CB BKN040 26/25 Q1008 CB S SE=  918 SPUS53 KWBC 131100 SPECI KHTL 131057Z AUTO 01007KT 1 1/2SM BR OVC001 14/14 A2985=  029 SAUS45 KABQ 131100 COR MTRGNT METAR KGNT 131053Z AUTO 00000KT 09/06 A3029 RMK AO2 SLP179 T00940061 PWINO TSNO  041 SAUS46 KMFR 131100 RRE MTRSFO METAR KSFO 131056Z 29011KT 10SM FEW007 14/09 A2990 RMK AO2 SLPNO T01400090 PNO $  044 SAUS45 KVEF 131100 MTRINS METAR KINS 131056Z AUTO 00000KT 10SM CLR 19/00 A2997 RMK AO2 SLP096 T01940000 $  049 SAUS46 KLOX 131100 MTR3A6 METAR K3A6 131150Z AUTO 12002KT 20/11 A2992 RMK AO1 SLP127 T02000112 10223 20197 57030  177 SAUZ31 UTTT 131100 UTTT 131100Z 33002MPS 260V360 CAVOK 31/04 Q1012 NOSIG=  187 SAUS44 KSHV 131100 MTRAQV METAR KAQV 131056Z AUTO VRB04KT 10SM CLR 21/18 A2993 RMK AO2 SLP130 T02110178  237 SAUS45 KVEF 131100 COR MTRBJN METAR KBJN 131056Z AUTO 29005KT 10SM FEW027 13/M02 A3017 RMK AO2 SLP031 T01331022 $  300 SAMF20 TFFR 131100 METAR TFFR 131100Z 12002KT 9999 FEW020 27/25 Q1013 NOSIG=  302 SAUS46 KSEW 131100 MTRUIL SPECI KUIL 131059Z AUTO 00000KT 2 1/2SM BR CLR 08/08 A3015 RMK AO2 TSNO  325 SPJP43 KWBC 131101 SPECI RJOH 131043Z 07010KT 9999 -RA FEW010 BKN020 BKN070 21/16 Q1018 RMK 1ST010 5CU020 7AS070 A3006=  361 SAXX70 KAWN 131100 RRC METAR KQQY 131055Z AUTO 31001KT 9999 -RA SCT055 21/20 A3001 RMK AO2 SLP146= METAR KQTX 131055Z 32011G13KT 9999 SKC 37/04 A2981 RMK SLPNO Q1010MB PA+1170 DA+3962 WND DATA ESTMD ALSTG ESTMD= METAR KQTZ 131055Z 32009G16KT 9999 SKC 38/10 A2978 RMK SLP082 Q1008MB WND DATA ESTMD ALSTG/SLP ESTMD= METAR KQVO 131055Z 31007KT 9999 SKC 36/03 A2983 RMK SLP102 T03580034=  371 SACH12 SCSC 131100 METAR SCAR 131100Z 14003KT 9999 OVC023 17/11 Q1016= SCFA 131100Z VRB02KT 9999 FEW015 BKN022 14/12 Q1017 NOSIG= SCEL 131100Z 15006KT 8000 BKN050 09/06 Q1017 NOSIG= SCIE 131100Z 00000KT CAVOK 02/00 Q1020= SCTC 131100Z VRB03KT CAVOK 02/01 Q1021= SCTE 131100Z 00000KT 5000 BR BKN030 04/04 Q1022 NOSIG= SCCI 131100Z 24026G42KT 9999 SCT015 01/M00 Q0992 RESHRASN NOSIG=  373 SATR31 RUMS 131100 UTAA 131100Z 01003MPS 320V050 6000 FEW066 SCT100 25/13 Q1017 NOSIG=  378 SAUS44 KFWD 131101 MTRHLR METAR KHLR 131056Z AUTO 36007KT 10SM CLR 19/14 A3004 RMK AO2 SLP166 T01940144 $  390 SAUS45 KFGZ 131101 MTRIGM METAR KIGM 131059Z AUTO 22005KT 10SM FEW120 21/09 A3004 RMK AO2 SLP098 T02110089 TSNO  415 SAUS41 KAKQ 131101 COR MTRWAL METAR KWAL 131054Z COR 32004KT 10SM SCT025 BKN190 OVC250 12/11 A3011 RMK AO2 SLP192 T01220111 TSNO  470 SAUS46 KLOX 131101 COR MTR9L2 METAR K9L2 131056Z AUTO 36003KT 10SM CLR 17/03 A2992 RMK AO2 SLP109 T01720033 $  478 SASR31 WSAP 131100 METAR WSAP 131100Z 16005KT 9999 FEW018 FEW020TCU BKN280 30/25 Q1009=  504 SAEG31 HECA 131103 HECA 131030Z 01010KT CAVOK 31/20 Q1015 NOSIG=  620 SAUS46 KLOX 131101 COR MTRVBG METAR KVBG 131056Z AUTO 03006KT 1/4SM FG VV001 12/12 A2991 RMK AO2 SLP120 P0001 T01220122 TSNO VISNO RWY12 $  621 SAUS41 KCLE 131101 MTRTOL SPECI KTOL 131059Z 20005KT 6SM BR OVC006 19/18 A2980 RMK AO2  623 SAUS41 KBOX 131101 MTRPVD METAR KPVD 131051Z COR 27004KT 10SM FEW035 SCT090 BKN130 BKN200 BKN250 11/08 A3014 RMK AO2 SLP205 T01110078  642 SAFG20 SOCA 131100 METAR SOCA 131100Z VRB01KT 9999 FEW018 BKN120 25/24 Q1014 NOSIG=  835 SAAS33 KWBC 131100 RRA METAR WSAP 131100Z 16005KT 9999 FEW018 FEW020TCU BKN280 30/25 Q1009= WSSL 131100Z VRB03KT 9999 FEW020 BKN300 29/23 Q1009 RMK 1030Z Q 1009=  837 SAEE32 KWBC 131100 METAR LBBG 131100Z 08008MPS 050V110 9999 SCT033 24/14 Q1024 NOSIG= LBPD 131100Z 07004MPS 340V130 CAVOK 23/09 Q1025 NOSIG= LBSF 131100Z 13005MPS 9999 FEW050 SCT200 23/05 Q1025 NOSIG= LBWN 131100Z 13006MPS 070V170 9999 FEW033 SCT053 23/16 Q1025 NOSIG= LUKK 131100Z 05006KT CAVOK 22/10 Q1026 08CLRD65 NOSIG=  839 SPUS70 KWBC 131102 SPECI KBKL 131057Z 18010KT 6SM HZ FEW014 SCT019 OVC050 19/16 A2983 RMK AO2=  841 SAAW32 KWBC 131130 METAR OIYY 133050Z 09004KT CAVOK 36/M07 Q1016 A3002 NOSIG=  843 SAUS80 KWBC 131100 RRA METAR KAID 131045Z 28010KT 5SM BR BKN007 OVC012 16/14 A2985 RMK AO2 FIRST= KLYV 131055Z AUTO 00000KT 1/4SM FG OVC001 05/05 A3004 RMK AO2= KSFO 131056Z 29011KT 10SM FEW007 14/09 A2990 RMK AO2 SLPNO T01400090 PNO $= KPZQ 131057Z AUTO 04005KT 1/2SM FG OVC001 13/13 A2987 RMK AO2= KROS 131056Z AUTO 00000KT 1/2SM FG OVC001 03/02 A3002 RMK AO2= KIGM 131059Z AUTO 22005KT 10SM FEW120 21/09 A3004 RMK AO2 SLP098 T02110089 TSNO= KPVD 131051Z COR 27004KT 10SM FEW035 SCT090 BKN130 BKN200 BKN250 11/08 A3014 RMK AO2 SLP205 T01110078=  844 SAUS70 KWBC 131100 RRD METAR KYUM 131056Z 05006KT 7SM FEW120 FEW200 28/13 A2981 RMK SLP089 T02830133= KADS 131050Z 02004KT 13SM SKC 18/14 A3005= KASG 131048Z 00000KT 5SM BR SKC 12/10 A3006= KBCT 131047Z 11007KT 10SM FEW036 27/21 A2995= KCCU 131056Z AUTO 00000KT 10SM CLR 07/M08 A3059 RMK AO2= KCFE 131055Z AUTO 00000KT 1/2SM FG OVC001 06/05 A3002 RMK AO2 T00560050= KCGF 131045Z 21010KT 7SM -RA BKN015 OVC030 18/17 A2985= KCKC 131055Z AUTO 00000KT 10SM CLR 03/01 A2999 RMK AO2= KCOQ 131055Z AUTO 00000KT 10SM CLR 00/00 A2999 RMK AO2= KCQB 131057Z AUTO 36003KT 7SM SCT090 SCT120 11/11 A3008 RMK AO2= KEKM 131055Z 00000KT 3SM BR OVC002 18/18 A2979 RMK AO2= KEVB 131047Z 12004KT 10SM SCT050 25/20 A2998 RMK FIRST= KGYY 131050Z VRB06KT 10SM VCTS BKN003 OVC011 17/16 A2981= KHCO 131055Z AUTO 16006KT 10SM CLR 11/09 A2988 RMK AO2= KJMR 131055Z AUTO 00000KT 7SM CLR 02/01 A3003 RMK AO2= KJYG 131055Z AUTO 22003KT 7SM CLR 08/08 A3002 RMK AO2= KLJF 131055Z AUTO 00000KT 10SM CLR 07/07 A3002 RMK AO2= KLVN 131055Z AUTO 00000KT 7SM CLR 08/07 A3002 RMK AO2= KLXL 131054Z AUTO 00000KT 5SM BR CLR 03/02 A3001 RMK AO2= KMGG 131055Z AUTO 00000KT 3SM BR CLR 05/05 A3002 RMK AO2= KOEO 131055Z AUTO 00000KT 1/2SM FG OVC001 05/05 A3003 RMK AO2= KOMN 131050Z 00000KT 10SM SKC 22/17 A2997= KPBH 131055Z AUTO 02004KT 1/2SM FG OVC001 07/07 A3000 RMK AO2= KPCZ 131055Z AUTO 35004KT 10SM SCT008 OVC060 12/11 A2993 RMK AO2= KPDC 131055Z AUTO 31007KT 10SM 12/11 A2996 RMK AO2= KRCX 131055Z AUTO 00000KT 1/4SM FG OVC001 07/07 A3001 RMK AO2= KSGJ 131050Z 16006KT 8SM SCT030 26/19 A2997= KTIX 131046Z 11005KT 7SM FEW010 SCT080 26/ A2995 RMK FIREST= KVVV 131057Z AUTO 18004KT 10SM CLR 12/09 A2998 RMK AO2= KVWU 131048Z AUTO 00000KT 10SM SCT065 BKN080 11/09 A2995 RMK AO2= KW99 131055Z AUTO 12004KT 7SM -RA BKN055 BKN110 15/13 A3001 RMK AO2= PACM 131056Z AUTO 20014KT 10SM OVC018 09/ A3032 RMK AO2 TSNO T0088 SLP271 $= PAMB 131056Z AUTO 00000KT 1/4SM FG CLR 04/04 A3043 RMK AO2 PWINO TSNO T00440038 SLP309= PAOH 131056Z AUTO 00000KT 1/4SM FG OVC005 07/06 A3033 RMK AO2 TSNO T00660061 SLP273 $= PAOO 131056Z AUTO 15014KT 10SM OVC012 08/07 A3037 RMK AO2 TSNO T00830066 SLP289 $= PARY 131056Z AUTO 00000KT 10SM OVC028 08/06 A3040 RMK AO2 PWINO TSNO T00770055 SLP301 $= KWJF 131056Z 00000KT 10SM CLR 18/04 A2994 RMK AO2 SLP116 T01780039= TJPS 131055Z 00000KT 10SM FEW025 SCT080 24/22 A2992= KCFS 131057Z AUTO 00000KT 1/2SM FG OVC002 17/16 A2981 RMK AO2= KCQM 131055Z AUTO 00000KT 10SM CLR 01/01 A2999 RMK AO2= KDTL 131053Z AUTO 16004KT 10SM CLR 13/10 A2997 RMK AO2= KDUH 131056Z AUTO 20004KT 3SM BR OVC004 A2981 RMK AO2= KDVP 131055Z AUTO 00000KT 10SM SCT060 06/05 A3004 RMK AO2= KDYT 131055Z AUTO 20006KT 10SM CLR 07/06 A2999 RMK AO2= KELO 131055Z AUTO 00000KT 10SM SCT001 02/00 A2998 RMK AO2= KETH 131055Z AUTO 15005KT 10SM SCT075 BKN095 13/11 A2998 RMK AO2= KEVM 131055Z AUTO 00000KT 1/4SM FG OVC001 01/00 A3001 RMK AO2= KMJQ 131055Z AUTO 00000KT 4SM BR CLR 07/07 A3003 RMK AO2= KMLT 131058Z AUTO 00000KT 10SM CLR 05/03 A3009 RMK AO2 SLP196 T00500033= KMOX 131055Z AUTO 14005KT 7SM CLR 10/10 A2998 RMK AO2= KMVE 131055Z AUTO 20003KT 10SM BKN065 BKN080 OVC090 11/08 A2999 RMK AO2= KMWM 131055Z AUTO 00000KT 1/4SM FG OVC001 07/07 A3002 RMK AO2= KONA 131055Z AUTO 00000KT 1/4SM FG OVC001 12/11 A2999 RMK AO2= KORB 131055Z AUTO 15003KT 10SM CLR 07/07 A2996 RMK AO2= KRGK 131055Z AUTO 00000KT M1/4SM FG OVC002 08/07 A3001 RMK AO2= KRNH 131055Z AUTO 00000KT 1SM BR OVC001 05/03 A3002 RMK AO2 VIS 1/2V4= KROX 131055Z AUTO 00000KT 10SM CLR 11/09 A2991 RMK AO2=  846 SAEM31 KWBC 131100 METAR LDDU 131100Z 17009KT CAVOK 26/15 Q1021= LDOS 131100Z VRB04KT CAVOK 23/10 Q1022= LDPL 131100Z 11005KT 060V190 CAVOK 25/11 Q1020 NOSIG= LDRI 131100Z 25004KT 180V310 CAVOK 25/12 Q1021 NOSIG= LDSP 131100Z 18004KT 100V290 9999 FEW050 27/13 Q1021 NOSIG= LDZA 131100Z VRB03KT 9999 FEW035 22/12 Q1022 NOSIG= LDZD 131100Z 24004KT 9999 FEW040 27/17 Q1020 NOSIG= LWOH 131100Z 21004KT 9999 FEW050 21/13 Q1024=  847 SAXX60 KWBC 131100 CCB METAR K9L2 131056Z AUTO 36003KT 10SM CLR 17/03 A2992 RMK AO2 SLP109 T01720033 $= KVBG 131056Z AUTO 03006KT 1/4SM FG VV001 12/12 A2991 RMK AO2 SLP120 P0001 T01220122 TSNO VISNO RWY12 $=  848 SPUS80 KWBC 131102 SPECI KODX 131058Z AUTO 00000KT 1SM BR VV002 11/09 A3003 RMK AO2= KUIL 131059Z AUTO 00000KT 2 1/2SM BR CLR 08/08 A3015 RMK AO2 TSNO= KTOL 131059Z 20005KT 6SM BR OVC006 19/18 A2980 RMK AO2=  852 SAXX60 KWBC 131100 RRB METAR KCEF 131055Z 00000KT 7SM BKN120 BKN200 07/06 A3014 RMK SLP210 FIRST= KDAA 131055Z VRB01KT 7SM OVC046 16/14 A3009 RMK SLP191= KFAF 131057Z 04002KT 7SM SCT020 BKN150 14/14 A3007 RMK SLP182 RCRNR= KFBG 131055Z 10003KT 7SM FEW055 BKN080 16/15 A3004 RMK SLP172= KFMH 131055Z 29001KT 15SM SCT120 BKN250 08/06 A3014 RMK SLP208= KFTK 131055Z 31003KT 2SM BR BKN008 OVC015 17/16 A2989 RMK SLP113 WR//= KIAB 131055Z 26004KT 7SM SKC 10/10 A3009 RMK SLP189= KSKF 131055Z 35003KT 7SM FEW018 SCT055 SCT250 23/22 A2998 RMK SLP146= KSSC 131055Z 08004KT 7SM BKN060 OVC080 18/16 A3001 RMK SLP161 WR//= MHSC 131055Z AUTO 11000KT 20/20 RMK AO1 SLPNO= KADW 131055Z 22007KT 10SM BKN050 15/12 A3010 RMK AO2A RAE1008DZB1008E1013 SLP192 WR// P0000 T01500120 $= KBAB 131055Z VRB03KT 7SM SKC 22/12 A2984 RMK SLP104= KBIX 131055Z 02002KT 5SM BR SCT004 BKN120 23/23 A2987 RMK SLP117= KBLV 131057Z 30008KT 7SM OVC022 16/13 A2994 RMK AO2A SLP138= KDAA 131055Z COR VRB01KT 7SM OVC046 16/14 A3009 RMK SLP191 WR// COR 1058= KFCS 131057Z 32007KT 7SM SKC 10/06 A3020 RMK SLP194= KGSB 131055Z 11003KT 7SM BKN100 16/15 A3003 RMK SLP172= KLRF 131055Z 31003KT 7SM SKC 15/15 A3002 RMK SLP164= KLSV 131055Z 05004KT 20SM FEW250 26/10 A2988 RMK SLP096= KMGE 131055Z 10004KT 2 1/2SM -RA BR SCT001 OVC005 19/19 A2994 RMK SLP133 WR//= KNRB 131055Z 17009KT 7SM SCT025 BKN060 BKN150 26/19 A2996 RMK SLP143 T02610194 RH/66 PA/-10 DA/1300 SST/29= KNTU 131056Z 00000KT 7SM SCT040 BKN100 14/12 A3007 RMK SLP186 T01390122= KOFF 131055Z 00000KT 5SM BR SKC 09/09 A3005 RMK VIS LWR E SLP174= KSUU 131055Z 23010KT 15SM SKC 16/11 A2983 RMK SLP102= PMDY 131046Z AUTO 00000KT 10SM FEW039 24/18 A2994 RMK AO2= KINS 131056Z AUTO 00000KT 10SM CLR 19/00 A2997 RMK AO2 SLP096 T01940000 $= KAQV 131056Z AUTO VRB04KT 10SM CLR 21/18 A2993 RMK AO2 SLP130 T02110178=  853 SAUS80 KWBC 131100 CCB METAR KGNT 131053Z AUTO 00000KT 09/06 A3029 RMK AO2 SLP179 T00940061 PWINO TSNO= KBJN 131056Z AUTO 29005KT 10SM FEW027 13/M02 A3017 RMK AO2 SLP031 T01331022 $= KWAL 131054Z COR 32004KT 10SM SCT025 BKN190 OVC250 12/11 A3011 RMK AO2 SLP192 T01220111 TSNO=  887 SPUS43 KWBC 131102 SPECI KTOL 131059Z 20005KT 6SM BR OVC006 19/18 A2980=  888 SPUS54 KWBC 131102 SPECI KUIL 131059Z AUTO 00000KT 2 1/2SM BR CLR 08/08 A3015=  951 SAMR20 TFFF 131100 METAR TFFF 131100Z 00000KT 9999 FEW020TCU BKN300 26/25 Q1013 NOSIG=  970 SAUS43 KIWX 131102 MTRSBN SPECI KSBN 131101Z 20004KT 1/2SM FG OVC001 17/17 A2980 RMK AO2  107 SASD31 OEJD 131100 METAR OEDF 131100Z VRB03KT CAVOK 44/00 Q1003 NOSIG= METAR OEDR 131100Z NIL= METAR OEJN 131100Z 29014KT 8000 SKC 3727 Q1004 NOSIG= METAR OEMA 131100Z 03008KT CAVOK 42/M04 Q1010 NOSIG= METAR OERK 131100Z 01009KT CAVOK 40/M02 Q1010 NOSIG= METAR OERY 131100Z 04004KT CAVOK 40/M03 Q1011 NOSIG= METAR OYSN 131100Z 35006KT 9999 FEW030 28/02 Q1024=  108 SAMC31 GMMC 131100 METAR GMAD 131100Z 24007KT 8000 SCT200 27/19 Q1014 NOSIG= METAR GMFF 131100Z 03006KT 350V080 8000 BKN030 24/15 Q1016 NOSIG= METAR GMME 131100Z 30010KT 9999 SCT020 25/20 Q1014 NOSIG= METAR GMMN 131100Z 02006KT 9999 SCT026 24/15 Q1017 NOSIG= METAR GMMX 131100Z 06005KT 320V110 6000 FEW020 OVC033 21/17 Q1018 NOSIG= METAR GMTT 131100Z 23016KT 7000 SCT016 SCT200 26/19 Q1014 NOSIG=  109 SAPL32 EPWA 131100 METAR EPKT 131100Z 22006KT CAVOK 22/10 Q1023= METAR EPLL 131100Z 11010KT CAVOK 22/10 Q1023= METAR EPSC 131100Z 14011KT CAVOK 23/13 Q1020= METAR EPWR 131100Z 16007KT 120V200 CAVOK 23/10 Q1021=  111 SAPL31 EPWA 131100 METAR EPWA 131100Z 14009KT 110V170 9999 FEW040 22/12 Q1024 NOSIG= METAR EPGD 131100Z 15006KT 110V200 CAVOK 21/14 Q1023= METAR EPKK 131100Z 27001KT 9999 FEW050 23/08 Q1024= METAR EPPO 131100Z 16009KT CAVOK 24/10 Q1021= METAR EPRZ 131100Z 19007KT 9999 SCT036 23/12 Q1025=  112 SAMR20 TFFF 131100 METAR TFFF 131100Z 00000KT 9999 FEW020TCU BKN300 26/25 Q1013 NOSIG=  113 SAFG20 SOCA 131100 METAR SOCA 131100Z VRB01KT 9999 FEW018 BKN120 25/24 Q1014 NOSIG=  114 SAHU31 LHBM 131100 METAR LHBP 131100Z 15010G20KT 090V200 CAVOK 24/08 Q1024 NOSIG =  221 SAUS41 KAKQ 131102 COR MTRWAL METAR KWAL 131054Z COR 32004KT 10SM SCT025 BKN190 OVC250 12/11 A3011 RMK AO2 SLP192 T01220111 TSNO  328 SARA31 UHHH 131100 METAR 131100Z METAR UHHH 131100Z 30002MPS CAVOK 09/09 Q1023 NOSIG=  410 SXUS81 KWOH 131100 RRSSGX :&&HADS SOR REPORT FOR USER SGX .A BPNC1 20060913 DH1054/PPHRG 0.00 .A GTOC1 20060913 DH1045/PPHRG 0.00 .A RGTC1 20060913 DH1045/PPHRG 0.00 .A BCNC1 20060913 DH1056/PPHRG 0.00 .A MFLC1 20060913 DH1045/PPHRG 0.00 .A SUPC1 20060913 DH1045/PPHRG 0.00 :END OF REPORT  472 SASR31 WSSS 131100 METAR WSSS 131100Z 18004KT 9999 FEW018 BKN300 29/22 Q1010 NOSIG=  566 SXUS91 KNKA 131100 TESTM KSGH 131056Z AUTO 22004KT 1 3/4SM BR OVC005 18/18 A2986 RMK AO2 T01770177 RAB0958E14 P0000 SLP105 $=  581 SXUS81 KWOH 131101 RRSSGX :&&HADS SOR REPORT FOR USER SGX .A GOSC1 20060913 DH1058/PCIRG 0.11 .A GOSC1 20060913 DH1058/USIRG 0.00 .A GOSC1 20060913 DH1058/UDIRG 18 .A GOSC1 20060913 DH1058/TAIRG 60.0 .A GOSC1 20060913 DH1058/MTIRG 60 .A GOSC1 20060913 DH1058/XRIRG 57 .A GOSC1 20060913 DH1058/VBIRG 12.60 .A GOSC1 20060913 DH1058/MMIRG 8 .A GOSC1 20060913 DH1058/URHRG 18 .A GOSC1 20060913 DH1058/UPHRG 0.00 .A PAMC1 20060913 DH1058/PCIRG 0.78 .A PAMC1 20060913 DH1058/USIRG 2.00 .A PAMC1 20060913 DH1058/UDIRG 353 .A PAMC1 20060913 DH1058/TAIRG 67.0 .A PAMC1 20060913 DH1058/MTIRG 59 .A PAMC1 20060913 DH1058/XRIRG 35 .A PAMC1 20060913 DH1058/VBIRG 12.70 .A PAMC1 20060913 DH1058/MMIRG 8 .A PAMC1 20060913 DH1058/URHRG 341 .A PAMC1 20060913 DH1058/UPHRG 4.00 .E ESEC1 20060913 DH1000/PCIRG/DIN15/0.00/0.00/0.00/0.00 .E TTRC1 20060913 DH1000/PCIRG/DIN15/0.00/0.00/0.00/0.00 .E APXC1 20060913 DH1000/PCIRG/DIN15/0.28/0.28/0.28/0.28 .E SWCC1 20060913 DH1000/HGIRG/DIN15/3.77/3.77/3.77/3.77 :END OF REPORT  663 SPAU31 AMMC 131103 SPECI YBCS 131100Z 16005KT 9999 SCT025 BKN050 19/18 Q1021 RESHRA=  708 SAUS41 KGYX 131102 MTRMWN METAR KMWN 131059Z 25005KT 110SM FEW120 BKN140 BKN160 BKN200 06/M19 RMK PTCHY VLY FG ALQDS  740 SPUS53 KWBC 131103 SPECI KODX 131058Z AUTO 00000KT 1SM BR VV002 11/09 A3003=  743 SPUS53 KWBC 131103 SPECI KSBN 131101Z 20004KT 1/2SM FG OVC001 17/17 A2980=  746 SAVN23 SVBC 131100 METAR SVBC 131100Z /////KT 9999 FEW010 25/23 Q1012=  747 SATR31 RUMS 131100 UTAM 131100Z 31005MPS CAVOK 33/05 Q1013 NOSIG=  890 SAAT31 TAPA 131100 METAR TAPA 131100Z 10008KT 9999 SCT020 28/24 Q1013 SLT HZ=  990 SAVN24 SVMG 131100 METAR SVMG 131100Z 13006KT 9999 SCT010 SCT080 27/26 Q1012 NOSIG= METAR SVCU 131100Z NIL= METAR SVCP 131100Z NIL= METAR SVGI 131100Z NIL=  991 SAMS34 WMKK 131100 METAR 131100Z METAR WBGB 131100Z 34004KT 9999 FEW015CB BKN300 29/24 Q1009= METAR WBGR 131100Z 35004KT 9999 SCT014 FEW015CB BKN150 28/28 Q1009= METAR WBGS 131100Z 35002KT 9999 FEW015CB SCT016 BKN150 26/25 Q1010= METAR WBGY 131100Z 27001KT 9999 FEW015CB BKN150 26/24 Q1009= METAR WBKL 131100Z 01006KT 9999 SCT010 FEW015CB SCT140 BKN290 28/24 Q1010= METAR WBKS 131100Z 04004KT 9999 FEW015 FEW017CB BKN270 28/25 Q1010= METAR WBKT 131100Z 26001KT 9999 FEW016 BKN270 28/25 Q1010= METAR WBKW 131100Z 01001KT 9999 FEW017 BKN300 27/24 Q1010=  992 SAXX70 KAWN 131100 RRD METAR KQMH 131055Z 22005KT 9999 SKC 33/05 A3008 RMK SLP091 T03330052 PA 2361 DA 5075= METAR KQYU 131055Z AUTO 09001KT 7SM FEW022 25/24 A3071 RMK AO2 SLP386=  021 SAUS41 KRNK 131103 MTRLYH SPECI KLYH 131102Z 15003KT 9SM -RA BKN008 BKN023 OVC036 14/13 A3008 RMK AO2 P0000  168 SAAU31 AMMC 131100 METAR YBAS 131100Z AUTO 13006KT //// // NCD 18/M03 Q1024= METAR YBBN 131100Z 19007KT 9999 FEW030 16/10 Q1031 NOSIG= METAR YBCS 131100Z 16005KT 9999 SCT025 BKN050 19/18 Q1021 RESHRA= METAR YBTL 131100Z 11013KT CAVOK 21/13 Q1023 NOSIG= METAR YMML 131100Z 35014KT CAVOK 14/04 Q1029 NOSIG= METAR YPAD 131100Z 05007KT CAVOK 17/08 Q1026 NOSIG= METAR YPCC 131100Z 11012KT 9999 FEW024 BKN300 27/22 Q1014= METAR YPDN 131100Z 10005KT CAVOK 25/14 Q1014= METAR YPKU 131100Z AUTO 11006KT 9999NDV // NCD 26/04 Q1015= METAR YPLM 131100Z AUTO 23010KT 9999NDV // NCD 26/12 Q1016= METAR YPPH 131100Z 22007KT CAVOK 15/09 Q1026 NOSIG= METAR YPTN 131100Z 11004KT CAVOK 21/09 Q1016= METAR YPXM 131100Z AUTO 13013KT 9999NDV // OVC010 23/22 Q1014= METAR YSSY 131100Z 02008KT CAVOK 17/09 Q1032 NOSIG=  343 SAXX60 KWBC 131100 RRC METAR KBIX 131055Z 02002KT 5SM BR SCT004 BKN120 23/23 A2987 RMK SLP117= KCEF 131055Z 00000KT 7SM BKN120 BKN200 07/06 A3014 RMK SLP210 FIRST= KFAF 131057Z 04002KT 7SM SCT020 BKN150 14/14 A3007 RMK SLP182 RCRNR= KFBG 131055Z 10003KT 7SM FEW055 BKN080 16/15 A3004 RMK SLP172= KGUS 131055Z 24008KT 5SM -DZ BR OVC004 14/14 A2983 RMK SLP106 WR FIRST= KLRF 131055Z 31003KT 7SM SKC 15/15 A3002 RMK SLP164= KNBG 131052Z 00000KT 5SM BR BKN200 24/22 A2989 RMK AO2 SLP121 T02390222 $= KDMA 131057Z 12013KT 20SM FEW080 SCT120 22/15 A2997 RMK SLP117= KGUS 131055Z 24008KT 5SM -DZ BR OVC004 14/14 A2983 RMK SLP106 WR FIRST= KHRT 131055Z 34003KT 8SM FEW005 FEW060 SCT170 23/23 A2986 RMK AO2A SLP112 RCRNR $= KHST 131055Z 12002KT 7SM OVC040 27/22 A2994 RMK SLP140 WR//= KLHW 131055Z 11004KT 3SM -RA OVC034 22/22 A2995 RMK SLPNO= KMUO 131055Z 08001KT 7SM SKC 12/M01 A2998 RMK SLP130= KNBC 131056Z 03007KT 7SM -RA FEW015 SCT035 OVC050 22/21 A2997 RMK RAB45 SLP149 P0002 T02220206= KNCA 131056Z 02004KT 7SM BKN100 BKN200 16/15 A3005 RMK SLP177 T01610150= KNFW 131055Z 01004KT 7SM SKC 18/14 A3011 RMK SLP194 T01830139= KNQX 131055Z 06006KT 7SM FEW025CB SCT250 28/24 A2992 RMK CB DSNT E-W SLP124 T02780244= KNZY 131055Z 03003KT 7SM BKN008 21/17 A2987 RMK SLP115 T02060172= KTBN 131055Z 28004KT 7SM SKC 12/10 A3002 RMK SLP164 FIRST= KWRB 131055Z 12005KT 7SM BKN035 21/20 A2994 RMK AO2A SLP137 WR//= KNQX 131055Z 06006KT 7SM FEW025CB SCT250 28/24 A2992 RMK CB DSNT E-W SLP124 T02780244= KNRB 131055Z 17009KT 7SM SCT025 BKN060 BKN150 26/19 A2996 RMK SLP143 T02610194 RH/66 PA/-10 DA/1300 SST/29= KNTU 131056Z 00000KT 7SM SCT040 BKN100 14/12 A3007 RMK SLP186 T01390122= KSSC 131055Z 08004KT 7SM BKN060 OVC080 18/16 A3001 RMK SLP161 WR//= KWRB 131055Z 12005KT 7SM BKN035 21/20 A2994 RMK AO2A SLP137 WR//= PABA 131055Z AUTO 13011KT 10SM CLR 02/01 A3020 RMK AO1 T00170012=  345 SAUS80 KWBC 131100 RRB METAR KGPI 131055Z AUTO 00000KT 10SM CLR 04/02 A2992 RMK AO2 SLP122 T00440017= KLIC 131055Z AUTO 36005KT 9SM CLR 05/03 A3018 RMK AO2 SLP171 T00500033 TSNO= KMKG 131055Z 02007KT 6SM BR OVC004 17/16 A2982 RMK AO2 SLP095 T01670156= KSHV 131056Z 35007KT 10SM CLR 20/15 A2998 RMK AO2 SLP147 T02000150= KTKC 131055Z AUTO 23005KT 10SM CLR 10/08 A3001 RMK AO2= KTKV 131055Z AUTO 32003KT 2SM BR CLR 07/06 A2998 RMK AO2= KINW 131056Z AUTO 00000KT 10SM SCT090 BKN110 18/11 A3016 RMK AO2 SLP143 T01830111 TSNO= KCKP 131055Z AUTO 00000KT OVC001 07/07 A3002 RMK AO2= KMWN 131059Z 25005KT 110SM FEW120 BKN140 BKN160 BKN200 06/M19 RMK PTCHY VLY FG ALQDS= KAYS 131100Z AUTO 00000KT 7SM SCT031 SCT060 BKN080 23/22 A2995 RMK AO1= KVTI 131055Z AUTO 31005KT 10SM OVC033 12/11 A2998 RMK AO1= KDBN 131100Z AUTO 14005KT 10SM SCT055 21/21 A2994 RMK AO1=  348 SAAW32 KWBC 131100 METAR OEDF 131100Z VRB03KT CAVOK 44/00 Q1003 NOSIG= OEDR 131100Z NIL= OEJN 131100Z 29014KT 8000 SKC 3727 Q1004 NOSIG= OEMA 131100Z 03008KT CAVOK 42/M04 Q1010 NOSIG= OERK 131100Z 01009KT CAVOK 40/M02 Q1010 NOSIG=  349 SAUS70 KWBC 131100 RRF METAR KAXA 131055Z AUTO 27004KT 5SM HZ CLR 08/05 A3003 RMK AO2= KBNW 131055Z AUTO 00000KT 7SM CLR 10/08 A3003 RMK AO2= KCAV 131055Z AUTO 00000KT 1/4SM HZ OVC001 05/02 A3003 RMK AO2= KCBF 131055Z AUTO 00000KT 2 1/2SM CLR 11/09 A3005 RMK AO2= KCCY 131055Z AUTO 33003KT 4SM CLR 08/07 A3000 RMK AO2= KCIN 131055Z AUTO 00000KT 5SM HZ CLR 06/02 A3004 RMK AO2= KCNC 131055Z AUTO 31004KT 5SM CLR 11/10 A3002 RMK AO2= KCSQ 131055Z AUTO 30005KT 7SM CLR 07/07 A3004 RMK AO2= KDEH 131055Z AUTO 00000KT 10SM CLR 11/08 A3000 RMK AO2= KDNS 131055Z AUTO 00000KT 3SM CLR 06/06 A3007 RMK AO2= KEBS 131055Z AUTO 00000KT 4SM CLR 09/07 A3003 RMK AO2= KEOK 131055Z AUTO 33004KT 10SM SCT017 SCT030 OVC042 16/13 A2996 RMK AO2= KFFL 131055Z AUTO 31005KT 10SM CLR 14/12 A2997 RMK AO2= K1A5 131100Z AUTO 00000KT 7SM RA BKN009 OVC017 17/16 A3001 RMK AO2= KACP 131057Z AUTO 34004KT 10SM BKN013 22/22 A2991 RMK AO2= KASJ 131100Z AUTO 00000KT 10SM CLR 17/12 A3008 RMK AO2= KBIJ 131058Z AUTO 00000KT 7SM BKN008 BKN011 OVC018 22/21 A2990 RMK AO2= KBQK 131059Z AUTO 15003KT 10SM SCT070 SCT090 24/22 A2995 RMK AO2= KEDE 131100Z AUTO 00000KT 10SM SCT035 13/13 A3007 RMK AO2= KERY 131100Z AUTO 32004KT 10SM OVC050 12/11 RMK AO2= KEXX 131100Z AUTO 00000KT 5SM RA SCT001 SCT065 17/16 A3006 RMK AO2= KGTU 131055Z AUTO 01005KT 10SM CLR 19/15 A3003 RMK AO1= KHYI 131055Z AUTO 01004KT 10SM CLR 21/18 A3001 RMK AO1= KIDI 131100Z AUTO 14003KT 7SM OVC016 14/14 A2997 RMK AO2= KILE 131055Z 03008KT 10SM CLR 19/13 A3006 RMK AO1= KOCH 131055Z AUTO 01006KT 10SM CLR 19/17 A2998 RMK AO1= KOOA 131055Z AUTO 31006KT 5SM SCT031 11/10 A2999 RMK AO2= KPRX 131055Z AUTO 34006KT 10SM CLR 14/11 A3004 RMK AO1= KTNU 131055Z AUTO 30003KT 4SM CLR 10/08 A3002 RMK AO2= KTPL 131055Z 02007KT 10SM CLR 19/13 A3002 RMK AO1= PALG 131056Z AUTO 08003KT 2SM BR CLR 04/03 A3044 RMK AO2 TSNO T00380033 SLP311 $= KBGE 131100Z AUTO 15005KT 7SM OVC010 23/21 A2990 RMK AO2= KCCO 131100Z AUTO 11003KT 2 1/2SM OVC005 19/19 A2991 RMK AO1= KDNN 131058Z AUTO 15005KT 10SM OVC029 18/18 A2994 RMK AO2= KGWW 131100Z AUTO 00000KT OVC110 16/13 A3005 RMK AO2= KIER 131059Z AUTO 33006KT 10SM CLR 21/18 A2995 RMK AO2= KSVH 131100Z AUTO 2 1/2SM +RA SCT003 BKN008 OVC022 17/16 A3006 RMK AO2 P0004=  350 SPUS70 KWBC 131104 SPECI KLWC 131059Z AUTO 33005KT 3/4SM BR VV001 09/08 A3007 RMK AO2= KAGC 131100Z AUTO 17007KT 4SM -RA BR BKN005 BKN008 OVC015 16/15 A2994 RMK AO2 CIG 002V006 P0000 TSNO= KENW 131100Z AUTO 35009KT 5SM BR OVC005 15/14 A2986 RMK AO2= KGSP 131100Z 01005KT 3SM RA BR SCT020 BKN026 OVC045 17/16 A3002 RMK AO2 P0002= KIZG 131100Z AUTO 00000KT 1 3/4SM BR FEW001 04/04 A3013 RMK AO2= KPPF 131100Z AUTO 00000KT 1SM BR BKN001 BKN027 08/07 A3008 RMK AO2= KUGN 131100Z 32011G16KT 2 1/2SM BR OVC005 16/14 A2984 RMK AO2= KSSF 131101Z AUTO 36003KT 10SM SCT019 SCT031 22/21 A2998 RMK AO2= PAKT 131100Z AUTO 31004KT 9SM SCT001 BKN014 OVC026 09/09 A3026 RMK AO2 TSNO= KBBW 131101Z AUTO 00000KT 3/4SM BR CLR 10/10 A3004 RMK AO2= KIPT 131101Z 08006KT 10SM -RA FEW013 OVC041 13/11 A3004 RMK AO2 P0000= KLZU 131100Z 06004KT 2SM -RA BR OVC003 18/18 A2996= KSTJ 131101Z AUTO 00000KT 3/4SM BR VV001 08/07 A3005 RMK AO2=  351 SAUS70 KWBC 131100 RRE METAR PAMO 131056Z AUTO 17014KT 10SM OVC013 07/04 A3039 RMK AO2 TSNO T00720044 SLP293= K20V 131058Z AUTO 00000KT 10SM CLR 02/M01 A3038 RMK AO2= KFFM 131055Z AUTO 16005KT 10SM CLR 12/10 A2997 RMK AO2= KFGN 131055Z AUTO 00000KT 10SM CLR 16/11 A2993 RMK AO2= KFKA 131055Z AUTO 31003KT 1 1/4SM BR VV007 07/07 A3000 RMK AO2= KFOZ 131055Z AUTO 00000KT 10SM CLR 02/01 A2999 RMK AO2= KFSE 131055Z AUTO 17006KT 10SM CLR 14/10 A2994 RMK AO2= KGDB 131054Z AUTO 15003KT 10SM SCT055 BKN065 07/07 A3002 RMK AO2= KIND 131054Z 28007KT 5SM -DZ BR SCT008 BKN013 OVC023 14/14 A2986 RMK AO2 DZE09B47 SLP107 P0000 T01440139= KJYM 131058Z AUTO 00000KT 3SM HZ SCT003 BKN008 OVC038 17/14 A2981 RMK AO2= KMCD 131058Z AUTO 03004KT 4SM UP BKN006 13/13 A2990 RMK AO2= KMNH 131055Z AUTO 21006KT 10SM CLR 07/03 A3024 RMK AO2= KONZ 131057Z AUTO 00000KT 4SM BR BKN007 OVC013 20/20 A2979 RMK AO2= KOSC 131058Z AUTO 35003KT 7SM OVC006 17/15 A2982 RMK AO2= KOVL 131055Z AUTO 16003KT 7SM CLR 07/07 A3001 RMK AO2= KOWA 131055Z AUTO 00000KT M1/4SM FG OVC001 04/03 A3002 RMK AO2= KOZW 131057Z AUTO 00000KT 5SM BR OVC002 17/17 A2980 RMK AO2= KPNM 131055Z AUTO 00000KT 10SM CLR 03/03 A3002 RMK AO2= KPQN 131056Z AUTO 00000KT 10SM SCT050 10/09 A3003 RMK AO2= KRPD 131055Z AUTO 00000KT 1/4SM OVC001 04/04 A3001 RMK AO2= KRRL 131055Z AUTO 01004KT 1 3/4SM BR BKN004 07/06 A2998 RMK AO2 VIS 3/4V5= KRRT 131055Z AUTO 24005KT 10SM CLR 13/10 A2993 RMK AO2= KCWA 131059Z AUTO 34007KT 10SM OVC060 11/10 A2996 RMK AO2= KDIJ 131056Z AUTO 12007KT 10SM CLR 12/M03 A3017 RMK AO2 T01161033 SLP126 $= KGHW 131055Z AUTO 00000KT 10SM CLR 10/09 A2999 RMK AO2= KGYL 131055Z AUTO 00000KT 7SM CLR 07/06 A3001 RMK AO2= KLNL 131051Z AUTO 33003KT 1/2SM FG OVC001 08/08 A3000 RMK AO2= KMGN 131058Z AUTO 03006KT 5SM BR OVC006 16/14 A2987 RMK AO2= KMHE 131059Z AUTO 17004KT 10SM CLR 10/08 A3001 RMK AO2 SLP159 T01000083= KSGS 131055Z AUTO A3000 RMK AO2 TSNO PWINO= KSTE 131055Z AUTO 33003KT 10SM OVC060 13/11 A2995 RMK AO2= KSUW 131055Z AUTO 20003KT 10SM CLR 02/02 A2999 RMK AO2= KTWM 131055Z AUTO 30005KT 10SM CLR 07/04 A3000 RMK AO2= KULM 131055Z AUTO 00000KT 7SM CLR 06/06 A3000 RMK AO2= KXVG 131055Z AUTO 00000KT 10SM SCT050 03/03 A2998 RMK AO2= KFSW 131055Z AUTO 33006KT 10SM SCT014 BKN030 OVC046 16/13 A2995 RMK AO2= KGGI 131055Z AUTO 30004KT 5SM BKN031 10/09 A3001 RMK AO2= KHND 131056Z 19010KT CLR 26/04 A2994 RMK AO2 T02550044 SLP081 $= KHNR 131055Z AUTO 00000KT 7SM SCT001 08/07 A3008 RMK AO2= KICL 131055Z AUTO 00000KT 3/4SM BKN001 OVC010 07/06 A3005 RMK AO2= KIIB 131055Z AUTO 32003KT 10SM OVC033 12/11 A2998 RMK AO1= KIKV 131055Z AUTO 00000KT 7SM CLR 10/08 A3002 RMK AO2= KLRJ 131055Z AUTO 00000KT 4SM CLR 03/03 A3005 RMK AO2= KMPZ 131055Z AUTO 33007KT 10SM OVC028 14/12 A2996 RMK AO1= KMUT 131055Z AUTO 34006KT 10SM SCT013 OVC037 15/13 A2994 RMK AO2= KMXO 131055Z AUTO 00000KT 5SM SCT013 BKN038 11/11 A2995 RMK AO2= KOLZ 131055Z AUTO 32004KT 7SM BKN034 12/11 A3000 RMK AO2= KORC 131055Z AUTO 00000KT 7SM CLR 10/09 A3004 RMK AO2= KOXV 131055Z AUTO 29005KT 3SM CLR 10/10 A3001 RMK AO2= KPEA 131055Z AUTO 31005KT 5SM CLR 11/11 A3001 RMK AO1= KRDK 131055Z AUTO 00000KT 3/4SM OVC001 07/07 A3005 RMK AO2= KSAZ 131055Z AUTO 00000KT 10SM SCT050 08/08 A2999 RMK AO2= KSDA 131055Z AUTO 00000KT 7SM CLR 07/05 A3006 RMK AO2= KSHL 131055Z AUTO 00000KT 3/4SM HZ VV005 05/01 A3005 RMK AO2= KSLB 131055Z AUTO 29006KT 7SM CLR 11/10 A3004 RMK AO2= KAIO 131055Z AUTO 00000KT 7SM CLR 06/02 A3006 RMK AO2= KAWG 131055Z AUTO 32006KT 10SM BKN033 14/12 A2997 RMK AO2=  352 SAAO31 KWBC 131100 METAR GMFF 131100Z 03006KT 350V080 8000 BKN030 24/15 Q1016 NOSIG= GMFO 131100Z 24004KT 9999 SCT030 SCT100 25/18 Q1014 NOSIG= GMME 131100Z 30010KT 9999 SCT020 25/20 Q1014 NOSIG= GMMN 131100Z 02006KT 9999 SCT026 24/15 Q1017 NOSIG= GMMX 131100Z 06005KT 320V110 6000 FEW020 OVC033 21/17 Q1018 NOSIG= GMTA 131100Z 36008KT 9999 FEW016 SCT026 25/19 Q1012= GMTT 131100Z 23016KT 7000 SCT016 SCT200 26/19 Q1014 NOSIG=  354 SAAS33 KWBC 131100 RRB METAR WSSS 131100Z 18004KT 9999 FEW018 BKN300 29/22 Q1010 NOSIG=  357 SAUS70 KWBC 131104 METAR KMZH 131103Z AUTO 00000KT 1 1/2SM BR OVC001 02/02 A2999 RMK AO2= K47A 131101Z AUTO 07003KT 3SM RA OVC006 18/16 A2997 RMK AO2= KEZF 131101Z AUTO 00000KT 10SM OVC046 16/14 A3008 RMK AO1= KFKN 131101Z AUTO 00000KT 10SM SCT120 13/13 A3008 RMK AO1= KFVX 131101Z AUTO 00000KT 10SM BKN037 BKN050 OVC060 16/14 A3009 RMK AO2= KIPJ 131101Z AUTO 00000KT 2SM OVC046 17/17 A3005 RMK AO1 P0002= KAVC 131101Z AUTO 00000KT 10SM OVC100 17/16 A3014 RMK AO1= KFQD 131102Z AUTO 11004KT 2 1/2SM -RA OVC003 18/16 A3004 RMK AO2= KGEV 131102Z AUTO 00000KT 1 1/4SM OVC002 14/13 A3008 RMK AO2 P0004 PWINO= KJYL 131101Z AUTO 00000KT 10SM -DZ BKN049 BKN060 OVC085 22/20 A2997 RMK AO2= KLKU 131101Z AUTO 00000KT 10SM OVC041 16/14 A3009 RMK AO2= KMKJ 131101Z AUTO 09004KT 3SM SCT003 BKN018 OVC034 16/13 A3010 RMK AO1= KONX 131101Z AUTO 00000KT 10SM CLR 14/14 A3007 RMK AO2= KRUQ 131101Z AUTO 00000KT 3SM RA SCT028 SCT033 OVC060 18/16 A3006 RMK AO2 P0001= KUNV 131102Z AUTO 20004KT 10SM RA OVC015 13/13 A3001 RMK AO2=  359 SAUS80 KWBC 131100 CCC METAR KWAL 131054Z COR 32004KT 10SM SCT025 BKN190 OVC250 12/11 A3011 RMK AO2 SLP192 T01220111 TSNO=  360 SPUS80 KWBC 131104 SPECI KSBN 131101Z 20004KT 1/2SM FG OVC001 17/17 A2980 RMK AO2= PAYA 131059Z 00000KT 1 1/4SM BR BKN001 BKN009 03/02 A3035 RMK AO2 BAY TWR WND 29004KT= KLYH 131102Z 15003KT 9SM -RA BKN008 BKN023 OVC036 14/13 A3008 RMK AO2 P0000=  372 SPAU31 KWBC 131104 SPECI YBCS 131100Z 16005KT 9999 SCT025 BKN050 19/18 Q1021 RESHRA=  374 SAEE32 KWBC 131100 RRA METAR LHBP 131100Z 15010G20KT 090V200 CAVOK 24/08 Q1024 NOSIG=  375 SAFR32 KWBC 131100 METAR LFVP 131100Z 03043G54KT 3500 RA BR OVC007 12/11 Q0986=  376 SAJP43 KWBC 131100 METAR RJOI 131100Z 03004KT 9999 BKN030 OVC050 22/18 A3002 RMK SLP168 T02170178=  377 SAEE31 KWBC 131100 METAR EPGD 131100Z 15006KT 110V200 CAVOK 21/14 Q1023= EPKK 131100Z 27001KT 9999 FEW050 23/08 Q1024= EPKT 131100Z 22006KT CAVOK 22/10 Q1023= EPPO 131100Z 16009KT CAVOK 24/10 Q1021= EPRZ 131100Z 19007KT 9999 SCT036 23/12 Q1025= EPSC 131100Z 14011KT CAVOK 23/13 Q1020= EPWA 131100Z 14009KT 110V170 9999 FEW040 22/12 Q1024 NOSIG=  378 SAEM31 KWBC 131100 RRA METAR LKMT 131100Z 19009KT 150V240 CAVOK 23/09 Q1023 NOSIG= LKPR 131100Z 14004KT 040V200 CAVOK 20/11 Q1020 NOSIG= LKTB 131100Z 17017KT 130V210 CAVOK 22/07 Q1023 NOSIG= LZIB 131100Z 15014KT 120V180 9999 FEW043 24/08 Q1022 NOSIG= LZKZ 131100Z 15005KT 080V200 9999 SCT048 23/09 Q1026 NOSIG= LZTT 131100Z 14006KT 070V200 9999 FEW056 20/08 Q1025 NOSIG=  418 SAIE31 EIDB 131100 METAR EIDW 131100Z 16015KT 9999 FEW013 SCT017 BKN024 17/15 Q1001 NOSIG= METAR EINN 131100Z 16012KT 9999 FEW026 SCT040 BKN200 18/13 Q0998 NOSIG= METAR EICK 131100Z 22014KT 190V260 9999 SCT007 BKN014 BKN029 17/14 Q1000 NOSIG= METAR EIKN 131100Z 18014KT 140V210 9999 SCT014 BKN018 16/12 Q0997 NOSIG=  432 SPUS51 KWBC 131104 SPECI KLYH 131102Z 15003KT 9SM -RA BKN008 BKN023 OVC036 14/13 A3008=  587 SAFR31 LFPW 131100 METAR LFBD 131100Z 14010KT 120V190 9999 FEW015 BKN110 21/19 Q1009 NOSIG= METAR LFBO 131100Z 14020KT 9999 FEW033 SCT100 BKN250 23/16 Q1010 TEMPO 14020G30KT= METAR COR LFKB 131100Z 13010KT 100V160 9999 FEW018 27/19 Q1018 NOSIG= METAR LFKJ 131100Z 18004KT 150V230 9999 FEW040 SCT110 BKN300 27/19 Q1016 NOSIG= METAR LFLL 131100Z 19007KT 160V240 CAVOK 27/12 Q1015 NOSIG= METAR LFML 131100Z 17021KT 9999 FEW026 BKN250 28/17 Q1015 NOSIG= METAR LFMN 131100Z 11017KT 9999 FEW043 SCT250 27/16 Q1018 NOSIG= METAR LFPB 131052Z 18012KT CAVOK 27/16 Q1012 NOSIG= METAR LFPG 131100Z 18012KT 150V230 9999 FEW033 BKN260 26/15 Q1012 NOSIG= METAR LFPO 131100Z 16012KT 120V200 9999 FEW033 BKN250 26/16 Q1012 NOSIG= METAR LFSB 131100Z VRB02KT 9999 FEW050 26/15 Q1016 NOSIG= METAR LFRB 131100Z NIL=  588 SAFR32 LFPW 131100 METAR LFBT 131100Z 29004KT 260V340 9999 FEW026 BKN096 22/15 Q1010 NOSIG= METAR LFBZ 131100Z 12004KT 080V170 9999 FEW015 BKN150 21/19 Q1009 NOSIG= METAR LFLS 131100Z 12004KT 020V180 9999 FEW043 SCT260 26/13 Q1016 NOSIG= METAR LFOB 131100Z 13009KT 100V160 9999 FEW023 SCT250 25/19 Q1012 NOSIG= METAR LFPN 131100Z 16011KT 9999 FEW040 BKN230 26/16 Q1012 NOSIG= METAR LFQQ 131100Z 18007KT 140V200 9999 FEW030 26/18 Q1012 NOSIG= METAR LFRD 131100Z AUTO 18008KT 9999NDV BKN013 20/16 Q1009= METAR LFRS 131100Z 14005KT 110V170 8000 FEW008 SCT053 BKN100 21/19 Q1009 NOSIG= METAR LFSR 131100Z 17009KT 140V200 9999 FEW033 SCT250 26/17 Q1013 NOSIG= METAR LFST 131100Z VRB02KT 9999 FEW040TCU FEW046CB 26/18 Q1016 NOSIG= METAR LFOT 131100Z NIL=  589 SAFR33 LFPW 131100 METAR LFBP 131100Z 28004KT 230V320 9999 FEW013 BKN130 21/19 Q1010 NOSIG= METAR LFJL 131100Z AUTO 21007KT 180V240 9999NDV NSC 26/17 Q1016= METAR LFLC 131100Z 16013KT 130V200 9999 FEW046 26/14 Q1013 NOSIG= METAR LFLY 131100Z 17010KT 140V200 CAVOK 27/13 Q1015 NOSIG= METAR LFMH 131100Z 15019KT CAVOK 27/12 Q1015 NOSIG= METAR LFMP 131100Z 06004KT 030V110 9999 FEW003 BKN060 BKN100 21/19 Q1013 NOSIG= METAR LFMT 131100Z 13024KT 9999 VCSH FEW011 FEW030TCU BKN041 BKN090 23/20 Q1014 NOSIG= METAR LFRC 131100Z AUTO 19006KT 140V220 9999NDV BKN021 22/16 Q1010= METAR LFRN 131100Z 14007KT 110V170 9999 FEW016 BKN130 21/17 Q1009 NOSIG= METAR LFRQ 131100Z 18009KT 150V210 9999 BKN009 SCT026 OVC053 19/17 Q1008 NOSIG= METAR LFSD 131100Z 18008KT 150V210 CAVOK 25/14 Q1016 NOSIG= METAR LFTW 131100Z 16019KT CAVOK 26/15 Q1015 NOSIG=  763 SAMN31 TNCM 131100 METAR TNCM 131100Z VRB03KT 9999 FEW018 27/22 Q1014=   764 SAFR35 LFPW 131100 METAR LFBH 131100Z AUTO 16010KT 130V200 9999NDV FEW026/// 23/18 Q1009 = METAR LFBI 131100Z 17013KT 140V200 9999 FEW036 SCT250 25/15 Q1010 NOSIG= METAR LFCR 131100Z AUTO 15020KT 9999NDV FEW030/// 21/15 Q1014= METAR LFGJ 131100Z AUTO VRB03KT 9999NDV NSC 26/15 Q1015= METAR LFMU 131100Z AUTO 17004KT 130V210 //// -RA FEW030/// SCT041/// BKN070/// 19/18 Q1014= METAR LFMV 131100Z AUTO 14019G29KT 110V170 9999NDV NSC 29/13 Q1014= METAR LFOK 131100Z AUTO 17009KT 9999NDV NCD 26/17 Q1014= METAR LFOP 131100Z 14008KT 110V170 CAVOK 24/18 Q1011 NOSIG= METAR LFRG 131100Z AUTO VRB06KT 9999NDV NSC 23/19 Q1010= METAR LFRO 131100Z AUTO 17013KT 9999NDV FEW031 22/15 Q1008= METAR LFRT 131100Z 18010KT 140V230 9999 SCT020 SCT026 BKN093 21/16 Q1008= METAR LFRZ 131100Z 13005KT 090V150 9999 SCT008 BKN093 19/18 Q1009 NOSIG= METAR LFMD 131100Z NIL=  765 SAEG31 HECA 131100 HECA 131100Z 02008KT CAVOK 32/21 Q1014 NOSIG=  766 SAFR34 LFPW 131100 METAR LFBA 131100Z 12012KT 9999 FEW025 SCT260 24/20 Q1009= METAR LFBE 131100Z 16013KT 9999 SCT035 SCT100 25/18 Q1010 NOSIG= METAR LFBL 131100Z 18016KT 9999 FEW043 SCT260 25/14 Q1012 NOSIG= METAR LFKC 131100Z 01009KT CAVOK 27/15 Q1017 NOSIG= METAR LFKF 131100Z 06010KT 030V090 9000 -SHRA FEW021 SCT031 SCT042TCU BKN100 25/20 Q1018 NOSIG= METAR LFLB 131100Z VRB02KT 9999 FEW060 24/14 Q1016 NOSIG= METAR LFMI 131100Z 15021KT 9999 FEW026 SCT066 BKN250 28/16 Q1015= METAR LFMK 131100Z 08015KT 9999 FEW010 SCT093 20/17 Q1013 NOSIG= METAR LFRH 131100Z 16010KT 9999 FEW010 SCT050 BKN100 21/18 Q1008= METAR LFRK 131100Z 19011KT 9999 FEW020 SCT110 BKN260 24/18 Q1010 NOSIG= METAR LFLX 131100Z NIL= METAR LFTH 131100Z NIL=  786 SAUS43 KDTX 131104 MTRFNT SPECI KFNT 131103Z 00000KT 3/4SM -RA BR OVC002 17/17 A2981 RMK AO2 P0001  793 SACI31 ZBBB 131100 METAR ZBAA 131100Z 18003MPS 8000 NSC 23/13 Q1020 NOSIG= METAR ZBSJ 131100Z 17001MPS CAVOK 21/14 Q1020 NOSIG= METAR ZBTJ 131100Z 19002MPS 6000 NSC 22/15 Q1020 NOSIG= METAR ZBYN 131100Z 08004MPS CAVOK 22/12 Q1021 NOSIG= METAR ZGGG 131100Z 05002MPS 360V080 9999 -RA OVC033 22/19 Q1010 NOSIG= METAR ZSHC 131100Z 35003MPS 330V050 2300 BR FEW013 BKN020 OVC050 22/19 Q1017 NOSIG= METAR ZSPD 131100Z 04006MPS 9999 BKN013 OVC040 24/20 Q1016 NOSIG= METAR ZSSS 131100Z 02004MPS 9999 SCT016 BKN050 23/20 Q1017 NOSIG= METAR ZWSH 131100Z 16002MPS CAVOK 27/09 Q1015 NOSIG= METAR ZWWW 131100Z 05003MPS CAVOK 31/02 Q1009 NOSIG= METAR ZYTL 131100Z 26002MPS 7000 NSC 21/18 Q1021 NOSIG= METAR ZYTX 131100Z 19003MPS 8000 SKC 19/15 Q1020 NOSIG=  794 SAMS32 WMKK 131100 METAR 131100Z METAR WBGG 131100Z 30004KT 9999 SCT020 BKN150 27/24 Q1010 NOSIG= METAR WBKK 131100Z 09004KT 9999 FEW014 SCT140 BKN270 26/24 Q1010 NOSIG= METAR WMKJ 131100Z 32003KT 9999 FEW016CB BKN280 24/23 Q1009 RETSRA= METAR WMKK 131100Z 17002KT 9000 FEW017CB BKN270 29/24 Q1009 NOSIG= METAR WMKP 131100Z 35001KT 7000 FEW020 BKN260 28/25 Q1009 NOSIG= METAR WMSA 131100Z 03002KT 9000 FEW018 BKN280 26/23 Q1010=  871 SACI32 ZBBB 131100 METAR ZGKL 131100Z 05004MPS 1800 -RA BR SCT043 20/18 Q1015 NOSIG= METAR ZGNN 131100Z 06006MPS 9999 SCT030 BKN046 23/19 Q1012 NOSIG= METAR ZGOW 131100Z 09003MPS 9999 BKN033 26/25 Q1011 NOSIG= METAR ZGSZ 131100Z 05003MPS 350V090 6000 -SHRA SCT013 FEW030TCU BKN040 24/22 Q1009 NOSIG= METAR ZLXY 131100Z 26002MPS 2000 -RA BR BKN070 17/15 Q1020 NOSIG= METAR ZMUB 131100Z VRB02MPS CAVOK 22/M08 Q1015 NOSIG RMK QFE652,7 14= METAR ZPPP 131100Z 20002MPS 9999 FEW050 18/09 Q1021 NOSIG= METAR ZSAM 131100Z 11004MPS CAVOK 27/24 Q1012 NOSIG= METAR ZSQD 131100Z 23002MPS CAVOK 22/18 Q1020 NOSIG= METAR ZUUU 131100Z 02003MPS 3000 BR SCT030 18/16 Q1018 NOSIG=  875 SPAK31 KWBC 131105 SPECI PAKT 131100Z AUTO 31004KT 9SM SCT001 BKN014 OVC026 09/09 A3026=  879 SPUS41 KWBC 131105 SPECI KAGC 131100Z AUTO 17007KT 4SM -RA BR BKN005 BKN008 OVC015 16/15 A2994=  892 SAUS44 KMRX 131105 MTRTRI SPECI KTRI 131103Z 00000KT 2SM -RA BR FEW016 SCT036 OVC055 16/16 A2999 RMK AO2 P0003  894 SAUS44 KBMX 131104 MTRMGM SPECI KMGM 131103Z 00000KT 4SM BR FEW011 SCT026 OVC039 23/22 A2988 RMK AO2 RAE1058 P0000  909 SPUS41 KWBC 131105 SPECI KGSP 131100Z 01005KT 3SM RA BR SCT020 BKN026 OVC045 17/16 A3002=  910 SPUS43 KWBC 131105 SPECI KFNT 131103Z 00000KT 3/4SM -RA BR OVC002 17/17 A2981=  928 SPUS51 KWBC 131105 SPECI KIPT 131101Z 08006KT 10SM -RA FEW013 OVC041 13/11 A3004=  929 SPUS51 KWBC 131105 SPECI KGSP 131100Z 01005KT 3SM RA BR SCT020 BKN026 OVC045 17/16 A3002=  930 SPUS52 KWBC 131105 SPECI KIPT 131101Z 08006KT 10SM -RA FEW013 OVC041 13/11 A3004=  931 SPUS53 KWBC 131105 SPECI KBBW 131101Z AUTO 00000KT 3/4SM BR CLR 10/10 A3004=  932 SARS31 RUMS 131100 UMKK 131100Z 16005MPS P6000 SCK 22/12 Q1024 NOSIG RMK QFE 767 SC07=  948 SAJP51 RJTD 131100 METAR RJAA 131100Z 03008KT 9999 -RA FEW005 BKN008 BKN040 19/18 Q1018 BECMG BKN010 BKN020= METAR RJBB 131100Z 03013KT 7000 -SHRA FEW004 BKN010 BKN015 20/19 Q1015 TEMPO 4000 SHRA BR FEW002 BKN008 BKN015= METAR RJBE 131100Z VRB02KT 8000 RA FEW005 SCT015 BKN025 21/18 Q1015= METAR RJBH 131100Z 02006KT 9999 FEW025 SCT040 BKN070 22/18 Q1016= METAR RJCB 131100Z 16003KT 9999 FEW010 BKN/// 16/14 Q1022= METAR RJCC 131100Z VRB01KT 9999 FEW030 BKN/// 15/12 Q1023= METAR RJCH 131100Z VRB03KT 9999 FEW035 BKN/// 16/13 Q1022= METAR RJCK 131100Z 19001KT 9999 FEW015 BKN025 16/14 Q1023= METAR RJCM 131100Z 24003KT 9999 FEW015 SCT050 16/13 Q1022= METAR RJDC 131100Z 01001KT 9999 VCSH FEW006 BKN015 BKN025 21/19 Q1016= METAR RJEC 131100Z 19004KT CAVOK 13/11 Q1023= METAR RJFS 131100Z 01005KT 9999 -RA FEW010 SCT050 BKN080 22/21 Q1015= METAR RJFF 131100Z 04005KT 350V120 9999 FEW010 SCT030 BKN150 22/20 Q1016= METAR RJFK 131100Z 35004KT 9999 FEW020 BKN090 BKN120 22/21 Q1015= METAR RJFM 131100Z 34005KT 8000 SCT010 BKN015 24/21 Q1014= METAR RJFO 131100Z 32003KT 9999 -RA FEW010 SCT020 BKN050 21/19 Q1015= METAR RJFR 131100Z 02010KT 9999 -SHRA FEW010 BKN020 BKN040 22/19 Q1016= METAR RJFT 131100Z 33003KT 3000 -SHRA BR FEW000 SCT001 BKN003 22/22 Q1015= METAR RJFU 131100Z VRB02KT 9999 FEW008 SCT010 BKN050 23/20 Q1015= METAR RJGG 131100Z 02004KT 4000 -SHRA BR FEW002 SCT015 BKN030 21/19 Q1015 TEMPO SHRA BR BKN005 BKN008= METAR RJNT 131100Z VRB01KT 9999 -RA FEW003 SCT020 BKN040 19/18 Q1017= METAR RJOA 131100Z 02004KT 350V070 9999 FEW001 SCT025 BKN035 19/17 Q1017= METAR RJOB 131100Z 30004KT 9999 FEW000 BKN025 19/18 Q1017= METAR RJOC 131100Z 05008KT 9999 FEW008 BKN070 22/19 Q1018= METAR RJOH 131100Z 07013KT 9999 -RA FEW010 SCT020 BKN070 21/15 Q1018= METAR RJOK 131100Z 36006KT 9999 -RA FEW010 SCT060 BKN070 21/20 Q1014= METAR RJOM 131100Z VRB03KT 9999 FEW005 SCT020 BKN030 21/20 Q1015= METAR RJOO 131100Z 34011KT 6000 SHRA FEW006 SCT015 BKN020 19/18 Q1016= METAR RJOR 131100Z 19004KT 9999 FEW010 SCT050 BKN080 20/17 Q1018= METAR RJOT 131100Z VRB02KT 9999 -RA FEW005 SCT015 BKN020 18/18 Q1017= METAR RJSA 131100Z VRB02KT 9999 FEW010 SCT070 BKN/// 13/11 Q1021= METAR RJSK 131100Z 10005KT 9999 FEW040 BKN060 18/16 Q1019= METAR RJSN 131100Z 07002KT 9999 RA FEW015 BKN050 BKN080 19/18 Q1018= METAR RJSS 131100Z 35006KT 5000 RA BR FEW004 BKN010 BKN013 17/16 Q1020= METAR RJSY 131100Z 09013KT 9999 -RA FEW010 BKN050 BKN070 18/15 Q1019= METAR RJTT 131100Z 01011KT 3500 RA BR FEW003 SCT006 BKN008 20/18 Q1018= METAR ROAH 131100Z 12011G23KT 060V160 2500 +SHRA FEW009 SCT015 BKN025 SCT035CB 28/24 Q1012= METAR ROIG 131100Z 34003KT 9999 FEW018 BKN/// 27/24 Q1010= METAR ROMY 131100Z 05005KT 9999 FEW015 SCT/// 26/24 Q1011= METAR RORS 131100Z 06006KT 9999 FEW015 BKN/// 28/26 Q1010=  988 SAUS46 KLOX 131105 MTRMWS METAR KMWS 131029Z 24005KT 21/01  015 SACI41 ZBBB 131100 METAR ZBHH 131100Z 25001MPS 8000 FEW040 20/05 Q1021 NOSIG= METAR ZGHA 131100Z 01002MPS 330V060 2700 BR OVC050 20/19 Q1019 NOSIG= METAR ZHCC 131100Z 27002MPS 250V320 3000 BR NSC 20/16 Q1020 NOSIG= METAR ZHHH 131100Z 02003MPS 6000 SCT023 25/18 Q1018 NOSIG= METAR ZJHK 131100Z 36002MPS 9999 BKN026 24/20 Q1009 NOSIG= METAR ZJSY 131100Z 35001MPS 8000 NSC 27/23 Q1008 NOSIG= METAR ZLLL 131100Z 15003MPS 8000 BKN046 15/07 Q1024 NOSIG= METAR ZSNJ 131100Z 05003MPS 020V080 CAVOK 22/19 Q1018 NOSIG= METAR ZSOF 131100Z 05002MPS 9000 NSC 23/16 Q1018 NOSIG= METAR ZUCK 131100Z 31004MPS 4500 HZ NSC 25/16 Q1015 NOSIG= METAR ZYCC 131100Z VRB01MPS 5000 BR NSC 19/16 Q1021 NOSIG= METAR ZYHB 131100Z 18001MPS 1400 R23/P2000N R05/1200N BR NSC 18/18 Q1020 NOSIG=  069 SAUS41 KBOX 131105 COR MTRPVD METAR KPVD 131051Z COR 27004KT 10SM FEW035 SCT090 BKN130 BKN200 BKN250 11/08 A3014 RMK AO2 SLP205 T01110078  073 SAAU31 AMMC 131100 CCA METAR YPDN 131100Z 10005KT CAVOK 25/14 Q1014 NOSIG=  115 SAFR40 LFPW 131100 METAR LFGJ 131100Z AUTO VRB03KT 9999NDV NSC 26/15 Q1015= LFOE 131100Z 16009KT 9999 BKN048 BKN250 24/17 Q1011= LFOH 131100Z AUTO 17007KT 140V210 9999NDV NCD 24/18 Q1010= LFOP 131100Z 14008KT 110V170 CAVOK 24/18 Q1011 NOSIG= LFQB 131100Z 17008KT 120V200 9999 FEW043 SCT260 27/16 Q1013= LFRH 131100Z 16010KT 9999 FEW010 SCT050 BKN100 21/18 Q1008= LFRK 131100Z 19011KT 9999 FEW020 SCT110 BKN260 24/18 Q1010 NOSIG= LFRM 131100Z 17005KT 100V230 9999 SCT030 SCT100 25/17 Q1010= LFRO 131100Z AUTO 17013KT 9999NDV FEW031 22/15 Q1008= LFRT 131100Z 18010KT 140V230 9999 SCT020 SCT026 BKN093 21/16 Q1008= LFRZ 131100Z 13005KT 090V150 9999 SCT008 BKN093 19/18 Q1009 NOSIG=  119 SAFR41 LFPW 131100 METAR LFBA 131100Z 12012KT 9999 FEW025 SCT260 24/20 Q1009= LFBG 131100Z 17016KT 9999 FEW030 SCT250 26/16 Q1009 NOSIG= LFBH 131100Z AUTO 16010KT 130V200 9999NDV FEW026/// 23/18 Q1009= LFBI 131100Z 17013KT 140V200 9999 FEW036 SCT250 25/15 Q1010 NOSIG= LFBL 131100Z 18016KT 9999 FEW043 SCT260 25/14 Q1012 NOSIG= LFKC 131100Z 01009KT CAVOK 27/15 Q1017 NOSIG= LFKF 131100Z 06010KT 030V090 9000 -SHRA FEW021 SCT031 SCT042TCU BKN100 25/20 Q1018 NOSIG= LFLB 131100Z VRB02KT 9999 FEW060 24/14 Q1016 NOSIG= LFLD 131100Z 15008KT 110V200 CAVOK 27/14 Q1012= LFLV 131100Z VRB06KT CAVOK 27/15 Q1013= LFMU 131100Z AUTO 17004KT 130V210 //// -RA FEW030/// SCT041/// BKN070/// 19/18 Q1014=  120 SPCN48 CWAO 131104 SPECI CYOY 131104Z AUTO 00000KT 3/8SM 02/02 A3009=  125 SAFR57 LFPW 131100 METAR LFBC 131100Z 14006KT 9999 -RA FEW013 BKN150 21/19 Q1009= LFMI 131100Z 15021KT 9999 FEW026 SCT066 BKN250 28/16 Q1015= LFMO 131100Z 15014KT 120V180 CAVOK 29/13 Q1014= LFOA 131100Z 17007KT 110V260 CAVOK 27/14 Q1013= LFOJ 131100Z 16010KT 120V200 9999 FEW046 SCT073 26/13 Q1012= LFQI 131100Z 18009KT CAVOK 26/18 Q1012= LFSI 131100Z 17004KT 120V190 CAVOK 27/17 Q1014= LFSO 131100Z 21008KT 170V240 CAVOK 25/15 Q1016=  139 SACI32 ZBBB 131100 METAR ZGKL 131100Z 05004MPS 1800 -RA BR SCT043 20/18 Q1015 NOSIG= METAR ZGNN 131100Z 06006MPS 9999 SCT030 BKN046 23/19 Q1012 NOSIG= METAR ZGOW 131100Z 09003MPS 9999 BKN033 26/25 Q1011 NOSIG= METAR ZGSZ 131100Z 05003MPS 350V090 6000 -SHRA SCT013 FEW030TCU BKN040 24/22 Q1009 NOSIG= METAR ZLXY 131100Z 26002MPS 2000 -RA BR BKN070 17/15 Q1020 NOSIG= METAR ZMUB 131100Z VRB02MPS CAVOK 22/M08 Q1015 NOSIG RMK QFE652,7 14= METAR ZPPP 131100Z 20002MPS 9999 FEW050 18/09 Q1021 NOSIG= METAR ZSAM 131100Z 11004MPS CAVOK 27/24 Q1012 NOSIG= METAR ZSQD 131100Z 23002MPS CAVOK 22/18 Q1020 NOSIG= METAR ZUUU 131100Z 02003MPS 3000 BR SCT030 18/16 Q1018 NOSIG=  307 SXUS81 KWOH 131103 RRSSGX :&&HADS SOR REPORT FOR USER SGX .A PAMC1 20060913 DH1058/PPHRG 0.00 .A TTRC1 20060913 DH1045/PPHRG 0.00 .A ESEC1 20060913 DH1045/PPHRG 0.00 .A APXC1 20060913 DH1045/PPHRG 0.00 .A GOSC1 20060913 DH1058/PPHRG 0.00 :END OF REPORT  331 SAGU31 MGGT 131100Z METAR MGGT 131100Z 00000KT 8000 FEW004 BKN200 17/16 Q1024 VIS BR VTO TEND N=  332 SAPO31 LPMG 131100 METAR LPFR 131100Z 25012KT CAVOK 25/16 Q1013= METAR LPMA 131100Z 23009KT 9999 SCT018 SCT070 24/16 Q1020 RS1908KT 052008KT 232309KT= METAR LPPR 131100Z 17010KT 7000 -RA SCT012 BKN020 BKN080 18/17 Q1011= METAR LPPS 131100Z 33014KT 9999 SCT016 SCT030 25/20 Q1021= METAR LPPT 131100Z 22009KT 180V250 9999 SCT020 SCT120 BKN250 21/17 Q1013 NOSIG=  333 SAPO31 LPMG 131100 METAR LPFR 131100Z 25012KT CAVOK 25/16 Q1013= METAR LPMA 131100Z 23009KT 9999 SCT018 SCT070 24/16 Q1020 RS1908KT 052008KT 232309KT= METAR LPPR 131100Z 17010KT 7000 -RA SCT012 BKN020 BKN080 18/17 Q1011= METAR LPPS 131100Z 33014KT 9999 SCT016 SCT030 25/20 Q1021= METAR LPPT 131100Z 22009KT 180V250 9999 SCT020 SCT120 BKN250 21/17 Q1013 NOSIG=  334 SAAZ61 LPLA 131100 LPLA 131100Z 33016KT 9999 FEW023 23/15 Q1024 BLU RMK CNTR RWY WND 33015KT =  335 SAAU31 AMMC 131100 METAR YBAS 131100Z AUTO 13006KT //// // NCD 18/M03 Q1024= METAR YBBN 131100Z 19007KT 9999 FEW030 16/10 Q1031 NOSIG= METAR YBCS 131100Z 16005KT 9999 SCT025 BKN050 19/18 Q1021 RESHRA= METAR YBTL 131100Z 11013KT CAVOK 21/13 Q1023 NOSIG= METAR YMML 131100Z 35014KT CAVOK 14/04 Q1029 NOSIG= METAR YPAD 131100Z 05007KT CAVOK 17/08 Q1026 NOSIG= METAR YPCC 131100Z 11012KT 9999 FEW024 BKN300 27/22 Q1014= METAR YPDN 131100Z 10005KT CAVOK 25/14 Q1014= METAR YPKU 131100Z AUTO 11006KT 9999NDV // NCD 26/04 Q1015= METAR YPLM 131100Z AUTO 23010KT 9999NDV // NCD 26/12 Q1016= METAR YPPH 131100Z 22007KT CAVOK 15/09 Q1026 NOSIG= METAR YPTN 131100Z 11004KT CAVOK 21/09 Q1016= METAR YPXM 131100Z AUTO 13013KT 9999NDV // OVC010 23/22 Q1014= METAR YSSY 131100Z 02008KT CAVOK 17/09 Q1032 NOSIG=  519 SAAK31 KWBC 131100 METAR PABR 131053Z 20011KT 10SM BKN029 OVC055 09/08 A3003= PACD 131053Z 14005KT 10SM FEW080 08/06 A3029= PAED 131055Z 04004KT 10SM SKC 08/07 A3044= PAEI NIL= PAEN 131053Z AUTO 05004KT 1/2SM FG BKN001 OVC009 03/02 A3044= PAFA 131053Z 21004KT 10SM BKN046 09/06 A3041= PAFS 131056Z AUTO 00000KT 10SM CLR 03/03 A3045= PAFY NIL= PAJN 131053Z 00000KT 10SM BKN009 OVC014 08/07 A3032= PAKN 131054Z 00000KT 1/4SM FG BKN001 03/03 A3041= PAKT 131053Z AUTO 30003KT 7SM BKN003 BKN014 OVC028 09/08 A3026= PANC 131053Z 13003KT 10SM CLR 08/06 A3043= PAOM 131053Z 19016KT 10SM SCT009 OVC050 09/07 A3027= PAOR 131053Z 00000KT 10SM CLR 03/02 A3038= PAOT 131053Z 17014KT 10SM OVC090 11/08 A3021= PARY 131056Z AUTO 00000KT 10SM OVC028 08/06 A3040= PASC 131053Z 25006KT 10SM SCT090 BKN110 OVC220 07/06 A3016= PASG NIL= PASI 131053Z 00000KT 10SM FEW007 08/07 A3032= PATQ 131056Z AUTO 19014KT 10SM FEW026 SCT043 OVC055 09/08 A3005= PAVD 131056Z 00000KT 10SM CLR 05/04 A3041= PAWG 131056Z AUTO 30005KT 10SM SCT008 BKN016 BKN038 09/06 A3027= PFYU 131056Z 23008KT 10SM BKN085 11/06 A3026=  539 SACS31 MROC 131100 METAR MROC 131100Z 08004KT CAVOK 18/16 A2997=  550 SAUS80 KWBC 131100 RRC METAR K48I 131100Z AUTO 00000KT 5SM DZ BKN029 OVC035 16/15 A2996 RMK AO2= KSYN 131100Z AUTO 19003KT 1/2SM FG VV005 06/06 A3000 RMK AO2= TJSJ 131056Z 21003KT 10SM FEW025 26/23 A2992 RMK AO2 SLP130 T02610228=  551 SAAF34 KWBC 131100 METAR FALA NIL= FBDR NIL= FBFT NIL= FBGR NIL= FBGZ NIL= FBJW NIL= FBKE NIL= FBMN NIL= FBMP 131100Z 0611KT CAVOK 27/05= FBSK 131100Z 03014KT CAVOK 27/04 Q1022 NOSIG= FBSP NIL= FBSW NIL= FBTE NIL= FBTS NIL= FDMS 131100Z 06011KT CAVOK 25/10 Q1022 NOSIG= FEFF NIL= FXMM NIL= FXMU NIL= FYWB 131100Z AUTO 26007KT //// // ////// 19/10 Q1017= FYWH NIL=  553 SAAF32 KWBC 131100 NIL=  555 SAAA31 KWBC 131100 NIL=  557 SAUS80 KWBC 131100 CCD METAR KPVD 131051Z COR 27004KT 10SM FEW035 SCT090 BKN130 BKN200 BKN250 11/08 A3014 RMK AO2 SLP205 T01110078=  559 SAAF31 KWBC 131100 METAR DBBB NIL= DGAA NIL= DGSI NIL= DIAP 131100Z 23009KT 200V260 7000 SCT006 SCT010 OVC030 4/24 Q1016 NOSC0G= DIAV NIL= DIBK NIL= DIST NIL= DNAA NIL= DNCA NIL= DNIL NIL= DNKA NIL= DNKN NIL= DNMA NIL= DNMM NIL= DNPO NIL= DNSO NIL= DRRN NIL= DRZA NIL= DXNG NIL= DXXX NIL=  561 SAAL31 KWBC 131100 NIL=  562 SAUS70 KWBC 131100 RRG METAR K1P1 131100Z AUTO 00000KT 7SM CLR 05/05 A3012 RMK AO2= K3A1 131100Z AUTO 00000KT 3SM BR OVC005 18/17 A2994 RMK AO2= K8A0 131058Z AUTO 00000KT 4SM BR OVC004 20/20 A2991 RMK AO2= KALX 131100Z AUTO 00000KT 3SM +RA BKN005 BKN009 OVC013 22/22 A2990 RMK AO1 P0004= KBCB 131100Z AUTO 00000KT 3SM RA SCT005 BKN010 OVC018 14/14 A3008 RMK AO2= KCPC 131100Z AUTO 00000KT 10SM CLR 17/15 A3003 RMK AO2= KDRI 131100Z AUTO 35005KT 7SM BKN100 20/20 A2994 RMK AO2= KEHO 131058Z AUTO 00000KT 3SM RA SCT027 BKN042 OVC050 19/18 A3004 RMK AO2= KEYF 131100Z AUTO 00000KT 10SM SCT120 16/13 A3004 RMK AO2= KLGC 131100Z AUTO 15007KT 5SM OVC006 21/21 A2988 RMK AO1= KBAK 131100Z 27005KT 5SM BR OVC010 15/14 A2987= KCJR 131100Z AUTO 00000KT 10SM OVC039 16/13 A3009 RMK AO2= KEMV 131100Z AUTO 00000KT 10SM CLR 15/15 A3009 RMK AO2= KFFA 131059Z AUTO 09007KT 10SM CLR 20/14 A3007 RMK AO2= KGHG 131100Z AUTO 27003KT 10SM CLR 08/07 A3014 RMK AO2= KHLX 131100Z AUTO 15005KT 2SM OVC001 14/14 A3009 RMK AO1= KHNZ 131100Z AUTO 00000KT 10SM OVC100 16/13 A3008 RMK AO2= KHSP 131100Z AUTO 18010KT M1/4SM +DZ OVC002 12/12 A3010 RMK AO2= KISO 131100Z AUTO 00000KT 10SM OVC110 16/15 A3007 RMK AO2= KJKA 131100Z AUTO 00000KT 5SM BR CLR 24/22 A2987 RMK AO2 LTG DSNT SE= KMGR 131059Z AUTO 14005KT 7SM SCT026 OVC060 23/20 A2993 RMK AO2= KMLJ 131100Z AUTO 00000KT 5SM BR SCT046 BKN060 OVC085 20/20 A2994 RMK AO2= KOPN 131100Z AUTO 14007KT 4SM OVC005 20/20 A2992 RMK AO1= PAGA 131055Z AUTO 00000KT 10SM SCT028 06/06 A3039 RMK AO1 T00610056= KI16 131058Z AUTO 00000KT 4SM -RA SCT007 BKN010 OVC039 16/15 A2998 RMK AO2= KJYO 131100Z AUTO 17004KT 10SM -RA OVC038 15/14 A3008 RMK AO2= KLOM 131100Z AUTO 00000KT 10SM CLR 12/11 A3011 RMK AO1= KSIF 131100Z AUTO 00000KT 3SM RA BKN028 BKN047 OVC065 17/15 A3007 RMK AO2= KSUT 131100Z AUTO 02003KT 10SM CLR 19/17 A3003 RMK AO2= KTBR 131100Z AUTO 11004KT 5SM OVC040 22/22 A2996 RMK AO1= KTTA 131057Z AUTO 00000KT 10SM BKN090 17/14 A3007 RMK AO2= KUKT 131055Z AUTO 00000KT 10SM SCT044 BKN050 11/10 A3012 RMK A01 P000= KUTA 131100Z AUTO 34007KT 10SM SCT060 17/13 A2998 RMK AO2= KVDI 131100Z AUTO 11003KT 7SM SCT060 OVC070 21/20 A2994 RMK AO1=  563 SAXX60 KWBC 131100 RRD METAR KDOV 131055Z 16005KT 7SM FEW040 BKN150 OVC250 13/12 A3012 RMK SLP199= KLHW 131055Z COR 11004KT 3SM -RA OVC034 22/22 A2995 RMK SLPNO COR 1100 WR//= KNFL 131056Z AUTO 16007KT 10SM CLR 15/M03 A3004 RMK AO2 SLP140 T01501033 TSNO $= KNHZ 131055Z 00000KT 7SM BKN120 BKN200 06/05 A3010 RMK SLP196 T00610050= KNLC 131056Z AUTO 23006KT 10SM CLR 18/10 A2985 RMK AO2 SLP108 T01830100 TSNO= KNPA 131056Z 32004KT 9SM FEW020 BKN070 23/23 A2986 RMK AO2 SLP113 T2 SET T02330228= KNUQ 131056Z AUTO 28003KT 10SM CLR 16/13 A2990 RMK AO2 SLP128 T01610133 TSNO= KPOE 131055Z 35007KT 9SM SCT110 22/20 A2993 RMK AO2 SLP134 T02220200= KTCM 131059Z 21005KT 7SM BKN008 OVC020 12/10 A3012 RMK SLP202= KVBG 131056Z AUTO 03006KT 1/4SM FG VV001 12/12 A2991 RMK AO2 SLP120 P0001 T01220122 TSNO VISNO RWY12 $= KVBG 131056Z AUTO 03006KT 1/4SM FG VV001 12/12 A2991 RMK AO2 SLP120 P0001 T01220122 TSNO VISNO RWY12 $= PABA 131055Z AUTO 13011KT 10SM CLR 02/01 A3020 RMK AO1 T00170012= KDMA 131057Z 12013KT 20SM FEW080 SCT120 22/15 A2997 RMK SLP117= KHRT 131055Z 34003KT 8SM FEW005 FEW060 SCT170 23/23 A2986 RMK AO2A SLP112 RCRNR $= KLFI 131059Z 00000KT 7SM SCT030 BKN100 14/14 A3007 RMK SLP185= KNCA 131056Z 02004KT 7SM BKN100 BKN200 16/15 A3005 RMK SLP177 T01610150= PASV 131055Z AUTO 00000KT 10SM CLR 09/06 A3045 RMK AO1 T00940056=  564 SAUS70 KWBC 131106 METAR KBQP 131104Z AUTO 00000KT 10SM CLR 20/19 A2995 RMK AO2= KCPK 131102Z AUTO 00000KT 10SM SCT041 12/11 A3008 RMK AO2= KCTZ 131104Z AUTO 00000KT 10SM OVC100 17/14 A3006 RMK AO2= KHBI 131102Z AUTO 00000KT 7SM OVC075 17/15 A3008 RMK AO2= KHQU 131101Z AUTO 09003KT 4SM BKN006 OVC009 19/16 A2998 RMK AO1= KSFQ 131101Z AUTO 00000KT 10SM CLR 13/12 A3009 RMK AO2= KFYJ 131104Z AUTO 00000KT 10SM CLR 15/14 A3011 RMK AO1= KJGG 131101Z AUTO 10SM CLR 16/16 A3008 RMK AO1= KMWK 131103Z AUTO 15003KT 5SM RA SCT010 OVC014 17/14 A3005 RMK AO2= KDPL 131102Z AUTO 00000KT 10SM BKN110 16/14 A3006 RMK AO2= KLWB 131101Z AUTO 00000KT 4SM RA OVC017 15/15 A3004 RMK AO2= KMDQ 131104Z AUTO 00000KT 21/20 A2992 RMK AO2 PWINO= KMQI 131101Z AUTO 08007KT 10SM CLR 20/14 A3007 RMK AO2= KPGV 131101Z AUTO 00000KT 10SM CLR 16/13 A3007 RMK AO2= KSHD 131101Z AUTO 18004KT 7SM -RA BKN070 OVC090 16/14 A3005 RMK AO2 P0001=  565 SAAK32 KWBC 131100 METAR PABA 131055Z AUTO 13011KT 10SM CLR 02/01 A3020= PABA SA 1055 AWOS CLR BLO 120 10 35/34/1311/020= PABI 131053Z AUTO 23008KT 10SM FEW055 SCT070 09/04 A3043= PACZ 131055Z AUTO 19015KT 10SM OVC010 07/07= PACZ SA 1055 AWOS M10 OVC 10 45/44/1915/M= PADK 131056Z AUTO 20005KT 10SM OVC013 08/06 A3018= PADL 131056Z 00000KT 9SM CLR 04/03 A3044= PADQ 131053Z 28005KT 10SM CLR 05/04 A3045= PAEH 131055Z AUTO 00000KT 10SM CLR 07/06 A3041= PAEH SA 1055 AWOS CLR BLO 120 10 44/43/0000/041= PAFB NIL= PAGA 131055Z AUTO 00000KT 10SM SCT028 06/06 A3039= PAGA SA 1055 AWOS 28 SCT 10 43/42/0000/039= PAIM NIL= PALU 131059Z 2 OVC011 A2990= PASV SA 1055 AWOS CLR BLO 120 10 49/42/0000/045= PASY NIL= PATC 131055Z AUTO 19026KT 4SM OVC003 07/07 A3011= PATC SA 1055 AWOS M3 OVC 4 45/45/1926/011= PATL 131055Z AUTO 22003KT 10SM CLR 09/06 A3045= PATL SA 1055 AWOS CLR BLO 120 10 48/42/2203/045= PBTI NIL=  566 SAAF35 KWBC 131100 METAR HDAM NIL= HEAX NIL= HEBA NIL= HEBL NIL= HECA 131100Z 02008KT CAVOK 32/21 Q1014 NOSIG= HECA 131100Z 01010KT CAVOK 31/20 Q1015 NOSIG= HEGN NIL= HELX NIL= HEMM NIL= HEPS NIL= HERN NIL= HESC NIL= HESN NIL= HLLB NIL= HLLS NIL= HLLT 131050Z VRB03KT 8000 33/17 Q1015 NOSIG= HSKA NIL= HSPN NIL= HSSJ NIL= HSSP NIL= HSSS NIL=  568 SAUS80 KWBC 131106 METAR KJNX 131101Z AUTO 00000KT 10SM OVC100 17/15 A3006 RMK AO1= KMWS 131029Z 24005KT 21/01=  569 SPUS70 KWBC 131106 SPECI KESF 131102Z AUTO VRB04KT 10SM BKN010 23/20 A2992 RMK AO2= KBLF 131102Z AUTO 18008G14KT 150V210 4SM -RA FEW007 BKN020 OVC032 15/12 A3004 RMK AO2 P0001= KCMX 131102Z AUTO 31008KT 1 3/4SM BR CLR 07/07 A2997 RMK AO2= KFIG 131102Z AUTO 00000KT 1SM RA BR OVC007 13/12 A3000 RMK AO2 CIG 005V010 P0002= KGVL 131102Z AUTO 06007KT 3SM RA BR BKN065 BKN080 17/15 A3000 RMK AO2 P0002= KMNN 131102Z AUTO 18008KT 3SM BR OVC005 18/17 A2984 RMK AO2 CIG 003V008 $= KSNS 131102Z AUTO 00000KT 1/2SM FG OVC002 12/12 A2990 RMK AO2= PAKW 131102Z AUTO 00000KT 1/2SM FG FEW001 OVC008 10/09 A3027 RMK AO2 TSNO= KDCU 131103Z AUTO 00000KT 2 1/2SM -RA BR BKN011 BKN014 OVC033 21/20 A2992 RMK AO2 P0000= KLWC 131103Z AUTO 32005KT 2 1/2SM BR BKN001 08/08 A3007 RMK AO2=  571 SAAO32 KWBC 131100 NIL=  572 SAAF36 KWBC 131100 METAR HAAB 131100Z 18010KT 9999 SCT025 20/XX Q1026 NOSIG= HAAY NIL= HADR NIL= HBBA NIL= HCMH NIL= HCMI NIL= HCMK NIL= HCMM NIL= HCMV NIL= HEMA NIL= HFFF NIL= HKJK NIL= HKMO NIL= HKNA NIL= HRYR NIL= HTDA NIL= HTKJ NIL= HTZA NIL= HUEN NIL= HUKS NIL= HUMA NIL= HUSO NIL=  573 SAAF33 KWBC 131100 METAR FLLI NIL= FLLS 131100Z 08005KT CAVOK 28/10 Q1021= FLMF NIL= FLND NIL= FNHU NIL= FNLU 131100Z 25009KT 9999 SCT020 BKN025 24/17 Q1015 NSG= FQBR 131100Z 15010KT 120V190 9999 SCT018 26/19 Q1020= FQMA NIL= FVBU NIL= FVCZ NIL= FVFA NIL= FVHA NIL= FVMV NIL= FVTL NIL= FWCL NIL= FWGL NIL= FWKI NIL= FWUU NIL=  592 SAAO31 KWBC 131100 RRA METAR GCFV NIL= GCHI NIL= GCLA NIL= GCLP NIL= GCRR NIL= GCTS NIL= GCXO NIL= GEML NIL= GMAA NIL= GMAT NIL= GMFF 131100Z 03006KT 350V080 8000 BKN030 24/15 Q1016 NOSIG= GMFO 131100Z 24004KT 9999 SCT030 SCT100 25/18 Q1014 NOSIG= GMME 131100Z 30010KT 9999 SCT020 25/20 Q1014 NOSIG= GMMN 131100Z 02006KT 9999 SCT026 24/15 Q1017 NOSIG= GMMX 131100Z 06005KT 320V110 6000 FEW020 OVC033 21/17 Q1018 NOSIG= GMOY NIL= GMTA 131100Z 36008KT 9999 FEW016 SCT026 25/19 Q1012= GMTN NIL= GMTT 131100Z 23016KT 7000 SCT016 SCT200 26/19 Q1014 NOSIG= GSAI NIL=  593 SPUS80 KWBC 131106 SPECI KFNT 131103Z 00000KT 3/4SM -RA BR OVC002 17/17 A2981 RMK AO2 P0001= KODX 131102Z AUTO 00000KT 2SM BR FEW002 09/09 A3003 RMK AO2= KMGM 131103Z 00000KT 4SM BR FEW011 SCT026 OVC039 23/22 A2988 RMK AO2 RAE1058 P0000= KTRI 131103Z 00000KT 2SM -RA BR FEW016 SCT036 OVC055 16/16 A2999 RMK AO2 P0003= KDMN 131103Z AUTO 36008KT 10SM VCTS FEW043 BKN055 BKN065 16/14 A3016 RMK AO2 TSE00B03=  595 SAAO33 KWBC 131100 NIL=  596 SPPR41 KWBC 131106 SPECI SPEC B EGYP 131103Z 29019KT 9999 -SHRASN FEW003 SCT010CB BKN030 01/01 Q0982 GRN TEMPO 9999 NSW SCT015 WHT=  597 SAZA31 FAPR 131100 METAR FAAB 131100Z AUTO 19018KT //// // ////// 17/09 Q1019= METAR FABL 131100Z 33009KT CAVOK 22/00 Q1024 NOSIG= METAR FACT 131100Z 17020KT 9999 FEW025 19/11 Q1023 NOSIG= METAR FADN 131100Z 03015KT 9999 FEW035 27/17 Q1017 NOSIG= METAR FAEL 131100Z 08004KT CAVOK 21/15 Q1019= METAR FAGG 131100Z 29010KT 9999 BKN025 17/11 Q1023= METAR FAJS 131100Z 36013KT CAVOK 21/M01 Q1026 NOSIG= METAR FAKM 131100Z 36010KT CAVOK 25/03 Q1021= METAR FAMM 131100Z 01013KT CAVOK 26/04 Q1023= METAR FANS 131100Z AUTO 06003KT //// // ////// 19/05 Q1023= METAR FAPE 131100Z 24019KT 9999 BKN019 19/12 Q1021 NOSIG= METAR FAUP 131100Z 19005KT CAVOK 28/M00 Q1017=  598 SACA42 KWBC 131100 METAR TIST 131053Z 07004KT 10SM CLR 28/23 A2992= TISX 131053Z 01004KT 10SM FEW023 26/23 A2993= TJBQ 131050Z 00000KT 10SM SKC 25/21 A2990= TJMZ 131056Z 131050KT 08004KT 10SM SKC 22/21 A2991= TJMZ 131050KT 08004KT 10SM SKC 22/21 A2991= TJMZ 131052Z 131050KT 08004KT 10SM SKC 22/21 A2991= TJNR NIL= TJPS 131055Z 00000KT 10SM FEW025 SCT080 24/22 A2992= TJSJ 131056Z 21003KT 10SM FEW025 26/23 A2992=  599 SAAW42 KWBC 131100 METAR OBAH NIL= OBBI 131100Z 02004KT CAVOK 38/11 Q1003 NOSIG= OBBQ NIL= OBSC NIL= OBZI NIL= OJAQ 131100Z 35022KT 6000 SKC 36/16 Q1009= OKBC NIL= OKTK NIL= OKZK NIL= OMAD NIL= OMAU NIL= OMDZ NIL= OMGK NIL= OMMA NIL= OMMS NIL= OMSA NIL= OMSQ NIL= OMSR NIL= OSAS NIL= OSGN NIL=  600 SAAS33 KWBC 131100 RRC METAR VBRR NIL= VDPP 131100Z 34003KT 9000 SCT015 FEW017CB BKN040 26/25 Q1008 CB S SE= VDSR NIL= VLVT NIL= VTBD NIL= VTBU NIL= VTCC NIL= VTSP NIL= VTSS NIL= VVDN NIL= VVGL NIL= VVNB NIL= VVTS NIL= WMAM NIL= WMKJ 131100Z 32003KT 9999 FEW016CB BKN280 24/23 Q1009 RETSRA= WMKK 131100Z 17002KT 9000 FEW017CB BKN270 29/24 Q1009 NOSIG= WMKP 131100Z 35001KT 7000 FEW020 BKN260 28/25 Q1009 NOSIG= WMSA 131100Z 03002KT 9000 FEW018 BKN280 26/23 Q1010= WPDL NIL= WPEC NIL= WSAP 131100Z 16005KT 9999 FEW018 FEW020TCU BKN280 30/25 Q1009= WSSL 131100Z VRB03KT 9999 FEW020 BKN300 29/23 Q1009 RMK 1030Z Q 1009= WSSS 131100Z 18004KT 9999 FEW018 BKN300 29/22 Q1010 NOSIG=  602 SAAW32 KWBC 131100 RRA METAR OEDF 131100Z VRB03KT CAVOK 44/00 Q1003 NOSIG= OEDR 131100Z NIL= OEJN 131100Z 29014KT 8000 SKC 3727 Q1004 NOSIG= OEMA 131100Z 03008KT CAVOK 42/M04 Q1010 NOSIG= OERK 131100Z 01009KT CAVOK 40/M02 Q1010 NOSIG= OIAA NIL= OIAW NIL= OIBB NIL= OIBK NIL= OICC NIL= OICK NIL= OICS NIL= OIFM NIL= OIFP NIL= OIGG NIL= OIHH NIL= OIII NIL= OIIM NIL= OIIP NIL= OIIX NIL= OIKB NIL= OIKK NIL= OIMM NIL= OINN NIL= OINR NIL= OINZ NIL= OISM NIL= OISS NIL= OITL NIL= OITR NIL= OITT NIL= OIYY NIL= OIZH NIL= OKBK 131100Z 36012KT 8000 SKC 45/03 Q1004 NOSIG= ORBI NIL= ORBS NIL= ORMM NIL= OSAP 131100Z 27011KT 240V310 CAVOK 32/02 Q1013= OSDI 131100Z 20013KT 170V240 CAVOK 33/09 Q1015= OSLK 131100Z 26008KT 9999 FEW026 30/19 Q1014= OTBD 131100Z 09011KT CAVOK 36/26 Q1004 NOSIG= OTBH NIL= OTMA NIL= OTMS NIL=  603 SAPA41 KWBC 131100 METAR PGSN 131054Z 32004KT 10SM FEW027 SCT035 27/23 A2982= PGUA 131055Z 02005KT 7SM FEW027 BKN250 27/24 A2983= PGUM 131054Z COR 03003KT 10SM FEW025 SCT042 SCT070 28/23 A2984= PGUM 131054Z COR 03003KT 10SM FEW025 FEW042 SCT070 28/23 A2984= PGUM 131054Z 03003KT 10SM FEW042 SCT070 28/23 A2984= PJON NIL= PKMJ NIL= PKWA 131052Z 13002KT 10SM FEW020 SCT120 BKN300 28/26 A2988= PWAK NIL=  604 SPUS42 KWBC 131106 SPECI KMGM 131103Z 00000KT 4SM BR FEW011 SCT026 OVC039 23/22 A2988=  605 SAAU31 KWBC 131100 METAR YAYE NIL= YBAS 131100Z AUTO 13006KT //// // NCD 18/M03 Q1024= YBBN 131100Z 19007KT 9999 FEW030 16/10 Q1031 NOSIG= YBCG NIL= YBCS 131100Z 16005KT 9999 SCT025 BKN050 19/18 Q1021 RESHRA= YBMA NIL= YBRK NIL= YBRM NIL= YBTL 131100Z 11013KT CAVOK 21/13 Q1023 NOSIG= YDDN NIL= YDTN NIL= YMHB NIL= YMML 131100Z 35014KT CAVOK 14/04 Q1029 NOSIG= YPAD 131100Z 05007KT CAVOK 17/08 Q1026 NOSIG= YPBR NIL= YPCC 131100Z 11012KT 9999 FEW024 BKN300 27/22 Q1014= YPDN 131100Z 10005KT CAVOK 25/14 Q1014= YPEA NIL= YPLM 131100Z AUTO 23010KT 9999NDV // NCD 26/12 Q1016= YPPD NIL= YPPH 131100Z 22007KT CAVOK 15/09 Q1026 NOSIG= YPTN 131100Z 11004KT CAVOK 21/09 Q1016= YPXM 131100Z AUTO 13013KT 9999NDV // OVC010 23/22 Q1014= YSCB NIL= YSDU NIL= YSNF NIL= YSRI NIL= YSSY 131100Z 02008KT CAVOK 17/09 Q1032 NOSIG= YYPY NIL=  606 SAAW33 KWBC 131100 METAR OBBI 131100Z 02004KT CAVOK 38/11 Q1003 NOSIG= OMAA NIL= OMAL NIL= OMDB NIL= OMFJ NIL= OMRK NIL= OMSJ NIL= OOMA NIL= OOMS 131100Z 05011KT 010V070 CAVOK 35/25 Q1003 NOSIG= OOSA 131100Z 20011KT 170V230 9999 FEW025 30/23 Q1005 NOSIG RMK01= OOTH NIL= OYAA 131100Z 24013KT 7000 FEW016 35/26 Q1004= OYAR NIL= OYHD 131100Z NIL= OYJA NIL= OYMB NIL= OYSM NIL= OYSN 131100Z 35006KT 9999 FEW030 28/02 Q1024= OYTZ 131100Z 26009KT 9999 FEW025CB SCT030 29/13 Q////= OYTZ 131100Z NIL=  607 SAAS32 KWBC 131100 METAR RKPC NIL= RKPK NIL= RKSS NIL= VHHH NIL= VMMC NIL= ZJSY 131100Z 35001MPS 8000 NSC 27/23 Q1008 NOSIG= ZKPY NIL=  609 SAAW31 KWBC 131100 METAR LLBG NIL= LLBS NIL= LLET NIL= LLJR NIL= LLOV NIL= LTAC NIL= LTAF NIL= LTAI NIL= LTBA NIL= LTBJ NIL= LTBS NIL= OEPS NIL= OJAI 131100Z 00000KT CAVOK 33/06 Q1016= OJAM 131100Z 36003KT 4000 HZ FEW200 31/11 Q1017= OJJR NIL= OLBA NIL= UGEE NIL= UGGG NIL=  610 SAHW31 KWBC 131100 METAR PHJR 131053Z 00000KT 10SM CLR 22/18 A3005= PHKO 131053Z AUTO 25012KT 10SM FEW030 27/21 A2999= PHLI 131053Z 25004KT 10SM CLR 22/20 A3005= PHNL 131053Z 06008KT 10SM FEW029 26/19 A3003= PHOG 131054Z AUTO 05003KT 10SM CLR 22/17 A3003= PHTO 131053Z 22006KT 10SM FEW035 21/16 A3004=  612 SAAS31 KWBC 131100 NIL=  614 SABZ42 KWBC 131100 METAR SBJR NIL= SBLO NIL= SBMA 131100Z 01006KT CAVOK 27/23 Q1013= SBME NIL= SBMN NIL= SBMO 131100Z 00000KT 9999 SCT030 23/20 Q1018= SBMQ 131100Z 33004KT 9999 SCT013 BKN090 26/26 Q1014= SBMT NIL= SBPC NIL= SBPK 131100Z 14003KT 9000 -RA FEW020 OVC070 11/11 Q1019= SBPP NIL= SBPV 131100Z 00000KT 3000 BR NSC 25/23 Q1012= SBRB 131100Z 00000KT CAVOK 21/21 Q1013= SBRJ 131100Z 35005KT 8000 SKC 23/20 Q1015= SBSC NIL= SBSJ NIL= SBSM NIL= SBSP 131100Z 00000KT 7000 SKC 23/13 Q1020= SBST NIL= SBTE 131100Z 14007KT CAVOK 29/17 Q1015= SBTU NIL= SBUG 131100Z /////KT 9999 FEW030 BKN070 OVC200 12/12 Q1015= SBUR NIL= SBVH NIL= SBVT NIL= SBYS NIL=  615 SABZ43 KWBC 131100 METAR SBAN NIL= SBAT NIL= SBBA NIL= SBBQ NIL= SBBW NIL= SBCC NIL= SBER NIL= SBES NIL= SBGA NIL= SBIZ NIL= SBJF NIL= SBJP NIL= SBKG NIL= SBLB NIL= SBLP NIL= SBMK NIL= SBMS NIL= SBMZ NIL= SBPB NIL= SBPJ NIL= SBPL NIL= SBPN NIL= SBQV NIL= SBRP 131100Z 11004KT CAVOK 21/18 Q1018= SBTF NIL= SBTK NIL= SBUF NIL= SBUI NIL= SBUL NIL=  616 SACA33 KWBC 131100 METAR TBPB 131100Z 18006KT 9999 SCT008CB OVC280 26/24 Q1013 RMK CB+VCSH-E/S/SW/NW= TDPD NIL= TDPR NIL= TFFF NIL= TFFG NIL= TFFJ NIL= TFFR NIL= TGPY NIL= TGPZ NIL= TLPC NIL= TLPL NIL= TNCA NIL= TNCB NIL= TNCC NIL= TNCE NIL= TNCM NIL= TTCP NIL= TTPP NIL= TVSM NIL= TVSU NIL= TVSV NIL=  617 SABO41 KWBC 131100 NIL=  618 SABZ31 KWBC 131100 METAR SBBE 131100Z 07004KT CAVOK 27/25 Q1013= SBBR 131100Z 09004KT CAVOK 19/09 Q1021= SBBV NIL= SBCF 131100Z 22002KT CAVOK 17/13 Q1022= SBCG 131100Z 03010KT CAVOK 26/11 Q1015= SBEG 131100Z 00000KT CAVOK 25/22 Q1013= SBFI 131100Z 05003KT CAVOK 22/13 Q1011= SBFZ 131100Z 16012KT 9999 FEW020 28/19 Q1015= SBGL 131100Z 13001KT CAVOK 26/20 Q1015= SBGR 131100Z 00000KT 6000 SKC 21/14 Q1020= SBKP 131100Z 10005KT 6000 SKC 22/13 Q1019= SBNT 131100Z 17008KT 9999 FEW020 27/21 Q1017= SBPA 131100Z 16008KT 9999 BKN015 OVC031 15/14 Q1018= SBPS NIL= SBRF 131100Z 22006KT 9999 FEW020 SCT100 25/22 Q1017= SBSL 131100Z 07010KT 9999 BKN020 28/22 Q1013= SBSN 131100Z 06010KT CAVOK 27/21 Q1012= SBSV 131100Z 04003KT 330V050 4000 -RA BR FEW008 BKN015 22/22 Q1019= SBTT NIL=  619 SACA32 KWBC 131100 METAR MDLR NIL= MDPC NIL= MDPP NIL= MDSD 131100Z 00000KT 9999 FEW018 SCT300 24/24 Q1013= MDST 131100Z 00000KT 9999 FEW014CB SCT016 21/21 Q1013 CB/NW= MTCH NIL= MTPP NIL= TAPA NIL= TIST 131053Z 07004KT 10SM CLR 28/23 A2992 RMK AO2 SLP131 T02780233= TISX 131053Z 01004KT 10SM FEW023 26/23 A2993 RMK AO2 SLP133 T02560233= TJBQ 131050Z 00000KT 10SM SKC 25/21 A2990= TJMZ 131056Z 131050KT 08004KT 10SM SKC 22/21 A2991= TJMZ 131050KT 08004KT 10SM SKC 22/21 A2991= TJMZ 131052Z 131050KT 08004KT 10SM SKC 22/21 A2991= TJNR NIL= TJPS 131055Z 00000KT 10SM FEW025 SCT080 24/22 A2992= TJSJ 131056Z 21003KT 10SM FEW025 26/23 A2992 RMK AO2 SLP130 T02610228= TKPK 131100Z VRB01KT 9999 BKN020 27/25 Q1013= TKPN 131100Z 15005KT 9999 SCT020 28/24 Q1012= TQPF NIL= TRPM NIL= TUPJ NIL= TUPW NIL=  624 SACA31 KWBC 131100 METAR MBJT NIL= MBPV NIL= MBSC NIL= MKJP NIL= MKJS NIL= MUCM NIL= MUCU NIL= MUHA NIL= MUVR NIL= MWCB NIL= MWCR NIL= MYAM NIL= MYAT NIL= MYBS NIL= MYEC NIL= MYEG NIL= MYEH NIL= MYEM NIL= MYGF 131100Z 00000KT 9SM FEW022 SCT050 24/20 A2994= MYGW NIL= MYNN 131100Z 05005KT 9999 FEW018 27/21 Q1013=  626 SACA35 KWBC 131100 METAR MGGI NIL= MGPB NIL= MGSJ NIL= MHLC NIL= MHLM 131100Z 31003KT 9999 SCT020 BKN080 24/24 Q1013 BR HZ NOSIG= MHTG 131100Z 13003KT 8000 SCT024 SCT090 18/17 Q1018 VIS 8KM ENE BR D/C UNL FEW250 HZ NOSIG= MNPC NIL= MPBO NIL= MPCH NIL= MPDA NIL= MPMG NIL= MPSA NIL= MPTO 131100Z 00000KT 9999 FEW020 SCT100 24/22 Q1011= MRLB NIL= MRLM NIL= MROC NIL= MRPV NIL= MSLP NIL= MSSS NIL= MZBZ NIL=  627 SAAU31 KWBC 131100 CCA METAR YPDN 131100Z 10005KT CAVOK 25/14 Q1014 NOSIG=  630 SABZ41 KWBC 131100 METAR SBAA NIL= SBAF NIL= SBAR NIL= SBBG NIL= SBBH NIL= SBBI NIL= SBBU NIL= SBCJ 131100Z 07002KT 8000 FEW015 24/20 Q1017= SBCO NIL= SBCR 131100Z 00000KT CAVOK 27/15 Q1011= SBCT 131100Z 08006KT 3500 BR SCT002 18/16 Q1020= SBCV NIL= SBCY 131100Z 01004KT CAVOK 24/20 Q1013= SBCZ NIL= SBDN NIL= SBFL 131100Z 22007KT 9999 BKN012 BKN025 19/17 Q1017= SBFN 131100Z 12007KT 9999 SCT017 27/21 Q1016= SBGO NIL= SBGW NIL= SBHT NIL= SBIH NIL= SBIL NIL=  631 SACI31 KWBC 131100 NIL=  637 SXUS81 KWOH 131104 RRSSGX :&&HADS SOR REPORT FOR USER SGX .A FHCC1 20060913 DH1101/PCIRG 0.73 .A FHCC1 20060913 DH1101/USIRG 3.00 .A FHCC1 20060913 DH1101/UDIRG 39 .A FHCC1 20060913 DH1101/TAIRG 85.0 .A FHCC1 20060913 DH1101/MTIRG 82 .A FHCC1 20060913 DH1101/XRIRG 40 .A FHCC1 20060913 DH1101/VBIRG 13.00 .A FHCC1 20060913 DH1101/URHRG 46 .A FHCC1 20060913 DH1101/UPHRG 6.00 .A RCPC1 20060913 DH1102/PCIRG 9.73 .A RCPC1 20060913 DH1102/USIRG 7.00 .A RCPC1 20060913 DH1102/UDIRG 130 .A RCPC1 20060913 DH1102/TAIRG 68.0 .A RCPC1 20060913 DH1102/XRIRG 32 .A RCPC1 20060913 DH1102/VBIRG 12.60 .A RCPC1 20060913 DH1102/URHRG 146 .A RCPC1 20060913 DH1102/UPHRG 12.00 .E PDRC1 20060913 DH1015/PCIRG/DIN15/0.12/0.12/0.12/0.12 .E PDRC1 20060913 DH1015/HGIRG/DIN15/8.44/8.44/8.44/8.44 .E ILVC1 20060913 DH1015/PCIRG/DIN15/0.00/0.00/0.00/0.00 .E GSPC1 20060913 DH1015/PCIRG/DIN15/0.00/0.00/0.00/0.00 .E CBCC1 20060913 DH1015/HGIRG/DIN15/1.87/1.87/1.87/1.87 .E NRAC1 20060913 DH1015/HGIRG/DIN15/1.39/1.39/1.39/1.39 .E SKAC1 20060913 DH1015/HGIRG/DIN15/7.52/7.52/7.52/7.52 .ER NCKC1 20060913 DH0945/PCIRG/DIN15/2.69/2.69/2.69/2.69/2.69 .ER NCKC1 20060913 DH0945/HGIRG/DIN15/2.50/2.50/2.50/2.50/2.50 .ER FACC1 20060913 DH0945/HGIRG/DIN15/4.17/4.14/4.15/4.15/4.17 .ER CCCC1 20060913 DH0945/PCIRG/DIN15/0.01/0.01/0.01/0.01/0.01 .ER CCCC1 20060913 DH0945/HGIRG/DIN15/8.79/8.79/8.79/8.79/8.79 .E SJTC1 20060913 DH1015/HGIRG/DIN15/6.41/6.41/6.41/6.41 .E PRIC1 20060913 DH1015/HGIRG/DIN15/8.99/8.99/8.99/8.99 .E SMJC1 20060913 DH1015/PCIRG/DIN15/1.04/1.04/1.04/1.04 .E SMJC1 20060913 DH1015/HGIRG/DIN15/3.23/3.23/3.23/3.23 :END OF REPORT  644 SACA41 KWBC 131100 METAR MKBK NIL= MUBA NIL= MUBY NIL= MUCA NIL= MUCL NIL= MUCM NIL= MUCU NIL= MUGM 131055Z 34003KT 9999 FEW030CB FEW100 SCT220 24/22 A2991 RMK CB DSNT S SLP129 T02440217= MUGT NIL= MUHA NIL= MUMO NIL= MUMZ NIL= MUNG NIL= MUVR NIL= MUVT NIL= MYEF NIL= MYSM NIL= TABS NIL= TAOA NIL= TBBI NIL= TDCF NIL=  646 SACI41 KWBC 131100 NIL=  647 SACN31 KWBC 131100 NIL=  659 SAUS46 KPDT 131106 MTRHMS METAR KHMS 131050Z 30013KT 15SM SKC 19/10 A2991 RMK SLP127 T01940097 RSNK 15.3/05005KT  669 SAEE32 KWBC 131100 RRB METAR LBBG 131100Z 08008MPS 050V110 9999 SCT033 24/14 Q1024 NOSIG= LBPD 131100Z 07004MPS 340V130 CAVOK 23/09 Q1025 NOSIG= LBSF 131100Z 13005MPS 9999 FEW050 SCT200 23/05 Q1025 NOSIG= LBWN 131100Z 13006MPS 070V170 9999 FEW033 SCT053 23/16 Q1025 NOSIG= LHBP 131100Z 15010G20KT 090V200 CAVOK 24/08 Q1024 NOSIG= LHTA NIL= LRAR 131100Z 16001MPS 9999 BKN030 25/09 Q1024= LRBS 131100Z 11003G08MPS 070V150 CAVOK 24/08 Q1026 NOSIG= LRCK 131100Z 08004MPS 050V120 9999 FEW036 24/10 Q1027 NOSIG= LROP 131100Z 06004MPS CAVOK 24/08 Q1026 NOSIG= LRTC 131100Z 15002MPS 9999 SCT030 26/12 Q1026= LRTM 131100Z VRB01MPS 9999 FEW030CB 23/12 Q1026= LRTR 131100Z 11003MPS CAVOK 25/09 Q1024= LUCC NIL= LUKK 131100Z 05006KT CAVOK 22/10 Q1026 08CLRD65 NOSIG= LURN NIL=  672 SAEW31 KWBC 131100 METAR LPAZ NIL= LPFR 131100Z 25012KT CAVOK 25/16 Q1013= LPFU NIL= LPPD NIL= LPPR 131100Z 17010KT 7000 -RA SCT012 BKN020 BKN080 18/17 Q1011= LPPS 131100Z 33014KT 9999 SCT016 SCT030 25/20 Q1021= LPPT 131100Z 22009KT 180V250 9999 SCT020 SCT120 BKN250 21/17 Q1013 NOSIG= LXGB NIL=  673 SACA45 KWBC 131100 METAR MGFL NIL= MGGT 131100Z 00000KT 8000 FEW004 BKN200 17/16 Q1024 VIS BR VTO TEND N= MGHT NIL= MHAM NIL= MHCA NIL= MHCH NIL= MHLE NIL= MHNJ NIL= MHNO NIL= MHPL NIL= MHRO NIL= MHSR NIL= MHTE NIL= MHYR NIL= MNMG NIL= MNPC NIL= MPSA NIL= MRCH NIL= MSAC NIL=  680 SACI32 KWBC 131100 METAR ZBAA 131100Z 18003MPS 8000 NSC 23/13 Q1020 NOSIG= ZBTJ 131100Z 19002MPS 6000 NSC 22/15 Q1020 NOSIG= ZBYN 131100Z 08004MPS CAVOK 22/12 Q1021 NOSIG= ZGGG 131100Z 05002MPS 360V080 9999 -RA OVC033 22/19 Q1010 NOSIG= ZGNN 131100Z 06006MPS 9999 SCT030 BKN046 23/19 Q1012 NOSIG= ZGSZ 131100Z 05003MPS 350V090 6000 -SHRA SCT013 FEW030TCU BKN040 24/22 Q1009 NOSIG= ZHHH 131100Z 02003MPS 6000 SCT023 25/18 Q1018 NOSIG= ZKPY NIL= ZLLL 131100Z 15003MPS 8000 BKN046 15/07 Q1024 NOSIG= ZMUB 131100Z VRB02MPS CAVOK 22/M08 Q1015 NOSIG RMK QFE652,7 14= ZPPP 131100Z 20002MPS 9999 FEW050 18/09 Q1021 NOSIG= ZSAM 131100Z 11004MPS CAVOK 27/24 Q1012 NOSIG= ZSHC 131100Z 35003MPS 330V050 2300 BR FEW013 BKN020 OVC050 22/19 Q1017 NOSIG= ZSNJ 131100Z 05003MPS 020V080 CAVOK 22/19 Q1018 NOSIG= ZSOF 131100Z 05002MPS 9000 NSC 23/16 Q1018 NOSIG= ZSPD 131100Z 04006MPS 9999 BKN013 OVC040 24/20 Q1016 NOSIG= ZSSS 131100Z 02004MPS 9999 SCT016 BKN050 23/20 Q1017 NOSIG= ZUBD NIL= ZUCD NIL= ZUCK 131100Z 31004MPS 4500 HZ NSC 25/16 Q1015 NOSIG= ZUDF NIL= ZUDS NIL= ZUDX NIL= ZUDZ NIL= ZUFJ NIL= ZUFL NIL= ZUGH NIL= ZUGY NIL= ZULP NIL= ZULS NIL= ZULZ NIL= ZUMY NIL= ZUNC NIL= ZUSN NIL= ZUTR NIL= ZUUU 131100Z 02003MPS 3000 BR SCT030 18/16 Q1018 NOSIG= ZUWF NIL= ZUWX NIL= ZUXC NIL= ZUXJ NIL= ZUXY NIL= ZUYB NIL= ZUZY NIL= ZWTN NIL= ZWWW 131100Z 05003MPS CAVOK 31/02 Q1009 NOSIG= ZYHB 131100Z 18001MPS 1400 R23/P2000N R05/1200N BR NSC 18/18 Q1020 NOSIG= ZYTL 131100Z 26002MPS 7000 NSC 21/18 Q1021 NOSIG= ZYYY NIL=  684 SAEE31 KWBC 131100 RRA METAR EPGD 131100Z 15006KT 110V200 CAVOK 21/14 Q1023= EPKK 131100Z 27001KT 9999 FEW050 23/08 Q1024= EPKT 131100Z 22006KT CAVOK 22/10 Q1023= EPPO 131100Z 16009KT CAVOK 24/10 Q1021= EPQT NIL= EPRZ 131100Z 19007KT 9999 SCT036 23/12 Q1025= EPSC 131100Z 14011KT CAVOK 23/13 Q1020= EPWA 131100Z 14009KT 110V170 9999 FEW040 22/12 Q1024 NOSIG= EYSA NIL= UKBB 131100Z 33002MPS 9999 SCT036 20/11 Q1028 88CLRD70 NOSIG= UKKK 131100Z VRB01MPS 9999 BKN030 20/10 Q1028 26CLRD70 NOSIG= UKLL 131100Z 12005MPS 9999 FEW026 21/10 Q1026 13090070 NOSIG= UKOO 131100Z 10003MPS CAVOK 23/10 Q1026 16090070 NOSIG= UMII NIL= UMMM NIL= UMMS NIL=  690 SAFR32 KWBC 131100 RRA METAR LFML 131100Z 17021KT 9999 FEW026 BKN250 28/17 Q1015 NOSIG= LFMN 131100Z 11017KT 9999 FEW043 SCT250 27/16 Q1018 NOSIG= LFMP 131100Z 06004KT 030V110 9999 FEW003 BKN060 BKN100 21/19 Q1013 NOSIG= LFMT 131100Z 13024KT 9999 VCSH FEW011 FEW030TCU BKN041 BKN090 23/20 Q1014 NOSIG= LFOB 131100Z 13009KT 100V160 9999 FEW023 SCT250 25/19 Q1012 NOSIG= LFOH 131100Z AUTO 17007KT 140V210 9999NDV NCD 24/18 Q1010= LFOT 131100Z NIL= LFPB NIL= LFPG 131100Z 18012KT 150V230 9999 FEW033 BKN260 26/15 Q1012 NOSIG= LFPN 131100Z 16011KT 9999 FEW040 BKN230 26/16 Q1012 NOSIG= LFPO 131100Z 16012KT 120V200 9999 FEW033 BKN250 26/16 Q1012 NOSIG= LFQQ 131100Z 18007KT 140V200 9999 FEW030 26/18 Q1012 NOSIG= LFRB 131100Z NIL= LFRC 131100Z AUTO 19006KT 140V220 9999NDV BKN021 22/16 Q1010= LFRD 131100Z AUTO 18008KT 9999NDV BKN013 20/16 Q1009= LFRG 131100Z AUTO VRB06KT 9999NDV NSC 23/19 Q1010= LFRK 131100Z 19011KT 9999 FEW020 SCT110 BKN260 24/18 Q1010 NOSIG= LFRN 131100Z 14007KT 110V170 9999 FEW016 BKN130 21/17 Q1009 NOSIG= LFRO 131100Z AUTO 17013KT 9999NDV FEW031 22/15 Q1008= LFRQ 131100Z 18009KT 150V210 9999 BKN009 SCT026 OVC053 19/17 Q1008 NOSIG= LFRS 131100Z 14005KT 110V170 8000 FEW008 SCT053 BKN100 21/19 Q1009 NOSIG= LFRT 131100Z 18010KT 140V230 9999 SCT020 SCT026 BKN093 21/16 Q1008= LFRZ 131100Z 13005KT 090V150 9999 SCT008 BKN093 19/18 Q1009 NOSIG= LFSB 131100Z VRB02KT 9999 FEW050 26/15 Q1016 NOSIG= LFSF NIL= LFSN NIL= LFSR 131100Z 17009KT 140V200 9999 FEW033 SCT250 26/17 Q1013 NOSIG= LFST 131100Z VRB02KT 9999 FEW040TCU FEW046CB 26/18 Q1016 NOSIG= LFTW 131100Z 16019KT CAVOK 26/15 Q1015 NOSIG= LFVP 131100Z 03043G54KT 3500 RA BR OVC007 12/11 Q0986=  691 SAEM31 KWBC 131100 RRB METAR KQLA NIL= KQLH NIL= KQLX NIL= LATI NIL= LDDU 131100Z 17009KT CAVOK 26/15 Q1021= LDDV NIL= LDKT NIL= LDOS 131100Z VRB04KT CAVOK 23/10 Q1022= LDPL 131100Z 11005KT 060V190 CAVOK 25/11 Q1020 NOSIG= LDRI 131100Z 25004KT 180V310 CAVOK 25/12 Q1021 NOSIG= LDSP 131100Z 18004KT 100V290 9999 FEW050 27/13 Q1021 NOSIG= LDZA 131100Z VRB03KT 9999 FEW035 22/12 Q1022 NOSIG= LDZD 131100Z 24004KT 9999 FEW040 27/17 Q1020 NOSIG= LJLJ 131100Z 17003KT 9999 FEW050 22/10 Q1022 NOSIG= LJMB 131100Z VRB04KT CAVOK 21/09 Q1023= LJPZ 131100Z 31007KT 9999 FEW050 25/15 Q1020= LKIB NIL= LKMT 131100Z 19009KT 150V240 CAVOK 23/09 Q1023 NOSIG= LKPR 131100Z 14004KT 040V200 CAVOK 20/11 Q1020 NOSIG= LKTB 131100Z 17017KT 130V210 CAVOK 22/07 Q1023 NOSIG= LKTT NIL= LOAV NIL= LOIH NIL= LOIJ NIL= LOLW NIL= LOWG NIL= LOWH NIL= LOWI NIL= LOWK NIL= LOWL NIL= LOWS NIL= LOWW NIL= LOWZ NIL= LQSA 131100Z VRB02KT 9999 FEW040 SCT060 20/12 Q1023 NOSIG= LWOH 131100Z 21004KT 9999 FEW050 21/13 Q1024= LWSK 131100Z 20004KT 160V270 9999 FEW050 26/08 Q1023 NOSIG= LYBE NIL= LYDU NIL= LYLJ NIL= LYMB NIL= LYNI NIL= LYOH NIL= LYOS NIL= LYPG NIL= LYPL NIL= LYPR NIL= LYPZ NIL= LYRI NIL= LYSA NIL= LYSK NIL= LYSP NIL= LYTI NIL= LYTV NIL= LYZA NIL= LYZD NIL= LZIB 131100Z 15014KT 120V180 9999 FEW043 24/08 Q1022 NOSIG= LZKZ 131100Z 15005KT 080V200 9999 SCT048 23/09 Q1026 NOSIG= LZTT 131100Z 14006KT 070V200 9999 FEW056 20/08 Q1025 NOSIG=  694 SAFR31 KWBC 131100 METAR LFAC NIL= LFAT NIL= LFBD 131100Z 14010KT 120V190 9999 FEW015 BKN110 21/19 Q1009 NOSIG= LFBH 131100Z AUTO 16010KT 130V200 9999NDV FEW026/// 23/18 Q1009= LFBI 131100Z 17013KT 140V200 9999 FEW036 SCT250 25/15 Q1010 NOSIG= LFBO 131100Z 14020KT 9999 FEW033 SCT100 BKN250 23/16 Q1010 TEMPO 14020G30KT= LFBP 131100Z 28004KT 230V320 9999 FEW013 BKN130 21/19 Q1010 NOSIG= LFBT 131100Z 29004KT 260V340 9999 FEW026 BKN096 22/15 Q1010 NOSIG= LFBZ 131100Z 12004KT 080V170 9999 FEW015 BKN150 21/19 Q1009 NOSIG= LFGJ 131100Z AUTO VRB03KT 9999NDV NSC 26/15 Q1015= LFKB 131100Z 13010KT 100V160 9999 FEW018 27/19 Q1018 NOSIG= LFKC 131100Z 01009KT CAVOK 27/15 Q1017 NOSIG= LFKJ 131100Z 18004KT 150V230 9999 FEW040 SCT110 BKN300 27/19 Q1016 NOSIG= LFLB 131100Z VRB02KT 9999 FEW060 24/14 Q1016 NOSIG= LFLC 131100Z 16013KT 130V200 9999 FEW046 26/14 Q1013 NOSIG= LFLL 131100Z 19007KT 160V240 CAVOK 27/12 Q1015 NOSIG= LFLS 131100Z 12004KT 020V180 9999 FEW043 SCT260 26/13 Q1016 NOSIG= LFLY 131100Z 17010KT 140V200 CAVOK 27/13 Q1015 NOSIG= LFMD 131100Z NIL= LFMH 131100Z 15019KT CAVOK 27/12 Q1015 NOSIG=  695 SAID31 KWBC 131100 NIL=  696 SAIE31 KWBC 131100 METAR EICK 131100Z 22014KT 190V260 9999 SCT007 BKN014 BKN029 17/14 Q1000 NOSIG= EIDB NIL= EIDW 131100Z 16015KT 9999 FEW013 SCT017 BKN024 17/15 Q1001 NOSIG= EIKN 131100Z 18014KT 140V210 9999 SCT014 BKN018 16/12 Q0997 NOSIG= EINN 131100Z 16012KT 9999 FEW026 SCT040 BKN200 18/13 Q0998 NOSIG=  697 SAFR41 KWBC 131100 METAR LFAF NIL= LFBA 131100Z 12012KT 9999 FEW025 SCT260 24/20 Q1009= LFBC 131100Z 14006KT 9999 -RA FEW013 BKN150 21/19 Q1009= LFBL 131100Z 18016KT 9999 FEW043 SCT260 25/14 Q1012 NOSIG= LFBM NIL= LFKF 131100Z 06010KT 030V090 9000 -SHRA FEW021 SCT031 SCT042TCU BKN100 25/20 Q1018 NOSIG= LFLD 131100Z 15008KT 110V200 CAVOK 27/14 Q1012= LFLV 131100Z VRB06KT CAVOK 27/15 Q1013= LFOE 131100Z 16009KT 9999 BKN048 BKN250 24/17 Q1011= LFOP 131100Z 14008KT 110V170 CAVOK 24/18 Q1011 NOSIG= LFPB NIL= LFPG 131100Z 18012KT 150V230 9999 FEW033 BKN260 26/15 Q1012 NOSIG= LFPV NIL= LFQB 131100Z 17008KT 120V200 9999 FEW043 SCT260 27/16 Q1013= LFQQ 131100Z 18007KT 140V200 9999 FEW030 26/18 Q1012 NOSIG= LFRH 131100Z 16010KT 9999 FEW010 SCT050 BKN100 21/18 Q1008= LFRM 131100Z 17005KT 100V230 9999 SCT030 SCT100 25/17 Q1010= LFSC NIL= LFSD 131100Z 18008KT 150V210 CAVOK 25/14 Q1016 NOSIG= LFSI 131100Z 17004KT 120V190 CAVOK 27/17 Q1014= LFSL NIL= LFSO 131100Z 21008KT 170V240 CAVOK 25/15 Q1016= LFSX NIL= LFTH 131100Z NIL=  700 SAIO31 KWBC 131100 METAR FIMP NIL= FIMR NIL= FJDG NIL= FMCH 131100Z 30005KT 9999 FEW025 29/19 Q1016 NOSIG= FMCV NIL= FMCZ NIL= FMEE NIL= FMMI 131100Z 11009KT 070V150 9999 FEW023 24/08 Q1024 NOSIG= FMMT NIL= FMNN NIL= FSIA NIL= FSSS NIL= VRMM NIL= VYMD NIL= VYYY NIL= WBGG 131100Z 30004KT 9999 SCT020 BKN150 27/24 Q1010 NOSIG= WBKK 131100Z 09004KT 9999 FEW014 SCT140 BKN270 26/24 Q1010 NOSIG= WBSB NIL=  727 SAJP31 KWBC 131100 METAR RJAA 131100Z 03008KT 9999 -RA FEW005 BKN008 BKN040 19/18 Q1018 BECMG BKN010 BKN020= RJAH NIL= RJCC 131100Z VRB01KT 9999 FEW030 BKN/// 15/12 Q1023= RJCH 131100Z VRB03KT 9999 FEW035 BKN/// 16/13 Q1022= RJFK 131100Z 35004KT 9999 FEW020 BKN090 BKN120 22/21 Q1015= RJFT 131100Z 33003KT 3000 -SHRA BR FEW000 SCT001 BKN003 22/22 Q1015= RJFU 131100Z VRB02KT 9999 FEW008 SCT010 BKN050 23/20 Q1015= RJNN NIL= RJOO 131100Z 34011KT 6000 SHRA FEW006 SCT015 BKN020 19/18 Q1016= RJSS 131100Z 35006KT 5000 RA BR FEW004 BKN010 BKN013 17/16 Q1020= RJTT 131100Z 01011KT 3500 RA BR FEW003 SCT006 BKN008 20/18 Q1018= RODN NIL=  728 SPCN47 CWAO 131104 SPECI CYVV 131104Z 06005KT 2 1/2SM -RA BR OVC010 RMK SF8=  730 SAJP44 KWBC 131100 METAR RJOS NIL= RJOT 131100Z VRB02KT 9999 -RA FEW005 SCT015 BKN020 18/18 Q1017= RJOY NIL= RJOZ NIL= RJSA 131100Z VRB02KT 9999 FEW010 SCT070 BKN/// 13/11 Q1021= RJSC NIL= RJSD NIL= RJSH NIL= RJSI NIL= RJSO NIL= RJST NIL= RJSU NIL= RJTA NIL= RJTC NIL= RJTE NIL= RJTF NIL= RJTH NIL= RJTI NIL=  732 SAKO41 KWBC 131100 NIL=  733 SAIY43 LIIB 131100 METAR LIBA 131055Z 22003KT 9999 FEW035 27/16 Q1020 RMK FEW VIS MIN 9999 WIND THR29 17003KT BLU= METAR LIBC 131050Z 09007KT 9999 SCT025 SCT200 26/11 Q1020= METAR LIBD 131050Z 04008KT 9999 SCT020 24/18 Q1019= METAR LIBG 131100Z VRB03KT 9999 FEW030 27/15 Q1020= METAR LIBN 131055Z 03004KT 9999 SCT025 29/16 Q1020 RMK SCT VIS MIN 9999 WIND THR14 /////KT BLU= METAR LIBP 131050Z 06007KT 9999 FEW030TCU 24/17 Q1020= METAR LIBQ 131055Z ///03KT 9999 SCT010 15/07 Q1025 RMK SCT MON LIB VAL NIL VIS MIN 9999= METAR LIBR 131055Z 02008KT 9999 FEW018 25/20 Q1020 NOSIG RMK FEW VIS MIN 9999 WIND THR14 /////KT WIND THR32 03003KT BLU= METAR LIBV 131055Z 17007KT 120V230 8000 FEW025 SCT030 26/17 Q1019 RMK BKN VIS MIN 8000 WIND THR14 /////KT BLU= METAR LICA 131050Z 10012KT 8000 FEW020 SCT180 28/14 Q1018= METAR LICC 131050Z 06010KT 7000 FEW045 BKN070 25/20 Q1019= METAR LICD 131050Z 10015KT 9999 FEW020 28/23 Q1016 RMK QUK3 QUL2 VIS MAR 15KM= METAR LICG 131055Z 09011KT 7000 SCT009 SCT200 24/22 Q1018 RMK BKN VIS MIN 5000E WIND THR08 07010KT WIND THR21 09010KT WHT= METAR LICJ 131050Z 04007KT 9999 FEW028 27/19 Q1018= METAR LICP 131055Z 08006KT 9999 SCT025 27/18 Q1018 RMK SCT VIS MIN 9999 BLU= METAR LICR 131050Z 24019KT 9999 SCT025 26/22 Q1018 RMK SCT QUK2 QUL1 SW WT15 20014KT WT33 21021KT= METAR LICT 131055Z 17012KT 9999 SCT022 SCT200 28/20 Q1018 RMK BKN VIS MIN 9999 WIND THR13 16014KT BLU= METAR LICZ 131055Z 08013KT 5000 BR SCT020 SCT070 24/21 Q1019 RMK BKN VIS MIN 5000 WIND THR28 /////KT WHT=  735 SAUS31 KWBC 131100 METAR KABQ 131056Z 02003KT 10SM FEW065 BKN200 18/11 A3023= KATL 131052Z 13006KT 5SM -RA BR OVC005 20/18 A2993= KBGR 131053Z 00000KT 10SM SCT200 BKN250 06/04 A3009= KBHM 131053Z 00000KT 2 1/2SM BR BKN006 OVC009 21/19 A2992= KBNA 131053Z 33005KT 8SM OVC007 19/17 A2992= KBOS 131054Z 24004KT 10SM FEW250 12/07 A3013= KBWI 131054Z 00000KT 10SM FEW032 OVC050 16/13 A3009= KCHS 131056Z 06007KT 10SM BKN100 22/19 A2998= KCLE 131051Z 19009KT 8SM BKN011 OVC018 18/16 A2986= KCLT 131052Z 14003KT 10SM OVC060 18/15 A3005= KCVG 131052Z 23005KT 3/4SM -DZ BR OVC004 18/17 A2985= KDEN 131053Z 22010KT 10SM CLR 13/06 A3015= KDFW 131053Z 02005KT 10SM FEW300 17/13 A3005= KDTW 131054Z 07003KT 3SM BR OVC008 18/17 A2980= KEWR 131051Z 00000KT 10SM FEW060 BKN220 13/08 A3012= KFLL 131053Z 08007KT 10SM FEW035 27/19 A2993= KIAD 131052Z 19005KT 6SM HZ OVC040 15/12 A3009= KIAH 131053Z 31004KT 10SM FEW130 SCT250 24/21 A2994= KIND 131054Z 28007KT 5SM -DZ BR SCT008 BKN013 OVC023 14/14 A2986= KJAX 131056Z 17005KT 10SM FEW035 OVC090 24/20 A2995= KJFK 131051Z 05003KT 10SM FEW028 OVC250 14/09 A3013= KLAS 131056Z 29006KT 10SM CLR 25/04 A2990= KLAX 131050Z 17003KT 4SM BR BKN005 18/17 A2988= KLGA 131051Z 18003KT 10SM FEW095 OVC220 16/09 A3012= KLGC 131100Z AUTO 15007KT 5SM OVC006 21/21 A2988= KLIT 131053Z 33004KT 7SM CLR 16/12 A3002= KLOU 131053Z AUTO 29008KT 7SM BKN015 OVC021 17/16 A2988= KMCI 131053Z 29006KT 7SM CLR 12/10 A3005= KMCO 131053Z 17003KT 10SM SCT250 22/21 A2997= KMEM 131053Z 35009KT 10SM BKN048 18/12 A2998= KMIA 131053Z COR 04003KT 10SM SCT034 BKN100 27/22 A2994= KMIA 131053Z 04003KT 10SM FEW034 OVC100 27/22 A2994= KMSP 131053Z 00000KT 8SM R30L/1600VP6000FT BCFG FEW001 09/08 A3002= KMSY 131053Z 26003KT 6SM BR OVC150 24/22 A2988= KOAK 131053Z 31006KT 9SM CLR 14/12 A2991= KOKC 131052Z 33003KT 10SM CLR 15/11 A3009= KONT 131053Z 00000KT 10SM CLR 19/12 A2989= KORD 131051Z 33011KT 9SM OVC007 16/15 A2983= KORF 131051Z 00000KT 10SM FEW042 17/15 A3008= KPBI 131053Z 12006KT 10SM SCT041 26/19 A2995= KPHF 131054Z 00000KT 10SM CLR 14/13 A3008= KPHL 131054Z 00000KT 10SM SCT160 OVC250 14/11 A3012= KPHX 131051Z 11003KT 10SM BKN150 BKN200 27/15 A2989= KPIT 131051Z 17007KT 5SM BR SCT007 OVC012 16/15 A2992= KRDU 131051Z 00000KT 10SM FEW040 OVC090 17/13 A3007= KSAN 131051Z 00000KT 8SM OVC008 19/17 A2989= KSEA 131053Z 22008KT 10SM FEW003 OVC005 13/12 A3012= KSFO 131056Z 29011KT 10SM FEW007 14/09 A2990= KSTL 131051Z 29009KT 10SM OVC018 16/12 A2995= KSWF NIL= KTEB 131051Z 00000KT 10SM CLR 13/09 A3012= KTPA 131053Z 12004KT 8SM SCT055 BKN100 OVC250 26/21 A2995=  736 SAJP41 KWBC 131100 METAR RJAF NIL= RJAI NIL= RJAK NIL= RJAM NIL= RJAO NIL= RJAT NIL= RJBD NIL= RJCA NIL= RJCB 131100Z 16003KT 9999 FEW010 BKN/// 16/14 Q1022= RJCJ NIL= RJCK 131100Z 19001KT 9999 FEW015 BKN025 16/14 Q1023= RJCM 131100Z 24003KT 9999 FEW015 SCT050 16/13 Q1022= RJCN NIL= RJCO NIL= RJCR NIL= RJCT NIL= RJCW NIL= RJDB NIL= RJDC 131100Z 01001KT 9999 VCSH FEW006 BKN015 BKN025 21/19 Q1016=  738 SAFR41 LFYF 131100 METAR LFSC 131100Z 16003KT 110V200 9999 FEW050CB FEW050 27/15 Q1016= LFSD 131100Z 18008KT 150V210 CAVOK 25/14 Q1016 NOSIG= LFSF 131100Z 19005KT 150V240 CAVOK 26/17 Q1015= LFSI 131100Z 17004KT 120V190 CAVOK 27/17 Q1014= LFSO 131100Z 21008KT 170V240 CAVOK 25/15 Q1016= LFSR 131100Z 17009KT 140V200 9999 FEW033 SCT250 26/17 Q1013 NOSIG=  739 SPCN51 CWAO 131104 SPECI CWCL 131104Z AUTO 21003KT 9SM CLR 09/07 A3005=  740 SAKN41 KWBC 131100 NIL=  744 SAPO32 LPMG 131100 METAR LPAZ 131100Z 33014KT 9999 FEW018 SCT200 24/20 Q1024= METAR LPFL 131100Z 35007KT 310V020 9999 FEW022 23/17 Q1025= METAR LPHR 131100Z 31008KT 270V360 9999 SCT016 23/17 Q1025= METAR LPLA 131100Z 33016KT 9999 FEW023 23/15 Q1024 BLU= METAR LPPD 131100Z 35013KT 9999 FEW006 SCT012 BKN025 22/18 Q1023=  745 SAKO31 RKSI 131100 METAR RKSI 131100Z 30006KT CAVOK 23/19 Q1020 NOSIG= METAR RKSS 131100Z 32003KT CAVOK 19/14 Q1020 NOSIG = METAR RKPC 131100Z 10011KT 9999 SCT025 BKN130 22/17 Q1018 NOSIG = METAR RKPK 131100Z 03008KT 9999 BKN050 20/16 Q1019 NOSIG= METAR RKTU 131100Z 12002KT 9999 FEW040 23/17 Q1019 NOSIG = METAR RKNY 131100Z 24003KT 9999 SCT030 18/14 Q1023 NOSIG = METAR RKTN 131100Z 13003KT 9999 BKN040 20/15 Q1021 NOSIG =  746 SAIY41 LIIB 131100 METAR LIMH 131055Z VRB03KT 0300 FZFG VV003 00/M02 Q1031 RMK MON INVIS VAL INVIS VIS MIN 0300= METAR LIMT 131055Z 01004KT 9999 FEW015 16/10 Q1018 RMK FEW MON LIB VAL NIL VIS MIN 9999= METAR LIMU 131055Z ///16KT CAVOK 27/15 Q1019 RMK FEW FEW080 QUK 3 QUL 1 E VIS MAR 30 KM VIS MIN 9999= METAR LIMV 131055Z 01008KT 9999 SCT015 21/14 Q1022 RMK SCT MON LIB CUF ELEV SLW VAL NIL VIS MIN 9999= METAR LIMY 131055Z 00000KT 7000 NSC 22/12 Q1023 RMK BKN SCT080 VAL FOSCHIA VIS MIN 7000= METAR LIVD 131055Z 00000KT 9999 FEW040 16/05 Q1024 RMK FEW VIS MIN 9999= METAR LIVE 131055Z 17006KT CAVOK 17/09 Q1024 RMK VIS MIN 9999= METAR LIVF 131055Z 07004KT 9999 FEW036 22/13 Q1021 RMK SCT MON S CLD CIME NC VAL NIL VIS MIN 9999= METAR LIVM 131055Z 09006KT 8000 NSC 25/20 Q1020 RMK FEW FEW200 QUK 1 QUL 0 VIS MAR 8 KM VIS MIN 8000= METAR LIVO 131055Z 11005KT CAVOK 20/11 Q1022 RMK VIS MIN 9999= METAR LIVR 131055Z 09006KT CAVOK 13/01 Q1026 RMK SCT SCT170 MON LIB VIS MIN 9999= METAR LIVT 131055Z ///03KT CAVOK 25/19 Q1020 RMK QUK 2 QUL 0 VIS MAR 20 KM VIS MIN 9999=  747 SAJP45 KWBC 131100 NIL=  748 SAJP42 KWBC 131100 METAR RJDK NIL= RJDM NIL= RJDO NIL= RJDT NIL= RJEB NIL= RJEC 131100Z 19004KT CAVOK 13/11 Q1023= RJEO NIL= RJER NIL= RJFA NIL= RJFC NIL= RJFE NIL= RJFG NIL= RJFM 131100Z 34005KT 8000 SCT010 BKN015 24/21 Q1014= RJFN NIL= RJFO 131100Z 32003KT 9999 -RA FEW010 SCT020 BKN050 21/19 Q1015= RJFR 131100Z 02010KT 9999 -SHRA FEW010 BKN020 BKN040 22/19 Q1016= RJFY NIL= RJFZ NIL= RJKA NIL= RJKB NIL=  749 SAKO31 KWBC 131100 NIL=  751 SPCN47 CWAO 131103 SPECI CYZR 131103Z AUTO 00000KT 3/4SM OVC003 18/18 A2979=  752 SASA31 KWBC 131100 METAR SEGU NIL= SEQU NIL= SKBO NIL= SKBQ NIL= SKCG NIL= SKCL NIL= SKLT NIL= SKRG NIL= SKSP NIL= SMNI 131100Z 11006KT 9999 FEW018CB SCT250 26/24 Q1012 NOSIG= SMZO NIL= SMZY NIL= SOCA 131100Z VRB01KT 9999 FEW018 BKN120 25/24 Q1014 NOSIG= SPIM NIL= SPQT NIL= SPQU NIL= SPSO NIL= SPTN NIL= SPYL NIL= SPZO NIL= SVBC 131100Z /////KT 9999 FEW010 25/23 Q1012= SVMC NIL= SVMG 131100Z 13006KT 9999 SCT010 SCT080 27/26 Q1012 NOSIG= SVMI 131100Z 00000KT 9999 FEW016 27/25 Q1012 NOSIG= SYCJ NIL= SYTM NIL=  753 SAPA31 KWBC 131100 METAR AGGG NIL= AGGH NIL= ANAU NIL= AYPY NIL= PGNT NIL= PGRO NIL= PGSN 131054Z 32004KT 10SM FEW027 SCT035 27/23 A2982 RMK AO2 SLP094 T02720233= PGUA 131055Z 02005KT 7SM FEW027 BKN250 27/24 A2983 RMK AO2A SLPNO RED= PGUM 131054Z COR 03003KT 10SM FEW025 SCT042 SCT070 28/23 A2984 RMK AO2 RAB20E30 SLP095 P0000 T02780233= PGUM 131054Z COR 03003KT 10SM FEW025 FEW042 SCT070 28/23 A2984 RMK AO2 RAB20E30 SLP095 P0000 T02780233= PGUM 131054Z 03003KT 10SM FEW042 SCT070 28/23 A2984 RMK AO2 RAB20E30 SLP095 P0000 T02780233= PGWT NIL= PHJH NIL= PHJR 131053Z 00000KT 10SM CLR 22/18 A3005 RMK AO2 SLP180 T02170183 $= PHMK 131054Z AUTO 03003KT 10SM CLR 22/17 A3005 RMK AO2 SLP175 T02220167 TSNO= PJON NIL= PKMJ NIL= PKMR 131055Z 08003KT 15SM FEW015 SCT300 28/23 A2988 RMK SLP122 T02770234= PKWA 131052Z 13002KT 10SM FEW020 SCT120 BKN300 28/26 A2988 RMK SLP117 T02800259= PLCH NIL= PMDY NIL= PTKK 131050Z 21006KT 15SM FEW012 SCT120 OVC280 27/24 A2981 RMK SLP098 T02690238= PTKR 131054Z 32003KT 15SM SCT300 28/23 A2987 RMK SLP114 T02780230= PTPN NIL= PTRO NIL= PTSA NIL= PTTP 131054Z 21003KT 15SM BKN017TCU OVC120 26/24 A2987 RMK SHRAE22 TCU VC ALQDS SLP115 T02590238= PTYA 131052Z VRB03KT 12SM SCT016CB SCT140 OVC300 27/25 A2984 RMK CB VC ALQDS SLP107 T02650251= PWAK NIL=  754 SAIY42 LIIB 131100 METAR LIQN 131100Z VRB02KT CAVOK 24/14 Q1020 RMK FEW050 FEW MON E CLD CIME NC= METAR LIQO 131055Z /////KT CAVOK 25/17 Q1020 RMK FEW FEW200 VAL NIL NC VIS MIN 9999= METAR LIQW 131055Z 13001KT 9999 FEW030 28/M02 Q1019 RMK FEW VIS MIN 9999 BLU= METAR LIRE 131055Z 20008KT 9999 FEW020 26/20 Q1019 RMK FEW VIS MIN 9999 WIND THR31 /////KT BLU= METAR LIRG 131055Z /////KT 9999 FEW035TCU 29/10 Q1019 RMK FEW MON NE LIB NC VIS MIN 9999 WIND THR36 12004KT BLU= METAR LIRH 131055Z 10003KT 9999 SCT040TCU 28/15 Q1019 RMK SCT MON LIB NC VIS MIN 9999 WIND THR16 /////KT BLU= METAR LIRK 131055Z 11012KT 9999 FEW011 SCT060 14/13 Q1028 RMK SCT MON NE LIB NC VAL NIL NC VIS MIN 9999= METAR LIRL 131055Z 19003KT 9999 FEW045TCU 30/16 Q1019 RMK FEW MON LIB NC VIS MIN 9999 BLU= METAR LIRS 131055Z 21010KT 9999 FEW025 28/19 Q1019 RMK FEW VIS MIN 9999 WIND THR21 /////KT BLU= METAR LIRT 131055Z 08004KT 9999 SCT013 18/11 Q1023 RMK SCT MON LIB VAL NIL VIS MIN 9999= METAR LIRU 131050Z VRB03KT 9999 FEW025 28/12 Q1019= METAR LIRV 131055Z 19003KT 9999 SCT030 28/16 Q1020 RMK SCT MON E SE LIB NC VIS MIN 9999 BLU= METAR LIRZ 131100Z VRB05KT CAVOK 25/10 Q1020= LIEA 131045Z 10006KT 060V150 9999 BKN025 29/15 Q1016= METAR LIED 131055Z 13017KT 9999 FEW018TCU 28/19 Q1015 RMK SCT VIS MIN 9999 WIND THR 35 /////KT BLU= METAR LIEO 131045Z 09007KT 010V130 9000 FEW015 FEW015TCU SCT090 26/19 Q1018= METAR LIRX 131055Z 16012KT 9999 FEW015 SCT200 24/20 Q1019 RMK SCT VIS MIN 9999W VIS MAR 11 KM= METAR LIRM 131055Z 27004KT 9999 FEW020 28/15 Q1019 RMK FEW VIS MIN 9999 WIND THR06 /////KT BLU=  756 SANT31 KWBC 131100 METAR BGBW 131050Z 06004KT 020V100 9999 FEW150 SCT180 02/M08 Q1006 RMK 1AC 3CS= BGCO 131050Z 00000KT 9999 BKN120 BKN180 01/M02 Q1023= BGGH 131050Z 07008KT 9999 BKN140 03/M01 Q1003= BGJN 131050Z 30005KT 9999 SKC 00/M05 Q1006= BGJN 131050Z NIL= BGKK 131050Z 07016KT 030V100 9999 RA OVC023 05/05 Q1001= BGKK 131050Z NIL= BGSF 131050Z 07010KT 9999 FEW200 M01/M09 Q1006= BGTL 131055Z 11014G18KT 9999 FEW010 FEW032 SCT050 BKN070 01/M04 A2976 RMK SLP082= BIAR 131100Z 11006KT 080V150 9999 BKN036 11/03 Q1007= BIEG NIL= BIKF 131100Z 05017KT 9999 BKN035 10/06 Q0995= BIRK 131100Z 07012KT 9999 FEW040 SCT056 BKN160 13/05 Q0995= GVAC NIL= GVPR NIL= LPBJ NIL= LPLA 131100Z 33016KT 9999 FEW023 23/15 Q1024 BLU RMK CNTR RWY WND 33015KT= TXKF 131055Z 03006KT 9SM FEW028 BKN060 24/19 A3003 RMK SLP170=  757 SARA31 KWBC 131100 METAR UAAA NIL= UACC NIL= UAFM 131100Z 32003MPS 250V010 9000 NSC 30/M00 Q1011 NOSIG= UAFO NIL= UAFP NIL= UAOO NIL= UARR NIL= UATE NIL= UATG NIL= UATT NIL= UBBB 131100Z 01008KT 9999 SCT045CB OVC100 20/17 Q1021 88290060 NOSIG= UBBG 131050Z 12005KT 9999 OVC050 21/14 Q1021 12CLRD70 NOSIG= UBEE NIL= UEEE NIL= UGEE NIL= UGEL NIL= UGGG NIL= UGGN NIL= UGMM NIL= UGSS NIL= UHHH 131100Z 30002MPS CAVOK 09/09 Q1023 NOSIG= UHMA NIL= UHMD NIL= UHME NIL= UHML NIL= UHMM NIL= UHMO NIL= UHMP NIL= UHPP NIL= UHSS NIL= UHWW NIL= UIAA NIL= UIBB NIL= UIII NIL= UIUU NIL= ULAA NIL= UMBB NIL= UMGG 131100Z 28006MPS 9999 SCT031 19/09 Q1027 29000060 NOSIG= UMII NIL= UMMG NIL= UMMM NIL= UMMS NIL= UNAA NIL= UNNN NIL= UNNT NIL= USNN NIL= UTAA 131100Z 01003MPS 320V050 6000 FEW066 SCT100 25/13 Q1017 NOSIG= UTAK NIL= UTAT NIL= UTAV NIL= UTDD NIL= UTDL NIL= UTEE NIL= UTKA NIL= UTKF NIL= UTKK NIL= UTNK NIL= UTNN NIL= UTNR NIL= UTNU 131100Z 29003MPS 240V340 9999 FEW050CB OVC100 22/09 Q1016 NOSIG RMK QFE753= UTSA NIL= UTSB 131130Z 29003G08MPS CAVOK 33/03 Q1011 NOSIG RMK SC---= UTSD NIL= UTSK NIL= UTSS NIL= UTST NIL= UTTA NIL= UTTR NIL= UTTT 131100Z 33002MPS 260V360 CAVOK 31/04 Q1012 NOSIG= UTTW NIL= UUEE NIL=  758 SAMM31 KWBC 131100 METAR LCEN NIL= LCLK 131100Z 19010KT 9999 FEW020 32/18 Q1014 NOSIG= LCNC 131100Z NIL= LCPH 131100Z 25007KT 9999 FEW040 29/24 Q1015= LCRA NIL= LMML NIL=  759 SARS31 KWBC 131100 METAR UELL NIL= UEST NIL= ULLI NIL= ULMM NIL= UMWW NIL= UOHH NIL= UOOO NIL= UQKT NIL= UTAM 131100Z 31005MPS CAVOK 33/05 Q1013 NOSIG= UUDD NIL= UUEE NIL= UUEM NIL= UUKT NIL= UUWW NIL=  760 SAPO31 KWBC 131100 METAR LPAZ NIL= LPBJ NIL= LPFL NIL= LPFR 131100Z 25012KT CAVOK 25/16 Q1013= LPHR NIL= LPLA 131100Z 33016KT 9999 FEW023 23/15 Q1024 BLU RMK CNTR RWY WND 33015KT= LPMA 131100Z 23009KT 9999 SCT018 SCT070 24/16 Q1020 RS1908KT 052008KT 232309KT= LPMR NIL= LPMT NIL= LPOV NIL= LPPD NIL= LPPR 131100Z 17010KT 7000 -RA SCT012 BKN020 BKN080 18/17 Q1011= LPPS 131100Z 33014KT 9999 SCT016 SCT030 25/20 Q1021= LPPT 131100Z 22009KT 180V250 9999 SCT020 SCT120 BKN250 21/17 Q1013 NOSIG= LPST NIL= LPTN NIL=  762 SARS33 KWBC 131100 NIL=  763 SAJP43 KWBC 131100 RRA METAR RJKI NIL= RJKN NIL= RJNF NIL= RJNG NIL= RJNH NIL= RJNO NIL= RJNT 131100Z VRB01KT 9999 -RA FEW003 SCT020 BKN040 19/18 Q1017= RJNY NIL= RJOA 131100Z 02004KT 350V070 9999 FEW001 SCT025 BKN035 19/17 Q1017= RJOB 131100Z 30004KT 9999 FEW000 BKN025 19/18 Q1017= RJOC 131100Z 05008KT 9999 FEW008 BKN070 22/19 Q1018= RJOE NIL= RJOF NIL= RJOI 131100Z 03004KT 9999 BKN030 OVC050 22/18 A3002 RMK SLP168 T02170178= RJOK 131100Z 36006KT 9999 -RA FEW010 SCT060 BKN070 21/20 Q1014= RJOM 131100Z VRB03KT 9999 FEW005 SCT020 BKN030 21/20 Q1015= RJOP NIL= RJOR 131100Z 19004KT 9999 FEW010 SCT050 BKN080 20/17 Q1018=  764 SAPH31 KWBC 131100 METAR RPLB NIL= RPLC 131100Z 22003KT 9999 FEW042 BKN270 27/23 Q1011 A2987 RMK NOSIG= RPLL NIL= RPMC NIL= RPMD NIL= RPMK NIL= RPML NIL= RPMM NIL= RPMT NIL= RPMZ NIL= RPUW NIL= RPVM NIL= RPWD NIL=  761 SARS32 KWBC 131100 NIL=  765 SASD41 KWBC 131100 NIL=  766 SASD43 KWBC 131100 METAR OEMK NIL= OEML NIL= OEMU NIL= OENG NIL= OEOA NIL= OEOF NIL= OEOH NIL= OEOS NIL= OEOT NIL= OEPA NIL= OERC NIL= OERF NIL= OERG NIL= OERL NIL= OERR NIL= OERX NIL= OERY 131100Z 04004KT CAVOK 40/M03 Q1011 NOSIG= OESH NIL= OESK NIL= OESM NIL=  767 SASA42 KWBC 131100 METAR SCAC NIL= SCHA NIL= SCSE 131100Z 00000KT 9999 FEW013 OVC030 12/09 Q1017 NEFO PLAYA 3400FT= SCTC 131100Z VRB03KT CAVOK 02/01 Q1021= SCTI NIL= SCVD NIL= SELT NIL= SUAG NIL= SUDU NIL= SUPU NIL= SUTB NIL=  769 SASA32 KWBC 131100 METAR SCAR 131100Z 14003KT 9999 OVC023 17/11 Q1016= SCBA NIL= SCCF 131100Z 10018KT CAVOK 00/M08 Q1024= SCCH NIL= SCCI 131100Z 24026G42KT 9999 SCT015 01/M00 Q0992 RESHRASN NOSIG= SCDA 131100Z 23002KT 9999 OVC022 17/10 Q1017= SCEL 131100Z 15006KT 8000 BKN050 09/06 Q1017 NOSIG= SCFA 131100Z VRB02KT 9999 FEW015 BKN022 14/12 Q1017 NOSIG= SCGE NIL= SCIE 131100Z 00000KT CAVOK 02/00 Q1020= SCIP NIL= SCTE 131100Z 00000KT 5000 BR BKN030 04/04 Q1022 NOSIG= SGAS 131100Z 00000KT 5000 NSC 23/20 Q1009= SGES 131100Z 07004KT CAVOK 22/16 Q1012= SLCB NIL= SLCZ NIL= SLLP NIL= SLTJ NIL= SLTR NIL= SLVR NIL= SUAA NIL= SUCA NIL= SULS NIL= SUMU NIL= SUPE NIL= SURV NIL= SUSO NIL=  770 SARS41 KWBC 131100 NIL=  771 SASD42 KWBC 131100 NIL=  772 SATS31 KWBC 131100 METAR DTMB 131100Z 00000KT 5000 -TS FEW13 BKN016TCU FEW030CB 27/25 Q1016 RMK CB/E/SE TEMPO -TSSHRA= DTTA 131100Z 09011KT 050V110 9999 SCT023 30/21 Q1015 NOSIG= DTTB 131100Z 15012KT 9999 FEW020 SCT200 32/23 Q1015= DTTD 131100Z 09002KT CAVOK 29/22 Q1016= DTTG 131100Z 03006KT 6000 SCT020 28/25 Q1015= DTTJ 131100Z 05008KT 8000 FEW016 BKN200 29/24 Q1014 NOSIG= DTTK 131100Z 15002KT 9999 BKN026 29/22 Q1016= DTTL 131100Z 09006KT 9999 SCT020 28/22 Q1017= DTTN 131100Z 15004KT 9999 SCT020 32/20 Q1014= DTTR 131100Z 17006KT 8000 FEW030 SCT200 33/14 Q1015= DTTX 131100Z 08006KT 8000 SCT020 29/21 Q1015 NOSIG= DTTZ 131100Z 14006KT 8000 SCT030 31/21 Q1015 NOSIG=  773 SASD44 KWBC 131100 NIL=  775 SPUS52 KWBC 131106 SPECI KESF 131102Z AUTO VRB04KT 10SM BKN010 23/20 A2992=  776 SASA41 KWBC 131100 METAR SEMT NIL= SEPA NIL= SKBG NIL= SKMD NIL= SKPE NIL= SKSM NIL= SKVG NIL= SMJP 131100Z 00000KT 9999 BKN005 24/24 Q1014 NOSIG=  777 SASP31 KWBC 131100 NIL=  778 SAVN41 KWBC 131100 METAR SVAC NIL= SVBI NIL= SVBM NIL= SVBS NIL= SVCB NIL= SVCL NIL= SVCR NIL= SVCS NIL= SVCU 131100Z NIL= SVFM NIL= SVGI 131100Z NIL= SVGU NIL= SVHG NIL= SVJC NIL= SVLF NIL= SVMD NIL= SVMN NIL= SVMP NIL= SVMT NIL= SVPA NIL=  779 SPUS52 KWBC 131106 SPECI KTRI 131103Z 00000KT 2SM -RA BR FEW016 SCT036 OVC055 16/16 A2999=  808 SAXX61 KWBC 131100 METAR EDAD NIL= EDAH NIL= EDAR NIL= EDAS NIL= EDDS 131050Z 08003KT 9999 FEW040 25/15 Q1017 NOSIG= EDEB NIL= EDEH NIL= EDEU NIL= EDIC NIL= EDID NIL= EDIE NIL= EDIH NIL= EDIK NIL= EDMA 131050Z VRB02KT CAVOK 24/12 Q1018= EGPK 131050Z 16017KT 9999 SCT032 21/13 Q1003= EGUA NIL= EGUL NIL= EGUN NIL= EGVA 131050Z NIL= EGVJ NIL= EGWZ NIL= ETAD 131055Z 20004KT 9999 FEW045 FEW250 25/17 A3000 RMK SLP148 BLU= ETAR 131055Z 26003KT 9999 FEW050 26/15 A3002 RMK SLP158 BLU= KQHT 131055Z 29003KT 9999 FEW160 FEW250 30/01 A2990 RMK SLP099 WND DATA ESTMD= KQIR 131055Z 10011KT 330V090 8000 HZ SKC 42/09 A2966 RMK SLP044 WND DATA ESTMD ALSTG/SLP ESTMD= KQJL NIL= KQUZ NIL= LEMO NIL= LERT NIL= LICZ NIL= LIRN 131050Z 19005KT 9999 FEW025 28/17 Q1020= LIYW NIL= LPLA 131100Z 33016KT 9999 FEW023 23/15 Q1024 BLU RMK CNTR RWY WND 33015KT= LTAC 131050Z 10004KT 9999 FEW040 22/05 Q1023 NOSIG RMK RWY21L 36005KT= LTAG 131050Z 27003KT CAVOK 33/04 Q1012 NOSIG=  809 SAXX62 KWBC 131100 METAR FJDG NIL= FUDG NIL= PHBK NIL= PHHI NIL= PHNG NIL= PHSF NIL= PJON NIL= PKMJ NIL= PKWA 131052Z 13002KT 10SM FEW020 SCT120 BKN300 28/26 A2988 RMK SLP117 T02800259= PMDY NIL= PTSA NIL= PWAK NIL= RJOI 131100Z 03004KT 9999 BKN030 OVC050 22/18 A3002 RMK SLP168 T02170178= RJTA NIL= RJTX NIL= RJTY NIL= RKJJ NIL= RKJK NIL= RKNC NIL= RKPK NIL= RKSB NIL= RKSG NIL= RKSK NIL= RKSM NIL= RKSO 131057Z 08005KT 9999 SKC 19/15 A3012 RMK SLP200 WND DATA ESTMD= RKST NIL= RKSY NIL= RKTG NIL= RKTH NIL= RODN NIL=  810 SATN41 KWBC 131100 METAR HTAR 131100Z 16015KT 9999 BKN028 23/13 Q1021= HTBU NIL= HTDO NIL= HTIR NIL= HTKA NIL= HTMB NIL= HTMG NIL= HTMS NIL= HTMU NIL= HTMW NIL= HTPE NIL= HTSE NIL= HTSO NIL= HTSY NIL= HTTB NIL= HTTG NIL=  811 SAUR31 KWBC 131100 METAR UKBB 131100Z 33002MPS 9999 SCT036 20/11 Q1028 88CLRD70 NOSIG= UKCC 131100Z 30003MPS CAVOK 22/07 Q1024 2609//70 NOSIG= UKCW 131100Z 32005MPS 9999 SCT040 21/08 Q1024 2709//70 NOSIG= UKDD 131100Z 01003MPS 060V260 9999 BKN046 23/11 Q1026 09090070 NOSIG= UKDE 131100Z 32005MPS 9999 SCT050 22/08 Q1026 20CLRD70 NOSIG= UKDR 131100Z 04002MPS 9999 SCT033 22/08 Q1026 3609//70 NOSIG= UKFF 131100Z 03006MPS CAVOK 23/09 Q1025 01010070 NOSIG= UKHH 131100Z 29004MPS 9999 BKN040 BKN100 20/09 Q1026 260///65 NOSIG= UKKE NIL= UKKK 131100Z VRB01MPS 9999 BKN030 20/10 Q1028 26CLRD70 NOSIG= UKKM 131100Z VRB01MPS 9999 SCT040 20/11 Q1027 15CLRD70 NOSIG= UKLI 131100Z 13004MPS 9999 FEW033 21/11 Q1026 28090070 NOSIG= UKLL 131100Z 12005MPS 9999 FEW026 21/10 Q1026 13090070 NOSIG= UKLN 131100Z 12005MPS CAVOK 22/11 Q1027 NOSIG= UKLR 131100Z 16003MPS 9999 SCT023 21/09 Q1027 12090070 NOSIG= UKLT NIL= UKLU 131100Z 12003MPS 9999 FEW040 23/11 Q1026 10090070 NOSIG= UKON 131100Z 33003MPS 9999 SCT033 22/08 Q1026 05090075 NOSIG= UKOO 131100Z 10003MPS CAVOK 23/10 Q1026 16090070 NOSIG=  812 SAVN42 KWBC 131100 NIL=  813 SAUS41 KWBC 131100 CCA METAR KPVD 131051Z 27004KT 10SM FEW035 SCT060 BKN130 BKN200 BKN250 11/08 A3014=  820 SAUS41 KWBC 131100 METAR K40B NIL= KABE 131051Z 35003KT 10SM BKN043 12/09 A3011= KAGC 131053Z AUTO 17007KT 4SM -RA BR BKN003 OVC010 16/15 A2994= KAKR 131054Z AUTO 20008KT 6SM BR OVC007 17/16 A2987= KALB 131051Z 18004KT 10SM -RA FEW044 BKN100 12/08 A3011= KART 131056Z AUTO VRB04KT 8SM -RA OVC026 13/11 A2997= KAVP 131054Z VRB03KT 10SM -RA OVC031 13/09 A3007= KBAF 131053Z 00000KT 10SM FEW120 08/07 A3014= KBDL 131051Z 00000KT 10SM FEW130 BKN150 BKN200 09/08 A3013= KBDR 131054Z 00000KT 10SM CLR 12/08 A3014= KBED 131056Z AUTO 00000KT 10SM CLR 06/06 A3011= KBTV 131054Z 10003KT 10SM CLR 09/08 A3007= KBUF 131054Z 19010KT 10SM FEW015 OVC025 17/14 A2986= KBVY 131053Z 22003KT 10SM CLR 08/06 A3012= KCAE 131056Z 10006KT 8SM -RA BKN060 BKN070 OVC085 18/17 A3000= KCAK 131051Z 19013KT 3SM BR OVC005 17/16 A2987= KCEF 131055Z 00000KT 7SM BKN120 BKN200 07/06 A3014= KCMH 131051Z 17007KT 5SM BR OVC007 18/16 A2985= KCRQ 131053Z AUTO 11003KT 5SM BR OVC004 18/17 A2988= KCRW 131054Z 00000KT 6SM BR OVC030 17/16 A2993= KCTZ 131104Z AUTO 00000KT 10SM OVC100 17/14 A3006= KDAY 131056Z 19004KT 2SM -RA BR OVC003 18/17 A2985= KDOV 131055Z 16005KT 7SM FEW040 BKN150 OVC250 13/12 A3012= KERI 131051Z 18013KT 10SM -RA FEW022 SCT050 OVC060 18/16 A2984= KEWB 131053Z AUTO 00000KT 10SM CLR 08/06 A3013= KFDK NIL= KFVE 131053Z AUTO 33005KT 10SM CLR 05/03 A3006= KGON 131056Z 00000KT 10SM CLR 09/08 A3013= KGSO 131054Z 17005KT 9SM OVC070 16/14 A3008= KGSP 131053Z 03005KT 2 1/2SM +RA BR SCT017 OVC043 17/16 A3001= KHPN 131056Z 00000KT 10SM BKN100 11/09 A3012= KHTS 131051Z AUTO 17008KT 5SM -RA BR SCT027 OVC035 17/16 A2990= KHUL NIL= KHVN 131053Z 00000KT 10SM CLR 10/08 A3014= KIAG 131053Z AUTO 19011KT 8SM -RA OVC022 16/14 A2985= KILG 131051Z 29003KT 10SM FEW031 13/12 A3012= KILM 131053Z 04006KT 10SM FEW120 17/15 A3003= KINT 131054Z 14003KT 6SM -RA BR FEW035 OVC060 16/14 A3007= KLSV 131055Z 05004KT 20SM FEW250 26/10 A2988= KLUK 131053Z 19005KT 4SM BR OVC008 19/18 A2985= KLWM 131054Z AUTO 20003KT 10SM CLR 09/07 A3013= KMDT 131056Z 12006KT 10SM -RA OVC045 14/13 A3007= KMMU NIL= KMSS 131053Z AUTO 10003KT 10SM BKN100 11/08 A3003= KOGS NIL= KOLD NIL= KOQU NIL= KORH 131054Z 25005KT 10SM CLR 10/07 A3013= KPQI 131055Z AUTO 00000KT 10SM CLR 01/M01 A3003= KPSM 131055Z 00000KT 20SM BKN100 BKN250 08/06 A3012= KPVD 131051Z COR 27004KT 10SM FEW035 SCT090 BKN130 BKN200 BKN250 11/08 A3014= KPWM 131051Z 00000KT 10SM CLR 09/08 A3012= KRIC 131054Z 00000KT 10SM OVC150 16/13 A3009= KROC 131054Z 17009KT 7SM -RA BKN035 BKN055 OVC100 16/14 A2990= KSCH NIL= KSYR 131054Z 09008KT 7SM RA SCT022 OVC032 12/12 A3000= KWDR 131057Z AUTO 09003KT 3SM OVC003 18/18 A2999= KWRI 131055Z 00000KT 7SM FEW150 BKN200 10/09 A3010=  894 SAUS42 KWBC 131100 CCA METAR KCRP 131051Z 34009KT 10SM FEW008 SCT021 OVC090 24/24 A2993=  895 SAUS42 KWBC 131100 METAR KAMA 131053Z 19007KT 10SM FEW120 13/13 A3016= KAUS 131053Z 01008KT 10SM CLR 22/17 A2999= KBPP NIL= KBPT 131053Z 30007KT 8SM CLR 22/21 A2993= KBQK 131059Z AUTO 15003KT 10SM SCT070 SCT090 24/22 A2995= KBRO 131053Z AUTO 00000KT 10SM FEW015 SCT120 25/24 A2992= KBTR 131053Z 00000KT 10SM BKN200 24/22 A2988= KCHA 131053Z 00000KT 4SM -RA BR BKN009 OVC014 19/18 A2994= KDAL 131053Z 01004KT 10SM CLR 18/13 A3006= KDRT 131053Z AUTO 04004KT 10SM CLR 22/20 A3000= KELP 131051Z 00000KT 10SM SCT060 SCT250 20/14 A3013= KEYW 131053Z 06005KT 10SM CLR 27/23 A2992= KFPR 131053Z AUTO 00000KT 10SM CLR 22/20 A2995= KFTW 131053Z 02003KT 8SM CLR 17/13 A3006= KFTY 131053Z 00000KT 6SM -RA BR FEW006 BKN012 OVC039 20/18 A2993= KFXE 131053Z 08006KT 10SM FEW030 25/19 A2993= KGLE NIL= KGLS 131052Z 28008KT 10SM BKN060 OVC110 26/22 A2993= KGPT 131053Z 33005KT 6SM BR FEW004 22/22 A2988= KHOU 131053Z 25004KT 10SM FEW075 BKN120 BKN250 24/22 A2993= KHRL 131052Z 32004KT 8SM FEW028 BKN070 OVC110 24/23 A2991= KHSV 131053Z 00000KT 6SM BR BKN010 OVC015 21/19 A2993= KLCH 131053Z AUTO 33005KT 10SM CLR 24/21 A2991= KLGC 131100Z AUTO 15007KT 5SM OVC006 21/21 A2988= KLRD 131056Z 03006KT 10SM OVC037 24/23 A2998= KMAF 131053Z AUTO 00000KT 10SM CLR 16/14 A3014= KMFE 131053Z 30004KT 9SM -RA FEW004 SCT049 OVC060 24/23 A2993= KMGM 131053Z 00000KT 4SM -RA BR FEW011 BKN026 OVC037 23/22 A2988= KMOB 131056Z 00000KT 8SM BKN009 22/21 A2989= KNEW NIL= KOPF 131053Z AUTO 03005KT 10SM OVC095 25/22 A2994= KOPN NIL= KPDK 131053Z 00000KT 3SM -RA BR OVC004 19/18 A2994= KPFN 131053Z 11004KT 10SM -RA FEW010 BKN095 23/22 A2986= KPGL NIL= KPIE 131053Z AUTO 13007KT 10SM CLR 25/21 A2994= KPNS 131053Z 31004KT 4SM BR BKN002 23/23 A2987= KQAO NIL= KRSW 131053Z 08004KT 10SM OVC047 24/22 A2995= KSAT 131053Z 31003KT 10SM SCT048 SCT250 21/20 A3001= KSAV 131053Z 22006KT 8SM FEW008 SCT030 OVC060 22/21 A2997= KSHV 131056Z 35007KT 10SM CLR 20/15 A2998= KSSI 131053Z AUTO 15007KT 10SM SCT065 26/19 A2995= KTMB NIL= KTUL 131053Z 33003KT 10SM CLR 11/09 A3007= KTYS 131053Z 06003KT 3SM BR FEW004 BKN009 OVC043 18/17 A2995=  896 SAUS43 KWBC 131100 METAR K12C NIL= K1H2 NIL= KAAA NIL= KAPN 131054Z AUTO 01006KT 5SM BR OVC008 16/15 A2985= KAZO 131053Z 33005KT 3/4SM BCFG BKN002 OVC007 17/16 A2980= KBDE 131053Z AUTO 00000KT 10SM CLR 09/08 A2994= KBTL 131053Z 00000KT 10SM BKN010 OVC044 17/16 A2980= KBTM 131053Z AUTO 00000KT 8SM CLR 06/M03 A3008= KC09 NIL= KC75 NIL= KCGX NIL= KCIU 131055Z AUTO 01007KT 5SM OVC010 12/10 A2991= KCMX 131053Z AUTO 30006KT 2 1/2SM BR FEW001 07/07 A2997= KCOS 131054Z 01006KT 8SM CLR 08/07 A3023= KCPR 131053Z 00000KT 10SM CLR 08/M01 A3008= KDET 131053Z 00000KT 10SM BKN011 OVC019 19/18 A2980= KDKB NIL= KDLH 131055Z 29004KT 6SM BR FEW001 06/05 A2999= KDNV NIL= KDSM 131054Z 31004KT 9SM CLR 10/09 A3003= KELO 131055Z AUTO 00000KT 10SM SCT001 02/00 A2998= KENL NIL= KFAR 131053Z 19008KT 10SM CLR 13/11 A2993= KFEP NIL= KFNT 131053Z 05003KT 1/4SM -RA FG OVC001 17/16 A2980= KFOA NIL= KFWC NIL= KGBG NIL= KGFK 131053Z 15005KT 10SM CLR 11/09 A2990= KGRB 131053Z 36008KT 9SM OVC006 13/12 A2992= KGRM NIL= KGRR 131056Z 00000KT 10SM OVC004 17/17 A2980= KHSB NIL= KICT 131056Z 25004KT 10SM CLR 11/09 A3009= KIGQ NIL= KIJX NIL= KIKK NIL= KINL 131055Z AUTO 00000KT 10SM FEW060 03/03 A2996= KISN 131052Z 00000KT 10SM CLR 11/06 A2986= KJOT NIL= KLEX 131054Z 23007KT 3SM BR OVC004 18/17 A2988= KLOT NIL= KMBS 131053Z 03004KT 1/2SM FG OVC001 16/16 A2981= KMDW 131051Z 34011KT 7SM RA BKN007 OVC012 18/16 A2981= KMKC 131054Z 00000KT 7SM CLR 12/11 A3005= KMKE 131052Z 34010G17KT 2SM BR BKN004 OVC006 15/14 A2985= KMLI 131052Z 33008KT 10SM OVC008 14/13 A2992= KMOT 131054Z AUTO 07003KT 10SM CLR 11/07 A2988= KMQB NIL= KMQT NIL= KMWA NIL= KOLY NIL= KOMA 131052Z 14003KT 7SM BCFG FEW001 10/09 A3007= KPHN 131055Z AUTO 00000KT 1SM BR OVC001 17/17 A2980= KPIA 131054Z VRB06KT 10SM -RA OVC008 14/13 A2990= KPNT NIL= KPPQ NIL= KPRG NIL= KPTK 131053Z 01007KT 4SM TSRA BR SCT002 OVC030CB 17/16 A2978= KPUB 131053Z AUTO 00000KT 5SM BR CLR 09/08 A3016= KRAD NIL= KSAR NIL= KSAW 131057Z AUTO 33003KT 10SM SCT005 OVC019 12/12 A2996= KSAW 131050Z 32004KT 7SM SCT005 OVC019 12/12 A2996= KSDF 131056Z 29009KT 7SM OVC013 17/15 A2989= KSGF 131052Z 00000KT 4SM BR CLR 10/09 A3004= KSLO NIL= KSTP 131053Z 31003KT 1/4SM FG BKN005 08/07 A3003= KSUS 131054Z 25005KT 10SM OVC020 15/12 A2995= KTAZ NIL= KTIP NIL= KTOL 131052Z 22005KT 6SM BR OVC004 19/18 A2980= KVYS NIL=  897 SAUS44 KWBC 131100 METAR K11R NIL= KBFI 131053Z 00000KT 10SM OVC047 14/12 A3011= KBIL 131056Z 22009KT 10SM CLR 13/M03 A2992= KBKE 131053Z AUTO 00000KT 10SM CLR 05/03 A3005= KBLI 131053Z AUTO 00000KT 10SM BKN055 BKN070 12/11 A3008= KBOI 131053Z 14005KT 9SM CLR 15/03 A2998= KBPG NIL= KBYY NIL= KCLM 131053Z AUTO 26010KT 10SM CLR 11/09 A3010= KCTB 131056Z AUTO 18004KT 10SM CLR 11/01 A2990= KCXL NIL= KDUG 131056Z AUTO 12004KT 10SM BKN050 OVC075 16/14 A3011= KEKA NIL= KFAT 131056Z 00000KT 8SM CLR 22/14 A2986= KGDV 131055Z AUTO 21004KT 10SM CLR 13/05 A2989= KGEG 131056Z 18009KT 10SM FEW200 14/04 A2991= KGGW 131053Z AUTO 12007KT 10SM CLR 12/03 A2982= KGLH 131053Z AUTO 02009KT 10SM CLR 19/17 A2994= KGPI 131055Z AUTO 00000KT 10SM CLR 04/02 A2992= KGTF 131053Z 24007KT 10SM CLR 11/00 A2988= KGWO 131053Z AUTO 36012G17KT 8SM BKN014 OVC020 21/18 A2992= KHLN 131053Z AUTO 00000KT 9SM CLR 12/02 A2995= KHQM 131053Z AUTO 27011G16KT 10SM CLR 13/09 A3015= KHVR 131055Z AUTO 25004KT 10SM CLR 07/01 A2982= KIPL 131053Z AUTO 06006KT 10SM CLR 28/17 A2979= KLBB 131053Z 16005KT 10SM FEW120 17/15 A3016= KMSO 131053Z AUTO 00000KT 7SM CLR 11/01 A2999= KMWH 131052Z AUTO 00000KT 10SM CLR 13/07 A2992= KNOW NIL= KNUW 131055Z 20005KT 7SM FEW035 SCT040 BKN150 11/10 A3010= KOLF 131053Z AUTO 00000KT 10SM CLR 08/05 A2983= KOLM 131054Z AUTO 20005KT 10SM OVC011 12/10 A3013= KOLS 131054Z AUTO 02004KT 10SM SCT100 16/14 A3006= KOLV NIL= KPAE 131053Z AUTO 36005KT 7SM SCT003 OVC042 11/10 A3010= KPDX 131055Z 33004KT 10SM FEW017 13/09 A3017= KPMD 131053Z 22008KT 10SM CLR 22/04 A2995= KRNO 131056Z 00000KT 10SM CLR 15/03 A3011= KRNT 131053Z AUTO 18006KT 10SM BKN034 OVC048 14/12 A3011= KSAC 131053Z AUTO 17003KT 10SM CLR 18/11 A2983= KSCK 131055Z AUTO 06005KT 8SM CLR 19/11 A2982= KSDM 131053Z AUTO 00000KT M1/4SM FG VV001 17/17 A2989= KSFF 131053Z 22006KT 10SM CLR 17/03 A2991= KSJC 131053Z 31004KT 10SM CLR 16/13 A2989= KSLC 131056Z 13007KT 10SM CLR 17/05 A3006= KSMF 131053Z 00000KT 10SM CLR 18/11 A2982= KTIW 131053Z AUTO 20006KT 10SM OVC006 12/11 A3012= KTUS 131055Z 13006KT 10SM CLR 21/14 A3000= KYUM 131056Z 05006KT 7SM FEW120 FEW200 28/13 A2981=  908 SAUS51 KWBC 131100 CCA METAR KWAL 131054Z COR 32004KT 10SM SCT025 BKN190 OVC250 12/11 A3011=  911 SAUS51 KWBC 131100 METAR K40B NIL= KACY 131054Z 00000KT 10SM CLR 11/09 A3013= KAUG 131053Z AUTO 33003KT 10SM CLR 07/06 A3011= KAVL 131054Z 15006KT 6SM -RA BR FEW007 BKN014 OVC029 16/14 A3005= KBGM 131053Z 15008KT 9SM -RA OVC060 10/09 A3004= KBKW 131051Z AUTO 16006KT 8SM FEW012 OVC025 14/13 A3001= KCBE NIL= KCHH NIL= KCON 131051Z AUTO 00000KT 10SM CLR 06/05 A3012= KDCA 131052Z 21007KT 10SM FEW020 BKN046 OVC100 17/13 A3010= KEKN 131051Z AUTO 00000KT 5SM BR OVC055 14/13 A3001= KESN NIL= KGFL 131053Z AUTO 00000KT 10SM BKN085 OVC110 09/09 A3011= KGSP 131053Z 03005KT 2 1/2SM +RA BR SCT017 OVC043 17/16 A3001= KHAT NIL= KHSS NIL= KIPJ 131101Z AUTO 00000KT 2SM OVC046 17/17 A3005= KIPT 131054Z 10008KT 060V140 7SM -RA BKN013 OVC041 13/11 A3004= KLYH 131054Z 00000KT 8SM -RA FEW008 SCT023 OVC036 14/13 A3008= KMHT 131053Z AUTO 34003KT 10SM CLR 08/06 A3011= KMPV 131051Z AUTO 00000KT 10SM CLR 06/04 A3014= KMWN 131059Z 25005KT 110SM FEW120 BKN140 BKN160 BKN200 06/M19= KMYR NIL= KNYC 131051Z AUTO 10SM FEW031 15/10 A3015= KPNE 131054Z AUTO 00000KT 10SM CLR 13/11 A3012= KROA 131054Z 14007KT 7SM -RA OVC019 16/14 A3007= KSMQ 131053Z AUTO 00000KT 10SM CLR 10/08 A3011= KWAL 131054Z AUTO 32004KT 10SM FEW080 12/11 A3011=  912 SAUS52 KWBC 131100 METAR K3R1 NIL= KAAF 131056Z AUTO 16005KT 10SM -RA FEW031 BKN040 BKN060 26/23 A2987= KABR 131053Z AUTO 17004KT 10SM CLR 09/08 A2997= KACT 131051Z 36007KT 10SM CLR 18/14 A3004= KAGS 131053Z 14003KT 10SM BKN038 OVC060 19/17 A2996= KAHN 131051Z AUTO 12005KT 4SM -RA BR OVC005 18/17 A2997= KALI 131053Z AUTO 32003KT 10SM SCT095 BKN120 23/21 A2994= KAUS 131053Z 01008KT 10SM CLR 22/17 A2999= KAYS 131100Z AUTO 00000KT 7SM SCT031 SCT060 BKN080 23/22 A2995= KBVE 131051Z AUTO 32004KT 10SM CLR 26/23 A2990= KCAO 131053Z AUTO 24007KT 10SM CLR 12/11 A3018= KCDS 131053Z AUTO 00000KT 10SM CLR 16/13 A3013= KCKL NIL= KCLL 131053Z AUTO 02008KT 10SM CLR 22/16 A2998= KCNM 131053Z AUTO 18007KT 10SM CLR 17/16 A3015= KCOT 131053Z AUTO 00000KT 1/2SM FG OVC001 22/22 A2998= KCSG 131051Z AUTO 16008KT 9SM OVC012 23/20 A2989= KCTY 131053Z AUTO 15007KT 23/21 A2993= KDAB 131053Z 00000KT 10SM FEW035 22/19 A2998= KDHT 131053Z AUTO 00000KT 5SM BR FEW050 SCT065 13/12 A3018= KELD 131053Z AUTO 35006KT 9SM CLR 18/16 A2997= KELP 131051Z 00000KT 10SM SCT060 SCT250 20/14 A3013= KESF 131053Z AUTO 35006KT 10SM SCT010 23/20 A2992= KFCL NIL= KFSM 131053Z 00000KT 10SM CLR 13/12 A3005= KFYV 131053Z 00000KT 2SM BR FEW001 09/09 A3006= KGAG 131053Z AUTO 22003KT 10SM CLR 12/11 A3012= KGDP 131051Z AUTO 05017KT 9SM SCT010 15/13 A3025= KHBR 131053Z AUTO= KHDO 131051Z AUTO A3002= KHOT 131053Z AUTO 00000KT 10SM 16/13 A3003= KHRO 131053Z AUTO 29003KT 4SM BR CLR 11/11 A3005= KINK 131053Z AUTO 01003KT 10SM BKN080 19/16 A3012= KIPT 131054Z 10008KT 060V140 7SM -RA BKN013 OVC041 13/11 A3004= KJAN 131054Z 33004KT 7SM OVC005 23/22 A2990= KJBR 131053Z AUTO VRB04KT 10SM CLR 14/11 A2999= KJCT 131051Z AUTO 00000KT 10SM BKN044 20/17 A3007= KJQF NIL= KLFK 131053Z AUTO 35005KT 10SM CLR 21/16 A2996= KLFT 131053Z 31008KT 7SM FEW040 26/23 A2990= KMCN 131053Z AUTO 11004KT 6SM BR OVC036 21/19 A2993= KMEI 131053Z AUTO 00000KT 1SM BR OVC001 21/21 A2990= KMLC 131053Z AUTO 00000KT 4SM BR CLR 11/09 A3007= KMLU 131053Z 02007KT 10SM CLR 21/18 A2995= KMWL 131053Z AUTO 00000KT 10SM CLR 15/13 A3007= KPBF 131053Z AUTO 36007KT 10SM FEW055 17/14 A3000= KPNC 131053Z AUTO 00000KT 8SM CLR 09/09 A3009= KPSX 131053Z AUTO 29004KT 10SM BKN110 24/23 A2994= KPWA 131053Z AUTO 00000KT 10SM CLR 12/11 A3011= KQAO NIL= KRMG 131053Z AUTO 00000KT 2SM -RA BR OVC005 19/18 A2992= KRSL 131053Z AUTO 22007KT 10SM CLR 12/11 A3007= KSEP NIL= KSHV 131056Z 35007KT 10SM CLR 20/15 A2998= KSPS 131052Z 35003KT 10SM CLR 14/12 A3008= KTLH 131053Z 11007KT 7SM BKN007 OVC012 23/23 A2990= KTOP 131053Z AUTO 00000KT 8SM CLR 11/09 A3007= KTRI 131053Z 00000KT 3SM -RA BR FEW022 OVC055 16/16 A2999= KTUP 131053Z 35006KT 10SM BKN008 OVC019 20/18 A2992= KVCT 131051Z AUTO 30004KT 10SM OVC095 23/22 A2996= KVGT 131053Z AUTO 35007KT 10SM CLR 24/08 A2991= KVUJ NIL= KWRB 131055Z 12005KT 7SM BKN035 21/20 A2994=  913 SAUS53 KWBC 131100 METAR KAIA 131053Z AUTO 00000KT 10SM CLR 07/06 A3006= KAID NIL= KALO 131054Z 30005KT 7SM OVC035 11/09 A2999= KALS 131052Z AUTO 00000KT 10SM CLR 05/02 A3034= KANW 131050Z AUTO 00000KT 2 1/2SM BR CLR 11/11 A3002= KBBW 131053Z AUTO 00000KT 1SM BR CLR 10/09 A3004= KBFF 131054Z AUTO 00000KT 10SM CLR 07/06 A3007= KBIE 131050Z AUTO 00000KT 10SM CLR 09/08 A3005= KBIS 131052Z AUTO 06006KT 10SM CLR 10/07 A2991= KBPI 131053Z AUTO 00000KT 10SM CLR 02/M05 A3024= KBRL 131053Z AUTO 34009KT 10SM OVC012 15/13 A2994= KCAG 131053Z AUTO 00000KT 10SM CLR 04/02 A3025= KCGI 131053Z AUTO 00000KT 9SM OVC036 14/13 A2996= KCID 131052Z 32009KT 9SM OVC030 13/12 A2996= KCNK 131055Z AUTO 23006KT 10SM CLR 12/11 A3007= KCNU 131052Z AUTO 31003KT 9SM CLR 10/09 A3006= KCOU 131054Z AUTO 28007KT 8SM CLR 12/11 A3001= KCYS 131053Z AUTO 27008KT 10SM CLR 09/02 A3017= KCZD NIL= KDBQ 131055Z AUTO 36007KT 10SM OVC008 13/12 A2994= KDDC 131052Z AUTO 19007KT 9SM CLR 12/10 A3011= KDVL 131055Z AUTO 00000KT 10SM CLR 10/08 A2991= KEAR 131055Z AUTO 21004KT 10SM CLR 12/09 A3005= KEHA NIL= KEVV 131054Z 26003KT 10SM OVC038 16/13 A2992= KF55 NIL= KFNB 131053Z AUTO 00000KT 8SM CLR 09/09 A3005= KFSD 131056Z 00000KT 10SM CLR 08/07 A3003= KFWA 131054Z 26010KT 1 1/4SM -RA BR OVC004 17/16 A2982= KGCC 131053Z AUTO 16011KT 10SM CLR 12/M01 A3000= KGCK 131054Z AUTO 17006KT 7SM FEW095 13/11 A3010= KGJT 131053Z AUTO 10009KT 10SM CLR 14/01 A3014= KGLD 131053Z AUTO 25006KT 10SM CLR 11/07 A3011= KGPZ 131055Z AUTO 00000KT 10SM CLR 04/02 A3000= KGRI 131053Z AUTO 00000KT 9SM CLR 12/10 A3005= KHON 131055Z AUTO 16006KT 10SM CLR 11/09 A2999= KHSI 131053Z AUTO 00000KT 10SM CLR 13/11 A3005= KHTL 131053Z AUTO 36005KT 2SM BR OVC001 14/14 A2985= KIML 131053Z AUTO 00000KT 10SM CLR 09/08 A3007= KIRK 131055Z AUTO 30005KT 7SM CLR 11/10 A3000= KJAC NIL= KJKL 131053Z AUTO VRB03KT 6SM BR SCT038 SCT048 OVC065 17/16 A2992= KJLN 131053Z 00000KT 7SM CLR 09/08 A3006= KJNX NIL= KLAN 131055Z 02003KT 1 1/2SM RA BR OVC002 17/17 A2981= KLBF 131053Z AUTO 00000KT 10SM CLR 09/08 A3006= KLIH NIL= KLNC NIL= KLND 131053Z AUTO 00000KT 10SM CLR 13/M06 A3009= KLNK 131054Z 00000KT 10SM CLR 08/08 A3006= KLXV 131053Z AUTO 00000KT 10SM CLR 00/M02 A3046= KMCK 131053Z AUTO 25006KT 10SM CLR 13/11 A3006= KMCW 131053Z AUTO 29003KT 3SM BR CLR 06/06 A3004= KMFD 131052Z 19008KT 2 1/2SM BR OVC004 17/16 A2986= KMHK 131052Z AUTO 00000KT 3SM BR FEW001 08/08 A3007= KMHN NIL= KMKG 131055Z 02007KT 6SM BR OVC004 17/16 A2982= KMMO NIL= KMSN 131053Z 34010KT 6SM BR OVC004 13/12 A2991= KODX 131053Z AUTO 00000KT 3/4SM BR FEW002 SCT009 11/09 A3004= KONL 131051Z AUTO 17005KT 10SM CLR 11/10 A3003= KOTM 131053Z AUTO 30007KT 7SM FEW032 12/11 A2999= KOVN NIL= KPAH 131053Z AUTO 28004KT 8SM SCT036 15/14 A2994= KPKD 131053Z AUTO 13006KT 10SM CLR 10/07 A2998= KRAP 131052Z AUTO 00000KT 10SM CLR 11/06 A2999= KRFD 131054Z 36012KT 2 1/2SM BR OVC005 14/13 A2991= KRIW 131053Z AUTO 00000KT 10SM CLR 13/M06 A3009= KRST 131054Z 33006KT 1/2SM FG VV001 07/07 A3002= KSBN 131054Z 20003KT 1SM BR OVC001 17/17 A2980= KSHR 131053Z AUTO 00000KT 10SM CLR 08/01 A2994= KSLN 131053Z AUTO 00000KT 10SM CLR 12/10 A3008= KSPI 131052Z AUTO 29007KT 7SM OVC006 14/13 A2991= KSSM NIL= KSTC 131053Z AUTO 00000KT 8SM CLR 05/04 A3001= KSUX 131052Z 00000KT 6SM BR CLR 07/07 A3007= KSVM NIL= KTCS 131053Z AUTO 00000KT 10SM BKN075 17/11 A3018= KTDF NIL= KUDG 131055Z AUTO 07004KT 10SM CLR 17/16 A3005= KUIN 131054Z AUTO 31007KT 10SM OVC013 14/13 A2996= KVIH 131053Z AUTO 28006KT 10SM CLR 12/11 A2999= KVTN 131052Z AUTO 27003KT 1/4SM FG BKN002 OVC007 07/07 A3002=  953 SAUS53 KWBC 131100 RRA METAR KYNG 131051Z 17010KT 2 1/2SM BR OVC006 17/16 A2989=  954 SAUS54 KWBC 131100 METAR KAST 131055Z AUTO 00000KT 9SM SCT022 10/09 A3018= KAWH NIL= KBFL 131054Z 10003KT 10SM CLR 24/10 A2986= KBIH 131056Z AUTO 35005KT 10SM CLR 13/02 A3007= KBLU 131052Z AUTO 36003KT 10SM CLR 22/M01 A3017= KBNY NIL= KBUO NIL= KBZN 131056Z 13006KT 10SM CLR 08/M01 A3002= KCNY 131053Z AUTO 00000KT 10SM CLR 16/05 A3009= KCQV NIL= KCZK NIL= KCZZ 131052Z AUTO 05004KT 16/06 A2994= KDRA 131053Z VRB05KT 10SM CLR 20/02 A2998= KELY 131053Z AUTO 17009KT 10SM CLR 07/M04 A3021= KEUG 131054Z 31010KT 10SM CLR 12/09 A3013= KFLG 131056Z AUTO 21004KT 10SM FEW065 11/11 A3028= KGNG NIL= KHMM NIL= KHMS NIL= KHTH NIL= KIGM 131059Z AUTO 22005KT 10SM FEW120 21/09 A3004= KINW 131056Z AUTO 00000KT 10SM SCT090 BKN110 18/11 A3016= KIZA NIL= KJDN NIL= KJNW NIL= KJNX NIL= KLGB 131053Z AUTO 00000KT 8SM CLR 17/16 A2987= KLWS 131056Z AUTO 14007KT 10SM FU HZ CLR 14/02 A2993= KMEH 131056Z AUTO 00000KT 10SM CLR 03/M02 A3008= KMFR 131053Z AUTO 30003KT 10SM CLR 15/08 A3007= KMHS 131056Z AUTO 04003KT 10SM CLR 13/05 A3008= KMLD NIL= KMLF 131052Z AUTO 18004KT 10SM CLR 12/M02 A3012= KMQM NIL= KMWS NIL= KNUQ 131056Z AUTO 28003KT 10SM CLR 16/13 A2990= KOLM 131054Z AUTO 20005KT 10SM OVC011 12/10 A3013= KOWY NIL= KPDT 131053Z AUTO 18005KT 10SM CLR 19/06 A2999= KPFC NIL= KPGA 131056Z AUTO 16006KT 10SM CLR 18/02 A3007= KPIH 131053Z AUTO 10005KT 10SM CLR 07/01 A3007= KPUC 131053Z AUTO 03005KT 10SM CLR 13/M02 A3018= KRBL 131054Z AUTO 31004KT 10SM CLR 19/13 A2986= KRDD NIL= KSDB 131052Z AUTO 00000KT 10SM CLR 22/02 A3008= KSHN 131053Z AUTO 24009KT 10SM OVC006 11/09 A3010= KSJN 131054Z AUTO 00000KT 10SM CLR 16/10 A3020= KSLC 131056Z 13007KT 10SM CLR 17/05 A3006= KSMP 131056Z AUTO VRB06KT 1/4SM FG SCT002 BKN025 OVC030 10/08 A3010= KSMX 131051Z AUTO 28004KT 1/4SM FG VV001 14/12 A2991= KSOW 131050Z AUTO 16003KT 10SM CLR 13/10 A3024= KSVE NIL= KTRK 131050Z AUTO 00000KT 10SM CLR 07/02 A3024= KUIL 131053Z AUTO 00000KT 1SM BR CLR 09/08 A3015= KWEY NIL= KWMC 131056Z AUTO 15004KT 10SM CLR 07/M06 A3008= KXCN NIL= KYKM 131056Z AUTO 33010KT 10SM CLR 18/08 A2996=  978 SAMS32 WMKK 131100 METAR 131100Z METAR WBGG 131100Z 30004KT 9999 SCT020 BKN150 27/24 Q1010 NOSIG= METAR WBKK 131100Z 09004KT 9999 FEW014 SCT140 BKN270 26/24 Q1010 NOSI G= METAR WMKJ 131100Z 32003KT 9999 FEW016CB BKN280 24/23 Q1009 RETSRA= METAR WMKK 131100Z 17002KT 9000 FEW017CB BKN270 29/24 Q1009 NOSIG= METAR WMKP 131100Z 35001KT 7000 FEW020 BKN260 28/25 Q1009 NOSIG= METAR WMSA 131100Z 03002KT 9000 FEW018 BKN280 26/23 Q1010=  987 SAPM31 MPTO 131100 METAR MPCH 131100Z 00000KT 9999 FEW030 SCT100 22/22 Q1012 2982= MPBO 131100Z 00000KT 9999 FEW020 BKN090 25/24 Q1012 2988= MPMG 131100Z 00000KT 9000 FEW016 SCT090 BKN300 25/24 Q1011= MPDA 131100Z NIL=  125 SAUS43 KDTX 131106 MTRFNT SPECI KFNT 131105Z 00000KT 1SM -RA BR OVC002 17/17 A2981 RMK AO2 P0002  141 SAIY41 LIIB 131100 METAR LIMH 131055Z VRB03KT 0300 FZFG VV003 00/M02 Q1031 RMK MON INVIS VAL INVIS VIS MIN 0300= METAR LIMT 131055Z 01004KT 9999 FEW015 16/10 Q1018 RMK FEW MON LIB VAL NIL VIS MIN 9999= METAR LIMU 131055Z ///16KT CAVOK 27/15 Q1019 RMK FEW FEW080 QUK 3 QUL 1 E VIS MAR 30 KM VIS MIN 9999= METAR LIMV 131055Z 01008KT 9999 SCT015 21/14 Q1022 RMK SCT MON LIB CUF ELEV SLW VAL NIL VIS MIN 9999= METAR LIMY 131055Z 00000KT 7000 NSC 22/12 Q1023 RMK BKN SCT080 VAL FOSCHIA VIS MIN 7000= METAR LIVD 131055Z 00000KT 9999 FEW040 16/05 Q1024 RMK FEW VIS MIN 9999= METAR LIVE 131055Z 17006KT CAVOK 17/09 Q1024 RMK VIS MIN 9999= METAR LIVF 131055Z 07004KT 9999 FEW036 22/13 Q1021 RMK SCT MON S CLD CIME NC VAL NIL VIS MIN 9999= METAR LIVM 131055Z 09006KT 8000 NSC 25/20 Q1020 RMK FEW FEW200 QUK 1 QUL 0 VIS MAR 8 KM VIS MIN 8000= METAR LIVO 131055Z 11005KT CAVOK 20/11 Q1022 RMK VIS MIN 9999= METAR LIVR 131055Z 09006KT CAVOK 13/01 Q1026 RMK SCT SCT170 MON LIB VIS MIN 9999= METAR LIVT 131055Z ///03KT CAVOK 25/19 Q1020 RMK QUK 2 QUL 0 VIS MAR 20 KM VIS MIN 9999=  142 SAIY40 LIIB 131100 METAR LIMG 131100Z 10011KT 9999 FEW070 28/11 Q1018= METAR LIMK 131055Z 07002KT 8000 FEW023 SCT090 19/14 Q1021 RMK BKN VAL FOSCHIA VIS MIN 8000= METAR LIMN 131055Z 25003KT 8000 NSC 24/11 Q1020 RMK FEW FEW120 VIS MIN 8000 BLU= METAR LIMP 131100Z 09005KT 8000 SKC 25/12 Q1020= METAR LIMS 131055Z 09003KT CAVOK 24/15 Q1020 RMK FEW FEW100 VIS MIN 9999 WIND THR30 06006KT BLU= METAR LIMZ 131100Z VRB03KT 7000 SCT040 BKN075 23/12 Q1021= METAR LIPA 131055Z 11005KT 9999 FEW050 25/15 Q1020 RMK FEW VIS MIN 9999 BLU= METAR LIPB 131045Z 18004KT 140V240 CAVOK 23/12 Q1021 RMK MON LIB= METAR LIPC 131055Z 07006KT 9999 FEW025 SCT200 24/19 Q1020 RMK SCT VIS MIN 9999 WIND THR12 08007KT BLU= METAR LIPF 131055Z /////KT CAVOK 27/11 Q1020 RMK VIS MIN 9999= METAR LIPH 131055Z 02003KT CAVOK 24/11 Q1021 RMK VIS MIN 9999 WIND THR07 /////KT BLU= METAR LIPI 131055Z 09005KT 9999 FEW070 25/12 Q1020 RMK FEW VIS MIN 9999 WIND THR06 07002KT BLU= METAR LIPL 131055Z 11004KT CAVOK 25/07 Q1021 RMK FEW FEW200 VIS MIN 9999 BLU= METAR LIPO 131050Z 05005KT CAVOK 24/10 Q1019= METAR LIPQ 131050Z 16005KT CAVOK 25/14 Q1020= METAR LIPR 131055Z 01008KT CAVOK 25/20 Q1020 RMK SCT SCT200 VIS MIN 9999 WIND THR31 33007KT BLU= METAR LIPS 131055Z 17004KT CAVOK 25/09 Q1020 RMK VIS MIN 9999 BLU= METAR LIPT 131055Z 00000KT CAVOK 24/12 Q1020 RMK VIS MIN 9999 BLU= METAR LIPX 131055Z 12005KT CAVOK 26/09 Q1021 RMK VIS MIN 9999 BLU METAR LIPY 131050Z 36007KT CAVOK 24/18 Q1021 RMK SCT180= METAR LIVC 131055Z 15006KT 9999 BKN002 12/11 Q1028 RMK BKN MON LIB VAL NIL VIS MIN 9999= METAR LIVP 131055Z 18003KT 9999 FEW010 11/06 Q1025 RMK FEW MON LIB VAL NIL VIS MIN 9999=  143 SAIY40 LIIB 131100 METAR LIMG 131100Z 10011KT 9999 FEW070 28/11 Q1018= METAR LIMK 131055Z 07002KT 8000 FEW023 SCT090 19/14 Q1021 RMK BKN VAL FOSCHIA VIS MIN 8000= METAR LIMN 131055Z 25003KT 8000 NSC 24/11 Q1020 RMK FEW FEW120 VIS MIN 8000 BLU= METAR LIMP 131100Z 09005KT 8000 SKC 25/12 Q1020= METAR LIMS 131055Z 09003KT CAVOK 24/15 Q1020 RMK FEW FEW100 VIS MIN 9999 WIND THR30 06006KT BLU= METAR LIMZ 131100Z VRB03KT 7000 SCT040 BKN075 23/12 Q1021= METAR LIPA 131055Z 11005KT 9999 FEW050 25/15 Q1020 RMK FEW VIS MIN 9999 BLU= METAR LIPB 131045Z 18004KT 140V240 CAVOK 23/12 Q1021 RMK MON LIB= METAR LIPC 131055Z 07006KT 9999 FEW025 SCT200 24/19 Q1020 RMK SCT VIS MIN 9999 WIND THR12 08007KT BLU= METAR LIPF 131055Z /////KT CAVOK 27/11 Q1020 RMK VIS MIN 9999= METAR LIPH 131055Z 02003KT CAVOK 24/11 Q1021 RMK VIS MIN 9999 WIND THR07 /////KT BLU= METAR LIPI 131055Z 09005KT 9999 FEW070 25/12 Q1020 RMK FEW VIS MIN 9999 WIND THR06 07002KT BLU= METAR LIPL 131055Z 11004KT CAVOK 25/07 Q1021 RMK FEW FEW200 VIS MIN 9999 BLU= METAR LIPO 131050Z 05005KT CAVOK 24/10 Q1019= METAR LIPQ 131050Z 16005KT CAVOK 25/14 Q1020= METAR LIPR 131055Z 01008KT CAVOK 25/20 Q1020 RMK SCT SCT200 VIS MIN 9999 WIND THR31 33007KT BLU= METAR LIPS 131055Z 17004KT CAVOK 25/09 Q1020 RMK VIS MIN 9999 BLU= METAR LIPT 131055Z 00000KT CAVOK 24/12 Q1020 RMK VIS MIN 9999 BLU= METAR LIPX 131055Z 12005KT CAVOK 26/09 Q1021 RMK VIS MIN 9999 BLU METAR LIPY 131050Z 36007KT CAVOK 24/18 Q1021 RMK SCT180= METAR LIVC 131055Z 15006KT 9999 BKN002 12/11 Q1028 RMK BKN MON LIB VAL NIL VIS MIN 9999= METAR LIVP 131055Z 18003KT 9999 FEW010 11/06 Q1025 RMK FEW MON LIB VAL NIL VIS MIN 9999=  144 SAIY43 LIIB 131100 METAR LIBA 131055Z 22003KT 9999 FEW035 27/16 Q1020 RMK FEW VIS MIN 9999 WIND THR29 17003KT BLU= METAR LIBC 131050Z 09007KT 9999 SCT025 SCT200 26/11 Q1020= METAR LIBD 131050Z 04008KT 9999 SCT020 24/18 Q1019= METAR LIBG 131100Z VRB03KT 9999 FEW030 27/15 Q1020= METAR LIBN 131055Z 03004KT 9999 SCT025 29/16 Q1020 RMK SCT VIS MIN 9999 WIND THR14 /////KT BLU= METAR LIBP 131050Z 06007KT 9999 FEW030TCU 24/17 Q1020= METAR LIBQ 131055Z ///03KT 9999 SCT010 15/07 Q1025 RMK SCT MON LIB VAL NIL VIS MIN 9999= METAR LIBR 131055Z 02008KT 9999 FEW018 25/20 Q1020 NOSIG RMK FEW VIS MIN 9999 WIND THR14 /////KT WIND THR32 03003KT BLU= METAR LIBV 131055Z 17007KT 120V230 8000 FEW025 SCT030 26/17 Q1019 RMK BKN VIS MIN 8000 WIND THR14 /////KT BLU= METAR LICA 131050Z 10012KT 8000 FEW020 SCT180 28/14 Q1018= METAR LICC 131050Z 06010KT 7000 FEW045 BKN070 25/20 Q1019= METAR LICD 131050Z 10015KT 9999 FEW020 28/23 Q1016 RMK QUK3 QUL2 VIS MAR 15KM= METAR LICG 131055Z 09011KT 7000 SCT009 SCT200 24/22 Q1018 RMK BKN VIS MIN 5000E WIND THR08 07010KT WIND THR21 09010KT WHT= METAR LICJ 131050Z 04007KT 9999 FEW028 27/19 Q1018= METAR LICP 131055Z 08006KT 9999 SCT025 27/18 Q1018 RMK SCT VIS MIN 9999 BLU= METAR LICR 131050Z 24019KT 9999 SCT025 26/22 Q1018 RMK SCT QUK2 QUL1 SW WT15 20014KT WT33 21021KT= METAR LICT 131055Z 17012KT 9999 SCT022 SCT200 28/20 Q1018 RMK BKN VIS MIN 9999 WIND THR13 16014KT BLU= METAR LICZ 131055Z 08013KT 5000 BR SCT020 SCT070 24/21 Q1019 RMK BKN VIS MIN 5000 WIND THR28 /////KT WHT=  145 SAXX70 KAWN 131100 RRE METAR KQAJ 131055Z 31008G19KT 9999 SKC 38/06 A2988 RMK SLP105 T03810057 PA 569 DA 3425= METAR KQAQ 131055Z 29012G20KT 8000 HZ SKC 38/08 A2979 RMK SLP085 WND DATA ESTMD ALSTG/SLP ESTMD 57012 PA 271 DA 2985= METAR KQPC 131055Z 28005G11KT M M 37/08 A2987 RMK FALOP SLP115 T03710078= METAR KQTI 131055Z 25010G16KT 9999 SKC A2984 RMK SLP084=  146 SAIY42 LIIB 131100 METAR LIQN 131100Z VRB02KT CAVOK 24/14 Q1020 RMK FEW050 FEW MON E CLD CIME NC= METAR LIQO 131055Z /////KT CAVOK 25/17 Q1020 RMK FEW FEW200 VAL NIL NC VIS MIN 9999= METAR LIQW 131055Z 13001KT 9999 FEW030 28/M02 Q1019 RMK FEW VIS MIN 9999 BLU= METAR LIRE 131055Z 20008KT 9999 FEW020 26/20 Q1019 RMK FEW VIS MIN 9999 WIND THR31 /////KT BLU= METAR LIRG 131055Z /////KT 9999 FEW035TCU 29/10 Q1019 RMK FEW MON NE LIB NC VIS MIN 9999 WIND THR36 12004KT BLU= METAR LIRH 131055Z 10003KT 9999 SCT040TCU 28/15 Q1019 RMK SCT MON LIB NC VIS MIN 9999 WIND THR16 /////KT BLU= METAR LIRK 131055Z 11012KT 9999 FEW011 SCT060 14/13 Q1028 RMK SCT MON NE LIB NC VAL NIL NC VIS MIN 9999= METAR LIRL 131055Z 19003KT 9999 FEW045TCU 30/16 Q1019 RMK FEW MON LIB NC VIS MIN 9999 BLU= METAR LIRS 131055Z 21010KT 9999 FEW025 28/19 Q1019 RMK FEW VIS MIN 9999 WIND THR21 /////KT BLU= METAR LIRT 131055Z 08004KT 9999 SCT013 18/11 Q1023 RMK SCT MON LIB VAL NIL VIS MIN 9999= METAR LIRU 131050Z VRB03KT 9999 FEW025 28/12 Q1019= METAR LIRV 131055Z 19003KT 9999 SCT030 28/16 Q1020 RMK SCT MON E SE LIB NC VIS MIN 9999 BLU= METAR LIRZ 131100Z VRB05KT CAVOK 25/10 Q1020= LIEA 131045Z 10006KT 060V150 9999 BKN025 29/15 Q1016= METAR LIED 131055Z 13017KT 9999 FEW018TCU 28/19 Q1015 RMK SCT VIS MIN 9999 WIND THR 35 /////KT BLU= METAR LIEO 131045Z 09007KT 010V130 9000 FEW015 FEW015TCU SCT090 26/19 Q1018= METAR LIRX 131055Z 16012KT 9999 FEW015 SCT200 24/20 Q1019 RMK SCT VIS MIN 9999W VIS MAR 11 KM= METAR LIRM 131055Z 27004KT 9999 FEW020 28/15 Q1019 RMK FEW VIS MIN 9999 WIND THR06 /////KT BLU=  147 SPCN47 CWAO 131104 SPECI CYPQ 131104Z AUTO 12004KT 2 3/8SM OVC004 14/13 A2988=  275 SAUS41 KLWX 131106 MTRNHK SPECI KNHK 131105Z 18004KT 7SM -RA SCT020 BKN100 OVC250 17/13 A3009 RMK AO2 RAB04 P0000 $  300 SADO31 TDPD 131104 METAR TDPD 131100Z 00000KT 9999 -SHRA BKN016 25/25 Q1013=   318 SPUS43 KWBC 131107 SPECI KCMX 131102Z AUTO 31008KT 1 3/4SM BR CLR 07/07 A2997=  320 SAAU69 AMMC 131100 METAR YSTW 131100Z AUTO 13011KT 9999NDV // NCD 13/05 Q1031= METAR YSWG 131100Z 12004KT CAVOK 09/05 Q1031= METAR YTEF 131100Z AUTO 00000KT //// // ////// 27/M01 Q1016= METAR YTNK 131100Z AUTO 11006KT 9999NDV // NCD 23/01 Q1020= METAR YTRE 131100Z AUTO 00000KT //// // ////// 11/10 Q1033= METAR YWGT 131100Z AUTO 22004KT //// // ////// 07/07 Q1031= METAR YWHA 131100Z AUTO 35007KT 9999NDV // NCD 18/00 Q1026= METAR YWLM 131100Z 00000KT CAVOK 10/09 Q1033 FM1300 VRB03KT 3000 BR FEW001=  319 SPUS43 KWBC 131107 SPECI KFNT 131105Z 00000KT 1SM -RA BR OVC002 17/17 A2981=  356 SPUS53 KWBC 131107 SPECI KODX 131102Z AUTO 00000KT 2SM BR FEW002 09/09 A3003=  496 SAJM31 MKJP 131100 METAR MKJP 131100Z 300000KT 9999 SCT022 SCT220 29/25 Q1012=  520 SATR31 RUMS 131100 UTAK 131100Z 36008MPS 9999 FEW050CB BKN100 23/5 Q1019 NOSIG =  521 SACN44 CWAO 131100 METAR CWIQ NIL= METAR CWRF NIL= METAR CWVD NIL= METAR CYBW 131100Z 33005KT 15SM OVC015 07/05 A3001 RMK SC8 SLP167= METAR CYCY 131100Z AUTO 00000KT 9SM BKN030 01/M00 A2971 RMK ICG SLP062= METAR CYED 131100Z AUTO 28002KT 9SM SCT010 OVC020 OVC047 OVC068 10/10 A2997 RMK SLP159= METAR CYEK 131100Z AUTO 32008KT 9SM OVC064 10/10 A2965 RMK SLP041= METAR CYIO 131100Z AUTO 00000KT 9SM CLR M04/M06 A2973 RMK SLP074= METAR CYLJ NIL= METAR CYLT 131100Z 32007KT 15SM FEW010 BKN049 M05/M06 A3003 RMK ST1SC6 SLP173= METAR CYMJ 131100Z 07011KT 15SM FEW280 13/09 A2980 RMK CI1 SLP093= METAR CYOD 131100Z 24008KT 15SM BKN100 11/07 A2996 RMK AC6 SLP156= METAR CYPE 131100Z 33004KT 15SM BKN090 08/03 A2996 RMK AC6 SLP158= METAR CYQV 131100Z AUTO 35004KT 6SM -RA BKN025 BKN086 11/11 A2992 RMK SLP139= METAR CYSF 131100Z 00000KT 15SM VCFG FEW050 02/02 A2997 RMK SC0 FG OVR RVR SLP160= METAR CYSM 131100Z 00000KT 15SM OVC100 05/04 A2998 RMK AC8 SLP162= LWIS CYSR 131100Z AUTO 08010KT M07/M08 A2969= METAR CYTH 131100Z 29004KT 15SM SKC 03/00 A2991 RMK SLP136= METAR CYUB NIL= METAR CYUJ NIL= METAR CYUS NIL= METAR CYUX 131100Z AUTO 01008KT 9SM CLR 01/01 A2968 RMK SLP052= METAR CYVT NIL= METAR CYXH 131100Z AUTO 34002KT 9SM CLR 12/07 A2980 RMK SLP089= METAR CYZU NIL=  522 SACN86 CWAO 131100 WBE NIL= WBI NIL= WCU NIL= WNL NIL= WPO NIL= WPS NIL= WSI NIL= WWB SA 1100 AUTO4 M M M 092/19/17/1910/M/M 6015 62MM= WWX NIL= WWZ NIL=  524 SACN88 CWAO 131100 ABT SA 1100 AUTO8 M M M M/06/04/2505/M/ M 44MM= ACQ SA 1100 AUTO8 M M M 148/11/06/2906/M/ 5004 18MM= AFC NIL= AFY NIL= AHR NIL= AKC NIL= AOH NIL= APR NIL= AQY NIL= AVA NIL= ERM NIL= WAR SA 1100 AUTO8 M M M 911/12/12/0732+41/M/0102 PCPN 3.8MM PAST HR PK WND 0642 1031Z /R+10/ PRESFR 8115 46MM= WBK SA 1100 AUTO8 M M M 110/15/12/3122/M/ PK WND 3125 1002Z 6006 79MM= WDA NIL= WDO NIL= WHO NIL= WSS SA 1100 AUTO8 M M M 177/07/05/2902/M/ 3004 95MM= WXI NIL= WZF NIL= WZN NIL= XGD NIL= XKT NIL= XNP SA 1100 AUTO8 M M M 149/04/04/1803/M/ 5000 37MM= ZCR SA 1100 AUTO8 M M M 164/08/05/2206/M/ 5002 16MM= ZDB NIL= ZSP NIL=  523 SAFJ31 NFNA 131100 METAR NFNA 131100Z 00000KT 40KM BKN020 BKN045 24/23 Q1017 RMK RR 0.8 RESH =  525 SAGU31 MGGT 131100Z METAR MGTK 131100Z 00000KT 9000 SCT004 SCT200 23/23 Q1013 VIS BR= MGHT 131100Z 00000KT 9999 OVC012 14/14 QFE 817.0= MGPB 131100Z 00000KT 9999 SCT017 BKN080 24/23 Q1012= MGGT 131100Z 00000KT 8000 FEW004 BKN200 17/16 Q1024 VIS BR VTO TEND N= MGSJ 131100Z 00000KT CAVOK 24/23 Q1012 SCT200=  526 SACN47 CWAO 131100 CCA METAR CYVP 131100Z CCA 21005KT 15SM BKN050 BKN220 13/07 A2970 RMK SC6CI1 SLP057=  527 SACN63 CWAO 131100 NVQ NIL= WMT NIL= XAR SA 1100 AUTO8 M M M M/10/09/3307/M/ M 94MM= ZEV NIL= ZFS NIL= ZHY NIL= ZSM NIL=  528 SACN89 CWAO 131100 WAF NIL= WAG SA 1100 AUTO8 M M M 095/11/08/0505/M/0019 6022 67MM= WAQ NIL= WAS SA 1100 AUTO8 M M M 169/16/11/2806/M/ 7007 52MM= WAV SA 1100 AUTO8 M M M 155/08/05/0000/M/ 8018 04MM= WAW NIL= WAY NIL= WBA SA 1100 AUTO8 M M M M/13/09/1501/M/ M 29MM= WBD SA 1100 AUTO8 M M M M/10/10/0703/M/0008 M 86MM= WBF NIL= WBG NIL= WBJ NIL= WBL NIL= WBM SA 1100 AUTO8 M M M 144/05/-02/3103/M/ 8006 83MM= WBO NIL= WBS NIL= WBT NIL= WBV NIL= WBY NIL= WBZ NIL= WCF NIL= WCG NIL= WCH NIL= WCI NIL= WCJ SA 1100 AUTO8 M M M 141/05/05/0707/M/ 7009 55MM= WCO SA 1100 AUTO8 M M M 098/15/14/1304/M/0022 6012 52MM= WCP NIL= WCQ NIL= WCX NIL= WDB NIL= WDD NIL= WDE NIL= WDF NIL= WDI SA 1100 AUTO8 M 9.+ M 065/11/07/0206/M/ 6042 61MM= WDJ NIL= WDK NIL= WDN NIL= WDP NIL= WDQ NIL= WDR NIL= WDS NIL= WDT NIL= WDU SA 1100 AUTO8 M M M M/07/05/3306/M/ PK WND 3219 1001Z M 70MM= WDV SA 1100 AUTO8 M M M 156/02/02/1701/M/ 6006 49MM= WDW NIL= WDZ NIL=  529 SACN52 CWAO 131100 METAR CWEU 131100Z 31006KT 40SM FEW080 SCT200 M03/M06 A2994 RMK AC2CI0 SLP142= METAR CWFD NIL= METAR CWGZ NIL= METAR CWRH NIL= METAR CWSA 131100Z AUTO 32032G38KT 9SM OVC031 OVC068 OVC088 15/09 A2971 RMK SLP063= METAR CWTU NIL= METAR CWWU 131100Z 09028G42KT 4SM RA BR BKN010 OVC025 12/11 A2943 RMK SF6SC2 PRESFR SLP966= METAR CWXR NIL= METAR CWYM NIL= METAR CZEM NIL= METAR CZFM NIL= METAR CZFN NIL= METAR CZPC 131100Z AUTO 34015KT 9SM CLR 10/04 A2991 RMK SLP114= METAR CZUM 131100Z AUTO 28004KT 9SM CLR 07/03 A2996 RMK SLP158=  530 SACN94 CWAO 131100 WQC SA 1100 AUTO8 M M M 191/12/11/0000/M/ 6001 20MM= WQD NIL= WQE NIL= WQF NIL= WQH SA 1100 AUTO8 M M M M/03/03/0604/M/ M 48MM= WQK SA 1100 AUTO8 M M M M/M/M/2819/M/M PK WND 2829 1015Z M MMMM= WQL NIL= WQM NIL= WQO NIL= WQP SA 1100 AUTO8 M M M 132/15/13/1622/M/0075 PCPN 0.9MM PAST HR PK WND 1525 1009Z 6014 63MM= WQQ SA 1100 AUTO8 M M M M/07/07/3501/M/0036 M 65MM= WQR NIL= WQS NIL= WQU NIL= WQV NIL= WQW NIL= WQY NIL= WQZ NIL= WRA NIL= WRC SA 1100 AUTO8 M M M 155/12/08/1002/M/ 6009 43MM= WRD NIL= WRE NIL= WRJ NIL= WRK NIL= WRM SA 1100 AUTO8 M M M 166/04/04/3001/M/0002 8019 40MM= WRN NIL= WRR NIL= WRT SA 1100 AUTO8 M M M M/06/04/1202/M/ M 95MM= WRU NIL= WRV SA 1100 AUTO8 M M M 146/09/09/1509/M/0057 8017 66MM= WRY SA 1100 AUTO8 M M M 099/10/03/2905/M/ 7017 57MM= WRZ SA 1100 AUTO8 M M M 126/15/05/3409/M/ 6004 53MM= WSB SA 1100 AUTO8 M M M M/17/M/2711/M/ PK WND 2619 1021Z M 3MMM= WSD SA 1100 AUTO8 M M M 129/11/10/2906/M/ 6011 26MM= WSF SA 1100 AUTO8 M M M 157/07/04/1705/M/ 6004 23MM= WSG NIL= WSK NIL= WSL NIL= WSN NIL= WSP NIL= WSQ NIL= WSR SA 1100 AUTO8 M M M 140/09/08/2802/M/M 5001 70MM= WST SA 1100 AUTO8 M M M M/06/04/1304/M/ M 18MM= WSU SA 1100 AUTO8 M M M 135/08/07/1701/M/ 7005 10MM= WSV NIL= WSX NIL= WSY NIL=  531 SACN51 CWAO 131100 METAR CWAE NIL= METAR CWCA 131100Z 20006KT 15SM FEW070 BKN200 10/06 A2988 RMK AS2CS4 SLP120= METAR CWCL 131100Z AUTO 22003KT 9SM -RA CLR 09/07 A3005 RMK SLP173= METAR CWDL NIL= METAR CWIL NIL= METAR CWKM NIL= METAR CWKW NIL= METAR CWLI NIL= METAR CWLX NIL= METAR CWLY 131100Z AUTO 12005KT 9SM BKN048 BKN062 BKN073 19/12 A2998 RMK SLP150= METAR CWOB NIL= METAR CWPX NIL= METAR CWRX NIL= METAR CWSW NIL= METAR CWUP NIL= METAR CWUW NIL= METAR CWVH NIL= METAR CWYK NIL= METAR CWZZ NIL= METAR CZBF 131100Z 00000KT 15SM MIFG FEW250 08/07 A2998 RMK CI1 SLP153= METAR CZCP NIL= METAR CZST NIL=  533 SACN98 CWAO 131100 XAF NIL= XAG NIL= XAJ NIL= XBA NIL= XBR NIL= XBW NIL= XCD NIL= XCP NIL= XCS NIL= XDK NIL= XDP NIL= XFR NIL= XHR NIL= XKI NIL= XKM NIL= XLB NIL= XMN NIL= XOY NIL= XPA NIL= XPC NIL= XRB NIL= XRL NIL= XSE NIL= XTD NIL= XTO SA 1100 AUTO8 M M M 102/16/16/MMMM/M/0060 PCPN 1.2MM PAST HR 6014 44MM= XVN NIL= XWB NIL= XWM NIL= XYH NIL= XZV NIL= ZKD NIL= ZLW NIL= ZMJ NIL= ZPR NIL= ZQH NIL= ZQZ NIL= ZRP NIL= ZTB NIL= ZZJ NIL= ZZP NIL=  534 SACN97 CWAO 131100 XAT NIL= XBK NIL= XBO NIL= XBP NIL= XCA NIL= XCH NIL= XCK SA 1100 AUTO7 M M M M/05/M/3302/M/M M 1MMM= XCY NIL= XDE NIL= XDI SA 1100 AUTO8 M M M 085/18/17/2008/M/0062 PCPN 1.1MM PAST HR 5002 19MM= XDW NIL= XEA SA 1100 AUTO8 M M M 131/08/07/1301/M/ 8006 01MM= XEC NIL= XEG NIL= XET NIL= XFA SA 1100 AUTO8 M M M 206/12/08/3017/M/M PK WND 3026 1015Z 6002 92MM= XGH NIL= XHA NIL= XHF NIL= XHI SA 1100 AUTO8 M M M 236/-03/-05/3608/M/ 1019 93MM= XIB SA 1100 AUTO7 M M M M/15/09/3306/M/ M 05MM= XLC NIL= XLL NIL= XLT SA 1100 AUTO8 M M M 187/02/01/2811/M/M 8006 74MM= XLU NIL= XMD NIL= XMI NIL= XMM NIL= XMP NIL= XMW NIL= XMY NIL= XNM NIL= XOX SA 1100 AUTO8 M M M 144/03/02/3501/M/ 8008 22MM= XPV NIL= XQA NIL= XQT NIL= XRH SA 1100 AUTO7 M M M M/09/08/0602/M/ M 38MM= XSH NIL= XSR SA 1100 AUTO8 M M M 149/06/-01/3007/M/ 8006 32MM= XSW SA 1100 AUTO7 M M M M/12/12/0826+35/M/0180 PCPN 3.0MM PAST HR PK WND MM40 1043Z M 33MM= XTL NIL= XTN NIL= XTP SA 1100 AUTO7 M M M M/11/10/0709+18/M/0008 PCPN 0.8MM PAST HR PK WND MM19 1053Z M 01MM= XTV NIL= XVG NIL= XWN NIL= XWR NIL= XZU SA 1100 AUTO8 M M M 160/07/07/2504/M/ 6015 33MM=  536 SACN95 CWAO 131100 WTA NIL= WTD SA 1100 AUTO8 M M M 128/01/-01/3318/M/ PK WND 3321 1041Z 1018 65MM= WTE NIL= WTF NIL= WTG NIL= WTM NIL= WTN NIL= WTR NIL= WTS SA 1100 AUTO8 M M M M/10/08/3313/M/0004 PCPN 0.4MM PAST HR PK WND 3319 1055Z M 61MM= WTT NIL= WTX NIL= WTY SA 1100 AUTO8 M M M 191/06/05/0104/M/ 6001 73MM= WUI NIL= WUK NIL= WUS NIL= WUT NIL= WUX NIL= WUY NIL= WVC SA 1100 AUTO8 M M M 099/10/06/1110/M/ 8027 10MM= WVF SA 1100 AUTO8 M M M M/15/M/2824/M/M PK WND 2929 1047Z M 9MMM= WVI SA 1100 AUTO8 M M M 155/09/08/2903/M/0104 6020 67MM= WVN NIL= WVO SA 1100 AUTO8 M M M M/07/06/3406/M/ M 39MM= WVP NIL= WVQ NIL= WVT SA 1100 AUTO8 M M M 156/07/06/0000/M/ 8007 91MM= WVU NIL= WVV SA 1100 AUTO8 M M M 180/14/11/0000/M/ 8007 95MM= WVW NIL= WVY NIL= WVZ NIL= WWA SA 1100 AUTO8 M M M 173/14/12/3001/M/ 6008 00MM= WWC SA 1100 AUTO8 M M M 155/07/06/3003/M/ 1006 63MM= WWE NIL= WWF NIL= WWK NIL= WWN SA 1100 AUTO8 M M M 070/12/11/2404/M/0012 0001 82MM= WWO NIL= WWP NIL= WXA SA 1100 AUTO8 M M M 155/08/06/0502/M/ 8012 97MM= WXB SA 1100 AUTO8 M M M M/13/12/3206/M/ M 58MM= WXC NIL= WXG SA 1100 AUTO8 M M M 107/12/10/0405/M/ 8027 50MM= WZW SA 1100 AUTO8 M M M 244/06/04/2903/M/ 4000 80MM=  537 SACN49 CWAO 131100 METAR CYAY 131100Z 09002KT 15SM BKN220 10/08 A2983 RMK CS4 SLP104= METAR CYCX 131100Z AUTO 24006KT 9SM CLR 07/05 A3002 RMK SLP167= METAR CYDF 131100Z 00000KT 15SM BKN140 OVC200 08/07 A2978 RMK AC6CI2 SLP085= METAR CYDP NIL= METAR CYGW 131100Z 18011KT 15SM -RA FEW025 BKN050 OVC100 13/07 A2973 RMK SC1SC5AS2 SLP067= METAR CYHH 131100Z 07004KT 15SM FEW260 03/03 A2999 RMK CC1 SLP163= METAR CYLU NIL= METAR CYNC NIL= METAR CYSJ 131100Z 01005KT 15SM FEW260 06/05 A3001 RMK CI0 SLP166= METAR CYTQ NIL= METAR CYYG 131100Z 30007KT 15SM SCT230 11/09 A2989 RMK CC2 SLP122=  538 SACN48 CWAO 131100 METAR CYAD 131100Z 00000KT 15SM FEW240 M00/M01 A2990 RMK CI2 SLP135= METAR CYAH 131100Z AUTO 23005KT 9SM CLR 07/04 A2993 RMK SLP147= METAR CYAS NIL= METAR CYBX 131100Z 06003KT 10SM OVC120 11/11 A2984 RMK AC6 SLP106= METAR CYCL NIL= METAR CYGV 131100Z AUTO 02007KT 9SM CLR 08/05 A2994 RMK SLP140= METAR CYHA NIL= METAR CYIK NIL= METAR CYKG NIL= METAR CYKQ NIL= METAR CYLA NIL= METAR CYMH 131100Z 30002KT 15SM OVC120 10/07 A2986 RMK AC8 SLP111= METAR CYML NIL= METAR CYMT 131100Z 00000KT 7SM MIFG FEW140 FEW220 03/02 A3004 RMK AC1CI1 VIS E-S 3/8 SLP184= METAR CYMU NIL= METAR CYNM 131100Z AUTO ///// 9SM CLR 05/04 A2999 RMK SLP164= METAR CYOY 131100Z AUTO 00000KT 5/8SM CLR 01/01 A3009 RMK SLP195= METAR CYPH 131100Z AUTO 27014KT 8SM OVC006 10/09 A2960 RMK SLP026= METAR CYPX NIL= METAR CYQI 131100Z 29007KT 15SM FEW250 11/10 A3004 RMK CI0 SLP172= METAR CYSK NIL= METAR CYSL 131100Z 29002KT 15SM FEW200 05/04 A3006 RMK CI1 SLP186= METAR CYUY 131100Z 13004KT 15SM FEW050 SCT090 BKN150 BKN250 11/08 A2999 RMK SC2AC2AC1CI2 SLP160= METAR CYWK 131100Z 18003KT 15SM MIFG SCT290 04/03 A3000 RMK CI0 SLP172= METAR CYZG NIL=  539 SACN46 CWAO 131100 CCA METAR CYKZ 131100Z CCA 11006KT 2 1/4SM -RA BR BKN003 OVC008 15/15 A2984 RMK FG1ST6SC1 SLP106=  540 SACN91 CWAO 131100 WGR NIL= WGT SA 1100 AUTO8 M M M 194/14/09/3221/M/M PK WND 3225 1021Z 8006 99MM= WGW NIL= WGX NIL= WGY NIL= WHA NIL= WHC SA 1100 AUTO8 M M M M/15/M/MMMM/M/ M 8MMM= WHD NIL= WHH NIL= WHI NIL= WHL NIL= WHM NIL= WHQ SA 1100 AUTO7 M M M M/01/01/3201/M/M M 66MM= WHT NIL= WHV SA 1100 AUTO8 M M M 200/01/01/1803/M/ 3001 33MM= WHY NIL= WIA NIL= WID NIL= WIE NIL= WIG SA 1100 AUTO8 M M M M/M/M/2006/M/M M MMMM= WII NIL= WIJ NIL= WIN NIL= WIO NIL= WIP NIL= WIS SA 1100 AUTO8 M M M M/00/-01/0000/M/M M 25MM= WIT SA 1100 AUTO8 M M M M/09/09/0000/M/ M 99MM= WIU NIL= WIW SA 1100 AUTO8 M M M 107/12/10/1207/M/0004 8032 98MM= WIX NIL= WIY NIL= WIZ SA 1100 AUTO7 M M M M/09/08/0803/M/ M 47MM= WJB SA 1100 AUTO8 M M M M/06/05/2003/M/ M 21MM= WJC NIL= WJH NIL=  541 SACN45 CWAO 131100 METAR CYBB NIL= METAR CYCB 131100Z 01017KT 10SM -SHSN BKN011 BKN026 OVC060 M03/M05 A3005 RMK SF5CF1SC2 SLP178= METAR CYCO 131100Z 35003KT 15SM FEW010 SCT020 OVC075 02/M02 A3020 RMK SF1SC2AC5 SLP228= METAR CYCS NIL= METAR CYFS 131100Z 33006KT 15SM BKN040 04/03 A3017 RMK SC5 SLP225= METAR CYGH NIL= METAR CYGT NIL= METAR CYHI NIL= METAR CYHK 131100Z AUTO 04014KT 9SM OVC012 00/M02 A2982 RMK SLP100= METAR CYHY 131100Z 05006KT 14SM -RA OVC026 07/06 A3003 RMK SC8 SLP174= METAR CYJF NIL= METAR CYKD NIL= METAR CYLC NIL= METAR CYLK NIL= METAR CYOA 131100Z 02008KT 15SM BKN012 OVC020 00/M00 A3001 RMK SC6SC2 5.0/-0.5/1.2 SLP193= METAR CYPC NIL= METAR CYRA NIL= METAR CYRT 131100Z 36006KT 12SM -RA OVC003 08/06 A2965 RMK ST8 SLP042= METAR CYSY NIL= METAR CYTE 131100Z AUTO 35007G15KT 9SM OVC008 04/03 A2938 RMK SLP953= METAR CYUT NIL= METAR CYVM 131100Z 08002KT 15SM FEW010 BKN049 BKN075 03/M00 A2960 RMK SC1SC3AC1 SLP023= METAR CYWJ NIL= METAR CYWO NIL= METAR CYWY NIL= METAR CYXN NIL= METAR CYXP 131100Z 09008G18KT 15SM OVC040 06/M03 A2947 RMK SC8 6.7/4.0/0.4 SLP982= METAR CYZS NIL=  542 SACN62 CWAO 131100 LWIS CYDL 131100Z AUTO 17003KT 05/05 A3017= LWIS CYDQ 131100Z AUTO 15002KT 04/M02 A2999= LWIS CYLH 131100Z AUTO 28004KT 11/09 A2983= LWIS CZMD 131100Z AUTO 23002KT 09/08 A2986=  543 SACN42 CWAO 131100 METAR CYAZ NIL= METAR CYBL NIL= METAR CYBV NIL= METAR CYCP NIL= METAR CYCQ NIL= METAR CYDB 131100Z AUTO 30007KT 9SM FEW082 05/03 A3037 RMK SLP317= METAR CYDC NIL= METAR CYEV 131100Z 07005KT 15SM SKC M04/M04 A3033 RMK SLP277= METAR CYFO 131100Z 34002KT 15SM FEW035 08/06 A2992 RMK SC1 SLP140= METAR CYHE 131100Z AUTO 28004KT 9SM FEW036 OVC050 17/12 A3003 RMK SLP171= METAR CYIV 131100Z 29003KT 12SM FEW100 12/09 A2989 RMK AC1 SLP128= METAR CYKY 131100Z 01020G25KT 15SM -TSRA SCT010 OVC040CB 11/08 A2992 RMK SC3CB5 LTGICCG W-E SLP128= METAR CYMD NIL= METAR CYPR 131100Z AUTO 27002KT 9SM OVC009 OVC038 OVC058 OVC099 11/10 A3025 RMK SLP245= METAR CYQD 131100Z 00000KT 15SM FEW120 05/04 A2992 RMK AC1 SLP136= METAR CYQZ 131100Z AUTO 00000KT 9SM BKN075 BKN082 06/04 A3007 RMK SLP194= METAR CYRV 131100Z AUTO 32006KT 5/8SM -RA OVC037 15/10 A2993 RMK SLP134= METAR CYUA NIL= METAR CYXC 131100Z 00000KT 15SM BKN230 13/04 A2985 RMK CI5 FU SLP094= METAR CYXE 131100Z 02006KT 15SM FEW075 SCT250 07/06 A2986 RMK AC2CI1 SLP120= METAR CYXQ NIL= METAR CYXS 131100Z 22003KT 15SM BKN085 06/02 A3007 RMK AC6 SLP200= METAR CYZP 131100Z AUTO 26013KT 9SM OVC041 12/10 A3026 RMK SLP249= METAR CYZT 131100Z 27007KT 15SM SCT020 11/09 A3023 RMK SC3 SLP236=  545 SACN41 CWAO 131100 METAR CBBC 131100Z AUTO 00000KT 9SM FEW056 BKN070 09/ A3022 RMK SLP233= METAR CYBD NIL= METAR CYCD NIL= METAR CYCG NIL= METAR CYDA NIL= METAR CYGE NIL= METAR CYKA 131100Z 25009KT 40SM -SHRA OVC066 14/12 A3002 RMK SC8 TCU ASOCTD SLP165= METAR CYLW 131100Z AUTO 00000KT 9SM BKN084 13/04 A2992 RMK SLP127= METAR CYMA 131100Z 00000KT 20SM SCT075 03/02 A3024 RMK AC4 AURBO SLP261= METAR CYMM 131100Z 00000KT 15SM FEW080 SCT250 01/M01 A2996 RMK AC2CI1 SLP154= METAR CYOC NIL= METAR CYPW NIL= METAR CYQH 131100Z 32005KT 30SM FEW030 BKN050 BKN090 04/02 A3011 RMK SC1SC3AC1 SLP218= METAR CYQU 131100Z 26007KT 25SM FEW100 BKN250 04/M00 A2999 RMK AC1CI1 SLP168= METAR CYSD NIL= METAR CYWL 131100Z 35006KT 15SM SCT080 SCT230 07/03 A3005 RMK AC3CS0 SLP184= METAR CYXJ 131100Z 00000KT 15SM SKC 05/M00 A3001 RMK SLP178= METAR CYXT 131100Z 00000KT 15SM FEW020 BKN100 10/08 A3022 RMK SC2AC6 SLP238= METAR CYXY 131100Z 28004KT 20SM -SHRA OVC038 06/04 A3029 RMK SC8 SLP288= METAR CYYD 131100Z 00000KT 25SM BKN060 06/05 A3016 RMK SC6 SLP223= METAR CYYE 131100Z 30006KT 15SM BKN013 BKN100 07/05 A3004 RMK SC5AC2 SLP183= METAR CYYF 131100Z 04007KT 15SM FEW080 BKN230 16/05 A2993 RMK AC2CI4 SLP132= METAR CYZW NIL= METAR CYZY 131100Z AUTO 00000KT 9SM CLR 02/01 A3005 RMK SLP193= METAR CZFA NIL= METAR CZMT NIL=  546 SACN40 CWAO 131100 METAR CYWH NIL=  547 SACN82 CWAO 131100 MAN NIL= MBR NIL= MCT NIL= MCW NIL= MFM NIL= MGB NIL= MHB SA 1100 AUTO8 M M M M/10/08/0503/M/ M 15MM= MHN SA 1100 AUTO8 M M M M/06/06/0301/M/ M 66MM= MHW NIL= MLA NIL= MLI SA 1100 AUTO7 M M M M/06/06/0902/M/ M 66MM= MLT SA 1100 AUTO8 M M M M/07/06/0602/M/ M 93MM= MPD NIL= MPL NIL= MRF NIL= MRI NIL= MRU NIL= MRY SA 1100 AUTO8 M M M M/09/09/1101/M/ M 21MM= MSB NIL= MSC NIL= MSR NIL= MSX NIL= MWD NIL= MYT NIL= WDM SA 1100 AUTO8 M M M 102/13/08/0109/M/ 6020 08MM= WHP NIL= WQB NIL=  548 SACN59 CWAO 131100 NLB NIL= NLD NIL= NNR NIL= NPK NIL= NTK NIL= PBT NIL= PEH NIL= PFI NIL= PIR NIL= PRO NIL= PRY NIL= PST NIL= PSV NIL= PXL NIL= WCT SA 1100 AUTO8 M M M 161/08/08/0215/M/0030 PK WND 0320 1038Z 6003 36MM= WLB SA 1100 AUTO8 M M M 147/09/07/1502/M/ 8009 73MM= XAK NIL= XDB NIL= XFM NIL= XHD NIL= XHP NIL= XMG NIL= XMO NIL= XOL NIL= XPL NIL= XSC NIL= XSL NIL= XSP NIL= XTH NIL= XVM NIL= XVW NIL= ZMU NIL= ZOL NIL= ZPS NIL=  549 SACN96 CWAO 131100 WXL SA 1100 AUTO8 M M M M/11/05/1507/M/ M 42MM= WXN SA 1100 AUTO8 M M M M/06/05/3417/M/ PK WND 3531 1002Z M 43MM= WXP SA 1100 AUTO8 M M M 967/06/-02/1011+23/M/M PK WND 0923 1011Z 1008 73MM= WXS NIL= WXW NIL= WXZ SA 1100 AUTO8 M M M 143/07/06/0000/M/ 8004 67MM= WYA NIL= WYE NIL= WYF NIL= WYH NIL= WYI NIL= WYJ SA 1100 AUTO8 M M M 187/11/11/2202/M/ 6007 27MM= WYL SA 1100 AUTO8 M M M 144/08/04/2413/M/0002 PCPN 0.2MM PAST HR PK WND 2622 1010Z 5001 82MM= WYQ SA 1100 AUTO8 M M M 181/07/06/1804/M/ 5000 26MM= WYW NIL= WYY NIL= WZA NIL= WZE NIL= WZG NIL= WZL NIL= WZO SA 1100 AUTO8 M M M M/M/M/1906/M/M M MMMM= WZQ NIL= WZR NIL= WZS SA 1100 AUTO8 M M M 175/02/02/1702/M/ 5002 66MM= WZT NIL= WZV NIL= WZY NIL= XBD NIL= XBQ NIL= XEL NIL= XFV SA 1100 AUTO8 M M M M/04/04/1403/M/ M 99MM= XGM SA 1100 AUTO8 M 9.+ M 167/09/06/3103/M/ 3002 83MM= XHM NIL= XKA NIL= XKE NIL= XND NIL= XOA SA 1100 AUTO8 M M M 156/11/10/0805/M/ 8011 82MM= XPS SA 1100 AUTO8 M M M M/10/10/3201/M/0006 PCPN 0.6MM PAST HR M 66MM= XPT NIL= XWF NIL= ZGH SA 1100 AUTO8 M M M 262/02/01/3001/M/ 1018 09MM= ZOC NIL= ZPK NIL= ZQT NIL= ZUB SA 1100 AUTO8 M M M 270/01/-02/1102/M/M 1012 53MM= ZUG NIL= ZWN SA 1100 AUTO8 M M M 164/08/08/0504/M/0069 PCPN 1.4MM PAST HR 8002 39MM=  550 SACN92 CWAO 131100 WJI NIL= WJK NIL= WJL SA 1100 AUTO8 M M M 214/05/04/0503/M/0018 1017 12MM= WJM NIL= WJN NIL= WJO NIL= WJP NIL= WJR NIL= WJT NIL= WJU NIL= WJV NIL= WJW SA 1100 AUTO8 M M M 155/08/05/3502/M/ 8009 42MM= WJX SA 1100 AUTO8 M M M 118/12/03/3414/M/ PK WND 3429 1046Z 5002 92MM= WKA NIL= WKB NIL= WKD NIL= WKF NIL= WKG NIL= WKH SA 1100 AUTO8 M M M M/12/M/MMMM/M/M M 2MMM= WKX SA 1100 AUTO8 M M M 230/05/05/1804/M/M 0002 96MM= WLC SA 1100 AUTO8 M M M M/11/M/2404/M/M M 2MMM= WLE SA 1100 AUTO8 M M M 102/10/07/0704/M/ 6032 48MM= WLF SA 1100 AUTO8 M M M 110/11/09/2704/M/ 3000 45MM= WLG NIL= WLJ NIL= WLK NIL= WLM SA 1100 AUTO8 M M M M/11/11/0202/M/ M 22MM= WLQ NIL= WLU SA 1100 AUTO8 M M M M/M/M/2104/M/M M MMMM= WLV NIL= WME NIL= WMF NIL= WMI NIL= WMJ NIL= WMM NIL= WMQ NIL=  551 SACN47 CWAO 131100 METAR CYAM 131100Z 36002KT 12SM OVC013 13/10 A2991 RMK SC8 SLP131= METAR CYFT NIL= METAR CYGP 131100Z 25008KT 15SM SCT220 07/04 A2995 RMK CI2 SLP143= METAR CYGR 131100Z 34014KT 20SM BKN120 15/11 A2980 RMK AC7 SLP092= METAR CYHD 131100Z AUTO 19005KT 9SM SCT050 SCT081 12/09 A2993 RMK SLP127= METAR CYHU 131100Z AUTO 03004KT 9SM CLR 07/06 A3007 RMK SLP183= METAR CYKO NIL= METAR CYMO 131100Z AUTO 20008KT 9SM FEW083 FEW098 08/07 A2989 RMK SLP124= METAR CYNA 131100Z AUTO 01008KT 9SM CLR 12/07 A2987 RMK SLP117= METAR CYND 131100Z 08007KT 15SM BKN110 BKN220 11/08 A3003 RMK AC6CI2 SLP170= METAR CYPQ 131100Z AUTO 13006KT 3SM OVC004 14/13 A2988 RMK PCPN 0.5MM PAST HR SLP121= METAR CYQT 131100Z 26004KT 15SM FEW270 02/02 A2997 RMK CI1 SLP154= METAR CYRJ 131100Z 30004KT 25SM FEW015 FEW210 04/03 A3008 RMK CU1CI1 SLP192= METAR CYRL 131100Z 00000KT 15SM SCT250 09/09 A2991 RMK CS2 SLP134= METAR CYTJ NIL= METAR CYTL 131100Z AUTO 30007KT 6SM CLR 11/07 A2984 RMK SLP111= METAR CYTS 131100Z 00000KT 15SM OVC046 09/07 A2994 RMK SC8 SLP145= METAR CYTZ 131100Z AUTO 10007KT 2SM -RA OVC004 OVC047 OVC065 17/16 A2982 RMK ICG INTMT PCPN 1.0MM PAST HR SLP100= METAR CYVP NIL= METAR CYVV 131100Z 06004KT 5SM -SHRA BR FEW010 OVC020 15/14 A2982 RMK SF2SC6 SLP100= METAR CYWA 131100Z AUTO 11006KT 9SM BKN042 13/09 A2997 RMK SLP151= METAR CYXR 131100Z AUTO 08003KT 9SM OVC032 OVC085 12/09 A2995 RMK SLP142= METAR CYYY 131100Z 22007KT 30SM SKC 10/05 A3005 RMK SLP176= METAR CYZE 131100Z AUTO 05007KT 9SM BKN010 OVC017 OVC030 14/13 A2987 RMK SLP119= METAR CYZR 131100Z AUTO 00000KT 3/8SM OVC003 18/18 A2979 RMK SLP088=  552 SACN90 CWAO 131100 WEA SA 1100 AUTO8 M M M 130/07/06/0000/M/ 5000 30MM= WEB NIL= WEC NIL= WEE NIL= WEF NIL= WEI NIL= WEL NIL= WEO NIL= WEP SA 1100 AUTO8 M M M 094/15/13/3319+24/M/ PK WND 3324 1030Z 6010 05MM= WER NIL= WEW SA 1100 AUTO8 M M M 192/07/06/0204/M/0002 6004 49MM= WEZ SA 1100 AUTO8 M M M 182/15/12/2106/M/ 8005 54MM= WFE NIL= WFF NIL= WFJ NIL= WFO NIL= WFP NIL= WFQ SA 1100 AUTO7 M M M M/11/07/1504/M/ M 89MM= WFV NIL= WFW NIL= WFX NIL= WFZ NIL= WGB NIL= WGD SA 1100 AUTO8 M M M 090/16/15/1203/M/0017 5003 60MM= WGF SA 1100 AUTO8 M M M M/02/02/1301/M/ M 22MM= WGH NIL= WGL NIL= WGM SA 1100 AUTO8 M M M M/04/02/2001/M/ M 96MM= WGN SA 1100 AUTO8 M M M 118/07/05/0000/M/ 8004 90MM= WGP SA 1100 AUTO8 M M M 147/11/09/0702/M/ 6005 59MM=  553 SACN87 CWAO 131100 WEK NIL= WEQ NIL= WJD NIL= WLP SA 1100 AUTO8 M M M 233/11/11/3012/M/ 8009 55MM= WPU NIL= WRO NIL= WWL NIL= WWS NIL= WZG NIL=  554 SACN85 CWAO 131100 WBK NIL= WHO NIL= WPK NIL= WWE SA 1100 AUTO8 M M M 152/10/07/2805/M/ 0002 82MM= YGS NIL=  555 SACN31 CWAO 131100 METAR CYAW 131100Z 32009KT 15SM FEW025 FEW270 12/09 A2993 RMK CU1CI1 SLP137= METAR CYBG 131100Z 20004KT 25SM MIFG FEW240 03/02 A3009 RMK CI1 FG BANK OVR RIVER SLP194= METAR CYCH NIL= METAR CYEG 131100Z 28004KT 15SM FEW020 BKN048 BKN062 BKN150 08/08 A3000 RMK SC1SC6SC1AC1 SLP169= METAR CYFB 131100Z 14005KT 30SM BKN024 OVC040 06/05 A2931 RMK SC7SC1 VIA ZNB FIC SLP928= METAR CYFC 131100Z 23005KT 15SM VCFG FEW070 FEW250 04/04 A3003 RMK AC1CI0 SLP169= METAR CYGL 131100Z 17010KT 15SM FEW150 SCT200 BKN240 08/05 A2985 RMK AC1CI1CI0 SLP114= METAR CYHZ 131100Z 32011KT 15SM FEW270 11/09 A2993 RMK CI0 SLP136= METAR CYJT 131100Z 35012KT 15SM BKN024 OVC100 14/06 A2972 RMK SC6AC2 SLP065= METAR CYMX 131100Z 05003KT 20SM FEW100 OVC240 08/04 A3006 RMK AC2CI2 SLP181= METAR CYOW 131100Z 09005KT 15SM -RA BKN049 11/08 A3002 RMK SC7 VRY LGT RA SLP166= METAR CYQB 131100Z 31002KT 15SM SCT260 05/02 A3010 RMK CI1 SLP195= METAR CYQG 131100Z 23004KT 2 1/2SM BR SCT003 BKN026 OVC140 19/18 A2980 RMK SF4SC2AC1 SLP090= METAR CYQM 131100Z 23008KT 15SM FEW120 05/04 A2997 RMK AC1 SLP151= METAR CYQQ 131100Z 33014KT 20SM FEW050 FEW240 13/11 A3009 RMK SC1CI1 SLP191= METAR CYQX 131100Z 06014G19KT 10SM -RA SCT007 BKN082 OVC120 10/09 A2971 RMK SF3AC4AS1 SLP065= METAR CYQY 131100Z 34019G26KT 10SM -SHRA BKN057 OVC078 13/09 A2969 RMK SC5AS3 VIS NW 15 SLP055= METAR CYTR 131100Z 13005KT 3SM -RA BR BKN005 OVC016 15/14 A2990 RMK SF6NS2 SLP126= METAR CYUL 131100Z 03004KT 15SM FEW015 SCT180 BKN210 11/08 A3006 RMK SF1AC2CS3 SLP180= METAR CYVR 131100Z 30018KT 20SM BKN060 BKN220 15/11 A3006 RMK SC5CI1 SLP181= METAR CYWG 131100Z 06004KT 12SM FEW120 11/10 A2991 RMK AC1 SLP129= METAR CYXX 131100Z 22005KT 15SM BKN045 14/10 A3007 RMK SC5 SLP185= METAR CYYC 131100Z 32008KT 15SM BKN013 OVC090 08/06 A3000 RMK SC6AC2 SLP167= METAR CYYJ 131100Z 00000KT 30SM SCT037 BKN052 BKN250 12/11 A3008 RMK SC4SC2CS1 SLP186= METAR CYYQ 131100Z 26011G16KT 15SM FEW100 FEW210 08/08 A2975 RMK AC1CI2 SLP075= METAR CYYR 131100Z 27006KT 15SM FEW270 07/04 A2992 RMK CI1 SLP133= METAR CYYT NIL= METAR CYYZ 131100Z 15007KT 2 1/2SM -RA BR OVC002 16/16 A2982 RERA RMK NS8 SLP100= METAR CYZF 131100Z 01006KT 15SM OVC051 06/03 A3006 RMK SC8 SLP189= METAR CYZV 131100Z 00000KT 30SM SKC 06/05 A3000 RMK SLP160= METAR CYZX 131100Z 23005KT 15SM FEW250 08/05 A3000 RMK CI0 WNDY HILL 30010KT SLP158=  556 SACN46 CWAO 131100 METAR CYBC 131100Z AUTO 24005KT 9SM CLR 07/06 A3002 RMK SLP168= METAR CYBN 131100Z 10005KT 2SM -RA BR OVC004 14/14 A2983 RMK SF8 FIRST STFD OBS SLP102= METAR CYEL 131100Z 09002KT 15SM BKN020 OVC040 12/11 A2991 RMK SC5SC3 WNDS ESTD SLP133= METAR CYFR NIL= METAR CYGK 131100Z 14014G21KT 6SM -RA BR OVC008 14/12 A2996 RMK SF8 CIG RAG SLP145= METAR CYGQ 131100Z 20002KT 10SM PRFG FEW110 05/03 A2993 RMK AC1 SLP142= METAR CYHM 131100Z 20010KT 4SM -RA BR SCT004 BKN009 OVC018 18/18 A2982 RMK SF3SC3SC2 SLP098= METAR CYKF 131100Z AUTO 17006KT 3SM -RA OVC003 17/17 A2979 RMK PCPN 1.5MM PAST HR SLP089= METAR CYKL 131100Z AUTO 25005KT 9SM CLR 08/04 A2991 RMK SLP143= METAR CYKZ 131100Z 11006KT 2 1/4SM -RA BR OVC003 OVC008 15/15 A2984 RMK FG1ST6SC1 SLP106= METAR CYLD 131100Z 00000KT 15SM OVC100 10/09 A2995 RMK AC8 SLP148= METAR CYPL 131100Z 25004KT 15SM SCT080 12/09 A2988 RMK AC3 SLP125= METAR CYQA 131100Z AUTO 11005KT 6SM -RA OVC005 13/13 A2988 RMK PCPN 1.0MM PAST HR SLP120= METAR CYQK 131100Z 26005KT 15SM FEW250 14/11 A2993 RMK CI0 SLP137= METAR CYRB 131100Z 32007KT 15SM FEW006 SCT120 SCT220 M06/M07 A2992 RMK SC1AC1CI0 SLP141= METAR CYSB 131100Z 05007KT 15SM OVC020 12/09 A2992 RMK SC8 SLP138= METAR CYSC 131100Z AUTO 08003KT 9SM CLR 03/02 A3010 RMK SLP201= METAR CYSN 131100Z 18006KT 5SM -SHRA BR BKN028 OVC040 17/16 A2983 RMK SC5SC3 SLP103= METAR CYVO 131100Z 16003KT 15SM BKN140 09/08 A2999 RMK AC7 SLP167= METAR CYVQ 131100Z 30002KT 30SM SCT025 BKN050 OVC120 03/02 A3029 RMK SC3SC3AC2 SLP263= METAR CYXL NIL= METAR CYXU 131100Z 21006KT 2SM BR OVC003 18/18 A2981 RMK FG1SF7 SLP094= METAR CYXZ 131100Z 01001KT 15SM FEW025 BKN080 07/06 A2995 RMK SC2AC2 SLP149= METAR CYYB 131100Z 08010KT 15SM -SHRA BKN040 OVC080 12/08 A2993 RMK SC5AC3 PCPN VRY LGT SLP139= METAR CYYH 131100Z 02011KT 15SM FEW015 FEW025 BKN210 M01/M04 A2985 RMK SC1SC1CI0 SLP110= METAR CYYU 131100Z 00000KT 15SM FEW050 BKN090 BKN250 09/07 A2994 RMK SC1AC5CI1 TR SC TR CI SLP145=  557 SACN93 CWAO 131100 WMU NIL= WMX SA 1100 AUTO8 M M M M/05/03/0701/M/ M 18MM= WMY NIL= WMZ NIL= WNC NIL= WND NIL= WNE NIL= WNH SA 1100 AUTO8 M M M 182/08/05/1803/M/ 8001 63MM= WNK SA 1100 AUTO8 M M M M/11/11/3203/M/ M 75MM= WNM SA 1100 AUTO8 M M M 099/15/09/2307/M/ 6015 22MM= WNP SA 1100 AUTO8 M M M 111/15/10/1203/M/ 8001 91MM= WNQ NIL= WNR NIL= WNS NIL= WNT NIL= WNV NIL= WNX NIL= WNZ SA 1100 AUTO8 M M M 138/01/-01/1903/M/ 8008 58MM= WOC NIL= WOD SA 1100 AUTO8 M M M 177/00/00/3601/M/ 6003 11MM= WOE NIL= WOG NIL= WOI NIL= WOJ SA 1100 AUTO8 M M M 130/13/12/0706/M/ 5000 03MM= WOK SA 1100 AUTO8 M M M 094/13/09/0811/M/ PK WND 0818 1009Z 8035 75MM= WON NIL= WOO NIL= WOQ NIL= WOV SA 1100 AUTO8 M M M M/09/08/2701/M/0005 M 78MM= WOW NIL= WPA NIL= WPB SA 1100 AUTO8 M M M 104/14/14/0906/M/0027 6010 44MM= WPD SA 1100 AUTO8 M M M 187/00/M/2201/M/ 7006 1MMM= WPE NIL= WPF NIL= WPG NIL= WPL SA 1100 AUTO8 M M M 125/12/08/2706/M/ 3001 22MM= WPQ SA 1100 AUTO7 M M M M/08/M/0503/M/M M 1MMM= WPR NIL= WPZ NIL= WQA NIL=  558 SACN66 CWAO 131100 PIF SA 1100 AUTO8 M M M 141/01/00/0000/M/ 7003 41MM= PQW NIL= WBU NIL= WDC SA 1100 AUTO8 M M M 162/01/01/0304/M/ 1007 18MM= WEH SA 1100 AUTO8 M M M 092/11/04/0510/M/ 8024 33MM= WIK NIL= WKO SA 1100 AUTO8 M M M 095/12/00/2510/M/ 6014 8-4MM= WOY SA 1100 AUTO8 M M M 114/12/08/1305/M/ 8023 40MM= XBK SA 1100 AUTO8 M M M M/12/08/1209/M/ M 06MM=  562 SACN43 CWAO 131100 METAR CWHN NIL= METAR CWLO NIL= METAR CYBK 131100Z 32011KT 20SM OVC050 07/05 A2969 RMK SC7 SLP057= METAR CYBR 131100Z 06008KT 15SM FEW070 14/12 A2992 RMK AC2 SLP133= METAR CYBU 131100Z AUTO 35004KT 9SM CLR 04/03 A2991 RMK SLP138= METAR CYDN 131100Z AUTO 25003KT 9SM CLR 09/09 A2993 RMK SLP139= METAR CYEN 131100Z 09004KT 15SM FEW110 10/06 A2986 RMK AC2 FLOCCUS ASOCTD MOON VISBL SLP112= METAR CYET 131100Z AUTO 28003KT 9SM BKN000 OVC076 OVC090 07/05 A2999 RMK SLP166= METAR CYGX 131100Z 30010KT 15SM SKC 10/08 A2987 RMK SLP118= METAR CYKJ 131100Z AUTO 36004KT 2 1/8SM CLR 02/M01 A2995 RMK VSBY VRBL 0.7V9.+ SLP160= METAR CYLL 131100Z 20004KT 10SM -SHRA SCT045 OVC070 09/08 A3000 RMK SC4AC4 SLP168= METAR CYNE 131100Z AUTO 00000KT 9SM CLR 05/04 A2991 RMK SLP137= METAR CYOJ 131100Z 35005KT 15SM FEW120 04/04 A2995 RMK AC2 SLP152= METAR CYPA 131100Z 00000KT 5SM BR SCT050 BKN100 BKN250 06/05 A2991 RMK SC3AC3CI0 FG OVR RIVER SLP136= METAR CYPG 131100Z 30005KT 15SM FEW250 12/09 A2992 RMK CI1 FIRST OBS SLP133= METAR CYPY 131100Z AUTO 00000KT 9SM FEW084 04/04 A2996 RMK SLP159= METAR CYQF 131100Z 25003KT 15SM SCT100 07/06 A2998 RMK AC4 SLP165= METAR CYQL 131100Z AUTO 30020G27KT 9SM CLR 11/06 A2987 RMK SLP108= METAR CYQR 131100Z 08014G20KT 15SM SKC 14/09 A2980 RMK SLP090= METAR CYQW 131100Z AUTO 34009KT 9SM -RA CLR 11/08 A2994 RMK SLP146= METAR CYVC 131100Z 00000KT 15SM BKN250 03/02 A2994 RMK CI3 SLP148= METAR CYXD 131100Z AUTO 25003KT 9SM FEW022 SCT049 BKN061 BKN072 10/09 A2998 RMK SLP159= METAR CYYL 131100Z AUTO 29005KT 9SM CLR 07/06 A2992 RMK SLP147= METAR CYYN 131100Z AUTO 13009KT 9SM CLR 11/03 A2982 RMK SLP093= METAR CYZH 131100Z AUTO 10002KT 9SM CLR 03/02 A2993 RMK SLP150=  607 SARE20 FMEE 131100 METAR FMEE 131100Z 10017KT 9999 FEW025 SCT048 24/14 Q1021 NOSIG= FMEP 131100Z 12019KT 9999 FEW040 SCT066 BKN100 23/15 Q1022=  671 SAUS46 KSEW 131107 MTRUIL SPECI KUIL 131106Z AUTO 00000KT 5SM BR CLR 09/08 A3015 RMK AO2 TSNO  733 SAFJ31 NFFN 131100 METAR NFFN 131100Z 09004KT 40KM SCT028 BKN050 26/23 Q1016 NOSIG RMK RR NIL=  742 SAUS43 KDTX 131107 MTRDTW SPECI KDTW 131106Z 16004KT 3SM FEW005 BKN010 OVC022 18/17 A2980 RMK AO2 SFC VIS 7 $  757 SAAU31 AMMC 131100 CCA METAR YPDN 131100Z 10005KT CAVOK 25/14 Q1014 NOSIG=  756 SAVN26 SVMC 131100 METAR SVMC 131100Z 27005KT 9999 SCT010 CB/S BKN090 23/20 Q1011= METAR SVJC 131100Z 10015KT 9999 FEW015 BKN050 XX/XX Q1011= METAR SVSA 131100Z 00000KT 9999 BKN020 XX/XX Q1015= METAR SVMD 131100Z NIL= METAR SVPM 131100Z NIL= METAR SVSZ 131100Z 24005KT 9999 BKN025 XX/XX Q1011= METAR SVVG 131100Z NIL= METAR SVCR 131100Z NIL= METAR SVLF 131100Z NIL=  799 SACN97 KWBC 131108 CXKT RMK NIL= CXKT RMK NIL= CXAT RMK NIL= CXBK RMK NIL= CXBO RMK NIL= CXBP RMK NIL= CXCA RMK NIL= CXCH RMK NIL= METAR CXCK 131100Z AUTO 33002KT 05/ RMK AO1 T0051= CXCY RMK NIL= CXDE RMK NIL= METAR CXDI 131100Z AUTO 20008KT 18/17 RMK AO1 1PAST HR 5002 SLP085 P0000 T01810169 50062= CXDW RMK NIL= METAR CXEA 131100Z AUTO 13001KT 08/07 RMK AO1 SLP131 T00800071 58006= CXEC RMK NIL= CXEG RMK NIL= CXET RMK NIL= CXGH RMK NIL= CXHA RMK NIL= CXHF RMK NIL= METAR CXIB 131100Z AUTO 33006KT 15/09 RMK AO1 T01500085= CXLC RMK NIL= CXLL RMK NIL= CXMD RMK NIL= CXMI RMK NIL= CXMM RMK NIL= CXMY RMK NIL= CXNM RMK NIL= METAR CXOX 131100Z AUTO 35001KT 03/02 RMK AO1 SLP144 T00320022 58008= CXPV RMK NIL= CXQA RMK NIL= CXQT RMK NIL= METAR CXRH 131100Z AUTO 06002KT 09/08 RMK AO1 T00930078= CXSH RMK NIL= METAR CXSR 131100Z AUTO 30007KT 06/M01 RMK AO1 SLP149 T00631012 58006= METAR CXSW 131100Z AUTO 08026G35KT 12/12 RMK AO1 0PAST HR M40 M P0001 T01230123 50180= CXTN RMK NIL= METAR CXTP 131100Z AUTO 07009G18KT 11/10 RMK AO1 8PAST HR M19 M P0000 T01100101 50008= CXTV RMK NIL= CXWN RMK NIL= METAR CXZU 131100Z AUTO 25004KT 07/07 RMK AO1 SLP160 T00730073 56015= METAR CXCK 131100Z AUTO 33002KT 05/ RMK AO1 T0051= CXCY RMK NIL= CXDE RMK NIL= METAR CXDI 131100Z AUTO 20008KT 18/17 RMK AO1 1PAST HR 5002 SLP085 P0000 T01810169 50062= CXDW RMK NIL= METAR CXEA 131100Z AUTO 13001KT 08/07 RMK AO1 SLP131 T00800071 58006= CXEC RMK NIL= CXEG RMK NIL= CXET RMK NIL= CXGH RMK NIL= CXHA RMK NIL= CXHF RMK NIL= METAR CXIB 131100Z AUTO 33006KT 15/09 RMK AO1 T01500085= CXLC RMK NIL= CXLL RMK NIL= CXMD RMK NIL= CXMI RMK NIL= CXMM RMK NIL= CXMY RMK NIL= CXNM RMK NIL= METAR CXOX 131100Z AUTO 35001KT 03/02 RMK AO1 SLP144 T00320022 58008= CXPV RMK NIL= CXQA RMK NIL= CXQT RMK NIL= METAR CXRH 131100Z AUTO 06002KT 09/08 RMK AO1 T00930078= CXSH RMK NIL= METAR CXSR 131100Z AUTO 30007KT 06/M01 RMK AO1 SLP149 T00631012 58006= METAR CXSW 131100Z AUTO 08026G35KT 12/12 RMK AO1 0PAST HR M40 M P0001 T01230123 50180= CXTN RMK NIL= METAR CXTP 131100Z AUTO 07009G18KT 11/10 RMK AO1 8PAST HR M19 M P0000 T01100101 50008= CXTV RMK NIL= CXWN RMK NIL= METAR CXZU 131100Z AUTO 25004KT 07/07 RMK AO1 SLP160 T00730073 56015= METAR CXBK 131100Z AUTO 12009KT 12/08 RMK AO1 T01200076= CXGH RMK NIL= CXHA RMK NIL= CXHF RMK NIL= METAR CXIB 131100Z AUTO 33006KT 15/09 RMK AO1 T01500085= CXLC RMK NIL= CXLL RMK NIL= CXMD RMK NIL= CXMI RMK NIL= CXMM RMK NIL= CXMY RMK NIL= CXNM RMK NIL= METAR CXOX 131100Z AUTO 35001KT 03/02 RMK AO1 SLP144 T00320022 58008= CXPV RMK NIL= CXQA RMK NIL= CXQT RMK NIL= METAR CXRH 131100Z AUTO 06002KT 09/08 RMK AO1 T00930078= CXSH RMK NIL= METAR CXSR 131100Z AUTO 30007KT 06/M01 RMK AO1 SLP149 T00631012 58006= METAR CXSW 131100Z AUTO 08026G35KT 12/12 RMK AO1 0PAST HR M40 M P0001 T01230123 50180= CXTN RMK NIL= METAR CXTP 131100Z AUTO 07009G18KT 11/10 RMK AO1 8PAST HR M19 M P0000 T01100101 50008= CXTV RMK NIL= CXWN RMK NIL= METAR CXZU 131100Z AUTO 25004KT 07/07 RMK AO1 SLP160 T00730073 56015= METAR CXBK 131100Z AUTO 12009KT 12/08 RMK AO1 T01200076= CXGH RMK NIL= CXHA RMK NIL= CXHF RMK NIL= METAR CXIB 131100Z AUTO 33006KT 15/09 RMK AO1 T01500085= CXLC RMK NIL= CXLL RMK NIL= CXMD RMK NIL= CXMI RMK NIL= CXMM RMK NIL= CXMY RMK NIL= CXNM RMK NIL= METAR CXOX 131100Z AUTO 35001KT 03/02 RMK AO1 SLP144 T00320022 58008= CXPV RMK NIL= CXQA RMK NIL= CXQT RMK NIL= METAR CXRH 131100Z AUTO 06002KT 09/08 RMK AO1 T00930078= CXSH RMK NIL=  800 SAAF32 KWBC 131100 RRA METAR FMNM 131100Z 22008KT CAVOK 33/18 Q1014=  801 SACN88 KWBC 131108 CAHR RMK NIL= CERM RMK NIL= METAR CWAR 131100Z AUTO 07032G41KT 12/12 RMK AO1 8PAST HR R+10/ PRESFR 8115 PK WND 06042/1031 SLP911 P0001 T01240116 50102= METAR CWBK 131100Z AUTO 31022KT 15/12 RMK AO1 PK WND 31025/1002 SLP110 T01470119 56006= CWDA RMK NIL= CWXI RMK NIL= CWZN RMK NIL= METAR CXNP 131100Z AUTO 18003KT 04/04 RMK AO1 SLP149 T00430037 55000= METAR CZCR 131100Z AUTO 22006KT 08/05 RMK AO1 SLP164 T00810046 55002= CZDB RMK NIL= CZSP RMK NIL= CAHR RMK NIL= CERM RMK NIL= METAR CWAR 131100Z AUTO 07032G41KT 12/12 RMK AO1 8PAST HR R+10/ PRESFR 8115 PK WND 06042/1031 SLP911 P0001 T01240116 50102= METAR CWBK 131100Z AUTO 31022KT 15/12 RMK AO1 PK WND 31025/1002 SLP110 T01470119 56006= CWDA RMK NIL= CWXI RMK NIL= CWZN RMK NIL= METAR CXNP 131100Z AUTO 18003KT 04/04 RMK AO1 SLP149 T00430037 55000= METAR CZCR 131100Z AUTO 22006KT 08/05 RMK AO1 SLP164 T00810046 55002= CZDB RMK NIL= CZSP RMK NIL= CWBK RMK NIL=  802 SACN86 KWBC 131108 CWBE RMK NIL= CWBI RMK NIL= CWCU RMK NIL= CWNL RMK NIL= CWPO RMK NIL= CWPS RMK NIL= CWSI RMK NIL= METAR CWWB 131100Z AUTO 19010KT 19/17 RMK AO1 SLP092 T01860172 56015= CWWX RMK NIL= CWWZ RMK NIL= CWWX RMK NIL= CWWZ RMK NIL= CWDQ RMK NIL= METAR CWDV 131100Z AUTO 17001KT 02/02 RMK AO1 SLP156 T00240019 56006= CTAE RMK NIL= CTAL RMK NIL= CTCK RMK NIL= CTCW RMK NIL= METAR CTWN 131100Z AUTO 12004KT 12/10 RMK AO1 T01190104= CWAJ RMK NIL= METAR CWBE 131100Z AUTO 07010KT 14/10 RMK AO1 SLP130 T01370098 56007= CWLS RMK NIL= CWNB RMK NIL= CWNL RMK NIL= METAR CWPC 131100Z AUTO 21022KT 17/13 RMK AO1 5004 PK WND 20027/1017 SLP111 T01740133 50004= CWPS RMK NIL= CWWX RMK NIL= CWHP RMK NIL= CWHP RMK NIL= CWNC RMK NIL= METAR CWNZ 131100Z AUTO 19003KT 01/M01 RMK AO1 SLP138 T00051008 58008=  803 SACN87 KWBC 131108 CWQS RMK NIL= METAR CWRM 131100Z AUTO 30001KT 04/04 RMK AO1 8019 SLP166 T00440040 50002= CWRU RMK NIL= METAR CWRM 131100Z AUTO 30001KT 04/04 RMK AO1 8019 SLP166 T00440040 50002= CWRU RMK NIL= METAR CWCT 131100Z AUTO 02015KT 08/08 RMK AO1 6003 PK WND 03020/1038 SLP161 T00830076 50030= METAR CWLB 131100Z AUTO 15002KT 09/07 RMK AO1 SLP147 T00870073 58009= METAR CWRM 131100Z AUTO 30001KT 04/04 RMK AO1 8019 SLP166 T00440040 50002= CWRU RMK NIL= METAR CWVT 131100Z AUTO 00000KT 07/06 RMK AO1 SLP156 T00690061 58007= METAR CWZW 131100Z AUTO 29003KT 06/04 RMK AO1 SLP244 T00580040 54000= METAR CWZW 131100Z AUTO 29003KT 06/04 RMK AO1 SLP244 T00580040 54000= CWZG RMK NIL= CWME RMK NIL= CWME RMK NIL= CWME RMK NIL= METAR CWLB 131000Z AUTO 22002KT 10/07 RMK AO1 SLP149 T01040074 58006= METAR CWDC 131100Z AUTO 03004KT 01/01 RMK AO1 SLP162 T00110008 51007= METAR CWEH 131100Z AUTO 05010KT 11/04 RMK AO1 SLP092 T01130043 58024= METAR CWKO 131100Z AUTO 25010KT 12/M00 RMK AO1 SLP095 T01181004 56014= METAR CWOY 131100Z AUTO 13005KT 12/08 RMK AO1 SLP114 T01240080 58023= METAR CWEH 131100Z AUTO 05010KT 11/04 RMK AO1 SLP092 T01130043 58024= METAR CWKO 131100Z AUTO 25010KT 12/M00 RMK AO1 SLP095 T01181004 56014= METAR CWOY 131100Z AUTO 13005KT 12/08 RMK AO1 SLP114 T01240080 58023= CWEK RMK NIL= CWEQ RMK NIL= CWJD RMK NIL= METAR CWLP 131100Z AUTO 30012KT 11/11 RMK AO1 SLP233 T01050105 58009= CWPU RMK NIL= CWRO RMK NIL= CWWL RMK NIL= CWWS RMK NIL= CWZG RMK NIL=  804 SAAO31 KWBC 131100 RRB METAR GCFV 131100Z 04014KT 9999 FEW030 27/18 Q1017 NOSIG= GCHI 131100Z 36015KT 9999 FEW010 SCT025 24/18 Q1020 NOSIG= GCLA 131100Z 02014KT 350V060 9999 FEW030 25/16 Q1020 NOSIG= GCLP 131100Z 01018KT 9999 FEW050 26/15 Q1018 NOSIG= GCRR 131100Z 02019KT 350V060 9999 SCT030 28/16 Q1017 NOSIG= GCTS 131100Z 08017KT 9999 FEW025 BKN200 28/16 Q1018 NOSIG= GCXO 131100Z 33016KT 290V020 9999 SCT012 21/14 Q1021 NOSIG= GEML 131100Z 24004KT 190V330 4000 RA FEW012 FEW020CB SCT024 22/21 Q1013=  805 SACN93 KWBC 131108 CWMZ RMK NIL= CWNE RMK NIL= METAR CWNK 131100Z AUTO 32003KT 11/11 RMK AO1 T01070105= METAR CWNM 131100Z AUTO 23007KT 15/09 RMK AO1 SLP099 T01520092 56015= METAR CWNP 131100Z AUTO 12003KT 15/10 RMK AO1 SLP111 T01490101 58001= CWNQ RMK NIL= CWNX RMK NIL= CWOC RMK NIL= METAR CWOD 131100Z AUTO 36001KT M00/M00 RMK AO1 SLP177 T10011001 56003= CWOE RMK NIL= CWOQ RMK NIL= METAR CWPB 131100Z AUTO 09006KT 14/14 RMK AO1 6010 SLP104 T01440144 50027= METAR CWPD 131100Z AUTO 22001KT M00/ RMK AO1 SLP187 T1001 57006= CWPE RMK NIL= CWPF RMK NIL= METAR CWPQ 131100Z AUTO 05003KT 08/ RMK AO1 T0081= CWPR RMK NIL= CWPZ RMK NIL= CWQA RMK NIL=  806 SACN94 KWBC 131108 METAR CWQH 131100Z AUTO 06004KT 03/03 RMK AO1 T00340028= METAR CWQK 131100Z AUTO 28019KT RMK AO1 PK WND 28029/1015= CWQO RMK NIL= METAR CWQP 131100Z AUTO 16022KT 15/13 RMK AO1 9PAST HR 6014 PK WND 15025/1009 SLP132 P0000 T01460133 50075= CWQR RMK NIL= CWQV RMK NIL= METAR CWRC 131100Z AUTO 10002KT 12/08 RMK AO1 SLP155 T01240083 56009= CWRJ RMK NIL= CWRK RMK NIL= METAR CWRT 131100Z AUTO 12002KT 06/04 RMK AO1 T00590035= METAR CWRY 131100Z AUTO 29005KT 10/03 RMK AO1 SLP099 T00950027 57017= METAR CWRZ 131100Z AUTO 34009KT 15/05 RMK AO1 SLP126 T01450053 56004= METAR CWSD 131100Z AUTO 29006KT 11/10 RMK AO1 SLP129 T01120096 56011= CWSG RMK NIL= CWSK RMK NIL= CWSL RMK NIL= CWSP RMK NIL= METAR CWSR 131100Z AUTO 28002KT 09/08 RMK AO1 SLP140 T00870080 55001= METAR CWST 131100Z AUTO 13004KT 06/04 RMK AO1 T00610038= CWRJ RMK NIL= CWRK RMK NIL= METAR CWRT 131100Z AUTO 12002KT 06/04 RMK AO1 T00590035= METAR CWRY 131100Z AUTO 29005KT 10/03 RMK AO1 SLP099 T00950027 57017= METAR CWRZ 131100Z AUTO 34009KT 15/05 RMK AO1 SLP126 T01450053 56004= METAR CWSD 131100Z AUTO 29006KT 11/10 RMK AO1 SLP129 T01120096 56011= CWSG RMK NIL= CWSK RMK NIL= CWSL RMK NIL= CWSP RMK NIL= METAR CWSR 131100Z AUTO 28002KT 09/08 RMK AO1 SLP140 T00870080 55001= METAR CWST 131100Z AUTO 13004KT 06/04 RMK AO1 T00610038= CWRJ RMK NIL= CWRK RMK NIL= METAR CWRT 131100Z AUTO 12002KT 06/04 RMK AO1 T00590035= METAR CWRY 131100Z AUTO 29005KT 10/03 RMK AO1 SLP099 T00950027 57017= METAR CWRZ 131100Z AUTO 34009KT 15/05 RMK AO1 SLP126 T01450053 56004= METAR CWSD 131100Z AUTO 29006KT 11/10 RMK AO1 SLP129 T01120096 56011= CWSG RMK NIL= CWSK RMK NIL= CWSL RMK NIL= CWSP RMK NIL= METAR CWSR 131100Z AUTO 28002KT 09/08 RMK AO1 SLP140 T00870080 55001= METAR CWST 131100Z AUTO 13004KT 06/04 RMK AO1 T00610038= CWND M01/M01 RMK 6002 T10111008= CWND M01/M01 RMK 6002 T10111008= CWND RMK NIL=  807 SACN63 KWBC 131108 CWMT RMK NIL= CZEV RMK NIL= CZFS RMK NIL= CZHY RMK NIL= CZSM RMK NIL=  808 SACN91 KWBC 131108 METAR CWJC 131000Z AUTO 31020KT 05/05 RMK AO1 PK WND 31027/0921 SLP114 T00510046 53014= CWGR RMK NIL= METAR CWGT 131100Z AUTO 32021KT 14/09 RMK AO1 PK WND 32025/1021 SLP194 T01390089 58006= CWGW RMK NIL= CWGX RMK NIL= CWGY RMK NIL= CWHA RMK NIL= METAR CWHC 131100Z AUTO 15/ RMK AO1 T0148= CWHD RMK NIL= CWHH RMK NIL= CWHI RMK NIL= CWHL RMK NIL= CWHM RMK NIL= METAR CWHQ 131100Z AUTO 32001KT 01/01 RMK AO1 T00060006= CWHT RMK NIL= METAR CWHV 131100Z AUTO 18003KT 01/01 RMK AO1 SLP200 T00130013 53001= CWHY RMK NIL= CWIA RMK NIL= CWID RMK NIL= CWIE RMK NIL= METAR CWIG 131100Z AUTO 20006KT RMK AO1 = CWII RMK NIL= CWIJ RMK NIL= CWIN RMK NIL= CWIO RMK NIL= CWIP RMK NIL= METAR CWIS 131100Z AUTO 00000KT M00/M01 RMK AO1 T10021005= METAR CWIT 131100Z AUTO 00000KT 09/09 RMK AO1 T00890089= CWIU RMK NIL= METAR CWIW 131100Z AUTO 12007KT 12/10 RMK AO1 8032 SLP107 T01190098 50004= CWIX RMK NIL= CWIY RMK NIL= METAR CWIZ 131100Z AUTO 08003KT 09/08 RMK AO1 T00940077= METAR CWJB 131100Z AUTO 20003KT 06/05 RMK AO1 T00620051= CWJC RMK NIL= CWJH RMK NIL=  809 SACN97 KWBC 131108 RRA METAR CXSR 131100Z AUTO 30007KT 06/M01 RMK AO1 SLP149 T00631012 58006= METAR CXSW 131100Z AUTO 08026G35KT 12/12 RMK AO1 0PAST HR M40 M P0001 T01230123 50180= CXTN RMK NIL= METAR CXTP 131100Z AUTO 07009G18KT 11/10 RMK AO1 8PAST HR M19 M P0000 T01100101 50008= CXTV RMK NIL= CXWN RMK NIL= METAR CXZU 131100Z AUTO 25004KT 07/07 RMK AO1 SLP160 T00730073 56015= CXSH RMK NIL= METAR CXSR 131100Z AUTO 30007KT 06/M01 RMK AO1 SLP149 T00631012 58006= METAR CXSW 131100Z AUTO 08026G35KT 12/12 RMK AO1 0PAST HR M40 M P0001 T01230123 50180= CXTN RMK NIL= METAR CXTP 131100Z AUTO 07009G18KT 11/10 RMK AO1 8PAST HR M19 M P0000 T01100101 50008= CXTV RMK NIL= CXWN RMK NIL= METAR CXZU 131100Z AUTO 25004KT 07/07 RMK AO1 SLP160 T00730073 56015= CXSH RMK NIL= METAR CXSR 131100Z AUTO 30007KT 06/M01 RMK AO1 SLP149 T00631012 58006= METAR CXSW 131100Z AUTO 08026G35KT 12/12 RMK AO1 0PAST HR M40 M P0001 T01230123 50180= CXTN RMK NIL= METAR CXTP 131100Z AUTO 07009G18KT 11/10 RMK AO1 8PAST HR M19 M P0000 T01100101 50008= CXTV RMK NIL= CXWN RMK NIL= METAR CXZU 131100Z AUTO 25004KT 07/07 RMK AO1 SLP160 T00730073 56015= CXTV RMK NIL= CXWN RMK NIL= METAR CXZU 131100Z AUTO 25004KT 07/07 RMK AO1 SLP160 T00730073 56015=  810 SACN92 KWBC 131108 CWJI RMK NIL= CWJM RMK NIL= CWJO RMK NIL= CWJR RMK NIL= CWJT RMK NIL= CWJU RMK NIL= CWJV RMK NIL= METAR CWJW 131100Z AUTO 35002KT 08/05 RMK AO1 SLP155 T00840052 58009= METAR CWJX 131100Z AUTO 34014KT 12/03 RMK AO1 PK WND 34029/1046 SLP118 T01190032 55002= CWKD RMK NIL= CWKG RMK NIL= METAR CWKH 131100Z AUTO 12/ RMK AO1 T0122= METAR CWKX 131100Z AUTO 18004KT 05/05 RMK AO1 SLP230 T00490046 50002= METAR CWLC 131100Z AUTO 24004KT 11/ RMK AO1 T0112= METAR CWLE 131100Z AUTO 07004KT 10/07 RMK AO1 SLP102 T01040068 56032= METAR CWLM 131100Z AUTO 02002KT 11/11 RMK AO1 T01120112= METAR CWLU 131100Z AUTO 21004KT RMK AO1 = CWMJ RMK NIL= CWMM RMK NIL= CWMQ RMK NIL= METAR CWLM 131100Z AUTO 02002KT 11/11 RMK AO1 T01120112= METAR CWLU 131100Z AUTO 21004KT RMK AO1 = CWMJ RMK NIL= CWMM RMK NIL= CWMQ RMK NIL= METAR CWLM 131100Z AUTO 02002KT 11/11 RMK AO1 T01120112= METAR CWLU 131100Z AUTO 21004KT RMK AO1 = CWMJ RMK NIL= CWMM RMK NIL= CWMQ RMK NIL= CWMQ RMK NIL=  811 SACN96 KWBC 131108 METAR CWXL 131100Z AUTO 15007KT 11/05 RMK AO1 T01140052= METAR CWYJ 131100Z AUTO 22002KT 11/11 RMK AO1 SLP187 T01120107 56007= METAR CWYL 131100Z AUTO 24013KT 08/04 RMK AO1 2PAST HR 5001 PK WND 26022/1010 SLP144 P0000 T00780042 50002= CWYY RMK NIL= CWZA RMK NIL= CWZL RMK NIL= METAR CWZO 131100Z AUTO 19006KT RMK AO1 = CWZQ RMK NIL= METAR CWZS 131100Z AUTO 17002KT 02/02 RMK AO1 SLP175 T00160016 55002= CWZV RMK NIL= CXHM RMK NIL= CXKA RMK NIL= CXKE RMK NIL= CXHM RMK NIL= CXKA RMK NIL= CXKE RMK NIL= CXHM RMK NIL= CXKA RMK NIL= CXKE RMK NIL= CXHM RMK NIL= CXKA RMK NIL= CXKE RMK NIL= CXHM RMK NIL= CXKA RMK NIL= CXKE RMK NIL=  812 SACN90 KWBC 131108 CWEB RMK NIL= CWEE RMK NIL= CWEL RMK NIL= METAR CWEW 131100Z AUTO 02004KT 07/06 RMK AO1 6004 SLP192 T00740059 50002= METAR CWEZ 131100Z AUTO 21006KT 15/12 RMK AO1 SLP182 T01450124 58005= CWFF RMK NIL= CWFJ RMK NIL= METAR CWFQ 131100Z AUTO 15004KT 11/07 RMK AO1 T01080069= CWGB RMK NIL= METAR CWGD 131100Z AUTO 12003KT 16/15 RMK AO1 5003 SLP090 T01560150 50017= CWGH RMK NIL= CWGL RMK NIL= METAR CWGM 131100Z AUTO 20001KT 04/02 RMK AO1 T00390016= METAR CWGP 131100Z AUTO 07002KT 11/09 RMK AO1 SLP147 T01050089 56005= METAR CWEW 131100Z AUTO 02004KT 07/06 RMK AO1 6004 SLP192 T00740059 50002= METAR CWEZ 131100Z AUTO 21006KT 15/12 RMK AO1 SLP182 T01450124 58005= CWFF RMK NIL= CWFJ RMK NIL= METAR CWFQ 131100Z AUTO 15004KT 11/07 RMK AO1 T01080069= CWGB RMK NIL= METAR CWGD 131100Z AUTO 12003KT 16/15 RMK AO1 5003 SLP090 T01560150 50017= CWGH RMK NIL= CWGL RMK NIL= METAR CWGM 131100Z AUTO 20001KT 04/02 RMK AO1 T00390016= METAR CWGP 131100Z AUTO 07002KT 11/09 RMK AO1 SLP147 T01050089 56005=  813 SACN59 KWBC 131108 CPBT RMK NIL= CPEH RMK NIL= CPFI RMK NIL= CPIR RMK NIL= CPRO RMK NIL= CPRY RMK NIL= CPST RMK NIL= CPSV RMK NIL= CPXL RMK NIL= CXAK RMK NIL= CXDB RMK NIL= CXFM RMK NIL= CXHD RMK NIL= CXHP RMK NIL= CXMG RMK NIL= CXMO RMK NIL= CXOL RMK NIL= CXPL RMK NIL= CXSC RMK NIL= CXSL RMK NIL= CXSP RMK NIL= CXTH RMK NIL= CXVM RMK NIL= CXVW RMK NIL= CZMU RMK NIL= CZOL RMK NIL= CZPS RMK NIL=  814 SACN98 KWBC 131108 CXAF RMK NIL= CXAG RMK NIL= CXAJ RMK NIL= CXBA RMK NIL= CXBR RMK NIL= CXBW RMK NIL= CXCD RMK NIL= CXCP RMK NIL= CXCS RMK NIL= CXDK RMK NIL= CXDP RMK NIL= CXFR RMK NIL= CXHR RMK NIL= CXKI RMK NIL= CXKM RMK NIL= CXLB RMK NIL= CXMN RMK NIL= CXOY RMK NIL= CXPA RMK NIL= CXPC RMK NIL= CXRB RMK NIL= CXRL RMK NIL= CXSE RMK NIL= CXTD RMK NIL= METAR CXTO 131100Z AUTO 16/16 RMK AO1 2PAST HR 6014 SLP102 P0000 T01640164 50060= CXVN RMK NIL= CXWB RMK NIL= CXWM RMK NIL= CXYH RMK NIL= CXZV RMK NIL= CZKD RMK NIL= CZLW RMK NIL= CZMJ RMK NIL= CZQH RMK NIL= CZQZ RMK NIL= CZRP RMK NIL= CZTB RMK NIL= CZZJ RMK NIL= CZZP RMK NIL= CZZP RMK NIL=  815 SAAS32 KWBC 131100 RRA METAR RKPC 131100Z 10011KT 9999 SCT025 BKN130 22/17 Q1018 NOSIG= RKPK 131100Z 03008KT 9999 BKN050 20/16 Q1019 NOSIG= RKSS 131100Z 32003KT CAVOK 19/14 Q1020 NOSIG=  816 SACN85 KWBC 131108 CWDO RMK NIL= CWHO RMK NIL= METAR CWSS 131100Z AUTO 29002KT 07/05 RMK AO1 SLP177 T00690045 53004= CWDO RMK NIL= CWHO RMK NIL= METAR CWSS 131100Z AUTO 29002KT 07/05 RMK AO1 SLP177 T00690045 53004= CWBV RMK NIL= CWBY RMK NIL= CWRA RMK NIL= CWRN RMK NIL= METAR CWSF 131100Z AUTO 17005KT 07/04 RMK AO1 SLP157 T00720043 56004= CWRN RMK NIL= METAR CWSF 131100Z AUTO 17005KT 07/04 RMK AO1 SLP157 T00720043 56004= CWRN RMK NIL= METAR CWSF 131100Z AUTO 17005KT 07/04 RMK AO1 SLP157 T00720043 56004= CWWE RMK NIL= CWWE RMK NIL= METAR CWDM 131100Z AUTO 01009KT 13/08 RMK AO1 SLP102 T01300078 56020= METAR CWDM 131100Z AUTO 01009KT 13/08 RMK AO1 SLP102 T01300078 56020= CWHO RMK NIL= CWPK RMK NIL= METAR CWWE 131100Z AUTO 28005KT 10/07 RMK AO1 SLP152 T00980072 50002= CYGS RMK NIL= CWEF RMK NIL= METAR CWEP 131100Z AUTO 33019G24KT 15/13 RMK AO1 PK WND 33024/1030 SLP094 T01500125 56010= CWER RMK NIL= CWER RMK NIL= METAR CWNH 131100Z AUTO 18003KT 08/05 RMK AO1 SLP182 T00760053 58001=  817 SAXX60 KWBC 131100 RRE METAR KLFI 131059Z 00000KT 7SM SCT030 BKN100 14/14 A3007 RMK SLP185= KPAM 131055Z 10003KT 7SM SCT030 BKN050 BKN100 22/22 A2986 RMK SLP115= KPAM 131055Z 10003KT 7SM SCT030 BKN050 BKN100 22/22 A2986 RMK SLP115=  818 SACN82 KWBC 131108 CMBR RMK NIL= CMCT RMK NIL= CMCW RMK NIL= CMFM RMK NIL= CMGB RMK NIL= METAR CMHB 131100Z AUTO 05003KT 10/08 RMK AO1 T01010075= METAR CMHN 131100Z AUTO 03001KT 06/06 RMK AO1 T00560056= CMHW RMK NIL= CMLA RMK NIL= METAR CMLI 131100Z AUTO 09002KT 06/06 RMK AO1 T00560056= CMPD RMK NIL= CMPL RMK NIL= CMRI RMK NIL= CMRU RMK NIL= METAR CMRY 131100Z AUTO 11001KT 09/09 RMK AO1 T00920091= CMSB RMK NIL= CMSC RMK NIL= CMSX RMK NIL= CMWD RMK NIL= CMYT RMK NIL= METAR CMHB 131100Z AUTO 05003KT 10/08 RMK AO1 T01010075= METAR CMHN 131100Z AUTO 03001KT 06/06 RMK AO1 T00560056= CMHW RMK NIL= CMLA RMK NIL= METAR CMLI 131100Z AUTO 09002KT 06/06 RMK AO1 T00560056= CMPD RMK NIL= CMPL RMK NIL= CMRI RMK NIL= CMRU RMK NIL= METAR CMRY 131100Z AUTO 11001KT 09/09 RMK AO1 T00920091= CMSB RMK NIL= CMSC RMK NIL= CMSX RMK NIL= CMWD RMK NIL= CMYT RMK NIL=  819 SACN89 KWBC 131108 CWAF RMK NIL= CWAQ RMK NIL= METAR CWAV 131100Z AUTO 00000KT 08/05 RMK AO1 SLP155 T00800054 58018= METAR CWBA 131100Z AUTO 15001KT 13/09 RMK AO1 T01320089= CWBG RMK NIL= CWBO RMK NIL= CWBS RMK NIL= CWBT RMK NIL= CWBZ RMK NIL= CWCF RMK NIL= CWCG RMK NIL= CWCI RMK NIL= METAR CWCJ 131100Z AUTO 07007KT 05/05 RMK AO1 SLP141 T00450045 57009= METAR CWCO 131100Z AUTO 13004KT 15/14 RMK AO1 6012 SLP098 T01450142 50022= CWCQ RMK NIL= CWDD RMK NIL= CWDF RMK NIL= CWDJ RMK NIL= CWDK RMK NIL= CWDT RMK NIL= CWDZ RMK NIL=  820 SAAW33 KWBC 131100 RRA METAR OMAA 131100Z 32010KT CAVOK 41/20 Q1003 A2962 NOSIG= OMAL 131100Z 21004KT 150V280 9999 FEW045 43/16 Q1004 A2965= OMDB 131100Z 33014KT 300V360 8000 SKC 37/26 Q1002 NOSIG= OMFJ 131100Z 08006KT CAVOK 38/14 Q1003 A2964= OMSJ 131100Z 33011KT 290V360 8000 SKC 40/19 Q1003=  821 SACA32 KWBC 131100 RRA METAR TJMZ 131102Z 131050KT 08004KT 10SM SKC 22/21 A2991=  822 SACN66 KWBC 131108 CWBU RMK NIL= CWIK RMK NIL= CWIK RMK NIL=  823 SACN95 KWBC 131108 CWTA RMK NIL= CWTG RMK NIL= CWTN RMK NIL= CWTT RMK NIL= METAR CWTY 131100Z AUTO 01004KT 06/05 RMK AO1 SLP191 T00570053 56001= CWUS RMK NIL= CWUX RMK NIL= METAR CWVF 131100Z AUTO 28024KT 15/ RMK AO1 PK WND 29029/1047 T0149= METAR CWVI 131100Z AUTO 29003KT 09/08 RMK AO1 6020 SLP155 T00860077 50104= CWVN RMK NIL= CWVP RMK NIL= CWVQ RMK NIL= CWVU RMK NIL= METAR CWVV 131100Z AUTO 00000KT 14/11 RMK AO1 SLP180 T01390105 58007= CWVY RMK NIL= CWVZ RMK NIL= METAR CWWA 131100Z AUTO 30001KT 14/12 RMK AO1 SLP173 T01400120 56008= CWWF RMK NIL= CWWK RMK NIL= METAR CWXA 131100Z AUTO 05002KT 08/06 RMK AO1 SLP155 T00790057 58012= CWXC RMK NIL= CWVU RMK NIL= METAR CWVV 131100Z AUTO 00000KT 14/11 RMK AO1 SLP180 T01390105 58007= CWVY RMK NIL= CWVZ RMK NIL= METAR CWWA 131100Z AUTO 30001KT 14/12 RMK AO1 SLP173 T01400120 56008= CWWF RMK NIL= CWWK RMK NIL= METAR CWXA 131100Z AUTO 05002KT 08/06 RMK AO1 SLP155 T00790057 58012= CWXC RMK NIL=  824 SACN31 KWBC 131100 RRA METAR CYAW 131100Z 32009KT 15SM FEW025 FEW270 12/09 A2993 RMK CU1CI1 SLP137= CYBG 131100Z 20004KT 25SM MIFG FEW240 03/02 A3009 RMK CI1 FG BANK OVR RIVER SLP194= CYEG 131100Z 28004KT 15SM FEW020 BKN048 BKN062 BKN150 08/08 A3000 RMK SC1SC6SC1AC1 SLP169= CYFB 131100Z 14005KT 30SM BKN024 OVC040 06/05 A2931 RMK SC7SC1 VIA ZNB FIC SLP928= CYFC 131100Z 23005KT 15SM VCFG FEW070 FEW250 04/04 A3003 RMK AC1CI0 SLP169= CYGL 131100Z 17010KT 15SM FEW150 SCT200 BKN240 08/05 A2985 RMK AC1CI1CI0 SLP114= CYHZ 131100Z 32011KT 15SM FEW270 11/09 A2993 RMK CI0 SLP136= CYJT 131100Z 35012KT 15SM BKN024 OVC100 14/06 A2972 RMK SC6AC2 SLP065= CYKL 131100Z AUTO 25005KT 9SM CLR 08/04 A2991 RMK SLP143= CYMH 131100Z 30002KT 15SM OVC120 10/07 A2986 RMK AC8 SLP111= CYMX 131100Z 05003KT 20SM FEW100 OVC240 08/04 A3006 RMK AC2CI2 SLP181= CYOW 131100Z 09005KT 15SM -RA BKN049 11/08 A3002 RMK SC7 VRY LGT RA SLP166= CYPL 131100Z 25004KT 15SM SCT080 12/09 A2988 RMK AC3 SLP125= CYQB 131100Z 31002KT 15SM SCT260 05/02 A3010 RMK CI1 SLP195= CYQG 131100Z 23004KT 2 1/2SM BR SCT003 BKN026 OVC140 19/18 A2980 RMK SF4SC2AC1 SLP090= CYQM 131100Z 23008KT 15SM FEW120 05/04 A2997 RMK AC1 SLP151= CYQQ 131100Z 33014KT 20SM FEW050 FEW240 13/11 A3009 RMK SC1CI1 SLP191= CYQX 131100Z 06014G19KT 10SM -RA SCT007 BKN082 OVC120 10/09 A2971 RMK SF3AC4AS1 SLP065= CYQY 131100Z 34019G26KT 10SM -SHRA BKN057 OVC078 13/09 A2969 RMK SC5AS3 VIS NW 15 SLP055= CYRB 131100Z 32007KT 15SM FEW006 SCT120 SCT220 M06/M07 A2992 RMK SC1AC1CI0 SLP141= CYSJ 131100Z 01005KT 15SM FEW260 06/05 A3001 RMK CI0 SLP166= CYTE 131100Z AUTO 35007G15KT 9SM OVC008 04/03 A2938 RMK SLP953= CYTL 131100Z AUTO 30007KT 6SM CLR 11/07 A2984 RMK SLP111= CYTR 131100Z 13005KT 3SM -RA BR BKN005 OVC016 15/14 A2990 RMK SF6NS2 SLP126= CYUL 131100Z 03004KT 15SM FEW015 SCT180 BKN210 11/08 A3006 RMK SF1AC2CS3 SLP180= CYUY 131100Z 13004KT 15SM FEW050 SCT090 BKN150 BKN250 11/08 A2999 RMK SC2AC2AC1CI2 SLP160= CYVR 131100Z 30018KT 20SM BKN060 BKN220 15/11 A3006 RMK SC5CI1 SLP181= CYWG 131100Z 06004KT 12SM FEW120 11/10 A2991 RMK AC1 SLP129= CYWK 131100Z 18003KT 15SM MIFG SCT290 04/03 A3000 RMK CI0 SLP172= CYXU 131100Z 21006KT 2SM BR OVC003 18/18 A2981 RMK FG1SF7 SLP094= CYXX 131100Z 22005KT 15SM BKN045 14/10 A3007 RMK SC5 SLP185= CYXY 131100Z 28004KT 20SM -SHRA OVC038 06/04 A3029 RMK SC8 SLP288= CYYC 131100Z 32008KT 15SM BKN013 OVC090 08/06 A3000 RMK SC6AC2 SLP167= CYYJ 131100Z 00000KT 30SM SCT037 BKN052 BKN250 12/11 A3008 RMK SC4SC2CS1 SLP186= CYYQ 131100Z 26011G16KT 15SM FEW100 FEW210 08/08 A2975 RMK AC1CI2 SLP075= CYYR 131100Z 27006KT 15SM FEW270 07/04 A2992 RMK CI1 SLP133= CYYZ 131100Z 15007KT 2 1/2SM -RA BR OVC002 16/16 A2982 RERA RMK NS8 SLP100= CYZF 131100Z 01006KT 15SM OVC051 06/03 A3006 RMK SC8 SLP189= CYZV 131100Z 00000KT 30SM SKC 06/05 A3000 RMK SLP160= CYZX 131100Z 23005KT 15SM FEW250 08/05 A3000 RMK CI0 WNDY HILL 30010KT SLP158= CYZY 131100Z AUTO 00000KT 9SM CLR 02/01 A3005 RMK SLP193= CZBF 131100Z 00000KT 15SM MIFG FEW250 08/07 A2998 RMK CI1 SLP153=  826 SACN31 KWBC 131100 CCA METAR CYVP 131100Z CCA 21005KT 15SM BKN050 BKN220 13/07 A2970 RMK SC6CI1 SLP057=  827 SAUS70 KWBC 131108 METAR KDQH 131103Z AUTO 14003KT 10SM OVC048 22/20 A2994 RMK AO1= KHRJ 131102Z AUTO 00000KT 10SM 16/14 A3006 RMK AO2= KMFV 131103Z AUTO 07003KT 13/13 A3010 RMK AO2= KMWO 131103Z AUTO 22005KT 3SM BR OVC005 22/22 A2984 RMK AO2= KRCZ 131103Z AUTO 10SM OVC090 18/15 A3004 RMK AO2 PWINO= KTDF 131103Z AUTO 00000KT 10SM OVC080 16/14 A3008 RMK AO1= KUKF 131102Z AUTO 00000KT 1 1/2SM BKN003 OVC006 18/17 A3007 RMK AO1= KFDK 131103Z AUTO 15003KT 10SM -DZ SCT029 OVC038 14/12 A3010 RMK AO2= KOCW 131104Z AUTO 00000KT 10SM CLR 15/11 A3007 RMK AO2= KTNB 131106Z AUTO 00000KT 7SM RA OVC009 15/14 A3008 RMK AO2 P0001= TJMZ 131102Z 131050KT 08004KT 10SM SKC 22/21 A2991= K4A9 131105Z AUTO 00000KT 7SM BKN009 OVC014 21/19 A2992 RMK AO2= KRHP 131105Z AUTO 00000KT 7SM DZ 18/17 A3000 RMK AO2= K11R 131107Z AUTO 36003KT 10SM SCT100 22/19 A2997 RMK AO2= KDNV 131103Z AUTO 26007KT 7SM VCTS OVC006 14/14 A2984 RMK AO2 LTG DSNT N AND NW= KERV 131104Z AUTO 29004KT 10SM CLR 19/18 A3005 RMK AO2= KFEP 131106Z AUTO 34007KT 7SM OVC004 17/15 A2991 RMK AO2 LTG DSNT E AND SE= KHQZ 131104Z AUTO 01006KT 10SM CLR 17/11 A3005 RMK AO2= KINJ 131101Z AUTO 34005KT 10SM CLR 17/13 A3004 RMK AO2=  828 SACA35 KWBC 131100 RRA METAR MGPB 131100Z 00000KT 9999 SCT017 BKN080 24/23 Q1012= MGSJ 131100Z 00000KT CAVOK 24/23 Q1012 SCT200= MPBO 131100Z 00000KT 9999 FEW020 BKN090 25/24 Q1012 2988= MPCH 131100Z 00000KT 9999 FEW030 SCT100 22/22 Q1012 2982= MPMG 131100Z 00000KT 9000 FEW016 SCT090 BKN300 25/24 Q1011= MROC 131100Z 08004KT CAVOK 18/16 A2997=  829 SPUS41 KWBC 131108 SPECI KCRQ 131104Z AUTO 00000KT 5SM BR OVC006 19/17 A2987=  830 SABZ42 KWBC 131100 CCA METAR SBPK 131100Z 14003KT 9000 -RA FEW020 OVC070 11/11 Q1019 RETS=  831 SAUS70 KWBC 131100 RRH METAR KL75 131100Z AUTO 00000KT 10SM CLR 22/21 A2992 RMK AO2 LTG DSNT SE= KLNP 131100Z AUTO 17007KT 4SM SCT008 BKN029 OVC065 16/14 A3000 RMK AO1= KMTV 131100Z AUTO 00000KT 4SM -RA SCT026 BKN031 OVC055 17/16 A3009 RMK AO2= KOKV 131100Z AUTO 16005KT 5SM RA BKN019 OVC033 15/15 A3005 RMK AO2 P0001= KOMH 131100Z AUTO 18003KT 10SM OVC038 15/13 A3008 RMK AO1= KPTB 131100Z AUTO 00000KT 10SM BKN120 15/13 A3009 RMK AO2= KRMN 131100Z AUTO 00000KT 10SM OVC046 14/12 A3008 RMK AO2= KRSN 131100Z AUTO 35003KT 10SM SCT050 17/ A2996 RMK AO2= K3I2 131100Z AUTO 00000KT 3SM RA SCT007 OVC023 18/16 A2991 RMK AO2= KPSK 131100Z AUTO 00000KT 4SM BR BKN024 OVC029 16/14 A3008 RMK AO2 P0001= KVJI 131100Z AUTO 05006KT 7SM SCT028 BKN047 OVC050 16/14 A3001 RMK AO2= KW22 131100Z AUTO 00000KT 10SM OVC028 16/15 A2999 RMK A02 P000=  832 SPUS70 KWBC 131108 SPECI PALG 131059Z AUTO 08003KT 1 3/4SM BR BKN003 04/03 A3044 RMK AO2 TSNO $= KBVO 131104Z 00000KT 1SM BKN090 07/06 A3009 RMK AO2= KCHO 131104Z 17003KT 10SM BKN030 OVC035 14/12 A3007 RMK AO2= KEST 131104Z AUTO 00000KT 1/4SM FG FEW001 BKN010 06/04 A3004 RMK AO2= KLVS 131104Z AUTO 34005KT 3/4SM BR VV001 09/09 A3029 RMK AO2 VIS M1/4V2 1/2= KPNC 131104Z AUTO 00000KT 1 1/2SM BR CLR 09/09 A3009 RMK AO2 $= KTOI 131104Z AUTO 00000KT 7SM BKN005 BKN019 BKN034 23/22 A2989 RMK AO2 RAE1054 CIG 003V011= KBJJ 131104Z AUTO 18009KT 7SM -RA OVC007 17/16 A2987 RMK AO2 CIG 004V011 P0000= KERI 131104Z 18011KT 8SM -RA BKN020 BKN050 OVC060 18/16 A2985 RMK AO2 P0001= KIAG 131104Z 19009KT 5SM -RA BR SCT002 OVC020 17/14 A2985 RMK AO2 VIS NW 2 1/2 RCRNR P0001= KJXN 131104Z 04003KT 2 1/2SM BR SCT025 OVC045 17/16 A2980 RMK AO2 PNO $= KCOT 131105Z AUTO 00000KT 1SM BR SCT001 OVC046 22/22 A2998 RMK AO2 VIS 3/4V2 1/2 $= KGZH 131105Z AUTO 00000KT 10SM BKN009 OVC027 23/22 A2989 RMK AO2 CIG 006V011= KMQY 131106Z AUTO 31009KT 9SM OVC008 19/18 A2993 RMK AO2 CIG 005V011 RAE04 P0000= KMSL 131105Z AUTO 26003KT 4SM BR OVC009 21/20 A2992 RMK AO2 CIG 006V013=  833 SAIO31 KWBC 131100 RRA METAR FMEE 131100Z 10017KT 9999 FEW025 SCT048 24/14 Q1021 NOSIG= FMMI 131100Z 11009KT 9999 FEW023 24/08 Q1024 NOSIG= FMMT 131100Z 20012KT 9999 VCSH SCT017 26/18 Q1022= FSIA 131102Z 12010KT 9999 BKN017 SCT080 28/23 Q1012 NOSIG= WBKK 131100Z 09004KT 9999 FEW014 SCT140 BKN270 26/24 Q1010 NOSI G=  834 SACA33 KWBC 131100 RRA METAR TFFF 131100Z 00000KT 9999 FEW020TCU BKN300 26/25 Q1013 NOSIG= TLPC 131100Z 14007G22 4000 -TSRA SCT014CB BKN260 26/25 Q1014= TLPL 131100Z 10010KT 9999 -TSRA FEW016CB SCT018 BKN080 27/25 Q1013=  835 SAEM31 KWBC 131100 RRC METAR LYBE 131100Z 12011KT CAVOK 25/09 Q1022 NOSIG= LYNI 131100Z VRB01KT 9999 FEW047 25/10 Q1023 NOSIG= LYPG 131100Z VRB02KT 9999 FEW040 26/13 Q1022 NOSIG= LYTV 131100Z 17005KT 090V240 9999 FEW050 28/13 Q1021 NOSIG=  836 SAUS80 KWBC 131100 RRD METAR KHMS 131050Z 30013KT 15SM SKC 19/10 A2991 RMK SLP127 T01940097 RSNK 15.3/05005KT=  837 SACA45 KWBC 131100 RRA METAR MGHT 131100Z 00000KT 9999 OVC012 14/14 QFE 817.0=  838 SPUS80 KWBC 131108 SPECI KCRQ 131104Z AUTO 00000KT 5SM BR OVC006 19/17 A2987 RMK AO2= KFNT 131105Z 00000KT 1SM -RA BR OVC002 17/17 A2981 RMK AO2 P0002= KUIL 131106Z AUTO 00000KT 5SM BR CLR 09/08 A3015 RMK AO2 TSNO=  839 SAFR32 KWBC 131100 RRB METAR LFSF 131100Z 19005KT 150V240 CAVOK 26/17 Q1015=  842 SPXX60 KWBC 131108 SPECI KSVN 131101Z 24005KT 3SM -RA BR FEW011 BKN022 OVC060 22/22 A2997 RMK WR//= KNHK 131105Z 18004KT 7SM -RA SCT020 BKN100 OVC250 17/13 A3009 RMK AO2 RAB04 P0000 $=  843 SAEE31 KWBC 131100 RRB METAR UMII 131100Z 26005G08MPS P6000 SCT023 19/12 Q1024 24000070 NOSIG= UMMM 131100Z 28005MPS 9999 SCT040 21/12 Q1027 30000060 NOSIG RMK QFE750= UMMS 131100Z 29003MPS 9999 SCT036 19/12 Q1027 31000070 NOSIG=  844 SAFR41 KWBC 131100 RRA METAR LFSC 131100Z 16003KT 110V200 9999 FEW050CB FEW050 27/15 Q1016=  848 SAKO31 KWBC 131100 RRA METAR RKNY 131100Z 24003KT 9999 SCT030 18/14 Q1023 NOSIG= RKPC 131100Z 10011KT 9999 SCT025 BKN130 22/17 Q1018 NOSIG= RKPK 131100Z 03008KT 9999 BKN050 20/16 Q1019 NOSIG= RKSI 131100Z 30006KT CAVOK 23/19 Q1020 NOSIG= RKSS 131100Z 32003KT CAVOK 19/14 Q1020 NOSIG= RKTN 131100Z 13003KT 9999 BKN040 20/15 Q1021 NOSIG= RKTU 131100Z 12002KT 9999 FEW040 23/17 Q1019 NOSIG=  849 SAEW31 KWBC 131100 RRA METAR LPAZ 131100Z 33014KT 9999 FEW018 SCT200 24/20 Q1024= LPPD 131100Z 35013KT 9999 FEW006 SCT012 BKN025 22/18 Q1023=  851 SAJP31 KWBC 131100 RRA METAR RJAA 131100Z 03008KT 9999 -RA FEW005 BKN008 BKN040 19/18 Q1018 BECMG BKN010 BKN020 RMK 1ST005 6ST008 7SC040 A3006= RJCC 131100Z VRB01KT 9999 FEW030 BKN/// 15/12 Q1023 RMK 1CU030 A3021= RJFK 131100Z 35004KT 9999 FEW020 BKN090 BKN120 22/21 Q1015 RMK 1CU020 6AC090 7AC120 A2999= RJOO 131100Z 34011KT 6000 SHRA FEW006 SCT015 BKN020 19/18 Q1016 RMK 1ST006 3CU015 6CU020 A3000= RJTT 131100Z 01011KT 3500 RA BR FEW003 SCT006 BKN008 20/18 Q1018 RMK 1ST003 4ST006 6ST008 A3007= RODN 131055Z 08004KT 9999 FEW020 SCT025 BKN060 BKN100 28/26 A2989 RMK SLP121 WR//=  853 SAPO31 KWBC 131100 RRA METAR LPAZ 131100Z 33014KT 9999 FEW018 SCT200 24/20 Q1024= LPFL 131100Z 35007KT 310V020 9999 FEW022 23/17 Q1025= LPHR 131100Z 31008KT 270V360 9999 SCT016 23/17 Q1025= LPLA 131100Z 33016KT 9999 FEW023 23/15 Q1024 BLU= LPPD 131100Z 35013KT 9999 FEW006 SCT012 BKN025 22/18 Q1023=  875 SANT31 KWBC 131100 RRA METAR LPLA 131100Z 33016KT 9999 FEW023 23/15 Q1024 BLU=  876 SARA31 KWBC 131100 RRA METAR UMBB 131100Z 16002MPS CAVOK 22/11 Q1026 29000070 NOSIG= UMII 131100Z 26005G08MPS P6000 SCT023 19/12 Q1024 24000070 NOSIG= UMMG 131100Z 20002MPS CAVOK 20/11 Q1026 17000070 NOSIG= UMMM 131100Z 28005MPS 9999 SCT040 21/12 Q1027 30000060 NOSIG RMK QFE750= UMMS 131100Z 29003MPS 9999 SCT036 19/12 Q1027 31000070 NOSIG= UTAK 131100Z 36008MPS 9999 FEW050CB BKN100 23/5 Q1019 NOSIG=  880 SAVN41 KWBC 131100 RRA METAR SVCR 131100Z NIL= SVJC 131100Z 10015KT 9999 FEW015 BKN050 XX/XX Q1011= SVLF 131100Z NIL= SVMD 131100Z NIL=  881 SASA31 KWBC 131100 RRA METAR SVMC 131100Z 27005KT 9999 SCT010 CB/S BKN090 23/20 Q1011=  882 SASP31 KWBC 131100 RRA METAR LEAL 131100Z 23004KT 150V310 9999 FEW030 28/12 Q1012 NOSIG= LEAM 131100Z 22006KT 9999 FEW030 24/16 Q1013= LEAS 131100Z VRB02KT 9999 FEW020 BKN200 21/16 Q1009 NOSIG= LEAS 131100Z NIL= LEBB 131100Z 16005KT 100V210 9999 SCT035 BKN100 23/16 Q1009 NOSIG= LEBL 131100Z 14010KT 7000 VCFC TSRA SCT018CB BKN025 23/20 Q1011 NOSIG= LECO 131100Z VRB05KT 9999 FEW014 SCT020 BKN100 18/13 Q1008= LEGE 131100Z 03003KT 340V070 7000 FEW012 SCT025TCU BKN030 23/22 Q1013= LEGR 131100Z VRB04KT 9999 FEW040 23/14 Q1014= LEIB 131100Z 22006KT 180V260 9999 FEW018 SCT200 26/20 Q1013 NOSIG= LEJR 131100Z 19013KT 9999 SCT024TCU 27/17 Q1013= LELC 131100Z 12005KT 080V150 9999 FEW020 26/17 Q1012 NOSIG= LEMD 131100Z 19005KT CAVOK 23/10 Q1013 NOSIG= LEMG 131100Z 14009KT 120V200 9999 FEW060 26/19 Q1013 NOSIG= LEMH 131100Z 19013KT 160V220 9999 FEW014 SCT019 BKN026 26/21 Q1012= LEPA 131100Z 21011KT 9999 FEW020TCU SCT025 27/22 Q1013 NOSIG= LEPP 131100Z 18003KT 130V220 9999 FEW010 BKN020 BKN040 20/16 Q1012= LERS 131100Z NIL= LESO 131100Z 13008KT 9999 -RA FEW060 BKN080 22/18 Q1009= LEST 131100Z 17011KT 9999 FEW018 SCT020 BKN070 16/16 Q1009 RERA NOSIG= LEVC 131100Z VRB03KT 9999 FEW025 25/15 Q1012 NOSIG= LEVD 131100Z 27009KT CAVOK 23/// Q1012= LEVS 131100Z VRB04KT 9999 FEW040 24/08 Q1013 NOSIG= LEVT 131100Z 00000KT 9999 FEW014 SCT022 BKN050 17/17 Q1011= LEVX 131100Z 16009KT 5000 2000S -RA VCFG FEW015 SCT020 BKN100 13/12 Q1011= LEXJ 131100Z VRB04KT 7000 NSC 23/17 Q1008= LEZG 131100Z VRB02KT 9999 FEW010 SCT020 BKN060 22/17 Q1012= LEZL 131100Z 27008KT 210V290 9999 FEW030 SCT070 27/20 Q1013 NOSIG=  883 SAVN42 KWBC 131100 RRA METAR SVPM 131100Z NIL= SVSA 131100Z 00000KT 9999 BKN020 XX/XX Q1015= SVSZ 131100Z 24005KT 9999 BKN025 XX/XX Q1011=  884 SAXX61 KWBC 131100 RRA METAR LICZ 131055Z 08013KT 5000 BR SCT020 SCT070 24/21 Q1019 RMK BKN VIS MIN 5000 WIND THR28 /////KT WHT= LPLA 131100Z 33016KT 9999 FEW023 23/15 Q1024 BLU=  885 SAXX62 KWBC 131100 RRA METAR RKPK 131100Z 03008KT 9999 BKN050 20/16 Q1019 NOSIG= RODN 131055Z 08004KT 9999 FEW020 SCT025 BKN060 BKN100 28/26 A2989 RMK SLP121 WR//=  886 SPUS52 KWBC 131108 SPECI KPNC 131104Z AUTO 00000KT 1 1/2SM BR CLR 09/09 A3009=  906 SPUS54 KWBC 131108 SPECI KUIL 131106Z AUTO 00000KT 5SM BR CLR 09/08 A3015=  954 SAMD90 KWBC 131106 METAR KRJD 131105Z AUTO 00000KT 10SM SCT120 12/10 A3012 RMK AO1=  955 SAMD90 KWBC 131106 METAR KCBE 131106Z AUTO 00000KT 5SM OVC011 15/14 A3006 RMK AO1=  971 SAMD90 KWBC 131106 METAR KW29 131103Z AUTO 12005KT 10SM SCT031 SCT044 SCT070 17/15 A3008 RMK AO1=  972 SAMD90 KWBC 131106 METAR K2G4 131104Z AUTO 16008KT 5SM BR 14/12 A3002 RMK AO1=  073 SAMD90 KWBC 131106 METAR KFDK 131106Z AUTO 15004KT 10SM -DZ SCT029 OVC038 14/12 A3010 RM K AO2=  191 SAAY31 RUMS 131100 UDYZ 131100Z 20003MPS 9999 FEW046 27/09 Q1016 NOSIG RMK SC070=  192 SARS33 RUMS 131100 ULLI 131100Z 31003MPS 260V360 CAVOK 19/14 Q1019 NOSIG= UUDD 131100Z 33004G11MPS 280V360 9999 BKN024 16/11 Q1019 NOSIG= UUEE 131100Z 29004MPS 9999 BKN032 15/11 Q1018 NOSIG= UUEM NIL= UUWW 131100Z 32006MPS 9999 BKN025 16/11 Q1018 NOSIG=  193 SPCN46 CWAO 131107 SPECI CYKZ 131107Z 11008KT 1 1/4SM -RA BR BKN002 OVC007 RMK FG2ST6SC1=  194 SAKZ31 RUMS 131100 UAAA 131100Z VRB01MPS 9999 FEW100 BKN200 30/03 Q1010 05CLRD65 NOSIG RMK QFE699/0932= UACC 131100Z 24007MPS 9999 FEW030CB SCT030 13/06 Q1003 NOSIG RMK QFE722/0962 222/0260= UAKK 131100Z 25009MPS 9999 SCT050CB BKN/// 18/01 Q1006 230///70 TEMPO TSRA RMK QFE707/0943= UAOO 131100Z 29008G11MPS 9999 SCT040CB BKN/// 26/13 Q1011 060///70 NOSIG RMK QFE747/0996= UARR NIL= UATE 131100Z 30009G14MPS 9999 SCT040 SCT/// 23/07 Q1020 TEMPO 30015MPS 300///70 QFE 763/1018= UATG 131100Z 31008G13MPS 9999 SKC 19/02 Q1019 320///70 NOSIG RMK QFE766/1022= UATT 131100Z 30008MPS 9999 BKN056CB 12/04 Q1011 NOSIG RMK QFE738/0985 31CLRD70= UAUU NIL=  195 SACN51 CWAO 131100 CCA METAR CZBF 131100Z CCA 00000KT 15SM MIFG FEW250 08/05 A2998 RMK CI1 SLP153=  196 SAFR31 LFPW 131100 CCA METAR COR LFPB 131108Z 16014KT CAVOK 27/16 Q1012 NOSIG=  197 SARS32 RUMS 131100 URKA 131100Z 04007G12MPS CAVOK 23/05 Q1023 NOSIG RMK sc 07= URKK 131100Z 09005G08MPS CAVOK 25/03 Q1022 NOSIG QFE763 SC07= URKM 131100Z 03005G08MPS CAVOK 22/09 Q1023 NOSIG RMK QFE749 10.0suhoj= URML 131100Z 03005MPS 9999 BKN100 22/07 Q1021 NOSIG RMK QFE766 g/o sc07= URMM 131100Z 35003MPS 300V360 9999 SCT133 23/10 Q1023 NOSIG RMK umrn turb 000-3000 g/o SC070= URMN 131100Z 12003MPS 9999 SCT030 BKN110 22/09 Q1023 NOSIG RMK go QFE729 SC07= URMT 131100Z 07004MPS 9999 FEW026 22/05 Q1023 NOSIG RMK SC07= URRR 131100Z 34003G06MPS 300V030 9999 FEW033 FEW300 24/08 Q1023 NOSIG RMK SC070= URSS 131100Z 19003G06MPS 160V220 9999 FEW033CB 25/17 Q1019 NOSIG RMK g/o QFE763 SC07 = URWA 131100Z 31004MPS CAVOK 22/03 Q1020 NOSIG RMK suh SC07= URWI 131100Z 30005MPS CAVOK 21/02 Q1022 NOSIG RMK SC065= URWW 131100Z 28006MPS 9999 BKN040CB 19/05 Q1021 NOSIG RMK SC070=  385 SAHK31 VHHH 131100 METAR VHHH 131100Z 08009KT 7000 -SHRA FEW005 SCT020 BKN050 25/24 Q1008 NOSIG=  386 SASD31 OEJD 131100 METAR OEDF 131100Z VRB03KT CAVOK 44/00 Q1003 NOSIG= METAR OEDR 131100Z NIL= METAR OEJN 131100Z 29014KT 8000 SKC 3727 Q1004 NOSIG= METAR OEMA 131100Z 03008KT CAVOK 42/M04 Q1010 NOSIG= METAR OERK 131100Z 0K 40/M02 Q1010 NOSIG= METAR OERY 131100Z 04004KT CAVOK 40/M03 Q1011 NOSIG= METAR OYSN 131100Z 35006KT 9999 FEW030 28/02 Q1024=  462 SAXX70 KAWN 131100 RRF METAR KQAQ 131055Z COR 29012G20KT 8000 HZ SKC 38/08 A2979 RMK SLP085 WND DATA ESTMD ALSTG/SLP ESTMD PA 271 DA 2985 COR 1104= METAR KQXJ 131055Z 36018G23KT 6000 BLDU SKC 43/06 A2974 RMK SLP064 ALSTG/SLP ESTMD=  463 SAPO32 LPMG 131100 RRA METAR LPLA 131100Z 33016KT 9999 FEW023 23/15 Q1024 BLU=  500 SAAK32 KWBC 131100 RRA METAR PALU 131059Z 2 OVC011 A2990= PASV 131055Z AUTO 00000KT 10SM CLR 09/06 A3045=  501 SACA42 KWBC 131100 RRA METAR TJMZ 131102Z 131050KT 08004KT 10SM SKC 22/21 A2991=  505 SPUS31 KWBC 131109 SPECI KDTW 131106Z 16004KT 3SM FEW005 BKN010 OVC022 18/17 A2980=  506 SPUS41 KWBC 131109 SPECI KERI 131104Z 18011KT 8SM -RA BKN020 BKN050 OVC060 18/16 A2985=  525 SPUS41 KWBC 131109 SPECI KIAG 131104Z 19009KT 5SM -RA BR SCT002 OVC020 17/14 A2985=  527 SANZ31 NZKL 131100 METAR NZAA 131100Z 22001KT 30KM FEW020 10/09 Q1022 NOSIG= METAR NZWN 131100Z 14005KT 30KM FEW030 08/02 Q1024 NOSIG RMK KAUKAU 16013KT= METAR NZCH 131100Z 05003KT 30KM FEW035 02/01 Q1023 NOSIG=  528 SAUS42 KWBC 131100 RRA METAR KOPN 131100Z AUTO 14007KT 4SM OVC005 20/20 A2992=  599 SAUS41 KWBC 131100 RRA METAR KFDK 131106Z AUTO 15004KT 10SM -DZ SCT029 OVC038 14/12 A3010 RM K AO2= KFDK 131103Z AUTO 15003KT 10SM -DZ SCT029 OVC038 14/12 A3010=  605 SAUS43 KWBC 131100 RRA METAR KDNV 131103Z AUTO 26007KT 7SM VCTS OVC006 14/14 A2984= KFEP 131106Z AUTO 34007KT 7SM OVC004 17/15 A2991=  606 SPUS52 KWBC 131109 SPECI KCOT 131105Z AUTO 00000KT 1SM BR SCT001 OVC046 22/22 A2998=  620 SAUS42 KCHS 131109 MTRSAV SPECI KSAV 131107Z VRB05KT 1 3/4SM +RA BR FEW010 BKN032 OVC060 22/21 A2997 RMK AO2 RAB1058 P0006  677 SAUS51 KWBC 131100 RRA METAR KCBE 131106Z AUTO 00000KT 5SM OVC011 15/14 A3006=  678 SAUS44 KWBC 131100 RRA METAR K11R 131107Z AUTO 36003KT 10SM SCT100 22/19 A2997=  679 SAUS53 KWBC 131100 RRB METAR KJNX 131101Z AUTO 00000KT 10SM OVC100 17/15 A3006= KTDF 131103Z AUTO 00000KT 10SM OVC080 16/14 A3008=  680 SAUS54 KWBC 131100 RRA METAR KHMS 131050Z 30013KT 15SM SKC 19/10 A2991= KJNX 131101Z AUTO 00000KT 10SM OVC100 17/15 A3006=  761 SAUS43 KLBF 131109 MTRVTN SPECI KVTN 131107Z AUTO 00000KT 1/4SM FG SCT002 OVC007 06/06 A3002 RMK AO2  932 SARS32 RUMS 131100 URKA 131100Z 04007G12MPS CAVOK 23/05 Q1023 NOSIG RMK SC 07= URKK 131100Z 09005G08MPS CAVOK 25/03 Q1022 NOSIG QFE763 SC07= URKM 131100Z 03005G08MPS CAVOK 22/09 Q1023 NOSIG RMK QFE749 10.0SUHOJ= URML 131100Z 03005MPS 9999 BKN100 22/07 Q1021 NOSIG RMK QFE766 G/O SC07= URMM 131100Z 35003MPS 300V360 9999 SCT133 23/10 Q1023 NOSIG RMK UMRN TURB 000-3000 G/O SC070= URMN 131100Z 12003MPS 9999 SCT030 BKN110 22/09 Q1023 NOSIG RMK GO QFE729 SC07= URMT 131100Z 07004MPS 9999 FEW026 22/05 Q1023 NOSIG RMK SC07= URRR 131100Z 34003G06MPS 300V030 9999 FEW033 FEW300 24/08 Q1023 NOSIG RMK SC070= URSS 131100Z 19003G06MPS 160V220 9999 FEW033CB 25/17 Q1019 NOSIG RMK G/O QFE763 SC07 = URWA 131100Z 31004MPS CAVOK 22/03 Q1020 NOSIG RMK SUH SC07= URWI 131100Z 30005MPS CAVOK 21/02 Q1022 NOSIG RMK SC065= URWW 131100Z 28006MPS 9999 BKN040CB 19/05 Q1021 NOSIG RMK SC070=  060 SPCN52 CWAO 131106 SPECI CWWU 131106Z 08028G45KT 1SM +RA BR OVC010 RMK SF8=  208 SAAL41 DAMM 131100 METAR DAAD 131100Z 00000KT 9999 SCT030 24/18 Q1019= METAR DAAE 131100Z 28010KT 9999 FEW023 SCT090 31/17 Q1013= METAR DAAJ 131100Z 24008KT CAVOK 34/04 Q1020= METAR DAAP NIL= METAR DAAS 131100Z 20020KT 9999 SCT030TCU FEW033CB 24/14 Q1020= METAR DAAV 131100Z 36005KT 9999 SCT020 SCT033 29/20 Q1013= METAR DAAY 131100Z 15011KT 9999 -RA FEW020 SCT030 BKN080 16/13 Q1020= METAR DABT 131100Z 21008KT 9999 BKN023TCU 27/15 Q1018= METAR DAFH 131100Z 20012KT 9999 SCT033 BKN100 23/16 Q1018= METAR DAMR 131100Z 00000KT 9999 BKN040 36/14 Q1015= METAR DAOB 131100Z 21024KT 9999 FEW026 SCT093 26/17 Q1017= METAR DAOF 131100Z 070//KT 0400 HZ NSC 30/12 Q1012= METAR DAOI NIL= METAR DAOL NIL= METAR DAOR NIL= METAR DAOV 131100Z 27004KT 9999 BKN030 BKN100 24/16 Q1015= METAR DATG NIL= METAR DATM 131100Z 36018KT 5000 NSC 35/13 Q1016= METAR DAUA 131100Z 23027KT 2000 DRSA NSC 35/17 Q1013= METAR DAUB 131100Z 18010KT 8000 SCT033 BKN040 29/19 Q1016= METAR DAUE NIL= METAR DAUG 131100Z 09008KT 9999 BKN040 BKN100 24/19 Q1018 RERA= METAR DAUI NIL= METAR DAUK 131100Z 00000KT 9999 FEW046 OVC100 29/20 Q1016= METAR DAUL 131100Z 23010KT 9999 FEW026CB BKN030 25/18 Q1018= METAR DAUO 131100Z 00000KT 8000 FEW040 BKN100 30/23 Q1015= METAR DAUT 131100Z 15021KT 2000 DRSA NSC 31/18 Q1012= METAR DAUU 131100Z 34010KT 5000 SCT040 BKN100 27/21 Q1015 RERA=  209 SAPR82 SPIM 131100 METAR SPIM 131100Z 22003KT 5000 BR FEW005 OVC009 16/14 Q1014 NOSIG RMK PP000= SPSO 131100Z 00000KT 2000 BR SKC 13/11 Q1014 RMK PP000= SPZO 131100Z 00000KT 9999 BKN040 07/03 Q1032 RMK PP000= SPQT 131100Z 00000KT 3000SW BCFG SCT006 SCT020 BKN100 22/21 Q1012 RMK TEMPO 1500SW BCFG BIRD HAZARD RWY 06/24 PP000= SPTN 131100Z 00000KT 9999 SCT007 BKN009 13/10 Q1013 RMK PP000= SPQU 131100Z 06012KT CAVOK 09/M11 Q1025 NOSIG RMK PP000= SPHI 131100Z 00000KT 9999 8000 OVC015 18/16 Q1015 RMK BIRD HAZARD RWY 19/01 PP000 BR S/SW= SPRU 131100Z 00000KT 9999 SCT010 BKN100 17/15 Q1013 RMK PP000=  210 SACN31 CWAO 131100 CCA METAR CYYT 131100Z CCA 09017G30KT 3SM -RA OVC004 11/11 A2951 RMK ST8 PRESFR SLP996=  211 SAGD31 TGPY 131100 METAR TGPY 131100Z 00000KT 9999 RA FEW012CB FEW018 SCT040 BKN090 BKN280 24/24 Q1013 CB-S=  212 SAXX70 KAWN 131100 RRG METAR KQSL 131055Z 30006G12KT 9999 SKC 38/06 A2981 RMK SLP084 Q1009MB WND DATA ESTMD ALSTG/SLP ESTMD=  213 SPCN51 CWAO 131107 SPECI CWCL 131107Z AUTO 23003KT 9SM -RA FEW047 09/07 A3005=  214 SAMF20 TFFR 131100 METAR TFFR 131100Z 12002KT 9999 FEW020 27/25 Q1013 NOSIG=  238 SPUS80 KWBC 131110 SPECI KEMP 131106Z AUTO 29003KT 4SM BR CLR 09/08 A3008 RMK AO2= KSAV 131107Z VRB05KT 1 3/4SM +RA BR FEW010 BKN032 OVC060 22/21 A2997 RMK AO2 RAB1058 P0006= KVTN 131107Z AUTO 00000KT 1/4SM FG SCT002 OVC007 06/06 A3002 RMK AO2= PAYA 131107Z 00000KT 1/2SM R11/4000VP6000FT FG SCT001 OVC009 03/02 A3035 RMK AO2 BAY TWR WND 29004KT=  240 SAXX60 KWBC 131100 RRF METAR KMHR 131048Z 17006KT 10SM CLR 18/11 A2984= KQUK 131055Z 15008KT 9000 HZ FEW080 SCT150 22/05 A3025 RMK PK WND 18012/38 SLP235 WND DATA ESTMD ALSTG/SLP ESTMD= PHNG 131056Z 00000KT 7SM FEW025 SCT035 26/21 A3004 RMK SLP170 T02560211=  241 SPUS70 KWBC 131110 SPECI KDTW 131106Z 16004KT 3SM FEW005 BKN010 OVC022 18/17 A2980 RMK AO2 SFC VIS 7 $= KPFN 131106Z 00000KT 1 1/2SM +RA BR FEW002 BKN039 OVC095 23/22 A2987 RMK AO2 PNO $= KADG 131106Z AUTO 00000KT 1SM -RA BR SCT008 BKN029 OVC038 18/17 A2981 RMK AO2 RAB1059 P0000= KBMG 131106Z 27005KT 7SM BKN009 BKN014 OVC020 16/13 A2988 RMK AO2 CIG 005V012= KEET 131106Z AUTO 00000KT 4SM BR SCT002 BKN006 OVC017 21/20 A2990 RMK AO2 CIG 004V009= KGWO 131106Z AUTO 36012KT 320V030 8SM BKN018 21/17 A2992 RMK AO2= KMSP 131106Z VRB03KT 8SM R30L/1000V1200FT BCFG FEW001 09/08 A3002 RMK AO2 BCFG E-SE= KACV 131107Z AUTO 31004KT 1/4SM R32/1200V1600FT FG VV001 11/10 A2996 RMK AO2 TSNO= KAHN 131107Z AUTO 11004KT 2SM RA BR OVC005 18/17 A2996 RMK AO2 CIG 002V008 P0002 TSNO= KDCU 131107Z AUTO 00000KT 3SM -RA BR BKN009 OVC015 21/20 A2992 RMK AO2 P0000= KGLR 131107Z AUTO 03005KT 1/4SM FG VV001 14/13 A2987 RMK AO2= KLVS 131107Z AUTO 35004KT 1/4SM FG FEW002 SCT006 09/09 A3029 RMK AO2= KMIC 131107Z AUTO 00000KT 3SM BR CLR 06/06 A3001 RMK AO2=  243 SAUS80 KWBC 131110 METAR KCUL 131105Z AUTO 26003KT 10SM OVC042 15/12 A2992 RMK AO2 LTG DSNT N= KCIR 131105Z AUTO 24003KT 10SM CLR 14/13 A2995 RMK AO2 LTG DSNT N= KSFY 131105Z AUTO 34005KT 10SM OVC009 15/13 A2992 RMK AO2 LTG DSNT E=  244 SAUS70 KWBC 131110 METAR K1H2 131105Z AUTO 27007KT 10SM SCT020 BKN026 OVC041 15/13 A2988 RMK AO2 TSNO= K3LF 131104Z AUTO 28006KT 7SM OVC012 15/13 A2993 RMK AO2 LTG DSNT NE= K3T5 131107Z AUTO 00000KT 10SM CLR 22/21 A2996 RMK AO2= KAAA 131105Z AUTO 30005KT 3SM BR OVC006 16/15 A2989 RMK AO2 LTG DSNT NE= KAJG 131105Z AUTO 28004KT 10SM SCT014 BKN023 OVC044 15/14 A2990 RMK AO2 LTG DSNT N= KC75 131103Z AUTO 36006KT 5SM BR 17/15 A2988 RMK AO2 LTG DSNT NE= KDKB 131105Z AUTO 33009G14KT 3SM VCTS BR OVC003 13/12 A2987 RMK AO2 LTG DSNT E AND SE= KDKR 131105Z AUTO 01006KT 10SM CLR 20/15 A3001 RMK AO2= KMDD 131102Z AUTO 00000KT 10SM CLR 17/16 A3014 RMK AO2= KMEZ 131106Z AUTO 00000KT 7SM SCT023 15/13 A3005 RMK AO2= KAQO 131105Z AUTO 04003KT 10SM FEW080 21/18 A3007 RMK AO2= KARM 131105Z AUTO 29003KT 10SM CLR 21/21 A2995 RMK AO2= KBKS 131105Z AUTO 36005KT 10SM SCT004 BKN011 OVC041 22/22 A2993 RMK AO1= KENL 131105Z AUTO 27006KT 10SM BKN017 OVC024 16/11 A2993 RMK AO2 LTG DSNT NE= KETB 131105Z AUTO 35006KT 7SM OVC007 14/13 A2989 RMK AO2= KFOA 131105Z AUTO 28009KT 10SM BKN014 OVC023 16/15 A2992 RMK AO2 LTG DSNT NE= KGBG 131106Z AUTO 33008KT 2SM RA OVC006 13/13 A2992 RMK AO2 LTG DSNT E= KLOT 131105Z AUTO 36012KT 3SM +TSRA SCT005 BKN010 OVC019 16/15 A2982 RMK AO2 LTG DSNT E THRU SW P0001= KOLY 131105Z AUTO 28006KT 10SM 16/16 A2990 RMK AO2 P0001 LTG DSNT N= KPNT 131105Z AUTO 32007KT 10SM +TSRA BKN006 BKN012 OVC018 16/15 A2985 RMK AO2 P0004 LTG DSNT N AND NE= KPPQ 131104Z AUTO 29006KT 10SM OVC011 15/13 A2995 RMK AO2 LTG DSNT NE= KPYX 131104Z AUTO 20005KT 10SM CLR 12/10 A3012 RMK AO2= KRPH 131106Z AUTO 00000KT 10SM CLR 13/12 A3008 RMK AO2= KRPJ 131105Z AUTO 35007KT 3SM +VCTSRA OVC006 14/13 A2989 RMK AO2 LTG DSNT E AND SE P0001= KRSV 131107Z AUTO 27007KT 10SM SCT015 OVC044 16/14 A2989 RMK AO2 LTG DSNT N= KSLO 131105Z AUTO 29004KT 10SM SCT006 SCT010 OVC031 16/13 A2993 RMK AO2 LTG DSNT NE= KSLR 131103Z AUTO 34008KT 10SM CLR 17/14 A3006 RMK AO2= KTPF 131106Z AUTO RMK AO2 PWINO= KVYS 131107Z AUTO 34011KT 5SM VCTSDZ OVC006 15/14 A2987 RMK AO2 LTG DSNT NE THRU SE= KXBP 131107Z AUTO 00000KT 7SM CLR 14/13 A3008 RMK AO2= KALN 131106Z AUTO 29007KT 10SM SCT016 SCT027 OVC046 16/14 A2994 RMK AO2 LTG DSNT NE= KBBD 131105Z AUTO 00000KT 10SM CLR 18/14 A3009 RMK= KBPG 131105Z AUTO 00000KT 10SM CLR 17/15 A3016 RMK AO1= KBWD 131107Z AUTO 35003KT 10SM CLR 17/14 A3007 RMK AO1= KBYY 131105Z AUTO 32004KT 10SM CLR 22/22 A2993 RMK AO2= KFWC 131106Z AUTO 27004KT 10SM BKN017 BKN023 OVC028 16/14 A2992 RMK AO2 LTG DSNT N= KGBG 131104Z AUTO 32008KT 2SM RA OVC006 13/13 A2992 RMK AO2 LTG DSNT E= KGLE 131104Z AUTO 34004KT 10SM CLR 14/13 A3008 RMK AO2= KHSB 131105Z AUTO 00000KT 7SM CLR 13/12 A2993 RMK AO2= KIGQ 131105Z AUTO 24005KT 10SM TS SCT007 OVC015 16/15 A2982 RMK AO2 LTG DSNT ALQDS= KSAR 131105Z AUTO 26006KT 10SM OVC020 16/13 A2995 RMK AO2=  245 SAAG41 KWBC 131100 METAR SAAC NIL= SAAV NIL= SAGS NIL= SANE NIL= SANT 131100Z 32006KT 6000 NSC 09/02 Q1014= SANU NIL= SAOR NIL= SARL NIL= SATM NIL= SAVC NIL= SAVT NIL= SAZB NIL= SAZN NIL=  246 SAAS31 KWBC 131100 RRA METAR VOBG 131100Z 27010KT 8000 VCSH SCT015 SCT020 FEW025CB(N,NW,W) 27/20 Q1010 TEMPO 3000 RA/TSRA=  247 SAAW31 KWBC 131100 RRA METAR OLBA 131100Z 30006KT 260V330 CAVOK 30/21 Q1016 NOSIG=  248 SAAL31 KWBC 131100 RRA METAR DAAG 131100Z VRB02KT 9999 FEW030 30/18 Q1014= DAAT 131100Z VRB03KT CAVOK 32/09 Q1024= DABB 131100Z 24004KT 9999 SCT040 SCT100 34/24 Q1013= DABC 131100Z 24004KT 9999 FEW040CB SCT046TCU SCT090 27/18 Q1018= DABS 131100Z 20006KT 9999 FEW033CB SCT046TCU 28/14 Q1019= DAON 131100Z 30006KT 8000 SCT026 SCT233 25/20 Q1014= DAOO 131100Z 20006KT 9000 -TSRA FEW033CB BKN040 23/19 Q1013= DAUA 131100Z 23027KT 2000 DRSA NSC 35/17 Q1013= DAUG 131100Z 09008KT 9999 BKN040 BKN100 24/19 Q1018 RERA= DAUH 131100Z 34010KT 8000 FEW040 BKN100 31/20 Q1016= DAUZ 131100Z 00000KT CAVOK 38/07 Q1016=  249 SAAS32 KWBC 131100 RRB METAR VHHH 131100Z 08009KT 7000 -SHRA FEW005 SCT020 BKN050 25/24 Q1008 NOSIG=  250 SAAG31 KWBC 131100 METAR SAAG NIL= SAAP NIL= SAAR NIL= SABE NIL= SACO NIL= SADD NIL= SAEZ NIL= SAME NIL= SARC NIL= SARE 131100Z 18005KT 8000 NSC 16/10 Q1011= SARF NIL= SARI NIL= SARP NIL= SASA NIL= SASJ 131100Z 00000KT 9999 BKN040 16/04 Q1014= SAWE 131100Z 29028G33KT 9999 FEW016 FEW100 02/00 Q0986= SAWG 131100Z 25031G44KT 9999 FEW030 02/M00 Q0995= SAZM 131100Z 29004KT 00/M03 Q1020= SAZS NIL=  252 SAAF34 KWBC 131100 RRA METAR FBKE 131100Z /////KT CAVOK 31/06 Q1018= FBSW 131100Z 00000KT CAVOK 33/08= FBTS 131100Z /////KT CAVOK 30/01 Q1019=  251 SACA33 KWBC 131100 RRB METAR TNCM 131100Z VRB03KT 9999 FEW018 27/22 Q1014=  253 SAFR32 KWBC 131100 CCA METAR LFPB 131108Z 16014KT CAVOK 27/16 Q1012 NOSIG=  254 SAUS70 KWBC 131100 RRI METAR KJVL 131049Z 34009KT 7SM OVC005 14/12 A2999= KTVC 131053Z 01005KT 2SM -RA BR OVC005 16/14 A2985 RMK A02 RAE05B40 CIG 003V008 SLP107 P0001=  255 SACN31 KWBC 131100 CCB METAR CYYT 131100Z CCA 09017G30KT 3SM -RA OVC004 11/11 A2951 RMK ST8 PRESFR SLP996= CZBF 131100Z CCA 00000KT 15SM MIFG FEW250 08/05 A2998 RMK CI1 SLP153=  256 SACA31 KWBC 131100 RRA METAR MKJP 131100Z 300000KT 9999 SCT022 SCT220 29/25 Q1012=  257 SAAW32 KWBC 131100 RRB METAR OERK 131100Z 0K 40/M02 Q1010 NOSIG=  258 SPUS31 KWBC 131110 SPECI KMSP 131106Z VRB03KT 8SM R30L/1000V1200FT BCFG FEW001 09/08 A3002=  259 SACA45 KWBC 131100 RRB METAR MGHT 131100Z 00000KT 9999 OVC012 14/14 QFE 817/0=  275 SAUS43 KAPX 131109 MTRHTL SPECI KHTL 131108Z AUTO 01004KT 3/4SM BR OVC001 14/14 A2985 RMK AO2  309 SAFR41 KWBC 131100 CCA METAR LFPB 131108Z 16014KT CAVOK 27/16 Q1012 NOSIG=  311 SARS31 KWBC 131100 RRA METAR ULLI 131100Z 31003MPS 260V360 CAVOK 19/14 Q1019 NOSIG= UUDD 131100Z 33004G11MPS 280V360 9999 BKN024 16/11 Q1019 NOSIG= UUEE 131100Z 29004MPS 9999 BKN032 15/11 Q1018 NOSIG= UUWW 131100Z 32006MPS 9999 BKN025 16/11 Q1018 NOSIG=  312 SANT31 KWBC 131100 RRB METAR BIEG 131100Z 06008KT 9999 VCSH SCT025 BKN040 OVC060 09/04 Q1008=  313 SARA31 KWBC 131100 RRB METAR UAAA 131100Z VRB01MPS 9999 FEW100 BKN200 30/03 Q1010 05CLRD65 NOSIG RMK QFE699/0932= UACC 131100Z 24007MPS 9999 FEW030CB SCT030 13/06 Q1003 NOSIG RMK QFE722/0962 222/0260= UAOO 131100Z 29008G11MPS 9999 SCT040CB BKN/// 26/13 Q1011 060///70 NOSIG RMK QFE747/0996= UATE 131100Z 30009G14MPS 9999 SCT040 SCT/// 23/07 Q1020 TEMPO 30015MPS 300///70 QFE 763/1018= UATG 131100Z 31008G13MPS 9999 SKC 19/02 Q1019 320///70 NOSIG RMK QFE766/1022= UATT 131100Z 30008MPS 9999 BKN056CB 12/04 Q1011 NOSIG RMK QFE738/0985 31CLRD70= UUEE 131100Z 29004MPS 9999 BKN032 15/11 Q1018 NOSIG=  314 SARS41 KWBC 131100 RRA METAR UUEE 131100Z 29004MPS 9999 BKN032 15/11 Q1018 NOSIG= UUWW 131100Z 32006MPS 9999 BKN025 16/11 Q1018 NOSIG=  315 SANZ31 KWBC 131100 METAR NZAA 131100Z 22001KT 30KM FEW020 10/09 Q1022 NOSIG= NZCH 131100Z 05003KT 30KM FEW035 02/01 Q1023 NOSIG= NZOH NIL= NZWN 131100Z 14005KT 30KM FEW030 08/02 Q1024 NOSIG RMK KAUKAU 16013KT= NZWP NIL=  316 SARS32 KWBC 131100 RRA METAR URKA 131100Z 04007G12MPS CAVOK 23/05 Q1023 NOSIG RMK SC 07= URKA 131100Z 04007G12MPS CAVOK 23/05 Q1023 NOSIG RMK sc 07= URKK 131100Z 09005G08MPS CAVOK 25/03 Q1022 NOSIG QFE763 SC07= URKM 131100Z 03005G08MPS CAVOK 22/09 Q1023 NOSIG RMK QFE749 10.0SUHOJ= URKM 131100Z 03005G08MPS CAVOK 22/09 Q1023 NOSIG RMK QFE749 10.0suhoj= URMM 131100Z 35003MPS 300V360 9999 SCT133 23/10 Q1023 NOSIG RMK UMRN TURB 000-3000 G/O SC070= URMM 131100Z 35003MPS 300V360 9999 SCT133 23/10 Q1023 NOSIG RMK umrn turb 000-3000 g/o SC070= URMN 131100Z 12003MPS 9999 SCT030 BKN110 22/09 Q1023 NOSIG RMK GO QFE729 SC07= URMN 131100Z 12003MPS 9999 SCT030 BKN110 22/09 Q1023 NOSIG RMK go QFE729 SC07= URMT 131100Z 07004MPS 9999 FEW026 22/05 Q1023 NOSIG RMK SC07= URRR 131100Z 34003G06MPS 300V030 9999 FEW033 FEW300 24/08 Q1023 NOSIG RMK SC070= URSS 131100Z 19003G06MPS 160V220 9999 FEW033CB 25/17 Q1019 NOSIG RMK G/O QFE763 SC07= URSS 131100Z 19003G06MPS 160V220 9999 FEW033CB 25/17 Q1019 NOSIG RMK g/o QFE763 SC07= URWA 131100Z 31004MPS CAVOK 22/03 Q1020 NOSIG RMK SUH SC07= URWA 131100Z 31004MPS CAVOK 22/03 Q1020 NOSIG RMK suh SC07= URWI 131100Z 30005MPS CAVOK 21/02 Q1022 NOSIG RMK SC065= URWW 131100Z 28006MPS 9999 BKN040CB 19/05 Q1021 NOSIG RMK SC070=  317 SPUS42 KWBC 131110 SPECI KSAV 131107Z VRB05KT 1 3/4SM +RA BR FEW010 BKN032 OVC060 22/21 A2997=  318 SAXX61 KWBC 131100 RRB METAR LEMO 131100Z NIL= LERT 131100Z 20010KT 160V220 9999 FEW010 SCT025TCU 24/19 Q1013 NOSIG=  319 SAZA31 KWBC 131100 METAR FABB NIL= FABE NIL= FABL 131100Z 33009KT CAVOK 22/00 Q1024 NOSIG= FABM NIL= FACT 131100Z 17020KT 9999 FEW025 19/11 Q1023 NOSIG= FADN 131100Z 03015KT 9999 FEW035 27/17 Q1017 NOSIG= FAEL 131100Z 08004KT CAVOK 21/15 Q1019= FAGG 131100Z 29010KT 9999 BKN025 17/11 Q1023= FAGM NIL= FAJS 131100Z 36013KT CAVOK 21/M01 Q1026 NOSIG= FAKT NIL= FALW NIL= FALZ NIL= FAPB NIL= FAPE 131100Z 24019KT 9999 BKN019 19/12 Q1021 NOSIG= FAPR NIL= FASB NIL= FAUP 131100Z 19005KT CAVOK 28/M00 Q1017= FAWH NIL= FAWK NIL=  320 SASA32 KWBC 131100 RRA METAR SCIP 131100Z 11003KT 9999 FEW020 SCT250 13/11 Q1027 NOSIG=  321 SPUS42 KWBC 131110 SPECI KPFN 131106Z 00000KT 1 1/2SM +RA BR FEW002 BKN039 OVC095 23/22 A2987=  322 SAPR41 KWBC 131100 METAR SPCL NIL= SPEC NIL= SPEI NIL= SPEO NIL= SPGM NIL= SPHI 131100Z 00000KT 9999 8000 OVC015 18/16 Q1015 RMK BIRD HAZARD RWY 19/01 PP000 BR S/SW= SPHO NIL= SPHY NIL= SPJA NIL= SPJI NIL= SPJL NIL= SPJN NIL= SPJR NIL= SPME NIL= SPMS NIL= SPNC NIL= SPPY NIL= SPRU 131100Z 00000KT 9999 SCT010 BKN100 17/15 Q1013 RMK PP000= SPST NIL= SPTU NIL= SPUR NIL=  323 SAXX62 KWBC 131100 RRB METAR PHNG 131056Z 00000KT 7SM FEW025 SCT035 26/21 A3004 RMK SLP170 T02560211=  342 SASA31 KWBC 131100 RRB METAR SEGU 131100Z 25006KT 9999 FEW010 BKN023 22/18 Q1913 NOSIG= SEQU 131100Z 28002KT 9999 VCFG BKN040 SCT100 11/08 Q1027 NOSIG= SPIM 131100Z 22003KT 5000 BR FEW005 OVC009 16/14 Q1014 NOSIG RMK PP000= SPQT 131100Z 00000KT 3000SW BCFG SCT006 SCT020 BKN100 22/21 Q1012 RMK TEMPO 1500SW BCFG BIRD HAZARD RWY 06/24 PP000= SPQU 131100Z 06012KT CAVOK 09/M11 Q1025 NOSIG RMK PP000= SPSO 131100Z 00000KT 2000 BR SKC 13/11 Q1014 RMK PP000= SPTN 131100Z 00000KT 9999 SCT007 BKN009 13/10 Q1013 RMK PP000= SPZO 131100Z 00000KT 9999 BKN040 07/03 Q1032 RMK PP000=  352 SPUS53 KWBC 131110 SPECI KVTN 131107Z AUTO 00000KT 1/4SM FG SCT002 OVC007 06/06 A3002=  495 SANZ31 NZKL 131100 METAR NZAA 131100Z 22001KT 30KM FEW020 10/09 Q1022 NOSIG= METAR NZWN 131100Z 14005KT 30KM FEW030 08/02 Q1024 NOSIG RMK KAUKAU 16013KT= METAR NZCH 131100Z 05003KT 30KM FEW035 02/01 Q1023 NOSIG=  501 SAUS46 KSEW 131110 MTRSMP SPECI KSMP 131108Z AUTO 27007KT 1/4SM FG BKN002 OVC025 10/08 A3010 RMK AO2 TSNO  711 SAFR34 LFPW 131100 RRA METAR LFTH 131100Z 11013KT 9999 SCT036 SCT210 26/19 Q1017 NOSIG=  712 SAPF20 NTAA 131100 METAR NTAA 131100Z 17004KT 9999 FEW023 25/22 Q1017 NOSIG=  713 SAFR31 LFPW 131100 RRA METAR LFRB 131109Z 21013KT 180V250 9999 FEW016 SCT026 BKN230 21/16 Q1008 NOSIG=  714 SAFR41 LFPW 131100 RRA METAR LFTH 131100Z 11013KT 9999 SCT036 SCT210 26/19 Q1017 NOSIG=  715 SAGY31 SYCJ 131100 METAR SYCJ 131100Z 18004KT 9000 SCT017 BKN300 24/23 Q1013 TEMPO SHRA=  773 SAUS41 KLWX 131110 MTRRSP METAR KRSP 131154Z AUTO 18009G15KT 130V200 10SM -RA SCT090 12/11 A3008 RMK AO2 RAB1058E07B51 SLP189 P0000 60000 T01220106 10139 20122 56003 $  863 SPCN46 CWAO 131108 SPECI CYKF 131108Z AUTO 18006KT 4SM OVC003 17/17 A2979=  865 SATD31 TTPP 131100 METAR TTPP 131100Z 00000KT 9999 SCT015TCU SCT080 BKN280 25/24 Q1013 NOSIG TCU TO NE, E, SW, W= TTCP 131100Z NIL=  868 SAMS33 WMKK 131100 METAR 131100Z METAR WMAU 131100Z 24004KT 190V290 9999 FEW020 BKN140 BKN270 27/24 Q/ /// QFF1009= METAR WMBA 131100Z 00000KT 6000 FEW011 SCT031 BKN260 28/25 Q1010= METAR WMKA 131100Z 26005KT 9999 FEW020 SCT140 BKN260 28/24 Q1010= METAR WMKB 131100Z 33003KT 6000 FEW020 SCT140 BKN260 28/25 Q1009= METAR WMKC 131100Z 05002KT 9999 FEW017CB BKN200 28/25 Q1009= METAR WMKD 131100Z 16002KT 9999 FEW024 SCT160 BKN280 29/25 Q1009= METAR WMKI 131100Z 11002KT 8000 FEW017CB SCT027 BKN270 27/24 Q1010= METAR WMKL 131100Z 27004KT 9999 FEW020 SCT140 BKN280 27/23 Q1010= METAR WMKM 131100Z 12002KT 8000 FEW030 SCT140 BKN270 30/24 Q1009= METAR WMKN 131100Z 22004KT 9999 FEW017CB SCT020 OVC220 25/23 Q1010 RE TS=  918 SAID31 WIII 131100 WIII 131100Z 01006KT 9999 (02) FEW025 SCT130 28/23 Q1010 NOSIG= WIHH 131100Z 04004KT 5000 HZ FEW020 30/20 Q1011 NOSIG= WIMM 131100Z 00000KT 5000 RA FEW016CB BKN017 24/22 Q1010 NOSIG = WAAA 131100Z 35005KT 8000 R13/P1500 R31//////N HZ FEW020 30/22 Q1010 NOSIG= WADD 131100Z 12010KT 9999 SCT018 25/22 Q1013 NOSIG= WARR 08015KT 9999 FEW020 28/22 Q1011 NSG= WABB NIL= WIPT 131100Z 18009KT 7000 BKN016 27/23 Q1011 RMK RA TO NE=  919 SPUS52 KWBC 131111 SPECI KAHN 131107Z AUTO 11004KT 2SM RA BR OVC005 18/17 A2996=  920 SPUS53 KWBC 131111 SPECI KHTL 131108Z AUTO 01004KT 3/4SM BR OVC001 14/14 A2985=  946 SPUS54 KWBC 131111 SPECI KSMP 131108Z AUTO 27007KT 1/4SM FG BKN002 OVC025 10/08 A3010=  562 SAMX34 MMMD 131100 METAR MMCZ 131100Z NIL= METAR MMUN 131045Z 00000KT 7SM SCT018 25/24 A2993 RMK 8/500= METAR MMMD 131043Z 00000KT 6SM SKC 24/24 A2991 RMK HZY= METAR MMTP 131100Z NIL=  564 SAAL41 DAMM 131100 RRA METAR DAUI 131100Z 20016KT 4000 NSC 35/12 Q1015=  849 SXUS81 KWOH 131107 RRSSGX :&&HADS SOR REPORT FOR USER SGX .A RCPC1 20060913 DH1102/PPHRG 0.00 .A FHCC1 20060913 DH1101/PPHRG 0.00 :END OF REPORT  030 SAUS43 KIND 131111 MTRIND SPECI KIND 131110Z 28008KT 7SM -DZ BKN008 OVC015 14/14 A2986 RMK AO2 CIG 005V012 P0000  059 SXUS81 KWOH 131109 RRSSGX :&&HADS SOR REPORT FOR USER SGX .A GSPC1 20060913 DH1100/PPHRG 0.00 .A ILVC1 20060913 DH1100/PPHRG 0.00 .A NCKC1 20060913 DH1045/PPHRG 0.00 .A CCCC1 20060913 DH1045/PPHRG 0.00 .A SMJC1 20060913 DH1100/PPHRG 0.00 .A PDRC1 20060913 DH1100/PPHRG 0.00 :END OF REPORT  072 SACA31 TNCC 131100 METAR TNCA 131100Z 09008KT 9999 FEW020 BKN350 28/24 Q1010= METAR TNCB 131100Z NIL= METAR TNCC 131100Z 12008KT 090V160 9999 SCT016 BKN350 27/24 Q1011= METAR TNCE 131100Z VRB01KT 9999 FEW022 26/22 Q1014=  075 SAUS80 KWBC 131112 METAR KMKN 131105Z AUTO 33005KT 10SM 17/14 A3009 RMK AO2= KSEP 131105Z AUTO 00000KT 10SM CLR 16/15 A3008 RMK AO1= KPSN 131105Z AUTO 35005KT 10SM CLR 18/15 A3002 RMK AO2= KSOA 131105Z AUTO 03003KT 10SM FEW032 19/17 A3007 RMK AO2=  076 SPAL31 KWBC 131112 SPECI DAUA 130836Z 19010KT 2500 HZ NSC 31/15 Q1012=  077 SPUS70 KWBC 131112 SPECI KAZO 131107Z 36003KT 1/4SM FG OVC007 17/16 A2980 RMK AO2 CIG 001V009= KFCM 131108Z AUTO 00000KT 1 3/4SM BR CLR 08/08 A3001 RMK AO2= KGMU 131108Z 04007KT 2 1/2SM +RA BR BKN013 BKN019 OVC040 17/16 A3002 RMK AO2 P0004= KHKY 131108Z 00000KT 3SM +RA BR BKN004 OVC009 16/15 A3004 RMK AO2 P0004= KIPT 131108Z 10008KT 050V130 7SM -RA BKN013 OVC041 13/11 A3004 RMK AO2 P0000= KIZG 131108Z AUTO 00000KT 3/4SM BR VV001 04/04 A3012 RMK AO2= KMYF 131108Z AUTO 00000KT 6SM BR SCT005 18/16 A2988 RMK AO2 TSNO= KWVI 131108Z AUTO 19003KT 1/2SM FG VV001 12/12 A2990 RMK AO2= KAOH 131108Z AUTO 17008KT 4SM BR SCT006 OVC012 18/17 A2982 RMK AO2 PNO $= KBIV 131108Z AUTO 01004KT 4SM RA BR FEW003 OVC008 18/16 A2981 RMK AO2 P0002= KEYE 131108Z AUTO 26004KT 8SM SCT006 BKN010 OVC021 15/13 A2986 RMK AO2 CIG 007V012= KLOU 131108Z AUTO 29007KT 7SM FEW009 OVC014 17/16 A2988 RMK AO2=  079 SPCN31 CWAO 131109 SPECI CYQX 131109Z 06013G21KT 12SM -RA BKN006 BKN077 OVC120 10/ RMK SF6AC2AS1=  080 SAAO31 KWBC 131100 RRC METAR GMTN 131100Z 08010KT 8000 SCT016 SCT100 25/20 Q1013=  081 SAUS80 KWBC 131100 RRE METAR KJQF 131055Z 00000KT 3SM -RA SCT046 OVC060 17/16 A3005=  082 SAAW33 KWBC 131100 RRB METAR OMRK 131100Z 33010KT CAVOK 40/24 Q1001 (A2958)=  083 SAAG31 KWBC 131100 RRA METAR SABE 131100Z 09010KT 9999 SCT020 BKN100 11/08 Q1019= SACO 131100Z 32003KT CAVOK 05/M01 Q1018= SAME 131100Z 27002KT CAVOK 06/M00 Q1015= SARF 131100Z 23008KT 9999 SCT035 FEW040 18/15 Q1010=  084 SAAF36 KWBC 131100 RRA METAR HKJK 131100Z NIL= HKMO 131100Z 15010KT 9999 FEW025 SCT100 29/20 Q1017=  085 SAUS70 KWBC 131112 METAR KDUX 131107Z AUTO 18004KT 5SM BR SCT065 13/12 A3016 RMK AO2= KE38 131105Z AUTO 23003KT 10SM CLR 13/13 A3018 RMK AO2= KEBG 131103Z AUTO 35004KT 5SM DZ BKN003 BKN016 OVC085 23/23 A2993 RMK AO2= KF05 131105Z AUTO 00000KT 10SM CLR 16/13 A3010 RMK AO2= KFWS 131105Z AUTO 00000KT 10SM CLR 16/14 A3007 RMK AO2= KGNC 131105Z AUTO 00000KT 10SM CLR 16/16 A3018 RMK AO2= KGOP 131105Z AUTO 00000KT 10SM CLR 19/16 A3006 RMK AO2 TSNO= KGPM 131105Z AUTO 01006KT 10SM CLR 17/13 A3005 RMK AO1= KGVT 131105Z AUTO 34004KT 10SM CLR 14/13 A3005 RMK AO2= KGYB 131105Z AUTO 01004KT 10SM BKN060 21/20 A3001 RMK AO2= KHHF 131107Z AUTO 00000KT 10SM CLR 11/10 A3010 RMK AO2= KIJX 131105Z AUTO 30004KT 7SM OVC007 14/13 A2993 RMK AO2 TSNO= KIKK 131105Z AUTO 30004KT 10SM -VCTSRA SCT070 BKN080 OVC090 17/17 A2983 RMK AO2 LTG DSNT W THRU NE= KJOT 131105Z AUTO 35006KT 5SM +VCTSRA OVC007 15/14 A2983 RMK AO2 P0000 LTG DSNT ALQS= KJSO 131107Z AUTO 36005KT 10SM CLR 18/16 A3001 RMK AO2= KLHB 131102Z AUTO 00000KT 10SM CLR 19/16 A3000 RMK AO2= KM30 131105Z AUTO 00000KT 10SM SCT038 15/13 A2994 RMK AO2 LTG DSNT N= KTIP 131105Z AUTO 26006KT 2 1/2SM VCTS BR OVC004 15/12 A2987 RMK AO2 LTG DSNT N AND NE= KJAS 131105Z AUTO 01004KT 10SM CLR 20/18 A2996 RMK AO2= KJDD 131105Z AUTO 00000KT 8SM CLR 16/14 A3006 RMK AO2= KJWY 131101Z AUTO 36004KT 10SM CLR 17/13 A3005 RMK AO2= KJXI 131105Z AUTO 34004KT 10SM CLR 16/14 A3003 RMK AO2= KLBR 131105Z AUTO 32003KT 7SM CLR 14/13 A3003 RMK AO1= KLUD 131105Z AUTO 00000KT 10SM CLR 15/13 A3007 RMK AO2= KMQB 131105Z AUTO 31008KT 5SM BR OVC007 15/14 A2993 RMK AO2 LTG DSNT NE= KMWA 131105Z AUTO 00000KT 10SM CLR 15/13 A2995 RMK AO2= KORG 131105Z AUTO 27004KT 5SM BR CLR 22/21 A2993 RMK AO2= KOSA 131105Z AUTO 34005KT 10SM CLR 15/14 A3004 RMK AO1= KPCM 131105Z AUTO 00000KT 10SM CLR 22/21 A2997 RMK AO2= KPKV 131105Z AUTO 31003KT 10SM CLR 23/22 A2994 RMK AO2= KRBO 131105Z AUTO 34006KT 7SM BKN100 BKN120 23/23 A2993 RMK AO2= KRZN 131105Z AUTO 00000KT 3/4SM BR OVC001 02/01 A3002 RMK AO2= KT82 131107Z AUTO 00000KT 10SM CLR 22/19 A3007 RMK AO1= KASW 131105Z AUTO 24005KT 1SM BR OVC002 16/15 A2982 RMK AO2= KECU 131105Z AUTO 35003KT 10SM OVC002 21/21 A3013 RMK AO2= KPPA 131106Z AUTO 21009KT 10SM CLR 15/12 A3015 RMK AO2= KPVW 131105Z AUTO 21004KT 10SM CLR 13/12 A3016 RMK AO2= KRAS 131105Z AUTO 34009KT 10SM SCT100 25/25 A2995 RMK AO2= KRWV 131105Z AUTO 36005KT 10SM SCT090 21/18 A3002 RMK AO2= KSNK 131105Z AUTO 04003KT 10SM SCT100 16/15 A3014 RMK AO2= KT65 131105Z AUTO 31003KT 10SM 25/25 A2993 RMK AO2= KUVA 131105Z AUTO 00000KT 10SM BKN050 23/22 A3001 RMK AO2= KVVG 131105Z AUTO 00000KT 9SM 23/23 A2995 RMK AO2=  086 SPUS80 KWBC 131112 SPECI KHTL 131108Z AUTO 01004KT 3/4SM BR OVC001 14/14 A2985 RMK AO2= KSMP 131108Z AUTO 27007KT 1/4SM FG BKN002 OVC025 10/08 A3010 RMK AO2 TSNO=  087 SABZ31 KWBC 131100 RRA METAR SBBV 131100Z 00000KT 5000 -RA SCT005 BKN020 BKN100 24/23 Q1014=  088 SASD20 OEJD 131100 METAR OEAB 131100Z 30006KT 9999 SCT022 FEW030CB 30/M05 Q1022 NOSIG= METAR OEAH 131100Z 10002KT CAVOK 43/10 Q1005= METAR OEBA 131100Z 33020KT 34/M01 Q1019 NOSIG= METAR OEBH 131100Z NIL= METAR OEDF 131100Z VRB03KT CAVOK 44/00 Q1003 NOSIG= METAR OEDM 131100Z 05015G28KT CAVOK 39/M06 Q1012= METAR OEDR 131100Z NIL= METAR OEGN 131100Z 25009KT CAVOK 36/28 Q1005 NOSIG= METAR OEGS 131100Z 04014KT CAVOK 40/05 Q1011= METAR OEGT 131100Z NIL= METAR OEHL 131100Z NIL= METAR OEJN 131100Z 29014KT 8000 SKC 3727 Q1004 NOSIG= METAR OEKB 131100Z 06004KT 9999 FEW045 42/01 Q////= METAR OEKJ 131100Z NIL= METAR OEKK 131100Z 30012KT CAVOK 42/11 Q1009= METAR OEKM 131100Z 06010KT 9999 FEW025 30/06 Q1021 NOSIG= METAR OEMA 131100Z 03008KT CAVOK 42/M04 Q1010 NOSIG= METAR OEMH 131100Z 27002KT CAVOK 40/M04 Q1016= METAR OEMK 131100Z 34006KT CAVOK 45/05 Q1005= METAR OENG 131100Z NIL= METAR OEPA 131100Z 35012KT CAVOK 42/05 Q1007= METAR OERF 131100Z NIL= METAR OERK 131100Z 01009KT CAVOK 40/M02 Q1010 NOSIG= METAR OERR 131100Z 36004KT CAVOK 37/13 Q1013= METAR OERY 131100Z 04004KT CAVOK 40/M03 Q1011 NOSIG= METAR OESH 131030Z 00000KT CAVOK 40/11 Q1008 NOSIG= METAR OESK 131100Z 04004KT CAVOK 39/11 Q1014= METAR OETB 131100Z 00000KT CAVOK 37/14 Q1016 NOSIG= METAR OETF 131100Z NIL= METAR OETR 131100Z NIL= METAR OEWD 131100Z NIL= METAR OEWJ 13100Z 30016KT CAVOK 33/28 Q1007= METAR OEYN 131100Z 26015KT CAVOK 44/21 Q1005 NOSIG=  090 SAUS70 KWBC 131100 RRJ METAR KCPT 131100Z AUTO 10SM CLR 17/14 A3008 RMK AO2= KGYI 131100Z AUTO 00000KT 7SM CLR 14/13 A3006 RMK AO2= KGDJ 131100Z AUTO 27003KT 10SM CLR 16/15 A3008 RMK AO2=  091 SPXX60 KWBC 131112 SPECI KOZR 131105Z VRB01KT 5SM BR SCT005 BKN007 OVC016 23/22 A2988=  094 SAEM31 KWBC 131100 RRD METAR LOAV 131100Z 16010G22KT 40KM FEWCI Q1022 FEW= LOIH 131100Z VRB01KT 35KM FEW060CU 23/11 Q1017 FEW= LOWZ 131100Z VRB02KT 40KM FEW070CU 21/10 Q1017 FEW=  095 SAFR41 KWBC 131100 RRB METAR LFTH 131100Z 11013KT 9999 SCT036 SCT210 26/19 Q1017 NOSIG=  188 SATS31 KWBC 131100 RRA METAR DTMB 131100Z 00000KT 5000 -TS FEW013 BKN016TCU FEW030CB 27/25 Q1016 RMK CB/E/SE TEMPO -TSSHRA=  189 SASD44 KWBC 131100 RRA METAR OETF 131100Z NIL=  190 SAID31 KWBC 131100 RRA METAR WAAA 131100Z 35005KT 8000 R13/P1500 R31//////N HZ FEW020 30/22 Q1010 NOSIG= WIII 131100Z 01006KT 9999 (02) FEW025 SCT130 28/23 Q1010 NOSIG= WIMM 131100Z 00000KT 5000 RA FEW016CB BKN017 24/22 Q1010 NOSIG=  194 SAAW32 KWBC 131100 RRC METAR OIII 131055Z 00000KT 9999 FEW040 32/18 Q1015 A2999 880.5= ORBS 131100Z NIL=  197 SAKN41 KWBC 131100 RRA METAR HKEL 131100Z 12010KT 9999 SHRA FEW023CB BKN024 23/12 Q1024= HKKI 131100Z NIL=  199 SARA31 KWBC 131100 RRC METAR UBBG 131100Z NIL=  201 SAAS31 KWBC 131100 RRB METAR VOCI 131100Z NIL=  205 SASA31 KWBC 131100 RRC METAR SYCJ 131100Z 18004KT 9000 SCT017 BKN300 24/23 Q1013 TEMPO SHRA=  207 SAFR32 KWBC 131100 RRC METAR LFRB 131109Z 21013KT 180V250 9999 FEW016 SCT026 BKN230 21/16 Q1008 NOSIG=  210 SPUS43 KWBC 131112 SPECI KAZO 131107Z 36003KT 1/4SM FG OVC007 17/16 A2980=  378 SAUS42 KWBC 131100 RRB METAR KGLE 131104Z AUTO 34004KT 10SM CLR 14/13 A3008=  379 SAUS44 KWBC 131100 RRB METAR KBPG 131105Z AUTO 00000KT 10SM CLR 17/15 A3016= KBYY 131105Z AUTO 32004KT 10SM CLR 22/22 A2993=  387 SAUS43 KWBC 131100 RRB METAR K1H2 131105Z AUTO 27007KT 10SM SCT020 BKN026 OVC041 15/13 A2988= KAAA 131105Z AUTO 30005KT 3SM BR OVC006 16/15 A2989= KC75 131103Z AUTO 36006KT 5SM BR 17/15 A2988= KDKB 131105Z AUTO 33009G14KT 3SM VCTS BR OVC003 13/12 A2987= KENL 131105Z AUTO 27006KT 10SM BKN017 OVC024 16/11 A2993= KFOA 131105Z AUTO 28009KT 10SM BKN014 OVC023 16/15 A2992= KFWC 131106Z AUTO 27004KT 10SM BKN017 BKN023 OVC028 16/14 A2992= KGBG 131106Z AUTO 33008KT 2SM RA OVC006 13/13 A2992= KGBG 131104Z AUTO 32008KT 2SM RA OVC006 13/13 A2992= KHSB 131105Z AUTO 00000KT 7SM CLR 13/12 A2993= KIGQ 131105Z AUTO 24005KT 10SM TS SCT007 OVC015 16/15 A2982= KIJX 131105Z AUTO 30004KT 7SM OVC007 14/13 A2993= KIKK 131105Z AUTO 30004KT 10SM -VCTSRA SCT070 BKN080 OVC090 17/17 A2983= KJOT 131105Z AUTO 35006KT 5SM +VCTSRA OVC007 15/14 A2983= KLOT 131105Z AUTO 36012KT 3SM +TSRA SCT005 BKN010 OVC019 16/15 A2982= KOLY 131105Z AUTO 28006KT 10SM 16/16 A2990= KPNT 131105Z AUTO 32007KT 10SM +TSRA BKN006 BKN012 OVC018 16/15 A2985= KPPQ 131104Z AUTO 29006KT 10SM OVC011 15/13 A2995= KSAR 131105Z AUTO 26006KT 10SM OVC020 16/13 A2995= KSLO 131105Z AUTO 29004KT 10SM SCT006 SCT010 OVC031 16/13 A2993= KTIP 131105Z AUTO 26006KT 2 1/2SM VCTS BR OVC004 15/12 A2987= KVYS 131107Z AUTO 34011KT 5SM VCTSDZ OVC006 15/14 A2987=  426 SAUS44 KMRX 131112 MTRTYS SPECI KTYS 131110Z 05003KT 9SM FEW004 BKN011 OVC040 18/17 A2994 RMK AO2  627 SXUS81 KWOH 131110 RRSSGX :&&HADS SOR REPORT FOR USER SGX .A CMNC1 20060913 DH1103/PCIRG 0.16 .A CMNC1 20060913 DH1103/USIRG 0.00 .A CMNC1 20060913 DH1103/UDIRG 198 .A CMNC1 20060913 DH1103/TAIRG 58.0 .A CMNC1 20060913 DH1103/MTIRG 56 .A CMNC1 20060913 DH1103/XRIRG 40 .A CMNC1 20060913 DH1103/VBIRG 12.40 .A CMNC1 20060913 DH1103/MMIRG 5 .A CMNC1 20060913 DH1103/URHRG 127 .A CMNC1 20060913 DH1103/UPHRG 4.00 .A MLGC1 20060913 DH1103/PCIRG 0.11 .A MLGC1 20060913 DH1103/USIRG 0.00 .A MLGC1 20060913 DH1103/UDIRG 201 .A MLGC1 20060913 DH1103/TAIRG 54.0 .A MLGC1 20060913 DH1103/MTIRG 54 .A MLGC1 20060913 DH1103/XRIRG 64 .A MLGC1 20060913 DH1103/VBIRG 12.50 .A MLGC1 20060913 DH1103/MMIRG 10 .A MLGC1 20060913 DH1103/URHRG 201 .A MLGC1 20060913 DH1103/UPHRG 0.00 .A OGVC1 20060913 DH1104/PCIRG 0.75 .A OGVC1 20060913 DH1104/USIRG 1.00 .A OGVC1 20060913 DH1104/UDIRG 134 .A OGVC1 20060913 DH1104/TAIRG 65.0 .A OGVC1 20060913 DH1104/MTIRG 63 .A OGVC1 20060913 DH1104/XRIRG 42 .A OGVC1 20060913 DH1104/VBIRG 12.20 .A OGVC1 20060913 DH1104/MMIRG 0 .A OGVC1 20060913 DH1104/URHRG 95 .A OGVC1 20060913 DH1104/UPHRG 6.00 .A ECSC1 20060913 DH1104/PCIRG 0.13 .A ECSC1 20060913 DH1104/USIRG 0.00 .A ECSC1 20060913 DH1104/UDIRG 166 .A ECSC1 20060913 DH1104/TAIRG 73.0 .A ECSC1 20060913 DH1104/MTIRG 66 .A ECSC1 20060913 DH1104/XRIRG 30 .A ECSC1 20060913 DH1104/VBIRG 12.40 .A ECSC1 20060913 DH1104/MMIRG 6 .A ECSC1 20060913 DH1104/URHRG 15 .A ECSC1 20060913 DH1104/UPHRG 5.00 .E PCNC1 20060913 DH0715/HGIRG/DIN15/0.11/0.11/0.11/0.11/0.11/0.11/0.11/0.11 .E1 0.11/0.11/0.11/0.11/0.11/0.11/0.11/0.11 :END OF REPORT  715 SXUS91 KNKA 131109 TESTS KSGH 131106Z AUTO 21004KT 1 1/4SM -RA BR OVC005 18/18 A2985 RMK AO2 RAB1057 P0000 $=  801 SAHK31 VHHH 131100 METAR VHHH 131100Z 08009KT 7000 -SHRA FEW005 SCT020 BKN050 25/24 Q1008 NOSIG= METAR RCTP 131100Z 05012KT 7000 -SHRA FEW008 BKN017 OVC050 27/23 Q1012 NOSIG= METAR RCKH 131100Z 05006KT 9999 FEW012 BKN080 28/23 Q1011 NOSIG= METAR RCSS 131100Z 10008KT 7000 -SHRA FEW012 BKN035 BKN050 26/23 Q1012 NOSIG= METAR VMMC 131100Z 03009KT 330V110 5000 -SHRA FEW003 SCT010 BKN045 24/23 Q1008 NOSIG= METAR RPLL 131100Z NIL= METAR RPVM 131100Z NIL= METAR RPMD 131100 00000KT 10KM FEW016 BKN290 28/24 Q1010= METAR RPLB 131100Z NIL= METAR RPLI 131100Z NIL= METAR RPMZ 131100Z NIL=  852 SAPS31 NZKL 131100 METAR NCRG 131100Z 15003KT 45KM SCT016 21/20 Q1020 RMK: DEW= METAR NFTF 131100Z 13005KT 9999 SCT016 22/20 Q1020= METAR NGFU 131100Z 07008KT 50KM FEW020 29/25 Q1012= METAR NIUE 131100Z AUTO 17003KT //// ////// 21/21 Q1019= METAR NSFA 131100Z 00000KT 45KM FEW030 22/21 Q1015=  858 SACN63 CWAO 131100 RRA WMT SA 1100 AUTO8 M M M 206/02/01/3507/M/M 3012 55MM=  859 SACN90 CWAO 131100 RRA WEI SA 1100 AUTO8 M M M 130/07/07/0503/M/ 6008 46MM= WEL SA 1100 AUTO8 M M M 180/15/M/2922/M/ PK WND 2928 1012Z 5001 3MMM= WER SA 1100 AUTO8 M M M M/M/M/2407/M/M M MMMM= WFE SA 1100 AUTO8 M M M M/09/08/3002/M/0018 M 88MM= WFF SA 1100 AUTO8 M M M 137/09/05/1404/M/ 6015 13MM= WFJ SA 1100 AUTO8 M M M M/11/03/3411+20/M/ PK WND 3420 1059Z M 93MM= WFO SA 1100 AUTO8 M M M 142/06/05/0000/M/ 8006 37MM= WFP SA 1100 AUTO8 M M M 085/12/06/2506/M/ 5001 91MM= WFW SA 1100 AUTO7 M M M 165/10/07/3210/M/ 5004 55MM= WGB SA 1100 AUTO8 M M M 190/15/11/3118/M/ PK WND 3122 1034Z 8003 61MM= WGH SA 1100 AUTO8 M M M 150/12/12/1905/M/M 6015 33MM=  860 SACN95 CWAO 131100 RRA WTA SA 1100 AUTO8 M M M 187/11/08/3602/M/ 5005 54MM= WTG SA 1100 AUTO8 M M M 161/08/07/2604/M/ 5004 40MM= WTN SA 1100 AUTO8 M M M 185/10/05/3404/M/ 5002 21MM= WUK SA 1100 AUTO8 M M M M/02/02/2701/M/ M 40MM= WUS SA 1100 AUTO8 M M M 133/18/05/3206/M/ 8009 12MM= WUT SA 1100 AUTO8 M M M 136/12/12/0805/M/ 6008 19MM= WUX SA 1100 AUTO7 M M M M/01/01/2102/M/ M 08MM= WUY SA 1100 AUTO7 M M M 159/11/08/0902/M/ 6008 71MM= WVN SA 1100 AUTO8 M M M 090/05/-01/0405/M/ 8015 96MM= WVP SA 1100 AUTO8 M M M 096/11/05/1405/M/ 8022 07MM= WVU SA 1100 AUTO8 M M M 176/13/11/2806/M/ 5001 90MM= WVW SA 1100 AUTO8 M M M 000/11/11/0435+46/M/M PK WND 0346 1000Z PRESFR 8070 48MM= WVY SA 1100 AUTO8 M M M 199/00/00/0000/M/ 0000 11MM= WWF SA 1100 AUTO8 M M M 096/13/06/1211/M/ 8024 14MM= WWK SA 1100 AUTO8 M M M 190/14/11/2702/M/ 7006 03MM= WWP SA 1100 AUTO8 M M M 141/13/09/0803/M/ 6006 39MM=  862 SACN87 CWAO 131100 RRA WJD SA 1100 AUTO8 M M M 133/07/06/1903/M/ 8004 74MM= WZG SA 1100 AUTO8 M M M 131/08/04/0209/M/ PK WND 0217 1006Z 5002 44MM=  863 SACN45 CWAO 131100 RRA METAR CYZS 131100Z 35010KT 15SM BKN015 OVC070 04/03 A2962 RMK SC6AC1 SLP033=  864 SACN96 CWAO 131100 RRA WXS SA 1100 AUTO8 M 9.+ M 139/12/09/2607/M/ 7004 45MM= WYH SA 1100 AUTO8 M M M 210/03/01/3310/M/M 1013 96MM= WYI SA 1100 AUTO8 M M M 072/12/11/0527/M/M PK WND 0632 1052Z PRESFR 8043 45MM= WYY SA 1100 AUTO8 M M M 112/20/04/3607/M/ 8008 77MM= WZA SA 1100 AUTO8 M M M 180/15/13/1602/M/ 6008 53MM= WZE SA 1100 AUTO8 M M M M/12/12/0506/M/ M 55MM= WZL SA 1100 AUTO8 M M M 258/13/08/2908/M/ 8002 61MM= WZT SA 1100 AUTO8 M M M M/09/M/MMMM/M/ M 9MMM= XBD SA 1100 AUTO8 M M M 140/09/08/MMMM/M/0046 PCPN 1.0MM PAST HR 8014 02MM= XBQ SA 1100 AUTO8 M M M 118/08/06/2706/M/ 2008 09MM= XHM SA 1100 AUTO8 M M M M/18/18/2501/M/0088 M 77MM= XKA SA 1100 AUTO8 M M M 133/08/06/1702/M/ 6007 88MM= XKE SA 1100 AUTO8 M M M 155/13/11/1204/M/ 6014 56MM= XPT SA 1100 AUTO8 M M M M/17/15/MMMM/M/M M 62MM= ZOC SA 1100 AUTO8 M M M 271/-01/-01/0301/M/ 1009 24MM= ZPK SA 1100 AUTO8 M M M 256/02/00/3408/M/0002 1020 8-2MM=  865 SACN98 CWAO 131100 RRA XLB SA 1100 AUTO8 M M M 148/12/07/3012/M/ 0003 75MM= XPC SA 1100 AUTO8 M M M 099/13/13/0601/M/0008 7010 44MM= XRB SA 1100 AUTO8 M M M M/-06/-07/3407/M/M M 03MM= XVN SA 1100 AUTO8 M M M 092/17/16/1905/M/0026 6009 39MM= XZV SA 1100 AUTO8 M M M 153/05/04/0601/M/ 5004 69MM= ZMJ SA 1100 AUTO8 M M M 094/12/09/0710/M/ 7023 25MM=  866 SACN66 CWAO 131100 RRA PQW SA 1100 AUTO8 M M M 152/10/08/3509/M/0002 PCPN 0.2MM PAST HR 3008 45MM= WBU SA 1100 AUTO8 M M M 138/05/04/3505/M/ 6014 96MM= WIK SA 1100 AUTO8 M M M 121/13/10/0807/M/0010 6015 63MM=  867 SACN91 CWAO 131100 RRA WGR SA 1100 AUTO8 M M M 088/15/12/3314/M/ PK WND 3218 1002Z 6023 90MM= WGW SA 1100 AUTO8 M M M 108/09/04/0703/M/ 6013 96MM= WGY SA 1100 AUTO8 M M M 141/09/09/0117+23/M/0016 PCPN 0.2MM PAST HR PK WND 3523 1011Z 0015 22MM= WHL SA 1100 AUTO8 M M M 246/10/M/1405/M/M 8009 3MMM= WHM SA 1100 AUTO8 M M M M/07/06/0703/M/M M 63MM= WHY SA 1100 AUTO7 M M M 196/09/04/2206/M/ 5003 20MM= WIX SA 1100 AUTO7 M M M 190/04/04/1202/M/M 6003 77MM=  868 SACN93 CWAO 131100 RRA WNC SA 1100 AUTO8 M M M 113/16/15/1413/M/0060 PCPN 0.8MM PAST HR PK WND 1517 1017Z 6015 56MM= WNQ SA 1100 AUTO7 M M M 189/06/06/0706/M/M 5002 19MM= WOC SA 1100 AUTO8 M M M 140/10/05/3408/M/ 6003 19MM= WOE SA 1100 AUTO8 M M M 104/10/04/0609/M/ 6022 73MM= WON SA 1100 AUTO8 M M M 273/08/04/2308/M/0004 PCPN 0.4MM PAST HR 3015 69MM= WPE SA 1100 AUTO8 M M M 160/10/07/3104/M/ 0000 07MM= WPF SA 1100 AUTO8 M M M 183/12/10/0501/M/ 8006 11MM= WPG SA 1100 AUTO8 M M M 131/12/12/3103/M/ 2003 08MM= WPR SA 1100 AUTO8 M M M 159/10/05/2801/M/ 8010 06MM= WPZ SA 1100 AUTO8 M M M 215/01/-01/3601/M/ 8005 66MM=  869 SACN94 CWAO 131100 RRA WQF SA 1100 AUTO8 M M M M/04/02/0703/M/0009 PCPN 0.9MM PAST HR M 94MM= WQL SA 1100 AUTO8 M M M 093/11/05/3118/M/ PK WND 3026 1051Z 3005 33MM= WSG SA 1100 AUTO7 M M M 168/06/04/2010/M/ 5003 17MM= WSK SA 1100 AUTO8 M M M 167/11/10/0601/M/ 8006 44MM= WSL SA 1100 AUTO8 M M M 141/16/11/0703/M/0002 PCPN 0.2MM PAST HR 3009 49MM= WSN SA 1100 AUTO8 M M M 098/18/17/MMMM/M/0061 5000 11MM= WSV SA 1100 AUTO8 M M M 163/08/07/0000/M/ 8006 86MM=  892 SACN85 CWAO 131100 RRA WPK SA 1100 AUTO8 M M M 195/00/00/0501/M/ 8009 00MM=  893 SAID31 WIII 131100 WIII 131100Z 01006KT 9999 (02) FEW025 SCT130 28/23 Q1010 NOSIG= WIHH 131100Z 04004KT 5000 HZ FEW020 30/20 Q1011 NOSIG= WIMM 131100Z 00000KT 5000 RA FEW016CB BKN017 24/22 Q1010 NOSIG = WAAA 131100Z 35005KT 8000 R13/P1500 R31//////N HZ FEW020 30/22 Q1010 NOSIG= WADD 131100Z 12010KT 9999 SCT018 25/22 Q1013 NOSIG= WARR 08015KT 9999 FEW020 28/22 Q1011 NSG= WABB NIL= WIPT 131100Z 18009KT 7000 BKN016 27/23 Q1011 RMK RA TO NE=  894 SACN89 CWAO 131100 RRA WAW SA 1100 AUTO8 M M M 133/12/09/MMMM/M/ 3004 87MM= WBO SA 1100 AUTO8 M M M 101/10/05/0313+20/M/ PK WND 0525 1041Z 6008 38MM= WBS SA 1100 AUTO8 M M M M/09/08/0310/M/M M 70MM= WBT SA 1100 AUTO8 M M M 146/02/02/2401/M/ 6005 55MM= WBY SA 1100 AUTO8 M M M 141/09/06/0204/M/ 6004 80MM= WBZ SA 1100 AUTO8 M M M 176/09/09/0000/M/ 6003 76MM= WCH SA 1100 AUTO8 M M M 157/02/02/0000/M/ 8003 49MM= WDJ SA 1100 AUTO8 M M M 090/14/08/0815/M/M PK WND 0721 1031Z 6026 21MM= WDK SA 1100 AUTO8 M M M 133/09/05/3510/M/ 1020 11MM= WDQ SA 1100 AUTO8 M M M 205/04/04/0602/M/ 5002 21MM= WDW SA 1100 AUTO8 M M M 100/10/08/MMMM/M/ 8015 14MM= WDZ SA 1100 AUTO8 M M M 129/10/07/0417/M/ PK WND 0526 1024Z 8008 06MM=  895 SACN46 CWAO 131100 RRA METAR CYXL 131100Z 20004KT 15SM BKN035 13/09 A2993 RMK SC5 SLP139=  896 SACN88 CWAO 131100 RRA AFY SA 1100 AUTO7 M M M M/09/05/MMMM/M/ M 32MM= AKC SA 1100 AUTO7 M M M M/07/05/MMMM/M/ M 07MM= AOH SA 1100 AUTO8 M M M 126/10/09/2903/M/ 3005 89MM= APR SA 1100 AUTO8 M M M 145/07/07/3003/M/ 1001 29MM= AQY SA 1100 AUTO8 M M M 056/13/10/3419/M/0007 PCPN 0.7MM PAST HR PK WND 3530 1018Z 6012 24MM= AVA SA 1100 AUTO8 M M M 045/11/10/0730+39/M/0014 PCPN 1.4MM PAST HR PK WND 0739 1057Z PRESFR 8057 06MM= ERM SA 1100 AUTO8 M M M 189/01/00/3101/M/ 5000 63MM= WZF SA 1100 AUTO8 M M M M/09/07/2906/M/M M 70MM= XGD SA 1100 AUTO8 M M M 062/10/09/MM15/M/ PK WND MM21 1044Z 8046 92MM=  897 SPCN47 CWAO 131111 SPECI CYWA 131111Z AUTO 12006KT 9SM BKN016 OVC042 13/09 A2997=  898 SACN82 CWAO 131100 RRA MAN SA 1100 AUTO8 M M M M/06/06/3302/M/ M 00MM= MCW SA 1100 AUTO8 M M M M/11/09/1801/M/ M 90MM= MGB SA 1100 AUTO8 M M M M/09/08/3401/M/ M 18MM= MSB SA 1100 AUTO8 M M M M/07/07/0000/M/ M 33MM= MSC SA 1100 AUTO8 M M M M/03/03/0303/M/ M 11MM= MSR SA 1100 AUTO8 M M M M/08/05/2004/M/ M 51MM= MWD SA 1100 AUTO7 M M M M/02/M/2101/M/ M 3MMM=  899 SACN97 CWAO 131100 RRA XBO SA 1100 AUTO8 M M M M/06/05/2603/M/ M 24MM= XCA SA 1100 AUTO8 M M M 149/03/03/2001/M/ 6006 43MM= XCH SA 1100 AUTO7 M M M M/15/12/MMMM/M/ M 99MM= XDW SA 1100 AUTO8 M M M M/12/09/2806/M/ M 04MM= XEC SA 1100 AUTO8 M M M M/10/10/MMMM/M/0006 M 99MM= XGH SA 1100 AUTO8 M M M M/14/14/3504/M/M M 66MM= XHA SA 1100 AUTO8 M M M 081/18/18/2305/M/0146 5004 47MM= XLU SA 1100 AUTO8 M M M 176/05/01/0101/M/ 1013 73MM= XMY SA 1100 AUTO8 M M M M/13/10/MMMM/M/ M 70MM= XSH SA 1100 AUTO7 M M M 189/04/04/3303/M/ 7003 65MM= XTL SA 1100 AUTO8 M M M 211/11/03/3607/M/ 8003 80MM= XVG SA 1100 AUTO8 M M M 135/09/08/2903/M/0040 8005 75MM= XWN SA 1100 AUTO8 M M M 123/13/11/0601/M/ 5001 86MM=  900 SACN43 CWAO 131100 RRA METAR CWHN 131100Z AUTO 24002KT 9SM BKN070 09/ A2993 RMK SLP147=  901 SACN31 CWAO 131100 RRA METAR CYYT 131100Z 09017G30KT 3SM -RA OVC004 11/11 A2951 RMK ST8 SLP996=  902 SACN49 CWAO 131100 RRA METAR CYDP 131100Z 24008KT 15SM FEW080 BKN220 12/06 A2979 RMK AS2CS3 SLP089=  903 SPCN43 CWAO 131110 SPECI CYET 131110Z AUTO 27002KT 9SM SCT076 BKN088 07/05 A2999=  904 SACN92 CWAO 131100 RRA WJR SA 1100 AUTO8 M M M 104/15/06/0605/M/ 8013 61MM= WJT SA 1100 AUTO8 M M M 185/04/04/0301/M/ 6007 99MM= WJV SA 1100 AUTO8 M M M M/16/09/0000/M/ 8003 78MM= WKA SA 1100 AUTO8 M M M M/M/M/2912+19/M/M PK WND 2921 1037Z M MMMM= WKB SA 1100 AUTO8 M M M 077/09/08/0000/M/ 6027 26MM= WLV SA 1100 AUTO8 M M M 141/07/05/1001/M/ 8013 02MM= WMJ SA 1100 AUTO8 M M M 167/07/07/0303/M/ 8010 33MM= WMM SA 1100 AUTO8 M M M 182/13/13/1304/M/ 8006 40MM= WMQ SA 1100 AUTO8 M M M 087/06/06/0000/M/ 8024 07MM=  995 SAUS41 KRLX 131112 MTRCRW SPECI KCRW 131110Z 00000KT 6SM -RA BR OVC029 17/15 A2993 RMK AO2 RAB01 VLY FG P0000  040 SPCN31 KWBC 131113 SPECI CYQX 131109Z 06013G21KT 12SM -RA BKN006 BKN077 OVC120 10/ RMK SF6AC2AS1=  072 SPUS31 KWBC 131113 SPECI KLOU 131108Z AUTO 29007KT 7SM FEW009 OVC014 17/16 A2988=  076 SAUZ31 UTTW 131100 UTFN 131100Z 23003MPS 9999 SKC 30/07 Q1012 NOSIG RMK QFE957 2809//70= UTNN 131100Z 31004MPS CAVOK 22/02 Q1016 NOSIG 33CLRD70= UTNU 131100Z 29003MPS 240V340 9999 FEW050CB BKN100 22/09 Q1016 NOSIG RMK QFE753= UTSB 131100Z 29003G08MPS CAVOK 33/03 Q1011 NOSIG RMK = UTSS 131100Z 30008MPS 9999 FEW133 FEW233 29/M01 Q1013 TEMPO 28008G13MPS RMK QFE935 88CLRD70= UTST 131100Z 30003MPS CAVOK 33/08 Q1008 NOSIG RMK QFE 731= UTTP NIL= UTTT 131100Z 33002MPS 260V360 CAVOK 31/04 Q1012 NOSIG=  077 SAMX53 MMMZ 131100 METAR MMCN 131103Z RTD 00000KT 10SM FEW100 26/21 A2979 RMK 8/050 RTS= TX OPMET V1  078 SAVN26 SVMC 131100 METAR SVMC 131100Z 27005KT 9999 SCT010 CB/S BKN090 23/20 Q1011= METAR SVJC 131100Z 10015KT 9999 FEW015 BKN050 XX/XX Q1011= METAR SVSA 131100Z 00000KT 9999 BKN020 XX/XX Q1015= METAR SVCR 131100Z 10010KT 9999 SCT020 BKN150 XX/XX Q1011= METAR SVPM 131100Z NIL= METAR SVSZ 131100Z 24005KT 9999 BKN025 XX/XX Q1011= METAR SVVG 131100Z NIL= METAR SVMD 131100Z NIL= METAR SVLF 131100Z NIL=  079 SPCN48 CWAO 131112 SPECI CYOY 131112Z AUTO 00000KT 1 1/8SM 02/02 A3009 RMK VSBY VRBL 0.3V9.+=  080 SPUS31 KWBC 131113 SPECI KIND 131110Z 28008KT 7SM -DZ BKN008 OVC015 14/14 A2986=  091 SAAU32 YBBN 131100 METAR YSCB 131100Z AUTO 12005KT 9999NDV // NCD 10/02 Q1031= METAR YBCG 131100Z AUTO 20007KT 9999NDV // NCD 15/10 Q1031= METAR YMAV 131100Z AUTO 01013KT 9999NDV // NCD 14/06 Q1027= METAR YBRK 131100Z 13010KT 9999 FEW040 BKN065 18/12 Q1027= METAR YPKG 131100Z AUTO 13004KT 9999NDV // NCD 15/03 Q1026= METAR YPPD 131100Z 29007KT CAVOK 23/21 Q1015 RMK SMOKE HAZE= METAR YBRM 131100Z 30007KT CAVOK 23/20 Q1015= METAR YSNF 131100Z AUTO 17011KT 9999NDV // SCT039 BKN057 14/06 Q1026= METAR YSDU 131100Z AUTO 15006KT //// // ////// 10/04 Q1031= METAR YSRI 131100Z AUTO 00000KT 9999NDV // NCD 12/09 Q1032= METAR YWLM 131100Z 00000KT CAVOK 10/09 Q1033 RMK USE TAF FOR ARRIVALS AFTER 1200Z FM1300 VRB03KT 3000 BR FEW001= METAR YMLT 131100Z AUTO 33008KT 9999NDV // NCD 07/06 Q1027= METAR YMHB 131100Z 35012KT 9999 FEW040 BKN230 15/02 Q1022= METAR YPEA 131100Z 11005KT CAVOK 15/07 Q1025 NOSIG= METAR YCIN 131100Z AUTO 32003KT //// // ////// 22/08 Q1014= METAR YFRT 131100Z AUTO 14012KT //// // ////// 14/05 Q1028= METAR YPGV 131100Z AUTO 12007KT 9999NDV // NCD 22/18 Q1016= METAR YAMB 131100Z 21005KT CAVOK 13/08 Q1031 NOSIG= METAR YBHM 131100Z AUTO 12029KT //// // ////// 20/15 Q1024= METAR YBMA 131100Z AUTO 11005KT 9999NDV // NCD 22/02 Q1021=  092 SPCN43 CWAO 131110 SPECI CYKJ 131110Z AUTO 01002KT 9SM CLR 01/01 A2995=  129 SPUS42 KWBC 131113 SPECI KTYS 131110Z 05003KT 9SM FEW004 BKN011 OVC040 18/17 A2994=  165 SPUS51 KWBC 131113 SPECI KIPT 131108Z 10008KT 050V130 7SM -RA BKN013 OVC041 13/11 A3004=  166 SPUS52 KWBC 131113 SPECI KIPT 131108Z 10008KT 050V130 7SM -RA BKN013 OVC041 13/11 A3004=  218 SAAU31 YBBN 131100 METAR YSSY 131100Z 02008KT CAVOK 17/09 Q1032 NOSIG= METAR YMML 131100Z 35014KT CAVOK 14/04 Q1029 NOSIG= METAR YBBN 131100Z 19007KT 9999 FEW030 16/10 Q1031 NOSIG= METAR YPAD 131100Z 05007KT CAVOK 17/08 Q1026 RMK 5AC100= METAR YPDN 131100Z 10005KT CAVOK 25/14 Q1014 RMK SMOKE= METAR YPPH 131100Z 22007KT CAVOK 15/09 Q1026 NOSIG= METAR YBCS 131100Z 16005KT 9999 SCT025 BKN050 19/18 Q1021 RESHRA= METAR YBAS 131100Z AUTO 13006KT //// // NCD 18/M03 Q1024= METAR YPLM 131100Z AUTO 23010KT 9999NDV // NCD 26/12 Q1016= METAR YBTL 131100Z 11013KT CAVOK 21/13 Q1023 NOSIG RMK USE TAF FOR ARRIVALS AFTER 1130Z= METAR YPCC 131100Z 11012KT 9999 FEW024 BKN300 27/22 Q1014= METAR YPXM 131100Z AUTO 13013KT 9999NDV // OVC010 23/22 Q1014= METAR YPTN 131100Z 11004KT CAVOK 21/09 Q1016= METAR YPKU 131100Z AUTO 11006KT 9999NDV // NCD 26/04 Q1015=  220 SAKO31 RKSI 131100 METAR RKSI 131100Z 30006KT CAVOK 23/19 Q1020 NOSIG= METAR RKSS 131100Z 32003KT CAVOK 19/14 Q1020 NOSIG = METAR RKPC 131100Z 10011KT 9999 SCT025 BKN130 22/17 Q1018 NOSIG = METAR RKPK 131100Z 03008KT 9999 BKN050 20/16 Q1019 NOSIG= METAR RKTU 131100Z 12002KT 9999 FEW040 23/17 Q1019 NOSIG = METAR RKNY 131100Z 24003KT 9999 SCT030 18/14 Q1023 NOSIG = METAR RKTN 131100Z 13003KT 9999 BKN040 20/15 Q1021 NOSIG =  222 SPCN46 CWAO 131111 SPECI CYQA 131111Z AUTO 09005KT 6SM -RA OVC004 13/13 A2987=  406 SAUZ31 UTTW 131100 UTFN 131100Z 23003MPS 9999 SKC 30/07 Q1012 NOSIG RMK QFE957 2809//70= UTNN 131100Z 31004MPS CAVOK 22/02 Q1016 NOSIG 33CLRD70= UTNU 131100Z 29003MPS 240V340 9999 FEW050CB BKN100 22/09 Q1016 NOSIG RMK QFE753= UTSB 131100Z 29003G08MPS CAVOK 33/03 Q1011 NOSIG RMK = UTSS 131100Z 30008MPS 9999 FEW133 FEW233 29/M01 Q1013 TEMPO 28008G13MPS RMK QFE935 88CLRD70= UTST 131100Z 30003MPS CAVOK 33/08 Q1008 NOSIG RMK QFE 731= UTTP NIL= UTTT 131100Z 33002MPS 260V360 CAVOK 31/04 Q1012 NOSIG=  407 SPCN47 CWAO 131111 SPECI CYZR 131111Z AUTO 00000KT 5/8SM OVC003 18/18 A2979=  529 SAHK31 VHHH 131100 RRA METAR RPLL 131100Z 24006KT 9000 FEW024 SCT110 29/26 Q1010 NOSIG RMK A2983= METAR RPVM 131100Z 02004KT 9999 FEW020 SCT100 BKN300 30/26 Q1011 A2986 CB DSPTD=  558 SAUS42 KCHS 131113 MTRSAV SPECI KSAV 131112Z 19005KT 2SM RA BR FEW015 BKN024 OVC060 22/21 A2997 RMK AO2 RAB1058 P0007  589 SACN82 KWBC 131114 METAR CMCW 131100Z AUTO 18001KT 11/09 RMK AO1 T01090090= METAR CMGB 131100Z AUTO 34001KT 09/08 RMK AO1 T00910078= METAR CMSB 131100Z AUTO 00000KT 07/07 RMK AO1 T00730073= METAR CMSC 131100Z AUTO 03003KT 03/03 RMK AO1 T00310031= METAR CMWD 131100Z AUTO 21001KT 02/ RMK AO1 T0023= METAR CMGB 131100Z AUTO 34001KT 09/08 RMK AO1 T00910078= METAR CMSB 131100Z AUTO 00000KT 07/07 RMK AO1 T00730073= METAR CMSC 131100Z AUTO 03003KT 03/03 RMK AO1 T00310031= METAR CMWD 131100Z AUTO 21001KT 02/ RMK AO1 T0023=  590 SACN94 KWBC 131114 METAR CWSG 131100Z AUTO 20010KT 06/04 RMK AO1 SLP168 T00610037 55003= METAR CWSK 131100Z AUTO 06001KT 11/10 RMK AO1 SLP167 T01140104 58006= METAR CWSL 131100Z AUTO 07003KT 16/11 RMK AO1 2PAST HR 3009 SLP141 P0000 T01640109 50002=  591 SACN66 KWBC 131114 METAR CWBU 131100Z AUTO 35005KT 05/04 RMK AO1 SLP138 T00490036 56014= METAR CWIK 131100Z AUTO 08007KT 13/10 RMK AO1 6015 SLP121 T01260103 50010= METAR CWIK 131100Z AUTO 08007KT 13/10 RMK AO1 6015 SLP121 T01260103 50010=  592 SACN88 KWBC 131114 METAR CERM 131100Z AUTO 31001KT 01/M00 RMK AO1 SLP189 T00061003 55000=  593 SPBZ43 KWBC 131114 SPECI SBTF 131110Z 00000KT CAVOK 25/24 Q1012=  594 SACN91 KWBC 131114 METAR CWGR 131100Z AUTO 33014KT 15/12 RMK AO1 PK WND 32018/1002 SLP088 T01490120 56023= METAR CWGW 131100Z AUTO 07003KT 09/04 RMK AO1 SLP108 T00890036 56013= METAR CWGY 131100Z AUTO 01017G23KT 09/09 RMK AO1 2PAST HR 0015 PK WND 35023/1011 SLP141 P0000 T00920092 50016= METAR CWHL 131100Z AUTO 14005KT 10/ RMK AO1 SLP246 T0103 58009= METAR CWHM 131100Z AUTO 07003KT 07/06 RMK AO1 T00660063= METAR CWHY 131100Z AUTO 22006KT 09/04 RMK AO1 SLP196 T00920040 55003= METAR CWIX 131100Z AUTO 12002KT 04/04 RMK AO1 SLP190 T00370037 56003=  595 SACN92 KWBC 131114 METAR CWJR 131100Z AUTO 06005KT 15/06 RMK AO1 SLP104 T01460061 58013= METAR CWJT 131100Z AUTO 03001KT 04/04 RMK AO1 SLP185 T00390039 56007= METAR CWJV 131100Z AUTO 00000KT 16/09 RMK AO1 T01570088 58003= METAR CWMJ 131100Z AUTO 03003KT 07/07 RMK AO1 SLP167 T00730073 58010= METAR CWMM 131100Z AUTO 13004KT 13/13 RMK AO1 SLP182 T01340130 58006= METAR CWMQ 131100Z AUTO 00000KT 06/06 RMK AO1 SLP087 T00600057 58024=  596 SACN89 KWBC 131114 METAR CWBO 131100Z AUTO 03013G20KT 10/05 RMK AO1 PK WND 05025/1041 SLP101 T01030048 56008= METAR CWBS 131100Z AUTO 03010KT 09/08 RMK AO1 T00870080= METAR CWBT 131100Z AUTO 24001KT 02/02 RMK AO1 SLP146 T00150015 56005= METAR CWBZ 131100Z AUTO 00000KT 09/09 RMK AO1 SLP176 T00870086 56003= METAR CWDJ 131100Z AUTO 08015KT 14/08 RMK AO1 PK WND 07021/1031 SLP090 T01420081 56026= METAR CWDK 131100Z AUTO 35010KT 09/05 RMK AO1 SLP133 T00910051 51020= METAR CWDZ 131100Z AUTO 04017KT 10/07 RMK AO1 PK WND 05026/1024 SLP129 T01000066 58008=  597 SACN97 KWBC 131114 METAR CXBO 131100Z AUTO 26003KT 06/05 RMK AO1 T00620054= METAR CXCA 131100Z AUTO 20001KT 03/03 RMK AO1 SLP149 T00340033 56006= METAR CXCH 131100Z AUTO 15/12 RMK AO1 T01490119= METAR CXDW 131100Z AUTO 28006KT 12/09 RMK AO1 T01200094= METAR CXEC 131100Z AUTO 10/10 RMK AO1 T00990099 50006= METAR CXGH 131100Z AUTO 35004KT 14/14 RMK AO1 T01360136= METAR CXHA 131100Z AUTO 23005KT 18/18 RMK AO1 5004 SLP081 T01840177 50146= METAR CXMY 131100Z AUTO 13/10 RMK AO1 T01270100= METAR CXSH 131100Z AUTO 33003KT 04/04 RMK AO1 SLP189 T00360035 57003= METAR CXWN 131100Z AUTO 06001KT 13/11 RMK AO1 SLP123 T01280106 55001= METAR CXWN 131100Z AUTO 06001KT 13/11 RMK AO1 SLP123 T01280106 55001= METAR CXWN 131100Z AUTO 06001KT 13/11 RMK AO1 SLP123 T01280106 55001=  598 SPUS70 KWBC 131114 SPECI KIND 131110Z 28008KT 7SM -DZ BKN008 OVC015 14/14 A2986 RMK AO2 CIG 005V012 P0000= KAZO 131109Z 00000KT 1/2SM FG OVC007 17/16 A2980 RMK AO2 CIG 001V009= KCMX 131109Z AUTO 31007KT 2 1/2SM BR CLR 06/06 A2997 RMK AO2= KDEQ 131109Z AUTO 00000KT 1 1/4SM BR FEW001 12/11 A3001 RMK AO2= KFHR 131109Z AUTO 00000KT 9SM FEW035 10/09 A3009 RMK AO2= KGTR 131105Z 00000KT 4SM BR BKN002 OVC007 22/21 A2991= KMNN 131109Z AUTO 18007KT 3SM BR OVC003 18/17 A2984 RMK AO2 $= KPPF 131109Z AUTO 00000KT 3/4SM BR BKN001 BKN029 08/07 A3008 RMK AO2= KYIP 131109Z 00000KT 2SM BR FEW001 BKN027 OVC095 18/17 A2981 RMK AO2= PALG 131105Z AUTO 10003KT 1SM BR VV003 04/04 A3044 RMK AO2 TSNO $= KADG 131110Z AUTO 00000KT 2SM BR SCT010 OVC036 18/17 A2981 RMK AO2 RAB1059E10 P0000= KAND 131110Z AUTO VRB04KT 2 1/2SM RA BR FEW006 BKN013 OVC018 17/16 A3000 RMK AO2 P0005= KARB 131110Z AUTO 16003KT 1 1/4SM BR OVC001 18/17 A2980 RMK AO2= KAVL 131110Z 16006KT 6SM -RA BR FEW007 BKN024 OVC029 16/14 A3005 RMK AO2 P0000= KHIB 131110Z AUTO 00000KT 1/4SM FZFG OVC001 M01/M01 A3001 RMK AO2 FZRANO= KLWC 131110Z AUTO 32005KT 4SM BR OVC001 08/08 A3006 RMK AO2= KPAE 131110Z AUTO 36005KT 7SM BKN003 OVC042 11/10 A3011 RMK AO2 TSNO=  599 SACN93 KWBC 131114 METAR CWNQ 131100Z AUTO 07006KT 06/06 RMK AO1 SLP189 T00610059 55002= METAR CWOC 131100Z AUTO 34008KT 10/05 RMK AO1 SLP140 T01010049 56003= METAR CWOE 131100Z AUTO 06009KT 10/04 RMK AO1 SLP104 T00970043 56022= METAR CWPE 131100Z AUTO 31004KT 10/07 RMK AO1 SLP160 T01000067 50000= METAR CWPF 131100Z AUTO 05001KT 12/10 RMK AO1 SLP183 T01210101 58006= METAR CWPR 131100Z AUTO 28001KT 10/05 RMK AO1 SLP159 T01000046 58010= METAR CWPZ 131100Z AUTO 36001KT 01/M01 RMK AO1 SLP215 T00061006 58005= METAR CWPR 131100Z AUTO 28001KT 10/05 RMK AO1 SLP159 T01000046 58010= METAR CWPZ 131100Z AUTO 36001KT 01/M01 RMK AO1 SLP215 T00061006 58005= METAR CWPR 131100Z AUTO 28001KT 10/05 RMK AO1 SLP159 T01000046 58010= METAR CWPZ 131100Z AUTO 36001KT 01/M01 RMK AO1 SLP215 T00061006 58005=  600 SAUS80 KWBC 131114 METAR K3MW 131113Z AUTO 10SM CLR 12/M07 A3050 RMK AO2= KEHA 131108Z AUTO 20006KT 14/11 RMK AO1 PK WND 09 000 T01390106=  601 SACN87 KWBC 131114 METAR CWJD 131100Z AUTO 19003KT 07/06 RMK AO1 SLP133 T00670064 58004= METAR CWZG 131100Z AUTO 02009KT 08/04 RMK AO1 PK WND 02017/1006 SLP131 T00840044 55002=  602 SACN86 KWBC 131114 METAR CWNC 131100Z AUTO 14013KT 16/15 RMK AO1 8PAST HR 6015 PK WND 15017/1017 SLP113 P0000 T01550146 50060= METAR CTAE 131100Z AUTO 06002KT 09/07 RMK AO1 T00880071= METAR CTCK 131100Z AUTO 08005KT 10/09 RMK AO1 SLP168 T00950087 58006= METAR CWAJ 131100Z AUTO 20010G15KT 19/17 RMK AO1 4PAST HR 8001 PK WND 20020/1014 SLP086 P0000 T01900165 50032= METAR CWDQ 131100Z AUTO 06002KT 04/04 RMK AO1 SLP205 T00420041 55002=  603 SACN63 KWBC 131114 METAR CWMT 131100Z AUTO 35007KT 02/01 RMK AO1 SLP206 T00150005 53012=  604 SACN85 KWBC 131114 METAR CWER 131100Z AUTO 24007KT RMK AO1 = METAR CWPK 131100Z AUTO 05001KT 00/00 RMK AO1 SLP195 T00000000 58009= METAR CWBY 131100Z AUTO 02004KT 09/06 RMK AO1 SLP141 T00880060 56004=  605 SAAO33 KWBC 131100 RRA METAR GOOY 131100Z 20006KT 160V230 9999 SCT013 FEW020TCU 30/24 Q1014 NOSIG=  606 SAAF33 KWBC 131100 RRA METAR FVBU 131100Z 14007KT CAVOK 26/02 Q1023 NOSIG= FVHA 131100Z 05008KT 6000 FEW060 25/03 Q1024 NOSIG=  607 SAAF34 KWBC 131100 RRB METAR FBMN 131100Z 05008KT CAVOK 32/02 Q1018=  608 SACN95 KWBC 131114 METAR CWTA 131100Z AUTO 36002KT 11/08 RMK AO1 SLP187 T01050084 55005= METAR CWTG 131100Z AUTO 26004KT 08/07 RMK AO1 SLP161 T00840070 55004= METAR CWTN 131100Z AUTO 34004KT 10/05 RMK AO1 SLP185 T01020051 55002= METAR CWUS 131100Z AUTO 32006KT 18/05 RMK AO1 SLP133 T01810052 58009= METAR CWUX 131100Z AUTO 21002KT 01/01 RMK AO1 T00100008= METAR CWVN 131100Z AUTO 04005KT 05/M01 RMK AO1 SLP090 T00491006 58015= METAR CWVP 131100Z AUTO 14005KT 11/05 RMK AO1 SLP096 T01100047 58022= METAR CWVU 131100Z AUTO 28006KT 13/11 RMK AO1 SLP176 T01290110 55001= METAR CWVY 131100Z AUTO 00000KT M00/M00 RMK AO1 SLP199 T10011001 50000= METAR CWWF 131100Z AUTO 12011KT 13/06 RMK AO1 SLP096 T01310064 58024= METAR CWWK 131100Z AUTO 27002KT 14/11 RMK AO1 SLP190 T01400113 57006= METAR CWUS 131100Z AUTO 32006KT 18/05 RMK AO1 SLP133 T01810052 58009= METAR CWUX 131100Z AUTO 21002KT 01/01 RMK AO1 T00100008= METAR CWVN 131100Z AUTO 04005KT 05/M01 RMK AO1 SLP090 T00491006 58015= METAR CWVP 131100Z AUTO 14005KT 11/05 RMK AO1 SLP096 T01100047 58022= METAR CWVU 131100Z AUTO 28006KT 13/11 RMK AO1 SLP176 T01290110 55001= METAR CWVY 131100Z AUTO 00000KT M00/M00 RMK AO1 SLP199 T10011001 50000= METAR CWWF 131100Z AUTO 12011KT 13/06 RMK AO1 SLP096 T01310064 58024= METAR CWWK 131100Z AUTO 27002KT 14/11 RMK AO1 SLP190 T01400113 57006=  609 SACN98 KWBC 131114 METAR CXLB 131100Z AUTO 30012KT 12/07 RMK AO1 SLP148 T01170065 50003= METAR CXPC 131100Z AUTO 06001KT 13/13 RMK AO1 7010 SLP099 T01340134 50008= METAR CXRB 131100Z AUTO 34007KT M06/M07 RMK AO1 T10601073= METAR CXVN 131100Z AUTO 19005KT 17/16 RMK AO1 6009 SLP092 T01730159 50026= METAR CXZV 131100Z AUTO 06001KT 05/04 RMK AO1 SLP153 T00460039 55004= METAR CZMJ 131100Z AUTO 07010KT 12/09 RMK AO1 SLP094 T01220085 57023=  610 SACN96 KWBC 131114 METAR CWYY 131100Z AUTO 36007KT 20/04 RMK AO1 SLP112 T01970037 58008= METAR CWZA 131100Z AUTO 16002KT 15/13 RMK AO1 SLP180 T01450133 56008= METAR CWZL 131100Z AUTO 29008KT 13/08 RMK AO1 SLP258 T01260081 58002= METAR CXHM 131100Z AUTO 25001KT 18/18 RMK AO1 T01770177 50088= METAR CXKA 131100Z AUTO 17002KT 08/06 RMK AO1 SLP133 T00780058 56007= METAR CXKE 131100Z AUTO 12004KT 13/11 RMK AO1 SLP155 T01250106 56014= METAR CXHM 131100Z AUTO 25001KT 18/18 RMK AO1 T01770177 50088= METAR CXKA 131100Z AUTO 17002KT 08/06 RMK AO1 SLP133 T00780058 56007= METAR CXKE 131100Z AUTO 12004KT 13/11 RMK AO1 SLP155 T01250106 56014= METAR CXKA 131100Z AUTO 17002KT 08/06 RMK AO1 SLP133 T00780058 56007= METAR CXKE 131100Z AUTO 12004KT 13/11 RMK AO1 SLP155 T01250106 56014= METAR CXKA 131100Z AUTO 17002KT 08/06 RMK AO1 SLP133 T00780058 56007= METAR CXKE 131100Z AUTO 12004KT 13/11 RMK AO1 SLP155 T01250106 56014= METAR CXKA 131100Z AUTO 17002KT 08/06 RMK AO1 SLP133 T00780058 56007= METAR CXKE 131100Z AUTO 12004KT 13/11 RMK AO1 SLP155 T01250106 56014= METAR CXKA 131100Z AUTO 17002KT 08/06 RMK AO1 SLP133 T00780058 56007= METAR CXKE 131100Z AUTO 12004KT 13/11 RMK AO1 SLP155 T01250106 56014= METAR CXKA 131100Z AUTO 17002KT 08/06 RMK AO1 SLP133 T00780058 56007= METAR CXKE 131100Z AUTO 12004KT 13/11 RMK AO1 SLP155 T01250106 56014= METAR CXKA 131100Z AUTO 17002KT 08/06 RMK AO1 SLP133 T00780058 56007= METAR CXKE 131100Z AUTO 12004KT 13/11 RMK AO1 SLP155 T01250106 56014= METAR CXKE 131100Z AUTO 12004KT 13/11 RMK AO1 SLP155 T01250106 56014= METAR CXKE 131100Z AUTO 12004KT 13/11 RMK AO1 SLP155 T01250106 56014= METAR CXKE 131100Z AUTO 12004KT 13/11 RMK AO1 SLP155 T01250106 56014=  611 SAXX60 KWBC 131100 RRG METAR KDYS 131059Z 22003KT 10SM SCT150 16/14 A3010 RMK SLP174= KNFG 131055Z COR 00000KT 1SM BR OVC002 18/17 A29888 RMK SLP117 T01780172 PA+120 DA+500= KSZL 131055Z 30002KT 5SM BR FEW030 11/11 A3004 RMK SLP172= TTPP 131100Z 00000KT 9999 SCT015TCU SCT080 BKN280 25/24 Q1013 NOSIG TCU TO NE/ E/ SW/ W=  612 SAAG31 KWBC 131100 RRB METAR SAEZ 131100Z 11004KT 8000 NSC 06/04 Q1020=  613 SAUS70 KWBC 131114 METAR K0CO 131110Z AUTO 10SM A3063 RMK AO2= K1F0 131105Z AUTO 00000KT 7SM CLR 14/13 A3008 RMK AO2= K5SM 131111Z AUTO 00000KT 5SM HZ CLR 12/M07 A3053 RMK AO2= KDUA 131112Z AUTO 34004KT 10SM CLR 15/13 A3006 RMK AO2= KTIF 131111Z AUTO 28003KT 10SM CLR 12/09 A3004 RMK AO2= KADH 131111Z AUTO 31003KT 7SM CLR 13/11 A3007 RMK AO2= KALM 131111Z AUTO 35003KT 10SM CLR 17/14 A3015 RMK AO1= KANW 131110Z AUTO 17003KT 1/2SM FG VV005 11/10 A3002 RMK AO2= KAQR 131116Z AUTO 00000KT 5SM BR CLR 12/12 A3006 RMK AO2= KAVK 131112Z AUTO 00000KT 10SM CLR 13/11 A3010 RMK AO2= KDUC 131111Z AUTO 00000KT 10SM CLR 14/13 A3009 RMK AO2= KHJH 131111Z AUTO 00000KT 7SM CLR 09/09 A3005 RMK AO2= KLCG 131111Z AUTO 00000KT 7SM CLR 06/06 A3005 RMK AO2= KLNC 131108Z AUTO 35004KT 10SM CLR 16/14 A3005 RMK AO2= KOGA 131110Z AUTO 00000KT 7SM CLR 07/07 A3006 RMK AO2= KTRK 131109Z AUTO 00000KT 10SM CLR 05/01 A3024 RMK AO1= KWWR 131110Z AUTO 23007KT 10SM 14/12 A3010 RMK AO2=  614 SACN90 KWBC 131114 METAR CWEL 131100Z AUTO 29022KT 15/ RMK AO1 PK WND 29028/1012 SLP180 T0153 55001= METAR CWFF 131100Z AUTO 14004KT 09/05 RMK AO1 SLP137 T00910053 56015= METAR CWFJ 131100Z AUTO 34011G20KT 11/03 RMK AO1 PK WND 34020/1059 T01090033= METAR CWGB 131100Z AUTO 31018KT 15/11 RMK AO1 PK WND 31022/1034 SLP190 T01460111 58003= METAR CWGH 131100Z AUTO 19005KT 12/12 RMK AO1 SLP150 T01230123 56015= METAR CWFF 131100Z AUTO 14004KT 09/05 RMK AO1 SLP137 T00910053 56015= METAR CWFJ 131100Z AUTO 34011G20KT 11/03 RMK AO1 PK WND 34020/1059 T01090033= METAR CWGB 131100Z AUTO 31018KT 15/11 RMK AO1 PK WND 31022/1034 SLP190 T01460111 58003= METAR CWGH 131100Z AUTO 19005KT 12/12 RMK AO1 SLP150 T01230123 56015= METAR CWFF 131100Z AUTO 14004KT 09/05 RMK AO1 SLP137 T00910053 56015= METAR CWFJ 131100Z AUTO 34011G20KT 11/03 RMK AO1 PK WND 34020/1059 T01090033= METAR CWGB 131100Z AUTO 31018KT 15/11 RMK AO1 PK WND 31022/1034 SLP190 T01460111 58003= METAR CWGH 131100Z AUTO 19005KT 12/12 RMK AO1 SLP150 T01230123 56015=  615 SAAF36 KWBC 131100 RRB METAR HUEN 131100Z 18005KT 9999 FEW027 FEW030CB 25/19 Q1019=  616 SAAG41 KWBC 131100 RRA METAR SAVC 131100Z 29024G39KT CAVOK 09/M04 Q1005=  617 SAAS32 KWBC 131100 RRC METAR VMMC 131100Z 03009KT 330V110 5000 -SHRA FEW003 SCT010 BKN045 24/23 Q1008 NOSIG=  618 SPUS80 KWBC 131114 SPECI KTYS 131110Z 05003KT 9SM FEW004 BKN011 OVC040 18/17 A2994 RMK AO2= KCRW 131110Z 00000KT 6SM -RA BR OVC029 17/15 A2993 RMK AO2 RAB01 VLY FG P0000= KVTN 131107Z AUTO 00000KT 1/4SM FG SCT002 OVC007 06/06 A3002 RMK AO2=  619 SAAU31 KWBC 131100 RRA METAR YBCG 131100Z AUTO 20007KT 9999NDV // NCD 15/10 Q1031= YBMA 131100Z AUTO 11005KT 9999NDV // NCD 22/02 Q1021= YBRK 131100Z 13010KT 9999 FEW040 BKN065 18/12 Q1027= YBRM 131100Z 30007KT CAVOK 23/20 Q1015= YBTL 131100Z 11013KT CAVOK 21/13 Q1023 NOSIG RMK USE TAF FOR ARRIVALS AFTER 1130Z= YMHB 131100Z 35012KT 9999 FEW040 BKN230 15/02 Q1022= YPAD 131100Z 05007KT CAVOK 17/08 Q1026 RMK 5AC100= YPDN 131100Z 10005KT CAVOK 25/14 Q1014 RMK SMOKE= YPEA 131100Z 11005KT CAVOK 15/07 Q1025 NOSIG= YPPD 131100Z 29007KT CAVOK 23/21 Q1015 RMK SMOKE HAZE= YSCB 131100Z AUTO 12005KT 9999NDV // NCD 10/02 Q1031= YSDU 131100Z AUTO 15006KT //// // ////// 10/04 Q1031= YSNF 131100Z AUTO 17011KT 9999NDV // SCT039 BKN057 14/06 Q1026= YSRI 131100Z AUTO 00000KT 9999NDV // NCD 12/09 Q1032=  649 SACA33 KWBC 131100 RRC METAR TDPD 131100Z 00000KT 9999 -SHRA BKN016 25/25 Q1013= TFFR 131100Z 12002KT 9999 FEW020 27/25 Q1013 NOSIG= TGPY 131100Z 00000KT 9999 RA FEW012CB FEW018 SCT040 BKN090 BKN280 24/24 Q1013 CB-S= TTPP 131100Z 00000KT 9999 SCT015TCU SCT080 BKN280 25/24 Q1013 NOSIG TCU TO NE/ E/ SW/ W=  650 SACN31 KWBC 131100 RRB METAR CYYT 131100Z 09017G30KT 3SM -RA OVC004 11/11 A2951 RMK ST8 SLP996=  651 SACI31 KWBC 131100 RRA METAR RCKH 131100Z 05006KT 9999 FEW012 BKN080 28/23 Q1011 NOSIG= RCSS 131100Z 10008KT 7000 -SHRA FEW012 BKN035 BKN050 26/23 Q1012 NOSIG= RCTP 131100Z 05012KT 7000 -SHRA FEW008 BKN017 OVC050 27/23 Q1012 NOSIG=  652 SAAW32 KWBC 131100 RRD METAR OIII 131055Z 00000KT 9999 FEW040 32/18 Q1015 A2999 880/5=  655 SARA31 KWBC 131100 RRD METAR UTNN 131100Z 31004MPS CAVOK 22/02 Q1016 NOSIG 33CLRD70= UTNU 131100Z 29003MPS 240V340 9999 FEW050CB BKN100 22/09 Q1016 NOSIG RMK QFE753= UTSB 131100Z 29003G08MPS CAVOK 33/03 Q1011 NOSIG RMK= UTSS 131100Z 30008MPS 9999 FEW133 FEW233 29/M01 Q1013 TEMPO 28008G13MPS RMK QFE935 88CLRD70= UTST 131100Z 30003MPS CAVOK 33/08 Q1008 NOSIG RMK QFE 731=  656 SASD41 KWBC 131100 RRA METAR OEAB 131100Z 30006KT 9999 SCT022 FEW030CB 30/M05 Q1022 NOSIG= OEAH 131100Z 10002KT CAVOK 43/10 Q1005= OEBA 131100Z 33020KT 34/M01 Q1019 NOSIG= OEBH 131100Z NIL= OEGN 131100Z 25009KT CAVOK 36/28 Q1005 NOSIG=  657 SAPH31 KWBC 131100 RRA METAR RPLB 131100Z NIL= RPLL 131100Z 24006KT 9000 FEW024 SCT110 29/26 Q1010 NOSIG RMK A2983= RPLL 131100Z NIL= RPMD 131100 00000KT 10KM FEW016 BKN290 28/24 Q1010= RPMZ 131100Z NIL= RPVM 131100Z 02004KT 9999 FEW020 SCT100 BKN300 30/26 Q1011 A2986 CB DSPTD= RPVM 131100Z NIL=  659 SAMX41 KWBC 131145 METAR MMCN 131103Z RTD 00000KT 10SM FEW100 26/21 A2979 RMK 8/050 RTS=  654 SAIO31 KWBC 131100 RRB METAR FIMP 131100Z 14013KT 9999 BKN016 24/18 Q1023=  661 SASD42 KWBC 131100 RRA METAR OEGS 131100Z 04014KT CAVOK 40/05 Q1011= OEGT 131100Z NIL= OEHL 131100Z NIL= OEKB 131100Z 06004KT 9999 FEW045 42/01 Q////= OEKK 131100Z 30012KT CAVOK 42/11 Q1009= OEKM 131100Z 06010KT 9999 FEW025 30/06 Q1021 NOSIG= OEMH 131100Z 27002KT CAVOK 40/M04 Q1016=  662 SPCN42 CWAO 131112 SPECI CYRV 131112Z AUTO 34008KT 1SM -RA OVC048 15/10 A2994=  665 SASD43 KWBC 131100 RRA METAR OEMK 131100Z 34006KT CAVOK 45/05 Q1005= OENG 131100Z NIL= OEPA 131100Z 35012KT CAVOK 42/05 Q1007= OERF 131100Z NIL= OERR 131100Z 36004KT CAVOK 37/13 Q1013= OESK 131100Z 04004KT CAVOK 39/11 Q1014=  666 SASA32 KWBC 131100 RRB METAR SUAA 131100Z 15003KT 9999 SCT033 05/03 Q1019= SULS 131100Z 00000KT CAVOK 07/04 Q1020= SUMU 131100Z 12007KT 9999 FEW026 09/05 Q1019 NOSIG=  667 SASD44 KWBC 131100 RRB METAR OETB 131100Z 00000KT CAVOK 37/14 Q1016 NOSIG= OETR 131100Z NIL= OEWD 131100Z NIL= OEWJ 13100Z 30016KT CAVOK 33/28 Q1007= OEYN 131100Z 26015KT CAVOK 44/21 Q1005 NOSIG=  669 SAVN41 KWBC 131100 RRB METAR SVCR 131100Z 10010KT 9999 SCT020 BKN150 XX/XX Q1011=  670 SPUS41 KWBC 131114 SPECI KCRW 131110Z 00000KT 6SM -RA BR OVC029 17/15 A2993=  690 SPUS43 KWBC 131114 SPECI KCMX 131109Z AUTO 31007KT 2 1/2SM BR CLR 06/06 A2997=  691 SPUS43 KWBC 131114 SPECI KAZO 131109Z 00000KT 1/2SM FG OVC007 17/16 A2980=  692 SAUS41 KRLX 131114 MTRHTS SPECI KHTS 131111Z AUTO 17006KT 3SM -RA BR BKN026 BKN033 OVC065 17/16 A2989 RMK AO2 P0001 TSNO  866 SXUS81 KWOH 131112 RRSSGX :&&HADS SOR REPORT FOR USER SGX .A MLGC1 20060913 DH1103/PPHRG 0.00 .A ECSC1 20060913 DH1104/PPHRG 0.00 .A CMNC1 20060913 DH1103/PPHRG 0.00 .A OGVC1 20060913 DH1104/PPHRG 0.00 :END OF REPORT  118 SXUS81 KWOH 131113 RRSSGX :&&HADS SOR REPORT FOR USER SGX .A RCHC1 20060913 DH1107/PCIRG 0.08 .A RCHC1 20060913 DH1107/USIRG 6.00 .A RCHC1 20060913 DH1107/UDIRG 331 .A RCHC1 20060913 DH1107/TAIRG 70.0 .A RCHC1 20060913 DH1107/MTIRG 65 .A RCHC1 20060913 DH1107/XRIRG 38 .A RCHC1 20060913 DH1107/VBIRG 13.00 .A RCHC1 20060913 DH1107/MMIRG 6 .A RCHC1 20060913 DH1107/URHRG 330 .A RCHC1 20060913 DH1107/UPHRG 8.00 .A DVOC1 20060913 DH1110/PCIRG 0.63 .A DVOC1 20060913 DH1110/USIRG 5.00 .A DVOC1 20060913 DH1110/UDIRG 299 .A DVOC1 20060913 DH1110/TAIRG 71.0 .A DVOC1 20060913 DH1110/MTIRG 70 .A DVOC1 20060913 DH1110/XRIRG 47 .A DVOC1 20060913 DH1110/VBIRG 12.90 .A DVOC1 20060913 DH1110/MMIRG 6 .A DVOC1 20060913 DH1110/URHRG 298 .A DVOC1 20060913 DH1110/UPHRG 7.00 .E OSPC1 20060913 DH0715/HGIRG/DIN15/0.39/0.39/0.39/0.39/0.39/0.39/0.39/0.39 .E1 0.39/0.39/0.39/0.39/0.39/0.39/0.39/0.39 .E ONEC1 20060913 DH0715/HGIRG/DIN15/0.76/0.76/0.76/0.76/0.76/0.75/0.75/0.75 .E1 0.75/0.75/0.75/0.75/0.75/0.75/0.75/0.75 :END OF REPORT  191 SAVN31 SVVA 131100 METAR METAR SVVA 131100Z 27001KT 9999 SCT016 BKN250 21/21 Q1012 NOSIG= METAR SVPC 131100Z N I L=  196 SATH31 VTBB 131100 METAR VTPB 131100Z NIL= METAR VTCT 131100Z 00000KT 9999 BKN025 28/23 Q1008 A2977 RMK/RWY03 INFO L= METAR VTCL 131100Z NIL= METAR VTCN 131100Z NIL= METAR VTCP 131100Z NIL= METAR VTCH 131100Z NIL= METAR VTPH 131100Z 00000KT 9999 FEW028 BKN100 28/24 Q1007= METAR VTPM 131100Z NIL= METAR VTPP 131100Z 21003KT 9999 FEW022 BKN300 31/24 Q1007= METAR VTPO 131100Z NIL= METAR VTPT 131100Z NIL=  213 SAKO51 RJTD 131100 METAR RKPC 131100Z 10011KT 9999 SCT025 BKN130 22/17 Q1018 NOSIG= METAR RKPC 131100Z 10011KT 9999 SCT025 BKN130 22/17 Q1018 NOSIG= METAR RKPK 131100Z 03008KT 9999 BKN050 20/16 Q1019 NOSIG= METAR RKPK 131100Z 03008KT 9999 BKN050 20/16 Q1019 NOSIG= METAR RKSI 131100Z 30006KT CAVOK 23/19 Q1020 NOSIG= METAR RKSS 131100Z 32003KT CAVOK 19/14 Q1020 NOSIG= METAR RKSS 131100Z 32003KT CAVOK 19/14 Q1020 NOSIG= METAR RKTN 131100Z 13003KT 9999 BKN040 20/15 Q1021 NOSIG= METAR RKTN 131100Z 13003KT 9999 BKN040 20/15 Q1021 NOSIG= METAR RKTU 131100Z 12002KT 9999 FEW040 23/17 Q1019 NOSIG= METAR RKTU 131100Z 12002KT 9999 FEW040 23/17 Q1019 NOSIG=  358 SPCN48 CWAO 131114 SPECI CYOY 131114Z AUTO 00000KT 3 1/2SM 02/02 A3009=  361 SASD20 OEJD 131100 METAR OEAB 131100Z 30006KT 9999 SCT022 FEW030CB 30/M05 Q1022 NOSIG= METAR OEAH 131100Z 10002KT CAVOK 43/10 Q1005= METAR OEBA 131100Z 33020KT 34/M01 Q1019 NOSIG= METAR OEBH 131100Z NIL= METAR OEDF 131100Z VRB03KT CAVOK 44/00 Q1003 NOSIG= METAR OEDM 131100Z 05015G28KT CAVOK 39/M06 Q1012= METAR OEDR 131100Z NIL= METAR OEGN 131100Z 25009KT CAVOK 36/28 Q1005 NOSIG= METAR OEGS 131100Z 04014KT CAVOK 40/05 Q1011= METAR OEGT 131100Z NIL= METAR OEHL 131100Z NIL= METAR OEJN 131100Z 29014KT 8000 SKC 3727 Q1004 NOSIG= METAR OEKB 131100Z 06004KT 9999 FEW045 42/01 Q////= METAR OEKJ 131100Z NIL= METAR OEKK 131100Z 30012KT CAVOK 42/11 Q1009= METAR OEKM 131100Z 06010KT 9999 FEW025 30/06 Q1021 NOSIG= METAR OEMA 131100Z 03008KT CAVOK 42/M04 Q1010 NOSIG= METAR OEMH 131100Z 27002KT CAVOK 40/M04 Q1016= METAR OEMK 131100Z 34006KT CAVOK 45/05 Q1005= METAR OENG 131100Z NIL= METAR OEPA 131100Z 35012KT CAVOK 42/05 Q1007= METAR OERF 131100Z NIL= METAR OERK 131100Z 01009KT CAVOK 40/M02 Q1010 NOSIG= METAR OERR 131100Z 36004KT CAVOK 37/13 Q1013= METAR OERY 131100Z 04004KT CAVOK 40/M03 Q1011 NOSIG= METAR OESH 131030Z 00000KT CAVOK 40/11 Q1008 NOSIG= METAR OESK 131100Z 04004KT CAVOK 39/11 Q1014= METAR OETB 131100Z 00000KT CAVOK 37/14 Q1016 NOSIG= METAR OETF 131100Z NIL= METAR OETR 131100Z NIL= METAR OEWD 131100Z NIL= METAR OEYN 131100Z 26015KT CAVOK 44/21 Q1005 NOSIG=  386 SAUS43 KWBC 131100 RRC METAR KMQB 131105Z AUTO 31008KT 5SM BR OVC007 15/14 A2993= KMWA 131105Z AUTO 00000KT 10SM CLR 15/13 A2995=  387 SAUS52 KWBC 131100 RRA METAR KJQF 131055Z 00000KT 3SM -RA SCT046 OVC060 17/16 A3005= KSEP 131105Z AUTO 00000KT 10SM CLR 16/15 A3008=  392 SAUS53 KWBC 131100 RRC METAR KANW 131110Z AUTO 17003KT 1/2SM FG VV005 11/10 A3002= KEHA 131108Z AUTO 20006KT 14/11= KLNC 131108Z AUTO 35004KT 10SM CLR 16/14 A3005=  398 SAUS54 KWBC 131100 RRB METAR KTRK 131109Z AUTO 00000KT 10SM CLR 05/01 A3024=  412 SPUS41 KWBC 131115 SPECI KHTS 131111Z AUTO 17006KT 3SM -RA BR BKN026 BKN033 OVC065 17/16 A2989=  414 SPUS42 KWBC 131115 SPECI KSAV 131112Z 19005KT 2SM RA BR FEW015 BKN024 OVC060 22/21 A2997=  481 SANG31 AMMC 131100 METAR AYMO 131100Z 16010KT 9999 FEW018 27/24 Q1010= METAR AYPY NIL=  484 SPUS44 KWBC 131115 SPECI KPAE 131110Z AUTO 36005KT 7SM BKN003 OVC042 11/10 A3011=  485 SPUS51 KWBC 131115 SPECI KAVL 131110Z 16006KT 6SM -RA BR FEW007 BKN024 OVC029 16/14 A3005=  566 SATR31 RUMS 131100 UTAA 131100Z 01003MPS 320V050 6000 FEW066 SCT100 25/13 Q1017 NOSIG= UTAK 131100Z 36008MPS 9999 FEW050SB BKN100 23/5 Q1019 NOSIG=  568 SATH32 VTBB 131100 METAR VTSB 131100Z 19005KT 5000 -RA BR SCT018 BKN110 OVC300 25/22 Q1010 A2982= METAR VTSM 131100Z 00000KT 9999 TS SCT020CB TCU BKN110 29/24 Q1010 A2983 CB N,NW TCU S= METAR VTSC 131100Z NIL= METAR VTSK 131100Z NIL= METAR VTST 131100Z 00000KT 9000 FEW018 SCT022 OVC300 26/24 Q1009 RWY08 INFOB= METAR VTSR 131100Z NIL= METAR VTSG 131100Z 27004KT 2000 RA SCT018 23/22 Q1011 A2986 RWY32 INFO S= METAR VTSF 131100Z 20004KT 7000 TS -RA SCT018 SCT022 OVC300 25/24 Q1009 A2981 RETS= METAR VTSE 131100Z NIL=  571 SATH33 VTBB 131100 METAR VTUD 131100Z 00000KT 8000 SCT300 31/21 Q1008 A2977 INFOM RWY30= METAR VTUI 131100Z NIL= METAR VTUK 131100Z 00000KT 9999 FEW022 SCT300 29/22 Q1007 A2976 INFOM= METAR VTUU 131100Z 34004KT 8000 FEW023 SCT120 BKN300 30/19 Q1008 A2978= METAR VTUL 131100Z NIL= METAR VTUO 131100Z NIL= METAR VTUW 131100Z 24002KT 7000 FEW025 SCT300 28/21 Q1009 A2981 INFOC RWY33= METAR VTUQ 131100Z NIL= METAR VTUV 131100Z NIL= METAR VTUJ 131100Z NIL= METAR VTBO 131100Z NIL=  575 SARA31 RUMS 131100 UEEE 131100Z 27005MPS 9999 SCT040CB OVC100 11/06 Q0999 NOSIG RMK QFE741 2309//70= UELL 131100Z 24004MPS 9999 BKN200 10/01 Q1013 NOSIG RMK QFE685 08CLRD70= UERP 131100Z 30001MPS CAVOK 09/00 Q0998 NOSIG RMK QFE705 SC06= UERR 131100Z VRB02MPS CAVOK 19/05 Q1000 NOSIG RMK QFE719 SC06= UESO NIL= UEST 131100Z 23010G13MPS 9999 DRSN -SN SCT010 OVC040 M02/M03 Q0988 NOSIG RMK QFE740=  577 SPCN47 CWAO 131113 SPECI CYPQ 131113Z AUTO 12004KT 2 1/2SM OVC003 14/13 A2988=  590 SAUS44 KOHX 131115 MTRBNA SPECI KBNA 131113Z 31005KT 9SM SCT007 BKN012 OVC045 19/16 A2993 RMK AO2  754 SARA32 RUMS 131100 UHHH 131100Z 30002MPS CAVOK 09/09 Q1023 NOSIG RMK QFE761/1015 23090060= UHMA NIL= UHMM 131100Z 00000MPS 9999 BKN053 M01/M05 Q1005 RMK QFE738 88010070 = UHMP NIL= UHNN 131100Z 01003MPS 9999 SKC 05/01 Q1017 RMK QFE757= UHPP 131100Z 04002MPS 9999 FEW100 03/01 Q1017 NOSIG RMK QFE 760 SC 07 = UHSH NIL= UHSS 131100Z 34002MPS 9999 NSC 09/09 Q1021 NOSIG RMK QFE765/1020 01CLRD70= UHWW 131100Z 04001MPS 5000 BR 14/13 Q1022 NOSIG RMK QFE766/1021 75CLRD80 =  755 SPCN46 CWAO 131113 SPECI CYKF 131113Z AUTO 18006KT 2 1/2SM OVC003 17/17 A2979=  756 SAHK31 VHHH 131100 RRB METAR RPLB 131100Z 36006KT 9999 FEW018CB FEW020 SCT300 29/25 Q1011 CB E QUAD=  847 SAAG31 KWBC 131100 RRC METAR SARI 131100Z 09004KT CAVOK 19/18 Q1014= SAZM 131100Z 32003KT CAVOK 01/M01 Q1019=  860 SPUS80 KWBC 131116 SPECI KSAV 131112Z 19005KT 2SM RA BR FEW015 BKN024 OVC060 22/21 A2997 RMK AO2 RAB1058 P0007= KHTS 131111Z AUTO 17006KT 3SM -RA BR BKN026 BKN033 OVC065 17/16 A2989 RMK AO2 P0001 TSNO=  862 SAUS80 KWBC 131116 METAR KSOW 131110Z AUTO 19005KT 10SM CLR 13/10 A3024 RMK AO2=  863 SAUS70 KWBC 131116 METAR K4O4 131110Z AUTO 00000KT 7SM CLR 13/12 A3004 RMK AO2= KADM 131110Z AUTO 00000KT 7SM CLR 12/11 A3007 RMK AO2= KAFK 131110Z AUTO 27006KT 10SM CLR 11/10 A3005 RMK AO2= KATS 131110Z AUTO 00000KT 10SM CLR 18/16 A3017 RMK AO2= KAUH 131110Z AUTO 00000KT 10SM CLR 11/09 A3005 RMK AO2= KAXS 131110Z AUTO 02005KT 10SM CLR 13/12 A3011 RMK AO2= KCHK 131111Z AUTO 00000KT 5SM BR CLR 12/11 A3009 RMK AO2= KAEG 131110Z AUTO 00000KT 10SM CLR 12/09 A3023 RMK A01 P000= KAUN 131115Z AUTO 09007KT 3SM CLR 23/11 A2991 RMK A01 P000= KBIE 131110Z AUTO 00000KT 10SM CLR 09/08 A3006 RMK AO2= KBVN 131110Z AUTO 00000KT 7SM CLR 09/08 A3005 RMK AO2= KBVS 131110Z AUTO 17003KT 5SM SCT033 10/ A3011 RMK A01 P000= KCLK 131110Z AUTO 00000KT 7SM CLR 10/10 A3011 RMK AO2= KCPW 131114Z AUTO 25007KT 10SM CLR 08/02 A3058 RMK AO2= KCQB 131111Z AUTO 01003KT 7SM SCT090 SCT120 11/11 A3009 RMK AO2= KCUH 131110Z AUTO 00000KT 10SM BKN110 07/07 A3009 RMK AO2= KFET 131110Z AUTO 00000KT 5SM BR CLR 09/08 A3005 RMK AO2= KGCM 131115Z AUTO 00000KT M1/4SM FG VV000 09/09 A3009 RMK AO2= KGMJ 131112Z AUTO 00000KT 5SM BR CLR 09/08 A3008 RMK AO2= KHDE 131110Z AUTO 18003KT 10SM CLR 12/10 A3005 RMK AO2= KIBM 131110Z AUTO 26004KT 10SM CLR 08/06 A3011 RMK AO2= KJSV 131114Z AUTO 00000KT 1 1/2SM BR VV007 10/09 A3007 RMK AO2= KJYR 131110Z AUTO 00000KT 9SM CLR 08/08 A3006 RMK AO2= KLAM 131110Z AUTO 24003KT 10SM CLR 14/13 A3033 RMK AO2= KLRU 131112Z AUTO 09003KT 10SM CLR 19/17 A3018 RMK AO2= KNQA 131110Z AUTO 33005KT 10SM CLR 16/14 A2998 RMK= KRQO 131110Z AUTO 00000KT 7SM CLR 12/12 A3010 RMK AO2= KCIU 131115Z AUTO 01005KT 10SM OVC010 12/10 A2991 RMK AO1= KCOD 131115Z AUTO 16004KT 10SM CLR 14/M05 A3003 RMK AO1= KEGE 131115Z AUTO 09004KT 10SM CLR 05/M01 A3031 RMK AO1= KEHR 131115Z AUTO 27004KT 10SM OVC038 16/13 A2993 RMK AO1= KESC 131115Z AUTO 33005KT 10SM FEW023 13/11 A2993 RMK AO1= KFNL 131115Z AUTO 00000KT 10SM CLR 10/06 A3014 RMK AO1= KGDV 131115Z AUTO 20005KT 10SM CLR 13/05 A2988 RMK AO1= KGUC 131115Z 00000KT 10SM CLR 03/00 A3041 RMK AO1= KGXY 131115Z AUTO 31004KT 7SM CLR 07/04 A3014 RMK AO1= KHDN 131115Z 09009KT 10SM CLR 07/01 A3026 RMK AO1= KHNB 131115Z AUTO 27003KT 10SM OVC040 16/14 A2991 RMK AO1= KIWD 131115Z AUTO 00000KT 1/4SM OVC001 06/04 A2999 RMK AO1= KLXN 131110Z AUTO 00000KT 5SM BR CLR 10/09 A3005 RMK AO2 TSNO= KMBL 131115Z AUTO 02004KT 10SM OVC006 15/14 A2986 RMK AO1= KMLE 131110Z AUTO 00000KT 2 1/2SM CLR 10/08 A3005 RMK AO2= KMNH 131110Z AUTO 21007KT 10SM CLR 06/03 A3024 RMK AO2= KMNM 131115Z AUTO 36005KT 10SM OVC028 13/12 A2993 RMK AO1= KMTW 131115Z AUTO 35009G14KT 5SM OVC004 14/13 A2991 RMK AO1= KMVN 131115Z AUTO 27003KT 10SM BKN016 BKN027 OVC039 16/11 A2996 RMK AO1= KMYP 131110Z AUTO 23014KT 10SM CLR 04/M02 A3068 RMK AO2= KOKM 131113Z AUTO 00000KT 7SM CLR 12/10 A3007 RMK AO1= KONP 131110Z AUTO 36003KT 4SM BR CLR 10/08 A3019 RMK AO2= KORS 131110Z AUTO 00000KT 10SM BKN042 OVC047 13/13 A3007 RMK AO2= KOUN 131116Z AUTO 00000KT 10SM CLR 11/08 A3010 RMK AO2 TSNO= KPNA 131109Z AUTO 30006KT 10SM CLR 03/M01 A3024 RMK AO2= KPTT 131110Z AUTO 21003KT 10SM CLR 11/08 A3010 RMK AO2= KSDY 131115Z AUTO 00000KT 10SM CLR 11/07 A2987 RMK AO1= KSQI 131115Z 34007KT 9SM OVC006 14/12 A2991 RMK AO1= KSUE 131115Z AUTO 36008KT 7SM OVC008 14/13 A2987 RMK AO1= KWDG 131111Z AUTO 00000KT 7SM CLR 10/10 A3010 RMK AO2= K04V 131113Z AUTO RMK AO2 PWINO TSNO= KRKR 131112Z AUTO 00000KT 3SM BR 11/11 A3006 RMK AO2= KSRR 131110Z AUTO 00000KT 10SM SCT001 OVC008 12/11 A3031 RMK AO2 TSNO= KSUN 131110Z AUTO 32008KT 10SM CLR 11/01 A3013 RMK AO2=  864 SAIO31 KWBC 131100 RRC METAR FIMR 131100Z 10014KT 9999 SCT018 25/18 Q1021=  865 SAUS70 KWBC 131116 RRA METAR KSVC 131113Z AUTO 04013KT 10SM SCT100 15/14 A3022 RMK AO1 P0001= KSZT 131107Z AUTO 00000KT 10SM CLR 08/02 A2988 RMK AO1= KTEX 131110Z AUTO 15006KT 10SM CLR 08/01 A3044 RMK AO2= KTQH 131114Z AUTO 00000KT 2 1/2SM BR CLR 10/10 A3007 RMK AO2= KVTP 131115Z AUTO 10SM CLR 08/02 A3047 RMK AO2=  866 SPAL31 KWBC 131116 SPECI DAON 130850Z 00000KT 5000 FEW010 SCT026 FEW030CB 21/19 Q1014=  867 SACA33 KWBC 131100 RRD METAR TNCA 131100Z 09008KT 9999 FEW020 BKN350 28/24 Q1010= TNCC 131100Z 12008KT 090V160 9999 SCT016 BKN350 27/24 Q1011= TNCE 131100Z VRB01KT 9999 FEW022 26/22 Q1014= TVSV 131100Z 08005KT 9999 BKN015 SCT017 26/23 Q1013/CB-S/W=  868 SARS31 KWBC 131100 RRB METAR UELL 131100Z 24004MPS 9999 BKN200 10/01 Q1013 NOSIG RMK QFE685 08CLRD70= UEST 131100Z 23010G13MPS 9999 DRSN -SN SCT010 OVC040 M02/M03 Q0988 NOSIG RMK QFE740=  869 SAXX60 KWBC 131100 RRH METAR KNFG 131055Z COR 00000KT 1SM BR OVC002 18/17 A29888 RMK SLP117 T01780172 PA+120 DA+500=  870 SPUS70 KWBC 131116 SPECI KASX 131111Z AUTO 20003KT 3/4SM BR SCT001 OVC007 03/03 A3001 RMK AO2= KBJJ 131111Z AUTO 18008KT 6SM -RA BR BKN005 OVC009 17/16 A2987 RMK AO2 P0000= KHZY 131111Z AUTO 18007KT 5SM -RA BR OVC009 18/16 A2987 RMK AO2 LTG DSNT W RAB05 CIG 006V013 P0001= KLWV 131111Z AUTO 26006KT 10SM FEW014 BKN034 OVC043 16/13 A2989 RMK AO2= KMRY 131111Z AUTO 14003KT 3/4SM BR VV001 12/11 A2990 RMK AO2= KPTK 131111Z 06004KT 4SM VCTS RA BR FEW007 BKN017 BKN030CB 18/17 A2978 RMK AO2 OCNL LTGIC N-SW TS N-SW MOV NE P0005= KSTJ 131111Z AUTO 00000KT 1 1/4SM BR BKN001 BKN007 08/07 A3005 RMK AO2= PAHC 131111Z AUTO 00000KT M1/4SM FG FEW003 SCT016 BKN026 01/01 A3043 RMK AO2 PWINO TSNO $= KANB 131112Z AUTO 00000KT 10SM SCT006 OVC014 20/20 A2991 RMK AO2 $= KCOT 131112Z AUTO 00000KT 3SM BR SCT001 BKN046 22/22 A2998 RMK AO2 $= KDHN 131112Z 15006KT 7SM SCT006 BKN023 OVC028 23/22 A2992 RMK AO2= KMKO 131112Z AUTO 00000KT 1 1/2SM BR CLR 12/11 A3010 RMK AO2= KRVS 131112Z AUTO 00000KT 1 3/4SM BR CLR 11/09 A3008 RMK AO2= KTOP 131112Z AUTO 00000KT 2 1/2SM BR CLR 11/09 A3007 RMK AO2 VIS 1V5= KBTL 131112Z 00000KT 10SM FEW007 SCT010 OVC042 17/16 A2980 RMK AO2 $= KDFI 131112Z AUTO 22004KT 5SM BR FEW004 SCT008 OVC018 18/18 A2980 RMK AO2= KHIE 131112Z AUTO 00000KT 10SM FEW002 03/02 A3013 RMK AO2= KBNA 131113Z 31005KT 9SM SCT007 BKN012 OVC045 19/16 A2993 RMK AO2= KDEQ 131113Z AUTO 00000KT 3SM BR FEW001 12/11 A3001 RMK AO2= KEET 131113Z AUTO 00000KT 4SM BR BKN002 OVC010 21/20 A2990 RMK AO2= KHKS 131113Z AUTO 34007KT 3SM BR OVC005 22/22 A2991 RMK AO2= KVPZ 131113Z AUTO 10SM -RA OVC004 15/14 A2983 RMK AO2 LTG DSNT W-N TSE07 P0000 $=  871 SAEM31 KWBC 131100 RRE METAR LATI 131100Z 36004KT 9999 FEW040 29/10 Q1020 NOSIG=  872 SPXX60 KWBC 131116 SPECI KOZR 131105Z VRB01KT 5SM BR SCT005 BKN007 OVC016 23/22 A2988= KPAM 131108Z 08003KT 7SM VCTS SCT030CB BKN050 BKN100 22/22 A2986 RMK OCNL LTGICCC VC TS 8SW MOV NE= KCOF 131110Z VRB03KT 7SM FEW012 SCT300 26/21 A2996 RMK MDT CU SE-S SLP145 RCRNR= KMTC 131110Z 31003KT 3SM BR BKN005 OVC012 18/18 A2980 RMK TS MOVD NE CB 13NE AND 22NW MOV NE= KNBC 131105Z 24003KT 2SM -RA BR FEW020 SCT040 OVC050 22/21 A2997 RMK SLP150 T2 SET= KNHK 131105Z 18004KT 7SM -RA SCT020 BKN100 OVC250 17/13 A3009 RMK AO2 RAB04 P0000 $= KPAM 131108Z 08003KT 7SM VCTS SCT030CB BKN050 BKN100 22/22 A2986 RMK OCNL LTGICCC VC TS 8SW MOV NE= PABA SP 1115 AWOS CLR BLO 120 10 35/34/1309/020= PATC SP 1115 AWOS M4 OVC 5 45/45/2026/012=  873 SARA31 KWBC 131100 RRE METAR UEEE 131100Z 27005MPS 9999 SCT040CB OVC100 11/06 Q0999 NOSIG RMK QFE741 2309//70= UHHH 131100Z 30002MPS CAVOK 09/09 Q1023 NOSIG RMK QFE761/1015 23090060= UHMM 131100Z 00000MPS 9999 BKN053 M01/M05 Q1005 RMK QFE738 88010070= UHPP 131100Z 04002MPS 9999 FEW100 03/01 Q1017 NOSIG RMK QFE 760 SC 07= UHSS 131100Z 34002MPS 9999 NSC 09/09 Q1021 NOSIG RMK QFE765/1020 01CLRD70= UHWW 131100Z 04001MPS 5000 BR 14/13 Q1022 NOSIG RMK QFE766/1021 75CLRD80= UTAK 131100Z 36008MPS 9999 FEW050SB BKN100 23/5 Q1019 NOSIG= UTDD 131100Z VRB02MPS 9999 SKC 31/M01 Q1012 NOSIG RMK QFE692 99CLRD70= UTDL 131100Z 25007MPS 9999 SKC 31/M02 Q1012 NOSIG RMK QFE721 8809//70=  874 SPAK32 KWBC 131116 SPECI PATC SP 1115 AWOS M4 OVC 5 45/45/2026/012=  875 SPAK32 KWBC 131116 SPECI PABA SP 1115 AWOS CLR BLO 120 10 35/34/1309/020=  876 SPUS31 KWBC 131116 SPECI KBNA 131113Z 31005KT 9SM SCT007 BKN012 OVC045 19/16 A2993=  924 SAVN42 KWBC 131100 RRB METAR SVPC 131100Z N I L= SVVA 131100Z 27001KT 9999 SCT016 BKN250 21/21 Q1012 NOSIG=  930 SAPH31 KWBC 131100 RRB METAR RPLB 131100Z 36006KT 9999 FEW018CB FEW020 SCT300 29/25 Q1011 CB E QUAD=  932 SPJP31 KWBC 131116 SPECI ROAH 131110Z 05008KT 020V090 6000 R18/0600V1800U SHRA FEW009 SCT015 BKN025 FEW035CB 26/22 Q1012 RMK 1ST009 3CU015 5CU025 2CB035 A2988 2500N CB OHD-W MOV NW=  933 SPJP31 KWBC 131116 SPECI RJOO 131104Z 33011KT 6000 +SHRA FEW006 SCT015 BKN020 19/18 Q1016 RMK 1ST006 3CU015 6CU020 A3001=  937 SPUS43 KWBC 131116 SPECI KPTK 131111Z 06004KT 4SM VCTS RA BR FEW007 BKN017 BKN030CB 18/17 A2978=  938 SPUS52 KWBC 131116 SPECI KTOP 131112Z AUTO 00000KT 2 1/2SM BR CLR 11/09 A3007=  939 SPUS52 KWBC 131116 SPECI KCOT 131112Z AUTO 00000KT 3SM BR SCT001 BKN046 22/22 A2998=  958 SASD20 OEJD 131100 RRA METAR OEBH 131100Z 30008KT CAVOK 38/M02 Q1013 NOSIG=  081 SAMS31 WMKK 131100 METAR 131100Z METAR WBGG 131100Z 30004KT 9999 SCT020 BKN150 27/24 Q1010 NOSIG= METAR WBKK 131100Z 09004KT 9999 FEW014 SCT140 BKN270 26/24 Q1010 NOSIG= METAR WBSB 131100Z 35004KT 9999 FEW016 FEW017CB BKN300 29/24 Q1010 NOSIG= METAR WMKK 131100Z 17002KT 9000 FEW017CB BKN270 29/24 Q1009 NOSIG= METAR WMKP 131100Z 35001KT 7000 FEW020 BKN260 28/25 Q1009 NOSIG= METAR WSSL 131100Z VRB03KT 9999 FEW020 BKN300 29/23 Q1009= METAR WSSS 131100Z 18004KT 9999 FEW018 BKN300 29/22 Q1010 NOSIG=  304 SARS34 RUMS 131100 UUYH 131100Z 34006MPS CAVOK 10/M00 Q1007 NOSIG RMK QFE 743 36CLRD60= UUYS 131100Z 30003MPS 9999 OVC022 07/03 Q1007 NOSIG RMK QFE748 32CLRD60= UUYY 131100Z 33003MPS 9999 FEW033 13/02 Q1009 NOSIG 01CLRD61 RMK QFE747 =  305 SAZA31 FAPR 131100 METAR FAAB 131100Z AUTO 19018KT //// // ////// 17/09 Q1019= METAR FABL 131100Z 33009KT CAVOK 22/00 Q1024 NOSIG= METAR FACT 131100Z 17020KT 9999 FEW025 19/11 Q1023 NOSIG= METAR FADN 131100Z 03015KT 9999 FEW035 27/17 Q1017 NOSIG= METAR FAEL 131100Z 08004KT CAVOK 21/15 Q1019= METAR FAGG 131100Z 29010KT 9999 BKN025 17/11 Q1023= METAR FAJS 131100Z 36013KT CAVOK 21/M01 Q1026 NOSIG= METAR FAKM 131100Z 36010KT CAVOK 25/03 Q1021= METAR FAMM 131100Z 01013KT CAVOK 26/04 Q1023= METAR FANS 131100Z AUTO 06003KT //// // ////// 19/05 Q1023= METAR FAPE 131100Z 24019KT 9999 BKN019 19/12 Q1021 NOSIG= METAR FAUP 131100Z 19005KT CAVOK 28/M00 Q1017=  306 SARS35 RUMS 131100 USPP 131100Z 31006G09MPS 9999 BKN017 OVC100 07/04 Q1004 NOSIG RMK QFE743/0990 SC060= UWKD 131100Z 27004MPS 9999 BKN016 12/08 Q1011 NOSIG RMK QFE747/0996 79CLRD70= UWKE 131100Z 28009MPS 9999 SCT030 13/04 Q1009 NOSIG RMK QFE740/0986 22090370= UWLL 131100Z 28005MPS 8000 -SHRA BKN043CB OVC100 13/10 Q1013 NOSIG RMK QFE749/0999 SC050= UWLW 131100Z 24003MPS 8000 -SHRA OVC030CB 12/12 Q1012 NOSIG 20290250 RMK QFE754= UWOO 131100Z 31008MPS 5000 BKN033CB 11/04 Q1011 NOSIG RMK QFE748/0997 26100060= UWOR 131100Z 27009G13MPS 9999 BKN040CB 13/02 Q1011 NOSIG RMK QFE733/0977 SC065= UWPP 131100Z 25003MPS 9999 SCT033CB OVC100 15/12 Q1016 NOSIG RMK QFE 746 29190060= UWSS 131100Z 29005MPS CAVOK 16/09 Q1017 NOSIG RMK QFE749 300///60= UWWW 131100Z 25005MPS 9999 SCT033CB BKN100 OVC200 11/09 Q1013 NOSIG RMK QFE749/0998 23CLRD60 15259950=  308 SACU31 MUHA 131100Z METAR MUHA 131052Z 00000KT 6000 FEW015CB 22/21 Q1014= MUVR 131053Z 00000KT 7000 FEW018 23/22 Q1014= MUCL 131050Z 09004KT 9000 FEW015CB 28/24 Q1013= MUSC 131054Z 00000KT 5000 BR FEW018 22/20 Q1013= MUCC 131054Z VRB02KT 9000 SCT020TCU 25/23 Q1013= MUCA 131050Z 00000KT 9000 SCT018 22/20 Q1014= MUCM 131053Z VRB01KT 9000 FEW020 BKN090 25/22 Q1013= MUHG 131051Z VRB02KT 5000 VCFG FEW020 23/22 Q1013= MUCU 131053Z 05004KT 9000 FEW020CB 24/23 Q1014=  307 SARS31 RUMS 131100 ULAA 131100Z 27004MPS 9999 -SHRA OVC009CB 13/12 Q1009 NOSIG RMK QFE756/1008 SC060= ULKK 131100Z 34003MPS 5000 FEW026 SCT099 15/05 Q1010 NOSIG RMK QFE753 13000060= ULLI 131100Z 31003MPS 260V360 CAVOK 19/14 Q1019 NOSIG= ULMM 131100Z 30004G08MPS 9999 BKN016CB BKN080 12/05 Q1006 NOSIG RMK QFE747 32190060 = ULOL 131100Z 27006MPS CAVOK 20/10 Q1022 NOSIG RMK QFE757/1010= ULOO 131100Z 27004MPS P6000 SKC 22/10 Q1022 NOSIG RMK QFE762 SC07= ULWW 131100Z 29005MPS 9999 BKN020 OVC/// 15/13 Q1014 NOSIG RMK QFE750 33CLRD60= UMKK 131100Z 16005MPS P6000 SKC 22/12 Q1024 NOSIG RMK QFE 767 SC07= UUBP 131100Z 31006MPS 9999 SCT033 19/10 Q1024 NOSIG RMK SC07= UUOO 131100Z 30007MPS 9999 BKN033 BKN100 19/11 Q1021 NOSIG RMK 31090070= UWGG 131100Z VRB02MPS 6000 BKN020 BKN100 13/11 Q1014 NOSIG RMK QFE753 SC05 =  309 SARA34 RUMS 131100 UNAA 131100Z 19003MPS CAVOK 22/11 Q1010 NOSIG RMK QFE735 200///65 = UNBB 131100Z 17004MPS 9999 BKN033CB 22/08 Q1005 NOSIG RMK QFE731= UNEE 131100Z 20003MPS 9999 SCT030CB SCT066 21/09 Q1006 NOSIG RMK QFE732 23190060= UNKL 131100Z 00000MPS CAVOK 21/10 Q1007 NOSIG RMK QFE730 29////65 = UNNT 131100Z 20002MPS CAVOK 20/07 Q1003 NOSIG RMK QFE743/0990 07090070= UNOO 131100Z 29005MPS 9999 -SHRA BKN033CB 13/08 Q0998 TEMPO VRB17MPS 2000 TSRAGR SQ BKN007 25290050 RMK QFE740 MOD TURB = UNWW 131100Z 15002MPS 9999 SCT023CB BKN130 20/08 Q1007 NOSIG RMK QFE729 19CLRD70= USTR 131100Z 23005MPS 190V260 9999 BKN020CB OVC070 08/07 Q0993 RMK QFE736/0981 21290060 12290060=  589 SPUS43 KWBC 131117 SPECI KBTL 131112Z 00000KT 10SM FEW007 SCT010 OVC042 17/16 A2980=  652 SXUS81 KWOH 131115 RRSSGX :&&HADS SOR REPORT FOR USER SGX .A UCCC1 20060913 DH1111/PCIRG 0.31 .A UCCC1 20060913 DH1111/USIRG 6.00 .A UCCC1 20060913 DH1111/UDIRG 276 .A UCCC1 20060913 DH1111/TAIRG 74.0 .A UCCC1 20060913 DH1111/MTIRG 73 .A UCCC1 20060913 DH1111/XRIRG 42 .A UCCC1 20060913 DH1111/VBIRG 12.60 .A UCCC1 20060913 DH1111/MMIRG 7 .A UCCC1 20060913 DH1111/URHRG 240 .A UCCC1 20060913 DH1111/UPHRG 10.00 .A SRUC1 20060913 DH1111/PCIRG 0.06 .A SRUC1 20060913 DH1111/USIRG 2.00 .A SRUC1 20060913 DH1111/UDIRG 36 .A SRUC1 20060913 DH1111/TAIRG 70.0 .A SRUC1 20060913 DH1111/MTIRG 58 .A SRUC1 20060913 DH1111/XRIRG 53 .A SRUC1 20060913 DH1111/VBIRG 12.80 .A SRUC1 20060913 DH1111/MMIRG 7 .A SRUC1 20060913 DH1111/URHRG 55 .A SRUC1 20060913 DH1111/UPHRG 4.00 .A POPC1 20060913 DH1111/PCIRG 2.30 .A POPC1 20060913 DH1111/USIRG 0.00 .A POPC1 20060913 DH1111/UDIRG 333 .A POPC1 20060913 DH1111/TAIRG 53.0 .A POPC1 20060913 DH1111/MTIRG 49 .A POPC1 20060913 DH1111/XRIRG 23 .A POPC1 20060913 DH1111/VBIRG 12.60 .A POPC1 20060913 DH1111/MMIRG 7 .A POPC1 20060913 DH1111/URHRG 343 .A POPC1 20060913 DH1111/UPHRG 4.00 .A CLHC1 20060913 DH1112/PCIRG 0.00 .A CLHC1 20060913 DH1112/USIRG 3.00 .A CLHC1 20060913 DH1112/UDIRG 145 .A CLHC1 20060913 DH1112/TAIRG 67.0 .A CLHC1 20060913 DH1112/MTIRG 62 .A CLHC1 20060913 DH1112/XRIRG 57 .A CLHC1 20060913 DH1112/VBIRG 12.50 .A CLHC1 20060913 DH1112/MMIRG 9 .A CLHC1 20060913 DH1112/URHRG 76 .A CLHC1 20060913 DH1112/UPHRG 3.00 .A BNTC1 20060913 DH1112/PCIRG 0.01 .A BNTC1 20060913 DH1112/USIRG 1.00 .A BNTC1 20060913 DH1112/UDIRG 253 .A BNTC1 20060913 DH1112/TAIRG 67.0 .A BNTC1 20060913 DH1112/MTIRG 64 .A BNTC1 20060913 DH1112/XRIRG 42 .A BNTC1 20060913 DH1112/VBIRG 12.50 .A BNTC1 20060913 DH1112/MMIRG 2 .A BNTC1 20060913 DH1112/URHRG 305 .A BNTC1 20060913 DH1112/UPHRG 8.00 .A NZAC1 20060913 DH1112/PCIRG 0.60 .A NZAC1 20060913 DH1112/USIRG 2.00 .A NZAC1 20060913 DH1112/UDIRG 343 .A NZAC1 20060913 DH1112/TAIRG 61.0 .A NZAC1 20060913 DH1112/MTIRG 60 .A NZAC1 20060913 DH1112/XRIRG 70 .A NZAC1 20060913 DH1112/VBIRG 12.80 .A NZAC1 20060913 DH1112/MMIRG 11 .A NZAC1 20060913 DH1112/URHRG 42 .A NZAC1 20060913 DH1112/UPHRG 5.00 .E MNGC1 20060913 DH1015/PCIRG/DIN15/0.01/0.01/0.01/0.01 .E CJKC1 20060913 DH0715/HGIRG/DIN15/4.37/4.37/4.37/4.37/4.37/4.38/4.38/4.38 .E1 4.38/4.38/4.38/4.38/4.38/4.38/4.38/4.38 .E CITC1 20060913 DH0315/HGIRG/DIN15/2.54/2.54/2.54/2.54/2.54/2.54/2.54/2.54 .E1 2.54/2.54/2.54/2.54/2.54/2.54/2.54/2.54/2.54/2.54/2.54/2.54/2.54 .E2 2.54/2.54/2.54/2.54/2.54/2.54/2.54/2.54/2.54/2.54/2.55 :END OF REPORT  704 SAXX70 KAWN 131100 RRH METAR KQEZ 131055Z 25011G19KT 9000 HZ FEW000 39/02 A2980 RMK HZ FEW000 SLP085 T03880018 PA 380 DA 3193=  709 SAJM31 MKJS 131100 METAR MKJS 131100Z 00000 CHECK TEXT NEW ENDING ADDED KATLYTAA  711 SAIY40 LIIB 131100 METAR LIMG 131100Z 10011KT 9999 FEW070 28/11 Q1018= METAR LIMK 131055Z 07002KT 8000 FEW023 SCT090 19/14 Q1021 RMK BKN VAL FOSCHIA VIS MIN 8000= METAR LIMN 131055Z 25003KT 8000 NSC 24/11 Q1020 RMK FEW FEW120 VIS MIN 8000 BLU= METAR LIMP 131100Z 09005KT 8000 SKC 25/12 Q1020= METAR LIMS 131055Z 09003KT CAVOK 24/15 Q1020 RMK FEW FEW100 VIS MIN 9999 WIND THR30 06006KT BLU= METAR LIMZ 131100Z VRB03KT 7000 SCT040 BKN075 23/12 Q1021= METAR LIPA 131055Z 11005KT 9999 FEW050 25/15 Q1020 RMK FEW VIS MIN 9999 BLU= METAR LIPB 131045Z 18004KT 140V240 CAVOK 23/12 Q1021 RMK MON LIB= METAR LIPC 131055Z 07006KT 9999 FEW025 SCT200 24/19 Q1020 RMK SCT VIS MIN 9999 WIND THR12 08007KT BLU= METAR LIPF 131055Z /////KT CAVOK 27/11 Q1020 RMK VIS MIN 9999= METAR LIPH 131055Z 02003KT CAVOK 24/11 Q1021 RMK VIS MIN 9999 WIND THR07 /////KT BLU= METAR LIPI 131055Z 09005KT 9999 FEW070 25/12 Q1020 RMK FEW VIS MIN 9999 WIND THR06 07002KT BLU= METAR LIPL 131055Z 11004KT CAVOK 25/07 Q1021 RMK FEW FEW200 VIS MIN 9999 BLU= METAR LIPO 131050Z 05005KT CAVOK 24/10 Q1019= METAR LIPQ 131050Z 16005KT CAVOK 25/14 Q1020= METAR LIPR 131055Z 01008KT CAVOK 25/20 Q1020 RMK SCT SCT200 VIS MIN 9999 WIND THR31 33007KT BLU= METAR LIPS 131055Z 17004KT CAVOK 25/09 Q1020 RMK VIS MIN 9999 BLU= METAR LIPT 131055Z 00000KT CAVOK 24/12 Q1020 RMK VIS MIN 9999 BLU= METAR LIPX 131055Z 12005KT CAVOK 26/09 Q1021 RMK VIS MIN 9999 BLU METAR LIPY 131050Z 36007KT CAVOK 24/18 Q1021 RMK SCT180= METAR LIVC 131055Z 15006KT 9999 BKN002 12/11 Q1028 RMK BKN MON LIB VAL NIL VIS MIN 9999= METAR LIVP 131055Z 18003KT 9999 FEW010 11/06 Q1025 RMK FEW MON LIB VAL NIL VIS MIN 9999=  937 SACN97 CWAO 131100 RRB XDE SA 1100 AUTO8 M M M 247/00/-01/3207/M/ 3015 -26MM= XEG SA 1100 AUTO8 M M M M/08/08/MMMM/M/0018 M 88MM= XMD SA 1100 AUTO8 M M M M/13/11/3206/M/ M 31MM= XMI SA 1100 AUTO8 M M M 133/13/08/3117/M/M PK WND 3222 1034Z 3004 84MM= XMM SA 1100 AUTO8 M M M M/01/00/MMMM/M/ M 80MM= XMP SA 1100 AUTO8 M M M M/10/08/3103/M/0002 M 13MM= XMW SA 1100 AUTO8 M M M 093/12/07/3303/M/ 6013 57MM=  938 SACN88 CWAO 131100 RRB AFC SA 1100 AUTO8 M M M 168/07/06/3405/M/ 3001 46MM= WDO SA 1100 AUTO8 M M M 088/12/09/0715+23/M/ PK WND 1023 1055Z 6027 91MM= XKT SA 1100 AUTO8 M M M M/11/07/2606/M/ M 98MM= ZDB SA 1100 AUTO8 M M M 133/10/08/2709/M/ 3002 05MM= ZSP SA 1100 AUTO8 M M M 110/15/11/3211/M/ PK WND 3120 1028Z 6008 69MM=  939 SACN93 CWAO 131100 RRB WNE SA 1100 AUTO8 M M M 114/15/13/3117/M/M PK WND 3121 1043Z 8012 11MM= WOO SA 1100 AUTO8 M M M M/11/10/2203/M/ M 63MM=  940 SARA32 RUMS 131100 UHHH 131100Z 30002MPS CAVOK 09/09 Q1023 NOSIG RMK QFE761/1015 23090060= UHMA NIL= UHMM 131100Z 00000MPS 9999 BKN053 M01/M05 Q1005 RMK QFE738 88010070 = UHMP NIL= UHNN 131100Z 01003MPS 9999 SKC 05/01 Q1017 RMK QFE757= UHPP 131100Z 04002MPS 9999 FEW100 03/01 Q1017 NOSIG RMK QFE 760 SC 07 = UHSH NIL= UHSS 131100Z 34002MPS 9999 NSC 09/09 Q1021 NOSIG RMK QFE765/1020 01CLRD70= UHWW 131100Z 04001MPS 5000 BR 14/13 Q1022 NOSIG RMK QFE766/1021 75CLRD80 =  941 SACN86 CWAO 131100 RRA WPO SA 1100 AUTO8 M M M 146/09/09/3204/M/ 5002 20MM= WWZ SA 1100 AUTO8 M M M 100/17/16/1812/M/0057 PK WND 1817 1041Z 6012 41MM=  942 SACN98 CWAO 131100 RRB XKI SA 1100 AUTO8 M M M M/11/10/MMMM/M/ M 20MM= XTD SA 1100 AUTO8 M M M 108/15/10/3314+22/M/ PK WND 3426 1035Z 5001 84MM= ZKD SA 1100 AUTO8 M M M M/M/M/2602/M/ M MMMM= ZTB SA 1100 AUTO8 M M M 154/02/01/2604/M/ 6007 74MM= ZZJ SA 1100 AUTO8 M M M M/07/07/MMMM/M/0002 M 22MM=  943 SACN91 CWAO 131100 RRB WGX SA 1100 AUTO8 M M M 119/10/07/2908/M/ 2011 93MM= WHT SA 1100 AUTO8 M M M 305/01/00/0501/M/ 3012 3-2MM= WIP SA 1100 AUTO7 M M M M/13/M/2605/M/ M 0MMM= WIY SA 1100 AUTO8 M M M 184/05/04/2902/M/ 3001 25MM= WJH SA 1100 AUTO8 M M M 153/02/02/2403/M/ 0001 19MM=  945 SACN87 CWAO 131100 RRB WEQ SA 1100 AUTO8 M M M 140/07/06/2901/M/ 8011 00MM=  946 SACN96 CWAO 131100 RRB WYE SA 1100 AUTO8 M M M M/09/07/2203/M/ M 24MM= WZQ SA 1100 AUTO8 M M M 080/15/12/3521/M/M PK WND 2024 1016Z 5007 43MM= ZUG SA 1100 AUTO8 M M M M/16/12/0405/M/ M 61MM=  948 SACN92 CWAO 131100 RRB WKF SA 1100 AUTO8 M M M M/15/M/MMMM/M/ M 4MMM= WKG SA 1100 AUTO8 M M M 167/07/07/3001/M/ 6001 35MM= WLJ SA 1100 AUTO8 M M M 150/07/07/2304/M/ 5004 21MM= WMI SA 1100 AUTO8 M M M 130/13/08/3210/M/ 8008 22MM=  949 SACN90 CWAO 131100 RRB WEB SA 1100 AUTO8 M M M 209/12/M/2925/M/ PK WND 2931 1005Z 8004 0MMM= WGL SA 1100 AUTO8 M M M 114/15/15/1408/M/ 6015 22MM=  950 SACN89 CWAO 131100 RRB WAQ SA 1100 AUTO8 M M M M/13/03/1503/M/ M 74MM= WCF SA 1100 AUTO8 M M M 135/06/06/0303/M/ 3001 19MM= WDR SA 1100 AUTO8 M M M M/12/M/0502/M/M M 2MMM= WDS SA 1100 AUTO8 M M M 858/13/12/0641+60/M/0194 PCPN 10.1MM PAST HR PK WND 0566 1030Z /R+19/ PRESFR 6109 69MM=  951 SACN94 CWAO 131100 RRB WRA SA 1100 AUTO8 M 1.8 M 899/15/15/1141+51/M/0162 PCPN 5.2MM PAST HR PK WND 1057 1021Z PRESFR 6114 07MM= WRJ SA 1100 AUTO8 M M M 097/08/04/0407/M/ 6029 28MM= WRK SA 1100 AUTO8 M M M 140/13/12/1502/M/0028 PCPN 1.1MM PAST HR 6014 57MM= WSP SA 1100 AUTO8 M M M 200/12/M/2909/M/ 8006 7MMM= WSY SA 1100 AUTO8 M M M 258/-03/-05/0107/M/ 3014 36MM=  953 SACN63 CWAO 131100 RRB NVQ SA 1100 AUTO8 M M M 259/02/01/3303/M/ 2015 80MM= ZFS SA 1100 AUTO8 M M M 219/04/02/3507/M/ 3019 91MM= ZHY SA 1100 AUTO8 M M M 174/08/05/0509/M/0146 PCPN 0.8MM PAST HR 2010 62MM=  100 SARS35 RUMS 131100 USPP 131100Z 31006G09MPS 9999 BKN017 OVC100 07/04 Q1004 NOSIG RMK QFE743/0990 SC060= UWKD 131100Z 27004MPS 9999 BKN016 12/08 Q1011 NOSIG RMK QFE747/0996 79CLRD70= UWKE 131100Z 28009MPS 9999 SCT030 13/04 Q1009 NOSIG RMK QFE740/0986 22090370= UWLL 131100Z 28005MPS 8000 -SHRA BKN043CB OVC100 13/10 Q1013 NOSIG RMK QFE749/0999 SC050= UWLW 131100Z 24003MPS 8000 -SHRA OVC030CB 12/12 Q1012 NOSIG 20290250 RMK QFE754= UWOO 131100Z 31008MPS 5000 BKN033CB 11/04 Q1011 NOSIG RMK QFE748/0997 26100060= UWOR 131100Z 27009G13MPS 9999 BKN040CB 13/02 Q1011 NOSIG RMK QFE733/0977 SC065= UWPP 131100Z 25003MPS 9999 SCT033CB OVC100 15/12 Q1016 NOSIG RMK QFE 746 29190060= UWSS 131100Z 29005MPS CAVOK 16/09 Q1017 NOSIG RMK QFE749 300///60= UWWW 131100Z 25005MPS 9999 SCT033CB BKN100 OVC200 11/09 Q1013 NOSIG RMK QFE749/0998 23CLRD60 15259950=  102 SANK31 MNMG 131103Z METAR MNMG 131100Z 00000KT 9999 FEW021 24/23 Q1011 A2986 VP/00000KT=  103 SARS34 RUMS 131100 UUYH 131100Z 34006MPS CAVOK 10/M00 Q1007 NOSIG RMK QFE 743 36CLRD60= UUYS 131100Z 30003MPS 9999 OVC022 07/03 Q1007 NOSIG RMK QFE748 32CLRD60= UUYY 131100Z 33003MPS 9999 FEW033 13/02 Q1009 NOSIG 01CLRD61 RMK QFE747 =  104 SARS31 RUMS 131100 ULAA 131100Z 27004MPS 9999 -SHRA OVC009CB 13/12 Q1009 NOSIG RMK QFE756/1008 SC060= ULKK 131100Z 34003MPS 5000 FEW026 SCT099 15/05 Q1010 NOSIG RMK QFE753 13000060= ULLI 131100Z 31003MPS 260V360 CAVOK 19/14 Q1019 NOSIG= ULMM 131100Z 30004G08MPS 9999 BKN016CB BKN080 12/05 Q1006 NOSIG RMK QFE747 32190060 = ULOL 131100Z 27006MPS CAVOK 20/10 Q1022 NOSIG RMK QFE757/1010= ULOO 131100Z 27004MPS P6000 SKC 22/10 Q1022 NOSIG RMK QFE762 SC07= ULWW 131100Z 29005MPS 9999 BKN020 OVC/// 15/13 Q1014 NOSIG RMK QFE750 33CLRD60= UMKK 131100Z 16005MPS P6000 SKC 22/12 Q1024 NOSIG RMK QFE 767 SC07= UUBP 131100Z 31006MPS 9999 SCT033 19/10 Q1024 NOSIG RMK SC07= UUOO 131100Z 30007MPS 9999 BKN033 BKN100 19/11 Q1021 NOSIG RMK 31090070= UWGG 131100Z VRB02MPS 6000 BKN020 BKN100 13/11 Q1014 NOSIG RMK QFE753 SC05 =  105 SARA34 RUMS 131100 UNAA 131100Z 19003MPS CAVOK 22/11 Q1010 NOSIG RMK QFE735 200///65 = UNBB 131100Z 17004MPS 9999 BKN033CB 22/08 Q1005 NOSIG RMK QFE731= UNEE 131100Z 20003MPS 9999 SCT030CB SCT066 21/09 Q1006 NOSIG RMK QFE732 23190060= UNKL 131100Z 00000MPS CAVOK 21/10 Q1007 NOSIG RMK QFE730 29////65 = UNNT 131100Z 20002MPS CAVOK 20/07 Q1003 NOSIG RMK QFE743/0990 07090070= UNOO 131100Z 29005MPS 9999 -SHRA BKN033CB 13/08 Q0998 TEMPO VRB17MPS 2000 TSRAGR SQ BKN007 25290050 RMK QFE740 MOD TURB = UNWW 131100Z 15002MPS 9999 SCT023CB BKN130 20/08 Q1007 NOSIG RMK QFE729 19CLRD70= USTR 131100Z 23005MPS 190V260 9999 BKN020CB OVC070 08/07 Q0993 RMK QFE736/0981 21290060 12290060=  198 SACN94 KWBC 131118 METAR CWRJ 131100Z AUTO 04007KT 08/04 RMK AO1 SLP097 T00820038 56029= METAR CWRK 131100Z AUTO 15002KT 13/12 RMK AO1 1PAST HR 6014 SLP140 P0000 T01250117 50028= METAR CWSP 131100Z AUTO 29009KT 12/ RMK AO1 SLP200 T0117 58006=  199 SACN87 KWBC 131118 METAR CWEQ 131100Z AUTO 29001KT 07/06 RMK AO1 SLP140 T00700060 58011=  200 SACN85 KWBC 131118 METAR CWDO 131100Z AUTO 07015G23KT 12/09 RMK AO1 PK WND 10023/1055 SLP088 T01190091 56027= METAR CWRA 131100Z AUTO 1SM M01/M01 RMK AO1 89915/15/1141+51/0162 2MM PAST HR PRESFR 6114 PK WND 10057/1021 P0002 T10101013=  201 SACN88 KWBC 131118 METAR CZDB 131100Z AUTO 27009KT 10/08 RMK AO1 SLP133 T01000075 53002= METAR CZSP 131100Z AUTO 32011KT 15/11 RMK AO1 PK WND 31020/1028 SLP110 T01460109 56008= METAR CZDB 131100Z AUTO 27009KT 10/08 RMK AO1 SLP133 T01000075 53002= METAR CZSP 131100Z AUTO 32011KT 15/11 RMK AO1 PK WND 31020/1028 SLP110 T01460109 56008=  202 SACN86 KWBC 131118 METAR CWPO 131100Z AUTO 32004KT 09/09 RMK AO1 SLP146 T00920090 55002= METAR CWWZ 131100Z AUTO 18012KT 17/16 RMK AO1 6012 PK WND 18017/1041 SLP100 T01740161 50057=  197 SACN89 KWBC 131118 METAR CWAQ 131100Z AUTO 15003KT 13/03 RMK AO1 T01270034= METAR CWCF 131100Z AUTO 03003KT 06/06 RMK AO1 SLP135 T00610059 53001=  203 SACN90 KWBC 131118 METAR CWEB 131100Z AUTO 29025KT 12/ RMK AO1 PK WND 29031/1005 SLP209 T0120 58004= METAR CWGL 131100Z AUTO 14008KT 15/15 RMK AO1 SLP114 T01520152 56015=  204 SAUS70 KWBC 131118 RRB METAR PAUN 131116Z AUTO 11004KT 10SM OVC030 09/06 A3040 RMK AO1= PAVD 131116Z 00000KT 10SM CLR 05/03 A3042 RMK AO1= PAWG 131116Z AUTO 31005KT 10SM BKN006 OVC016 09/06 A3028 RMK AO1= PAWN 131116Z AUTO 16013G17KT 10SM OVC040 10/08 A3014 RMK AO1= PAZK 131116Z AUTO 26008KT 10SM CLR 05/03 A3043 RMK AO1= PFYU 131116Z 23005KT 10SM FEW085 11/05 A3026 RMK AO1=  205 SACN93 KWBC 131118 METAR CWNE 131100Z AUTO 31017KT 15/13 RMK AO1 PK WND 31021/1043 SLP114 T01510131 58012=  251 SACN92 KWBC 131118 METAR CWKG 131100Z AUTO 30001KT 07/07 RMK AO1 SLP167 T00730065 56001=  252 SACN98 KWBC 131118 METAR CXKI 131100Z AUTO 11/10 RMK AO1 T01120100= METAR CXTD 131100Z AUTO 33014G22KT 15/10 RMK AO1 PK WND 34026/1035 SLP108 T01480104 55001= METAR CZKD 131100Z AUTO 26002KT RMK AO1 = METAR CZTB 131100Z AUTO 26004KT 02/01 RMK AO1 SLP154 T00170014 56007= METAR CZZJ 131100Z AUTO 07/07 RMK AO1 T00720072 50002= METAR CZZJ 131100Z AUTO 07/07 RMK AO1 T00720072 50002= METAR CZZJ 131100Z AUTO 07/07 RMK AO1 T00720072 50002= METAR CZZJ 131100Z AUTO 07/07 RMK AO1 T00720072 50002= METAR CZZJ 131100Z AUTO 07/07 RMK AO1 T00720072 50002=  253 SAUS70 KWBC 131118 METAR K20V 131114Z AUTO 00000KT 10SM CLR 02/M01 A3038 RMK AO2= KAFJ 131115Z AUTO 17005KT 5SM FEW001 OVC013 16/06 A2996 RMK AO1 P0001= KAIZ 131115Z AUTO 28005KT 10SM CLR 13/12 A3003 RMK AO1= KARG 131115Z AUTO 31004KT 10SM CLR 13/11 A3000 RMK AO1= KAUO 131115Z AUTO 16006KT 1 1/2SM OVC002 22/20 A2988 RMK AO1 P0015= KAWO 131115Z AUTO 00000KT 5SM CLR 08/07 A3010 RMK AO1= KBHB 131115Z AUTO 00000KT 10SM CLR 07/03 A3011 RMK AO1= KBID 131115Z 26004KT 10SM CLR 13/11 A3014 RMK AO1= KBJI 131115Z AUTO 15003KT 10SM CLR 11/07 A2998 RMK AO1= KBKX 131115Z AUTO 14004KT 10SM CLR 08/07 A3006 RMK AO1= KBLM 131115Z AUTO 00000KT 10SM FEW030 12/06 A3013 RMK AO1= KBTP 131115Z AUTO 18006KT 4SM OVC006 16/14 A2995 RMK AO1= KBVX 131115Z AUTO 00000KT 10SM CLR 13/09 A3002 RMK AO1= KCCU 131113Z AUTO 27004KT 10SM CLR 06/M08 A3059 RMK AO2= KCGZ 131115Z AUTO 03003KT 10SM CLR 23/14 A2993 RMK AO1= KCOE 131115Z AUTO 16008KT 10SM CLR 14/06 A2992 RMK AO1= KCVN 131115Z AUTO 23006KT 5SM CLR 13/13 A3020 RMK AO1= KCVO 131115Z AUTO 31008KT 10SM CLR 12/09 A3014 RMK AO1= KCWI 131115Z AUTO 34009KT 10SM OVC006 14/12 A2995 RMK AO1= KDYR 131115Z AUTO 00000KT 10SM CLR 14/12 A2998 RMK AO1= KEEN 131115Z AUTO 00000KT 10SM CLR 07/06 A3014 RMK AO1= KENV 131115Z AUTO 05003KT 10SM CLR 16/02 A3004 RMK AO1= KEUL 131115Z AUTO 08003KT 10SM CLR 11/04 A2998 RMK AO1= KEWK 131115Z AUTO 23006KT 10SM CLR 12/10 A3011 RMK AO1= KFAM 131115Z AUTO 29004KT 10SM BKN014 13/11 A2998 RMK AO1= KFKL 131115Z AUTO 16008KT 5SM FEW003 SCT035 BKN046 15/14 A2994 RMK AO1= KFLP 131115Z AUTO 00000KT 10SM CLR 12/11 A3003 RMK AO1= KFOD 131115Z AUTO 00000KT 2SM CLR 06/06 A3002 RMK AO1= KFRM 131115Z 26004KT 10SM CLR 09/08 A3004 RMK AO1= KGAD 131115Z AUTO 05004KT 7SM OVC003 20/19 A2991 RMK AO1= KGBD 131115Z 23003KT 10SM CLR 11/08 A3009 RMK AO1= KHEZ 131115Z AUTO 35004KT 4SM BKN006 22/19 A2991 RMK AO1= KHYS 131115Z AUTO 23003KT 10SM CLR 12/10 A3007 RMK AO1= KJWG 131116Z AUTO 00000KT 10SM CLR 11/10 A3014 RMK AO2= KKLS 131115Z AUTO 00000KT 10SM OVC017 13/09 A3014 RMK AO1= KLBL 131115Z 24005KT 10SM CLR 13/11 A3013 RMK AO1= KLCI 131115Z AUTO 23003KT 10SM CLR 09/07 A3014 RMK AO1= KLEW 131115Z AUTO 02003KT 10SM CLR 06/04 A3012 RMK AO1= KLGD 131115Z AUTO 00000KT 10SM CLR 09/02 A3004 RMK AO1= KLKV 131115Z AUTO 34003KT 10SM CLR 10/M01 A3016 RMK AO1= KLPC 131115Z AUTO 28003KT 1 1/4SM OVC001 13/ A2990 RMK AO1= KMKT 131115Z AUTO 26004KT 3SM CLR 08/08 A3002 RMK AO1= KMML 131115Z AUTO 00000KT 10SM FEW050 11/08 A3002 RMK AO1= KMRF 131115Z AUTO 03005KT 10SM CLR 13/12 A3023 RMK AO1= KMSV 131115Z 00000KT 10SM CLR 13/06 A3012 RMK AO1= KOAJ 131115Z 00000KT 10SM CLR 14/13 A3005 RMK AO1= KOCF 131115Z AUTO 00000KT 10SM CLR 23/20 A2995 RMK AO1= KOKK 131115Z AUTO 25010KT 5SM OVC005 16/13 A2984 RMK AO1= KOLU 131115Z AUTO 00000KT 6SM CLR 08/07 A3008 RMK AO1= KOTG 131115Z AUTO 24004KT 9SM CLR 08/07 A3003 RMK AO1= KOTH 131115Z 35006KT 6SM CLR 11/09 A3016 RMK AO1 BR SLP213= KOXC 131115Z 00000KT 10SM CLR 08/08 A3015 RMK AO1= KPIB 131115Z AUTO 00000KT 1 1/4SM OVC001 22/22 A2991 RMK AO1= KPQI 131115Z AUTO 00000KT 10SM CLR 02/00 A3004 RMK AO1= KPTN 131115Z AUTO 00000KT 7SM SCT036 24/21 A2991 RMK AO1 LTG DSNT SW= KPTV 131115Z AUTO 20003KT 10SM CLR 19/12 A2985 RMK AO1= KPVU 131115Z 15005KT 10SM CLR 14/05 A3010 RMK AO1= KPWT 131115Z AUTO 18006KT 1/2SM OVC001 12/M18 A3011 RMK AO1= KRKD 131115Z AUTO 29003KT 10SM CLR 07/06 A3009 RMK AO1= KRUT 131115Z AUTO 12007KT 10SM OVC100 10/08 A3012 RMK AO1= KSFM 131115Z 00000KT 06/04 A3013 RMK AO1= KSFZ 131115Z AUTO 00000KT 10SM CLR 08/06 A3013 RMK AO1=  254 SPUS70 KWBC 131118 SPECI KDET 131113Z 00000KT 10SM OVC009 19/18 A2980 RMK AO2 $= KGYH 131112Z 03006KT 2SM RA BR BKN016 OVC021 17/16 A3001= KLVS 131114Z AUTO 36004KT M1/4SM FG BKN002 BKN006 10/09 A3029 RMK AO2= KSBP 131114Z AUTO 00000KT 1SM BR OVC001 13/12 A2990 RMK AO2 TSNO= KTQE 131114Z AUTO 00000KT 1 3/4SM BR CLR 06/06 A3005 RMK AO2 VIS 1V4= KIND 131110Z 28008KT 7SM -DZ BKN008 OVC015 14/14 A2986 RMK AO2 CIG 005V012 P0000= KCKV 131115Z AUTO 31004KT 9SM SCT029 OVC037 17/15 A2993 RMK AO2= KCMA 131115Z AUTO 00000KT 1 1/2SM BR OVC004 15/14 A2988 RMK AO2= KIJD 131115Z AUTO 00000KT 10SM SCT001 07/05 A3015 RMK AO2= KJXN 131115Z 00000KT 4SM BR OVC045 17/17 A2980 RMK AO2 PNO $= KOKB 131115Z AUTO 29003KT 5SM BR OVC006 18/17 A2987 RMK AO2 TSNO= KPFN 131115Z 14007KT 1 1/2SM +TSRA BR SCT009 BKN041 OVC055 23/22 A2986 RMK AO2 TSB09 PNO $= KPNC 131115Z AUTO 00000KT 4SM BR CLR 09/09 A3009 RMK AO2 $= PAMB 131114Z AUTO 00000KT 1/4SM FG VV015 04/04 A3043 RMK AO2 PWINO TSNO=  255 SACN97 KWBC 131118 METAR CXKT 131100Z AUTO 26006KT 11/07 RMK AO1 T01090068= METAR CXDE 131100Z AUTO 32007KT M00/M01 RMK AO1 SLP247 T10021006 53015= METAR CXEG 131100Z AUTO 08/08 RMK AO1 T00780078 50018= METAR CXMD 131100Z AUTO 32006KT 13/11 RMK AO1 T01330111= METAR CXMI 131100Z AUTO 31017KT 13/08 RMK AO1 PK WND 32022/1034 SLP133 T01280084 53004= METAR CXMM 131100Z AUTO 01/00 RMK AO1 T00080000= METAR CXMD 131100Z AUTO 32006KT 13/11 RMK AO1 T01330111= METAR CXMI 131100Z AUTO 31017KT 13/08 RMK AO1 PK WND 32022/1034 SLP133 T01280084 53004= METAR CXMM 131100Z AUTO 01/00 RMK AO1 T00080000= METAR CXMI 131100Z AUTO 31017KT 13/08 RMK AO1 PK WND 32022/1034 SLP133 T01280084 53004= METAR CXMM 131100Z AUTO 01/00 RMK AO1 T00080000=  256 SAAF32 KWBC 131100 RRB METAR FCBB 131100Z 23007KT 170V300 9999 BKN020 27/19 Q1016 NOSIG= FKKD 131100Z 27004KT 9999 BKN016 FEW020CB 28/24 Q1015 NOSIG= FOOL 131100Z 17006KT 9999 SCT011 SCT040 30/24 Q1015 NOSIG= FZAA 131100Z 26006KT 9999 FEW022 28/19 Q1016 NOSIG=  257 SACN96 KWBC 131118 METAR CWZQ 131100Z AUTO 35021KT 15/12 RMK AO1 PK WND 20024/1016 SLP080 T01540123 55007=  258 SACN63 KWBC 131118 METAR CZFS 131100Z AUTO 35007KT 04/02 RMK AO1 SLP219 T00390021 53019= METAR CZHY 131100Z AUTO 05009KT 08/05 RMK AO1 8PAST HR 2010 SLP174 P0000 T00760052 50146= METAR CZHY 131100Z AUTO 05009KT 08/05 RMK AO1 8PAST HR 2010 SLP174 P0000 T00760052 50146=  259 SAUS80 KWBC 131118 METAR KDVL 131115Z AUTO 30003KT 10SM CLR 09/08 A2991 RMK AO1= KEAR 131115Z AUTO 22004KT 10SM CLR 12/09 A3005 RMK AO1= KGPZ 131115Z AUTO 00000KT 10SM CLR 04/02 A2999 RMK AO1= PADK 131116Z AUTO 18005KT 8SM OVC013 08/07 A3017 RMK AO1=  260 SPAO31 KWBC 131118 SPECI GEML 131115Z 24003KT 200V300 8000 FEW012 SCT024 BKN100 22/20 Q1013=  261 SAXX60 KWBC 131118 METAR PABA 131115Z AUTO 13009KT 10SM CLR 02/01 A3020 RMK AO1 T00170012=  262 SAUS70 KWBC 131118 RRA METAR KSGT 131115Z AUTO 35006KT 10SM OVC043 17/14 A2998 RMK AO1= KSGU 131115Z AUTO 00000KT 10SM CLR 22/04 A2998 RMK AO1= KSKX 131115Z AUTO 35003KT 10SM CLR 08/03 A3034 RMK AO1= KSLG 131115Z AUTO 00000KT 3SM CLR 10/06 A3007 RMK AO1= KSMN 131115Z AUTO 01003KT 10SM CLR 07/00 A3003 RMK AO1= KSOP 131115Z 00000KT 10SM CLR 16/13 A3005 RMK AO1= KTVF 131115Z AUTO 16005KT 10SM CLR 11/08 A2994 RMK AO1= KUDG 131115Z AUTO 08005KT 10SM FEW075 18/16 A3005 RMK AO1= KVBT 131115Z AUTO 00000KT 2 1/2SM CLR 09/09 A3006 RMK AO1= KVIS 131115Z AUTO 13004KT 10SM CLR 19/15 A2985 RMK AO1= KWVL 131115Z AUTO 00000KT 9SM CLR 05/04 A3006 RMK AO1= KWWD 131115Z AUTO 00000KT 10SM CLR 12/08 A3011 RMK AO1= KYKN 131115Z AUTO 18004KT 10SM CLR 09/08 A3005 RMK AO1= KCFS 131115Z AUTO 00000KT 1/2SM RA OVC002 17/16 A2981 RMK AO2= KCKN 131115Z AUTO 16004KT 10SM CLR 12/11 A2991 RMK AO2= KCVX 131114Z AUTO 34005KT 5SM BR BKN004 BKN007 OVC010 13/13 A2990 RMK AO2= KDUH 131114Z AUTO 21003KT 3SM -DZ OVC004 A2981 RMK AO2= KSRE 131115Z AUTO 35005KT 10SM CLR 12/11 A3011 RMK AO2= KATW 131115Z AUTO 36008KT 7SM OVC006 13/12 A2992 RMK AO2= KFKS 131114Z AUTO 03008KT 7SM BKN004 OVC049 15/14 A2985 RMK AO2= KFPK 131115Z AUTO 00000KT 5SM BR SCT006 OVC039 16/16 A2981 RMK AO2 P0002= KHYX 131116Z AUTO 01005KT 1/4SM DZ OVC001 17/16 A2979 RMK AO2= KLDM 131116Z AUTO 03003KT 10SM BKN003 OVC016 16/14 A2985 RMK AO2= KLWA 131115Z AUTO 00000KT 7SM OVC016 16/15 A2980 RMK AO2= KMGN 131115Z AUTO 03005KT 7SM OVC006 16/14 A2987 RMK AO2= KMRJ 131115Z AUTO 35007KT 7SM OVC005 12/12 A2994 RMK AO2= KOEB 131115Z AUTO 00000KT 1 3/4SM BR OVC002 17/17 A2980 RMK AO2= PAAK 131116Z AUTO 09008KT 10SM OVC024 09/04 A3017 RMK AO1= PAAK 131116Z AUTO 09008KT 10SM OVC024 09/04 A3017 RMK AO1= PABL 131116Z AUTO 14007KT 10SM OVC060 11/07 A3029 RMK AO1= PABV 131116Z AUTO 00000KT 10SM CLR 06/04 A3044 RMK AO1= PADL 131116Z 00000KT 10SM CLR 04/03 A3044 RMK AO1= PADU 131116Z AUTO 00000KT 5SM OVC001 07/06 A3024 RMK AO1= PAFE 131116Z AUTO 05003KT 1/4SM OVC001 08/07 A3031 RMK AO1= PAGL 131116Z AUTO 10SM OVC019 10/07 A3035 RMK AO1= PAGM 131116Z AUTO 19026G31KT 1 3/4SM CLR 07/06 A3008 RMK AO1= PAGS 131116Z AUTO 00000KT 1/2SM OVC001 03/01 A3036 RMK AO1= PAHL 131116Z AUTO 19004KT 10SM OVC034 09/05 A3032 RMK AO1= PAHP 131116Z AUTO 15018G23KT 10SM OVC018 09/06 A3032 RMK AO1 TSNO= PAHY 131116Z AUTO 32004KT 10SM BKN003 OVC007 10/09 A3028 RMK AO1= PAII 131116Z AUTO 06004KT 1/4SM VV002 04/04 A3040 RMK AO1= PAIN 131116Z AUTO 00000KT 10SM BKN044 02/00 A3045 RMK AO1= PAJC 131116Z AUTO 09005KT 10SM SCT020 SCT026 10/07 A3038 RMK AO1= PAKK 131116Z AUTO 22010KT 10SM OVC024 10/07 A3032 RMK AO1= PAKP 131116Z AUTO 20010KT 10SM OVC050 08/04 A3022 RMK AO1= PAMD 131116Z AUTO 28007KT 5SM CLR 10/08 A3039 RMK AO1= PAMH 131116Z AUTO 00000KT 10SM CLR 08/05 A3045 RMK AO1= PAMM 131116Z AUTO 00000KT 7SM BKN023 10/07 A3026 RMK AO1= PAMY 131116Z AUTO 20016G19KT 10SM OVC008 07/04 A3035 RMK AO1= PANI 131116Z AUTO 00000KT 1 1/4SM BKN001 BKN060 03/02 A3042 RMK AO1= PANV 131116Z 23003KT 10SM BKN022 08/06 A3042 RMK AO1= PAPG 131116Z 00000KT 1/4SM OVC001 08/07 A3029 RMK AO1= PAPH 131116Z AUTO 06006KT 3SM CLR 05/03 A3039 RMK AO1= PARC 131116Z AUTO 03003KT 10SM CLR 02/M02 A3021 RMK AO1= PASA 131116Z AUTO 20028G36KT 7SM BKN005 08/06 A3011 RMK AO1= PASH 131116Z AUTO 19023G26KT CLR 09/06 A3014 RMK AO1= PASK 131116Z AUTO 00000KT 10SM OVC043 A3029 RMK AO1= PASM 131116Z AUTO 21013KT 10SM OVC010 07/04 A3040 RMK AO1= PASX 131116Z AUTO 10003KT 10SM CLR 01/01 A3043 RMK AO1= PATG 131116Z AUTO 36007KT M1/4SM OVC001 06/05 A3042 RMK AO1=  266 SACN91 KWBC 131118 METAR CWGX 131100Z AUTO 29008KT 10/07 RMK AO1 SLP119 T00990073 52011= METAR CWHT 131100Z AUTO 05001KT 01/M00 RMK AO1 SLP305 T00131002 53012= METAR CWIP 131100Z AUTO 26005KT 13/ RMK AO1 T0130= METAR CWIY 131100Z AUTO 29002KT 05/04 RMK AO1 SLP184 T00520035 53001= METAR CWJH 131100Z AUTO 24003KT 02/02 RMK AO1 SLP153 T00210019 50001=  268 SAAF34 KWBC 131100 RRC METAR FEFF 131100Z VRB02KT 9999 SCT026 33/20 Q1014 NOSIG=  270 SPUS80 KWBC 131118 SPECI PAOM 131115Z 19016KT 10SM BKN009 OVC048 09/07 A3027 RMK AO2=  274 SPBZ41 KWBC 131118 SPECI SBCZ 131115Z 00000KT 5000 BR SCT015 BKN300 21/21 Q1012=  276 SAAF33 KWBC 131100 RRB METAR FNLU 131100Z 25009KT 9999 SCT020 BKN025 24/17 Q1015 NOSIG=  277 SAAG31 KWBC 131100 RRD METAR SARP 131100Z 16002KT 8000 HZ SCT020 BKN100 22/20 Q1010 RETSRA=  284 SAAW31 KWBC 131100 RRB METAR OJAM 131100Z NIL=  285 SAAS33 KWBC 131100 RRD METAR WSSL 131100Z VRB03KT 9999 FEW020 BKN300 29/23 Q1009=  287 SACA45 KWBC 131100 RRC METAR MNMG 131100Z 00000KT 9999 FEW021 24/23 Q1011 A2986 VP/00000KT=  289 SAIO31 KWBC 131100 RRD METAR WBSB 131100Z 35004KT 9999 FEW016 FEW017CB BKN300 29/24 Q1010 NOSIG=  312 SAUS42 KFFC 131117 MTRRMG SPECI KRMG 131116Z AUTO 00000KT 3SM -RA BR OVC005 19/18 A2992 RMK AO2 CIG 003V008 P0003 TSNO  328 SAMX31 KWBC 131145 METAR MNMG 131100Z 00000KT 9999 FEW021 24/23 Q1011 A2986 VP/00000KT=  340 SARS31 KWBC 131100 RRC METAR ULMM 131100Z 30004G08MPS 9999 BKN016CB BKN080 12/05 Q1006 NOSIG RMK QFE747 32190060= UOHH 131100Z 24005MPS 0400 FG OVC003 03/03 Q0995 NOCIG RMK QBB090 QFE740 06290056= UOOO 131100Z 28004G05MPS 0500 R19/0500 FG -RA VV001 07/07 Q0998 NOSIG RMK QBB040 QFE733 1919//56=  341 SASD41 KWBC 131100 RRB METAR OEBH 131100Z 30008KT CAVOK 38/M02 Q1013 NOSIG=  342 SARA31 KWBC 131100 RRF METAR UIAA 131100Z VRB02MPS 9999 SCT100 OVC200 19/02 Q1010 NOSIG RMK QFE699 29CLRD70= UIBB 131100Z 30004MPS 9999 SCT040 BKN200 18/10 Q1010 NOSIG RMK QFE714/0952 30CLRD60= UIII 131100Z 19003MPS CAVOK 18/09 Q1010 NOSIG RMK QFE715/0954 12CLRD60= UIUU 131100Z 04002MPS 9999 FEW100 19/07 Q1009 NOSIG RMK QFE713/0950= ULAA 131100Z 27004MPS 9999 -SHRA OVC009CB 13/12 Q1009 NOSIG RMK QFE756/1008 SC060= UNAA 131100Z 19003MPS CAVOK 22/11 Q1010 NOSIG RMK QFE735 200///65= UNNT 131100Z 20002MPS CAVOK 20/07 Q1003 NOSIG RMK QFE743/0990 07090070= USNN 131100Z 19005MPS P6000 BKN027CB BKN066 OVC200 16/07 Q0995 NOSIG RMK QFE742 SC065=  343 SARS33 KWBC 131100 RRA METAR USDD 131100Z 05005MPS 9999 SCT020CB BKN070 07/04 Q1003 NOSIG RMK QFE747 SC06= USMU 131100Z 02005MPS 6000 OVC012 11/08 Q1000 NOSIG RMK QFE743 09CLRD65= USNN 131100Z 19005MPS P6000 BKN027CB BKN066 OVC200 16/07 Q0995 NOSIG RMK QFE742 SC065= USPP 131100Z 31006G09MPS 9999 BKN017 OVC100 07/04 Q1004 NOSIG RMK QFE743/0990 SC060= USRK 131100Z 18004MPS 6000 SCT026 BKN066 17/11 Q0995 NOSIG RMK QFE740 170///60= USRR 131100Z 17004G07MPS 7000 FEW033CB BKN100 15/09 Q0994 NOSIG RMK QFE740 25////50= USSS 131100Z 27008MPS 5000 -SHRA OVC015CB 06/05 Q0997 TEMPO 27010G1 5MPS RMK QFE727 2629//55 76291040= USTR 131100Z 23005MPS 190V260 9999 BKN020CB OVC070 08/07 Q0993 RMK QFE736/0981 21290060 12290060=  344 SASA42 KWBC 131100 RRA METAR SELT 131100Z 15004KT 8000 VCFG SCT005 BKN020 10/09 Q1031=  345 SASA41 KWBC 131100 RRA METAR SEMT 131100Z 18008KT 8000NE 9999SW SCT010 BKN016 22/XX Q1013= SKPE 131100Z 00000KT 9999 SCT013 SCT070 19/17 A3006=  346 SPUS43 KWBC 131118 SPECI KDET 131113Z 00000KT 10SM OVC009 19/18 A2980=  347 SASA31 KWBC 131100 RRD METAR SKBO 131100Z 01006KT 4000 2000NW DZ FEW003 OVC020 11/10 A3032 BECMG AT 1130 5000 -DZ= SKBQ 131100Z 15004KT 8000 BKN015 25/23 A2983 BR= SKCG 131100Z 17004KT 4000 BR SCT015 27/27 RMK APRSM= SKCL 131100Z 00000KT 7000 MIFG SCT017 BKN090 20/18 A2998= SKLT 131100Z 00000KT 4000 BR SCT013 SCT080 24/23 A2992= SKRG 131100Z 02006KT 9000 -DZ BKN007 BKN080 14/14 A3031=  399 SARS41 KWBC 131100 RRB METAR UUBP 131100Z 31006MPS 9999 SCT033 19/10 Q1024 NOSIG RMK SC07= UUOO 131100Z 30007MPS 9999 BKN033 BKN100 19/11 Q1021 NOSIG RMK 31090070= UUYH 131100Z 34006MPS CAVOK 10/M00 Q1007 NOSIG RMK QFE 743 36CLRD60= UUYS 131100Z 30003MPS 9999 OVC022 07/03 Q1007 NOSIG RMK QFE748 32CLRD60= UUYY 131100Z 33003MPS 9999 FEW033 13/02 Q1009 NOSIG 01CLRD61 RMK QFE747= UWGG 131100Z VRB02MPS 6000 BKN020 BKN100 13/11 Q1014 NOSIG RMK QFE753 SC05= UWKD 131100Z 27004MPS 9999 BKN016 12/08 Q1011 NOSIG RMK QFE747/0996 79CLRD70= UWKE 131100Z 28009MPS 9999 SCT030 13/04 Q1009 NOSIG RMK QFE740/0986 22090370= UWLW 131100Z 24003MPS 8000 -SHRA OVC030CB 12/12 Q1012 NOSIG 20290250 RMK QFE754= UWOO 131100Z 31008MPS 5000 BKN033CB 11/04 Q1011 NOSIG RMK QFE748/0997 26100060= UWPP 131100Z 25003MPS 9999 SCT033CB OVC100 15/12 Q1016 NOSIG RMK QFE 746 29190060= UWSS 131100Z 29005MPS CAVOK 16/09 Q1017 NOSIG RMK QFE749 300///60= UWUU 131100Z 30003G08MPS 230V340 9999 BKN030 13/05 Q1007 NOSIG RMK QFE744/0992 82010060= UWWW 131100Z 25005MPS 9999 SCT033CB BKN100 OVC200 11/09 Q1013 NOSIG RMK QFE749/0998 23CLRD60 15259950=  408 SAUS43 KWBC 131100 RRD METAR KCIU 131115Z AUTO 01005KT 10SM OVC010 12/10 A2991=  423 SAUS44 KWBC 131100 RRC METAR KGDV 131115Z AUTO 20005KT 10SM CLR 13/05 A2988=  424 SPCN44 CWAO 131114 SPECI CYEK 131114Z AUTO 33010KT 9SM -RA FEW058 OVC063 OVC098 10/10 A2965=  425 SAUS53 KWBC 131100 RRD METAR KBIE 131110Z AUTO 00000KT 10SM CLR 09/08 A3006=  460 SAUS54 KWBC 131100 RRC METAR KSOW 131110Z AUTO 19005KT 10SM CLR 13/10 A3024=  573 SPCN44 CWAO 131117 SPECI CYED 131117Z AUTO 24002KT 9SM BKN008 OVC024 OVC047 OVC068 10/10 A2997=  734 SPCN46 CWAO 131116 SPECI CYKF 131116Z AUTO 17006KT 2SM -RA OVC003 17/17 A2979=  735 SPCN31 CWAO 131116 SPECI CYYZ 131116Z 11008KT 1 1/4SM -RA BR OVC002 17/ RMK NS8=  736 SATZ31 LOWM 131100 METAR UTDL 131100Z 25007MPS 9999 SKC 31/M02 Q1012 NOSIG RMK QFE721 8809//70 = METAR UTDD 131100Z VRB02MPS 9999 SKC 31/M01 Q1012 NOSIG RMK QFE692 99CLRD70=  817 SPAK31 KWBC 131119 SPECI PAOM 131115Z 19016KT 10SM BKN009 OVC048 09/07 A3027=  818 SPCN31 KWBC 131119 SPECI CYYZ 131116Z 11008KT 1 1/4SM -RA BR OVC002 17/ RMK NS8=  827 SPUS42 KWBC 131119 SPECI KPFN 131115Z 14007KT 1 1/2SM +TSRA BR SCT009 BKN041 OVC055 23/22 A2986=  852 SPUS52 KWBC 131119 SPECI KPNC 131115Z AUTO 00000KT 4SM BR CLR 09/09 A3009=  853 SPUS52 KWBC 131119 SPECI KRMG 131116Z AUTO 00000KT 3SM -RA BR OVC005 19/18 A2992=  889 SAGC31 MWCR 131100 METAR MWCR 131100Z 03004KT 9999 VCSH FEW016CB BKN250 26/25 Q1012= METAR MWCB NIL=  076 SACN95 CWAO 131112 WXC SA 1112 AUTO8 M M M 187/-01/-01/0802/M/ 8005 79MM=  236 SACI51 RJTD 131100 METAR ZBAA 131100Z 18003MPS 8000 NSC 23/13 Q1020 NOSIG= METAR ZBTJ 131100Z 19002MPS 6000 NSC 22/15 Q1020 NOSIG= METAR ZBYN 131100Z 08004MPS CAVOK 22/12 Q1021 NOSIG= METAR ZGGG 131100Z 05002MPS 360V080 9999 -RA OVC033 22/19 Q1010 NOSIG= METAR ZGKL 131100Z 05004MPS 1800 -RA BR SCT043 20/18 Q1015 NOSIG= METAR ZGNN 131100Z 06006MPS 9999 SCT030 BKN046 23/19 Q1012 NOSIG= METAR ZGOW 131100Z 09003MPS 9999 BKN033 26/25 Q1011 NOSIG= METAR ZGSZ 131100Z 05003MPS 350V090 6000 -SHRA SCT013 FEW030TCU BKN040 24/22 Q1009 NOSIG= METAR ZLXY 131100Z 26002MPS 2000 -RA BR BKN070 17/15 Q1020 NOSIG= METAR ZPPP 131100Z 20002MPS 9999 FEW050 18/09 Q1021 NOSIG= METAR ZSAM 131100Z 11004MPS CAVOK 27/24 Q1012 NOSIG= METAR ZSHC 131100Z 35003MPS 330V050 2300 BR FEW013 BKN020 OVC050 22/19 Q1017 NOSIG= METAR ZSNJ 131100Z 05003MPS 020V080 CAVOK 22/19 Q1018 NOSIG= METAR ZSQD 131100Z 23002MPS CAVOK 22/18 Q1020 NOSIG= METAR ZSSS 131100Z 02004MPS 9999 SCT016 BKN050 23/20 Q1017 NOSIG= METAR ZWWW 131100Z 05003MPS CAVOK 31/02 Q1009 NOSIG= METAR ZYTL 131100Z 26002MPS 7000 NSC 21/18 Q1021 NOSIG= METAR ZYTX 131100Z 19003MPS 8000 SKC 19/15 Q1020 NOSIG=  267 SAMX55 MMMY 131100 METAR MMMA 131107Z RTD 26006KT 6SM -RA BKN004 BKN008 OVC014 25/25 A2996 RMK 60125 8/7// FU ARND RTS= TX OPMET V1  331 SACN95 KWBC 131120 METAR CWXC 131112Z AUTO 08002KT M01/M01 RMK AO1 SLP187 T10071009 58005=  336 SAUS70 KWBC 131120 METAR KACB 131116Z AUTO 00000KT 5SM BR OVC004 15/14 A2986 RMK AO2= KACQ 131115Z AUTO 00000KT 1/4SM FG VV002 03/03 A3004 RMK AO2= KAIG 131115Z AUTO 36008KT 10SM OVC006 11/10 A2995 RMK AO2= KAMN 131116Z AUTO 01008KT 1 3/4SM BR OVC002 16/16 A2980 RMK AO2= KARV 131114Z AUTO 00000KT 1/4SM FG OVC001 07/06 A2999 RMK AO2= KBAX 131116Z AUTO 00000KT 1/4SM FG OVC001 17/17 A2980 RMK AO2= KCMY 131115Z AUTO 00000KT 10SM OVC027 12/11 A2998 RMK AO2= KCNB 131115Z AUTO 25008KT 10SM SCT060 SCT070 14/10 A3000 RMK AO2= KDLL 131115Z AUTO 00000KT 10SM BKN008 OVC011 13/12 A2994 RMK AO2= KDRM 131114Z AUTO 05005KT 5SM BR OVC003 13/13 A2987 RMK AO2= KEGV 131115Z AUTO 01004KT 1SM BR OVC002 10/10 A2996 RMK AO2= KERY 131116Z AUTO 34004KT 10SM SCT032 OVC050 12/11 A2992 RMK AO2= KGLW 131113Z AUTO 00000KT 7SM SCT013 BKN048 OVC060 17/09 A2997 RMK AO1= KHAI 131115Z AUTO 00000KT 3/4SM BR OVC001 16/16 A2980 RMK AO2= KHCD 131116Z AUTO 00000KT 1/2SM FG VV005 04/04 A3001 RMK AO2= KIRS 131116Z AUTO 00000KT 3SM BR BKN003 OVC011 17/17 A2980 RMK AO2= KMOP 131115Z AUTO 36005KT 2SM BR OVC002 16/15 A2981 RMK AO2= KUNU 131116Z AUTO 35009KT 7SM OVC004 13/12 A2993 RMK AO2 LTG DSNT SE= KANE 131115Z AUTO 00000KT 10SM CLR 07/07 A3002 RMK AO2= KAQP 131115Z AUTO 00000KT 10SM CLR 08/08 A2998 RMK AO2= KAUM 131115Z AUTO 31005KT 3SM BR CLR 08/08 A3001 RMK AO2 LTG DSNT E= KBBB 131115Z AUTO 17003KT 10SM BKN060 11/08 A2999 RMK AO2= KBFW 131115Z AUTO 00000KT 10SM CLR 01/M01 A2997 RMK AO2= KBWP 131117Z AUTO 14005KT 10SM 12/12 A2995 RMK AO1= KCBG 131115Z AUTO 00000KT 1/2SM FG OVC001 04/03 A3003 RMK AO2= KHCO 131115Z AUTO 15005KT 10SM CLR 11/09 A2988 RMK AO2= KJMR 131115Z AUTO 00000KT 1/2SM FG OVC001 02/01 A3003 RMK AO2= KJYG 131115Z AUTO 00000KT 7SM CLR 08/08 A3002 RMK AO2= KRQB 131116Z AUTO 01003KT 10SM OVC004 16/15 A2984 RMK AO2= KTTF 131117Z AUTO 21005KT 3SM BR OVC005 19/19 A2980 RMK AO2= KVVV 131117Z AUTO 15005KT 10SM CLR 12/09 A2998 RMK AO2= KVWU 131108Z AUTO 00000KT 10SM SCT065 11/09 A2995 RMK AO2= KW99 131115Z AUTO 00000KT 3SM -RA SCT034 BKN075 OVC110 16/14 A3001 RMK AO2 P0001= K7BM 131116Z AUTO 10003KT 10SM CLR 11/00 A3045 RMK AO2= KADC 131115Z AUTO 00000KT 10SM CLR 07/06 A2998 RMK AO2= KAEL 131115Z AUTO 31004KT 1 3/4SM BR VV007 03/02 A3002 RMK AO2 LTG DSNT E= KAIT 131115Z AUTO 00000KT M1/4SM FG OVC001 01/M01 A2999 RMK AO2= KBUU 131114Z AUTO 33009KT 4SM BR OVC004 14/13 A2987 RMK AO2= KHZX 131116Z AUTO 00000KT M1/4SM FG OVC001 02/02 A3001 RMK AO2= KISQ 131116Z AUTO 35007KT 10SM BKN049 12/11 A2991 RMK AO2= KJKJ 131116Z AUTO 19005KT 10SM CLR 14/12 A2992 RMK AO2= KJYM 131117Z AUTO 00000KT 3SM HZ BKN011 OVC038 17/14 A2981 RMK AO2= KLCK 131117Z AUTO 18007KT 2 1/2SM BR SCT005 BKN023 OVC028 19/18 A2986 RMK AO2= KMDZ 131115Z AUTO 00000KT 10SM CLR 09/09 A2998 RMK AO2= KMWC 131115Z AUTO 35007KT 5SM BR OVC005 14/13 A2988 RMK AO2= KMZH 131122Z AUTO 00000KT 1 1/4SM BR OVC001 02/01 A3000 RMK AO2= KOEO 131115Z AUTO 00000KT M1/4SM FG OVC001 06/06 A3003 RMK AO2= KOZW 131116Z AUTO 10003KT 7SM OVC002 17/17 A2980 RMK AO2= KPBH 131115Z AUTO 00000KT 1/4SM FG OVC001 07/07 A3000 RMK AO2= KRMY 131117Z AUTO 00000KT 10SM OVC008 16/15 A2981 RMK AO2= KRNP 131115Z AUTO 00000KT 3SM BR OVC003 17/17 A2980 RMK AO2= KSJX 131115Z AUTO 02005KT 10SM OVC015 14/12 A2990 RMK AO2= KSLH 131116Z AUTO 36004KT 3SM BR OVC003 14/13 A2988 RMK AO2= KTEW 131116Z AUTO 00000KT 3SM BR OVC002 16/16 A2980 RMK AO2=  339 SAXX60 KWBC 131100 RRI METAR KAFF 131055Z 01007KT 7SM SKC 07/06 A3022 RMK SLP175= KMCF 131055Z 10006KT 7SM SCT050 BKN100 BKN250 24/22 A2994 RMK SLP140=  340 SAUS80 KWBC 131120 METAR KCLI 131115Z 00000KT 10SM SCT011 OVC065 A2994 RMK AO2= KSYN 131115Z AUTO 00000KT 1/2SM FG VV005 05/04 A3000 RMK AO2=  341 SABO41 KWBC 131100 RRA METAR SLCO 131100Z 00000KT 2000 FU FEW015 BKN080 22/22 Q1013= SLPO 131100Z 00000KT 9999 SKC 00/M02 Q1037= SLPS 131100Z 27008KT 9999 SKC 25/19 Q1010= SLSU 131100Z 00000KT 9999 SKC 08/05 Q1029=  342 SPUS70 KWBC 131120 SPECI KGRD 131116Z AUTO 10005KT 2 1/2SM RA BR FEW008 SCT014 OVC022 18/17 A2999 RMK AO2 P0002= KFCM 131117Z AUTO 00000KT 3/4SM BR CLR 07/07 A3001 RMK AO2= KGSP 131117Z 02006KT 2 1/2SM +RA BR FEW016 SCT024 OVC043 17/16 A3001 RMK AO2 P0007= KLRD 131116Z 03004KT 10SM FEW004 BKN037 OVC070 24/23 A2998 RMK AO2= KMKO 131117Z AUTO 00000KT 3/4SM BR CLR 12/11 A3010 RMK AO2= KPPF 131117Z AUTO 00000KT 1 1/4SM BR SCT001 08/07 A3008 RMK AO2= KCMH 131116Z 19008KT 3SM BR OVC005 18/17 A2985 RMK AO2 CIG 004V009= KIZG 131116Z AUTO 00000KT 1 3/4SM BR CLR 05/04 A3012 RMK AO2=  343 SAAW34 KWBC 131115 NIL=  344 SPUS80 KWBC 131120 SPECI KRMG 131116Z AUTO 00000KT 3SM -RA BR OVC005 19/18 A2992 RMK AO2 CIG 003V008 P0003 TSNO= KODX 131117Z AUTO 00000KT 1 1/2SM BR FEW002 10/09 A3003 RMK AO2 VIS 3/4V3=  345 SAAG31 KWBC 131100 RRE METAR SASA 131100Z 27002KT CAVOK 11/03 Q1016=  346 SACA31 KWBC 131100 RRB METAR MUCM 131053Z VRB01KT 9000 FEW020 BKN090 25/22 Q1013= MUCU 131053Z 05004KT 9000 FEW020CB 24/23 Q1014= MUHA 131052Z 00000KT 6000 FEW015CB 22/21 Q1014= MUVR 131053Z 00000KT 7000 FEW018 23/22 Q1014= MWCR 131100Z 03004KT 9999 VCSH FEW016CB BKN250 26/25 Q1012=  347 SACA41 KWBC 131100 RRA METAR MUCA 131050Z 00000KT 9000 SCT018 22/20 Q1014= MUCL 131050Z 09004KT 9000 FEW015CB 28/24 Q1013= MUCM 131053Z VRB01KT 9000 FEW020 BKN090 25/22 Q1013= MUCU 131053Z 05004KT 9000 FEW020CB 24/23 Q1014= MUHA 131052Z 00000KT 6000 FEW015CB 22/21 Q1014= MUVR 131053Z 00000KT 7000 FEW018 23/22 Q1014=  387 SADL33 KWBC 131115 NIL=  390 SASA32 KWBC 131100 RRC METAR SLCB 131100Z 00000KT 4000SE FU FEW033 07/04 Q1025= SLLP 131100Z 02003KT 9999 FEW005 SCT070 M01/M03 Q1037= SLTJ 131100Z 00000KT 9999 FEW036 12/10 Q1018= SLTR 131100Z 00000KT 5000 FU NSC 22/20 Q1011= SLVR 131100Z 27006KT 5000 FU NSC 23/20 Q1012=  406 SAXX61 KWBC 131100 RRC METAR LEMO 131100Z 23006KT 170V280 9999 FEW035 SCT040 BKN050 28/19 Q1013 NOSIG=  473 SAUS41 KCLE 131120 MTRCAK SPECI KCAK 131118Z 18012KT 1 1/4SM BR OVC005 17/16 A2987 RMK AO2 SFC VIS 2 1/2 CIG 003V008  507 SABZ01 SBBR 131100 METAR SBBE 131100Z 07004KT CAVOK 27/25 Q1013= METAR SBBR 131100Z 09004KT CAVOK 19/09 Q1021= METAR SBBV 131100Z 00000KT 5000 -RA SCT005 BKN020 BKN100 24/23 Q1014= METAR SBCF 131100Z 22002KT CAVOK 17/13 Q1022= METAR SBCG 131100Z 03010KT CAVOK 26/11 Q1015= METAR SBCR 131100Z 00000KT CAVOK 27/15 Q1011= METAR SBCT 131040Z SPECI 09005KT 4000 BR SKC 17/16 Q1020= METAR SBEG 131100Z 00000KT CAVOK 25/22 Q1013= METAR SBFI 131100Z 05003KT CAVOK 22/13 Q1011= METAR SBFL 131100Z 22007KT 9999 BKN012 BKN025 19/17 Q1017= METAR SBFZ 131100Z 16012KT 9999 FEW020 28/19 Q1015= METAR SBGR 131100Z 00000KT 6000 SKC 21/14 Q1020= METAR SBKP 131100Z 10005KT 6000 SKC 22/13 Q1019= METAR SBLO 131100Z 12004KT CAVOK 24/16 Q1017= METAR SBMQ 131100Z 33004KT 9999 SCT013 BKN090 26/26 Q1014= METAR SBPA 131100Z 16008KT 9999 BKN015 OVC031 15/14 Q1018= METAR SBPP 131100Z NIL= METAR SBRB 131100Z 00000KT CAVOK 21/21 Q1013= METAR SBSJ 131100Z 14002KT 6000 SKC 21/15 Q1019= METAR SBSL 131100Z 07010KT 9999 BKN020 28/22 Q1013= METAR SBSN 131100Z 06010KT CAVOK 27/21 Q1012=  707 SAUS43 KLOT 131120 MTRRFD SPECI KRFD 131118Z 01015KT 7SM OVC007 14/13 A2992 RMK AO2  756 SABZ36 SBBR 131100 METAR SBGL 131100Z 13001KT CAVOK 26/20 Q1015= METAR SBNT 131100Z 17008KT 9999 FEW020 27/21 Q1017= METAR SBPV 131100Z 00000KT 3000 BR NSC 25/23 Q1012= METAR SBRF 131100Z 22006KT 9999 FEW020 SCT100 25/22 Q1017= METAR SBSV 131100Z 04003KT 330V050 4000 -RA BR FEW008 BKN015 22/22 Q1019=  757 SPCN47 CWAO 131118 SPECI CYPQ 131118Z AUTO 12006KT 2 1/8SM -RA OVC001 14/13 A2988=  758 SPCN52 CWAO 131117 SPECI CWWU 131117Z 08028G42KT 3SM RA BR BKN010 OVC025 RMK SF6SC2=  759 SASD20 OEJD 131100 RRB METAR OENG 131100Z 01008KT CAVOK 38/M04 Q1013 NOSIG= METAR OEWD 131100Z 24004KT CAVOK 41/04 Q1007=  001 SPAK32 KWBC 131121 SPECI PAEH SP 1115 AWOS CLR BLO 120 10 44/42/0000/040=  002 SPAK32 KWBC 131121 SPECI PAIM SP 1115 AWOS 22 SCT M29 OVC 10 48/41/2506/036=  003 SPAK32 KWBC 131121 SPECI PACZ SP 1115 AWOS M12 OVC 10 45/44/1915/M=  004 SPAK32 KWBC 131121 SPECI PAGA SP 1115 AWOS 28 SCT 10 41/40/0903/039=  005 SAAK31 KWBC 131100 RRA METAR PAVD 131116Z 00000KT 10SM CLR 05/03 A3042= PAWG 131116Z AUTO 31005KT 10SM BKN006 OVC016 09/06 A3028= PFYU 131116Z 23005KT 10SM FEW085 11/05 A3026=  006 SPAK32 KWBC 131121 SPECI PASV SP 1115 AWOS CLR BLO 120 10 48/42/0000/045=  007 SPAK32 KWBC 131121 SPECI PATL SP 1115 AWOS CLR BLO 120 10 48/42/0000/045=  008 SAAK32 KWBC 131100 RRB METAR PABA 131115Z AUTO 13009KT 10SM CLR 02/01 A3020= PADK 131116Z AUTO 18005KT 8SM OVC013 08/07 A3017= PADL 131116Z 00000KT 10SM CLR 04/03 A3044=  010 SPJP43 KWBC 131121 SPECI RJNG 131107Z 25001KT 4000 -RA BR FEW000 BKN002 BKN005 21/20 Q1015 RMK 1ST000 5ST002 5ST005 A2999=  011 SPJP43 KWBC 131121 SPECI RJOH 131113Z 07011KT 9999 FEW010 SCT030 BKN070 21/15 Q1018 RMK 1ST010 3CU030 7AS070 A3006=  014 SAUS42 KCHS 131120 MTRSAV SPECI KSAV 131119Z 21004KT 3SM -RA BR FEW009 BKN026 OVC049 22/21 A2997 RMK AO2 RAB1058 P0007  041 SPUS41 KWBC 131121 SPECI KCAK 131118Z 18012KT 1 1/4SM BR OVC005 17/16 A2987=  043 SPUS41 KWBC 131121 SPECI KCMH 131116Z 19008KT 3SM BR OVC005 18/17 A2985=  046 SPUS41 KWBC 131121 SPECI KGSP 131117Z 02006KT 2 1/2SM +RA BR FEW016 SCT024 OVC043 17/16 A3001=  050 SAUS41 KWBC 131100 RRB METAR KPQI 131115Z AUTO 00000KT 10SM CLR 02/00 A3004=  094 SPUS42 KWBC 131121 SPECI KLRD 131116Z 03004KT 10SM FEW004 BKN037 OVC070 24/23 A2998=  103 SPUS51 KWBC 131121 SPECI KGSP 131117Z 02006KT 2 1/2SM +RA BR FEW016 SCT024 OVC043 17/16 A3001=  105 SPUS53 KWBC 131121 SPECI KODX 131117Z AUTO 00000KT 1 1/2SM BR FEW002 10/09 A3003=  106 SAUS53 KWBC 131100 RRE METAR KDVL 131115Z AUTO 30003KT 10SM CLR 09/08 A2991= KEAR 131115Z AUTO 22004KT 10SM CLR 12/09 A3005= KGPZ 131115Z AUTO 00000KT 10SM CLR 04/02 A2999= KUDG 131115Z AUTO 08005KT 10SM FEW075 18/16 A3005=  107 SPUS53 KWBC 131121 SPECI KRFD 131118Z 01015KT 7SM OVC007 14/13 A2992=  126 SAAG SAWH 131100 METAR SAWH 131100Z 27011KT 4000 DZ SCT014 BKN024 01/M00 Q0982=  127 SAMX54 MMMD 131107 SPECI MMVA 131107Z 00000KT 4SM BKN006 OVC020 24/23 A2988 RMK 8/6// VRBL CONDS= TX OPMET V1  295 SPCN44 CWAO 131117 SPECI CYEK 131117Z AUTO 33011KT 9SM FEW058 OVC063 OVC098 10/10 A2965=  301 SPCN46 CWAO 131119 SPECI CYKF 131119Z AUTO 19005KT 1 3/4SM -RA OVC004 17/17 A2979 RMK VSBY VRBL 1.0V4.0=  348 SXUS81 KWOH 131119 RRSSGX :&&HADS SOR REPORT FOR USER SGX .A RCHC1 20060913 DH1107/PPHRG 0.00 .A DVOC1 20060913 DH1110/PPHRG 0.00 :END OF REPORT  529 SXUS81 KWOH 131120 RRSSGX :&&HADS SOR REPORT FOR USER SGX .A MSYC1 20060913 DH1100/PCIRG 0.01 .A MSYC1 20060913 DH1100/HGIRG 1.96 .A JULC1 20060913 DH1114/PCIRG 0.88 .A JULC1 20060913 DH1114/USIRG 2.00 .A JULC1 20060913 DH1114/UDIRG 212 .A JULC1 20060913 DH1114/TAIRG 64.0 .A JULC1 20060913 DH1114/MTIRG 61 .A JULC1 20060913 DH1114/XRIRG 42 .A JULC1 20060913 DH1114/VBIRG 12.80 .A JULC1 20060913 DH1114/MMIRG 5 .A JULC1 20060913 DH1114/URHRG 213 .A JULC1 20060913 DH1114/UPHRG 4.00 .A POTC1 20060913 DH1100/PCIRG 0.08 .A POTC1 20060913 DH1100/USIRG 0.00 .A POTC1 20060913 DH1100/UDIRG 5 .A POTC1 20060913 DH1100/TAIRG 59.0 .A POTC1 20060913 DH1100/MTIRG 59 .A POTC1 20060913 DH1100/XRIRG 52 .A POTC1 20060913 DH1100/VBIRG 12.50 .A POTC1 20060913 DH1100/MMIRG 2 .A POTC1 20060913 DH1100/URHRG 130 .A POTC1 20060913 DH1100/UPHRG 3.00 .A PIHC1 20060913 DH1114/PCIRG 0.84 .A PIHC1 20060913 DH1114/USIRG 0.00 .A PIHC1 20060913 DH1114/UDIRG 121 .A PIHC1 20060913 DH1114/TAIRG 68.0 .A PIHC1 20060913 DH1114/MTIRG 66 .A PIHC1 20060913 DH1114/XRIRG 42 .A PIHC1 20060913 DH1114/VBIRG 12.40 .A PIHC1 20060913 DH1114/MMIRG 7 .A PIHC1 20060913 DH1114/URHRG 153 .A PIHC1 20060913 DH1114/UPHRG 0.00 :END OF REPORT